ENHM 240250Z AUTO 36032G43KT 9999NDV FEW044/// SCT057/// 04/M04 Q1005 W08/S/ UUOK 240300Z 36002MPS CAVOK 00/M04 Q1007 R12/////// NOSIG RMK QFE738/0984 KIWI 240253Z AUTO 00000KT 10SM CLR 07/05 A3006 RMK AO2 SLP178 T00670050 50003 KJMR 240319Z AUTO 07005KT 10SM CLR 02/00 A2999 RMK AO2 PPIT 240256Z AUTO 23006KT 10SM FEW080 10/03 A2949 RMK AO2 SLP985 T01000033 56008 KJMS 240256Z AUTO 07014G25KT 10SM OVC009 00/M02 A2986 RMK AO2 PK WND 07028/0236 SLP131 T00001017 56012 KIXA 240320Z AUTO 05006KT 10SM SCT009 OVC020 11/11 A3002 RMK AO2 UUOO 240300Z 32004MPS CAVOK 04/M03 Q1004 R30/090057 NOSIG RMK QFE740 KIXD 240253Z 16003KT 10SM CLR 13/03 A3001 RMK AO2 SLP157 T01280028 55002 ENHV 232020Z 05009KT 4000 -SN SCT013 BKN020 M01/M01 Q1007 KM63 240258Z AUTO 16008KT 9SM CLR 22/M03 A2992 RMK AO2 SLP077 WND DATA ESTMD T02201030 55005 PPIZ 240256Z AUTO 03015KT 10SM CLR M11/M14 A3007 RMK AO2 SLP187 60000 T11111144 56004 FZRANO TSNO KIYA 240252Z AUTO 00000KT 10SM CLR 12/11 A3001 RMK AO2 ENKB 240250Z AUTO VRB02KT 9999 -SN FEW006/// SCT013/// BKN018/// M01/M01 Q1004 RMK WIND 745FT 34005KT FDSK 231500Z 06008KT 9999 FEW035 BKN060 24/14 Q1017 NOSIG KJNX 240315Z AUTO 05007KT 030V090 7SM OVC006 12/12 A2996 RMK AO2 KM75 240315Z AUTO 08010KT 10SM OVC028 04/00 A2974 RMK A01 VLPS 240300Z 18012KT 9999 FEW020 FEW050 SCT200 30/24 Q1012 NOSIG KIZA 240315Z AUTO 26007KT 10SM CLR 12/08 A2990 RMK AO2 ENLA 240250Z AUTO 28038KT 9999NDV FEW019/// SCT031/// BKN070/// 07/04 Q1003 W///S5 KJOT 240315Z AUTO 00000KT 10SM CLR 12/01 A3003 RMK AO2 T01180007 FDST 240300Z AUTO 29003KT //// // ////// 15/M00 Q1021 KJQF 240250Z 02007KT 2SM RA BR OVC009 12/11 A2996 LBGO 240300Z AUTO 09004KT 9999 NCD 01/00 Q1021 NOSIG KIZG 240254Z AUTO 00000KT 10SM CLR 08/03 A3001 RMK AO2 SLP166 T00780033 50013 ENKR 240250Z 18005KT CAVOK M08/M10 Q1008 RMK WIND 731FT VRB02KT KJRB 240315Z 26003KT 10SM CLR 11/06 A3015 RMK AO2 SLP301 PWINO FZRANO RVRNO ENLK 240250Z 03002KT CAVOK M03/M07 Q1003 KM91 240315Z AUTO 02010G16KT 10SM FEW025 OVC035 11/10 A2988 RMK A01 KN03 240315Z AUTO 00000KT 10SM CLR 06/03 A3008 RMK AO2 ENMH 240220Z 17009KT 9999FEW007 BKN022 M02/M05 Q1007 VLSK 240300Z 09002KT 6000 SCT020 BKN100 29/24 Q1014 NOSIG KLAA 240253Z AUTO 17019KT 10SM CLR 19/02 A2969 RMK AO2 PK WND 18030/0230 SLP019 T01940022 55010 FDUS 240300Z AUTO 19002KT //// // ////// 14/13 Q1023 ENNA 240250Z AUTO 19002KT 9999 NCD M10/M12 Q1008 RMK WIND 1800FT 26004KT ENML 240250Z AUTO 03004KT 9999NDV SCT054/// OVC068/// M01/M02 Q1004 ENNE 231650Z 35018KT 7000 -SHRASN BKN010 02/01 Q1004 W///S6 KLAF 240254Z AUTO 03004KT 10SM CLR 09/04 A3002 RMK AO2 SLP166 T00890044 50005 ENMS 231750Z VRB04KT 9999 VCSH FEW020 SCT028 SCT040 02/M02 Q1002 RMK WIND 412FT 27005KT 230V330 KLBB 240253Z 17012KT 10SM CLR 16/01 A2998 RMK AO2 SLP126 T01610011 55005 ENOA 240250Z 36042KT 9999 SCT035 03/M05 Q1004 W///S5 KJSL 240300Z AUTO VRB05G19KT 10SM SCT031 SCT037 20/14 A2995 RMK A01 KLAL 240315Z AUTO 00000KT 10SM BKN040 23/19 A2983 RMK AO2 KJTC 240315Z AUTO 22007KT 10SM CLR 15/M07 A3003 RMK AO2 KLAM 240315Z AUTO 21009G15KT 10SM CLR 16/M02 A3000 RMK AO2 T01601017 ENNM 231950Z 22010KT 9999 VCSH FEW010 SCT025 BKN050 02/M01 Q1005 KLAN 240253Z 35008KT 10SM CLR 12/02 A3008 RMK AO2 SLP184 T01170017 53010 KLBE 240315Z AUTO 07004KT 10SM CLR 11/00 A3006 RMK AO2 KLBF 240253Z AUTO 14010KT 10SM CLR 16/02 A2974 RMK AO2 SLP059 T01610017 56008 KJSO 240315Z AUTO 00000KT 10SM CLR 15/08 A3003 RMK AO2 T01510082 ENNO 231650Z 29010KT CAVOK 08/M09 Q1011 LATI 240320Z 00000KT 8000 SCT045 BKN070 09/07 Q1021 NOSIG KLAR 240253Z AUTO 20009KT 10SM CLR 08/M02 A2977 RMK AO2 SLP009 T00831017 56004 VMMC 240300Z 07006KT 030V120 9000 FEW018 SCT030 22/19 Q1015 NOSIG KLAS 240256Z 21010G17KT 10SM SCT250 28/M10 A2964 RMK AO2 SLP013 T02781100 53007 $ KJST 240254Z AUTO 11004KT 10SM CLR 10/01 A3007 RMK AO2 SLP187 T01000006 51006 ENOL 240250Z 23009KT 9999 FEW008 FEW020TCU M00/M02 Q1004 KJSV 240315Z AUTO 00000KT 10SM CLR 11/05 A3001 RMK AO2 KLAW 240253Z AUTO 14003KT 10SM CLR 12/07 A3000 RMK AO2 SLP158 T01170072 55006 KLAX 240253Z 27009KT 10SM FEW014 FEW150 SCT280 17/12 A2983 RMK AO2 SLP100 T01670117 55002 KLCG 240315Z AUTO 19012KT 10SM CLR 14/M01 A2984 RMK AO2 T01411008 KLCH 240253Z AUTO 00000KT 10SM CLR 13/11 A3000 RMK AO2 SLP167 T01280111 53012 $ KLCI 240256Z AUTO 00000KT 10SM CLR 12/03 A3003 RMK AO2 SLP187 T01170028 51013 KN38 240315Z AUTO 20003KT 10SM CLR 13/M03 A3007 RMK AO2 ENQA 240250Z AUTO 36044KT 9999NDV BKN023/// 02/M04 Q1002 W03/S5 KLBT 240254Z AUTO 06012KT 10SM OVC006 14/14 A2990 RMK AO2 SLP123 60000 T01440139 58000 KLCK 240315Z AUTO 03005KT 10SM CLR 11/03 A3000 RMK AO2 T01090030 ENQC 240250Z AUTO 01032KT 9999NDV FEW016/// 02/M01 Q1003 W///S5 ENOV 232120Z VRB01KT 9999 -SHSN FEW003 SCT008 BKN018 00/M01 Q1007 RMK WIND 2175FT 33009KT KLBX 240253Z AUTO 00000KT 10SM CLR 14/12 A3002 RMK AO2 SLP164 T01440117 53015 KLCQ 240315Z AUTO 23004KT 10SM SCT120 21/19 A2978 RMK AO2 VLVT 240300Z 06006KT 6000 BKN040 BKN083 26/22 Q1013 NOSIG KKLS 240256Z AUTO 14003KT 10SM -RA OVC043 10/08 A2986 RMK AO2 RAE14B35 SLP115 P0000 60001 T01000083 58011 KLDJ 240315Z AUTO 00000KT 10SM CLR 11/05 A3014 RMK AO2 T01100046 ENRA 232150Z VRB01KT 9999 FEW050 M02/M03 Q1002 KLEB 240253Z AUTO 00000KT 10SM CLR 07/02 A3003 RMK AO2 SLP169 T00670022 51015 KJVL 240315Z AUTO 09006KT 10SM CLR 09/03 A3004 RMK AO2 KLDM 240315Z AUTO 00000KT 10SM CLR 07/03 A3007 RMK AO2 T00660025 KLEE 240253Z AUTO 18003KT 10SM BKN046 24/19 A2982 RMK AO2 SLP096 T02390189 51018 KJWG 240315Z AUTO 16003KT A3000 RMK AO2 PWINO ENQR 240250Z AUTO 02030KT 9999NDV FEW019/// 02/M03 Q1006 W///S5 KN60 240252Z AUTO 10016G24KT M02/M03 A2989 RMK AO1 PK WND 08027/0157 SLP147 T10221033 55004 $ UUWW 240300Z VRB01MPS CAVOK M01/M03 Q1006 R24/000070 NOSIG ENSB 240150Z 10004KT 9999 FEW023 M12/M15 Q1017 RMK WIND 1400FT /////KT ENRM 231850Z 26006KT 1500 SHSNRA VV008 00/M00 Q1004 ENSD 231920Z VRB01KT 2500 SN VV008 00/00 Q1008 RMK WIND 1138FT 02005KT UWGG 240300Z 00000MPS CAVOK M01/M03 Q1007 R18R/090060 NOSIG RMK QFE748 KJVW 240315Z AUTO 00000KT 6SM BR BKN050 OVC060 14/13 A2997 RMK AO2 KJWN 240315Z AUTO 01008KT 10SM FEW006 BKN028 OVC035 11/10 A2988 RMK LCEN 240250Z 24006KT 9999 FEW025 10/04 Q1016 NOSIG ENSE 240250Z AUTO 01029KT 9999NDV FEW026/// 02/M02 Q1007 W///S5 ENSF 240250Z AUTO 34028G43KT 9999NDV SCT033/// 03/M07 Q1007 W///S5 ENRO 240250Z AUTO VRB02KT 9999NDV FEW120/// M15/M16 Q1002 ENSG 231950Z 05003KT 4000 SHSN VV010 M01/M01 Q1006 RMK WIND 3806FT 18013KT ENSH 240250Z 05011KT CAVOK 01/M06 Q1004 KJXI 240315Z AUTO 00000KT 10SM CLR 12/09 A3000 RMK AO2 T01210089 KLFI 240313Z AUTO 06014KT 10SM BKN015 OVC026 12/11 A3004 RMK AO2 RAB0259E13 PRESFR SLP179 KLGA 240251Z 19008KT 10SM BKN250 12/07 A3013 RMK AO2 SLP202 T01170067 51011 $ ENRS 231650Z 11004KT 9999 FEW040 05/M04 Q1001 KLFK 240253Z AUTO 00000KT 10SM CLR 13/10 A3000 RMK AO2 SLP158 T01280100 53008 KLGB 240253Z 32004KT 10SM CLR 19/09 A2983 RMK AO2 SLP101 T01890094 53002 ENSK 240250Z 05008KT CAVOK M00/M07 Q1004 KLGC 240315Z AUTO 32005KT 10SM SCT038 15/15 A2981 RMK AO2 T01540151 ENSL 240250Z AUTO 01036KT 9999NDV BKN014/// BKN018/// BKN067/// 04/01 Q1005 W05/S5 ENTC 240250Z 08003KT 030V110 CAVOK M05/M11 Q1006 RMK WIND 2600FT 11008KT KLGD 240315Z AUTO 27005KT 10SM FEW041 SCT060 BKN090 09/04 A2980 RMK AO1 LBPD 240300Z AUTO 27009KT 9999 NCD 05/M02 Q1022 NOSIG KLEW 240256Z AUTO 15006KT 10SM CLR 06/03 A3003 RMK AO2 SLP184 T00560033 50007 KJXN 240256Z AUTO 15003KT 10SM CLR 12/M01 A3006 RMK AO2 SLP179 T01171006 52007 KLEX 240254Z 08012G20KT 10SM FEW042 BKN085 14/08 A2993 RMK AO2 PK WND 05027/0228 SLP132 T01390078 53009 $ ENSO 240250Z 34018G29KT 9999 FEW007 BKN010 02/01 Q0998 KJYG 240315Z AUTO 15009KT 10SM CLR 15/01 A2988 RMK AO2 KJWY 240315Z AUTO 00000KT 10SM CLR 12/08 A3003 RMK AO2 T01200078 ENRY 240250Z AUTO 17008KT 140V200 9999NDV -RA BKN008/// OVC010/// 03/02 Q1002 ENSR 231750Z 15007KT CAVOK M01/M08 Q1007 WIND 1119FT 12010KT ENSS 231850Z 22007KT CAVOK M05/M09 Q1007 RMK WIND 500FT 21006KT KLFT 240253Z 28003KT 10SM CLR 16/10 A3000 RMK AO2 SLP157 T01560100 53013 $ KLHB 240315Z AUTO 00000KT 10SM CLR 12/10 A3004 RMK AO2 T01220102 ENST 240020Z 06004KT 9999 FEW015CB FEW030 00/M01 Q1002 RMK WIND 300FT 06008KT KJYL 240254Z AUTO 30003KT 10SM -VCTSRA BKN023 BKN028 OVC034 21/19 A2979 RMK AO2 LTG DSNT N NE AND SW KJYM 240314Z AUTO 13004KT 10SM CLR 08/01 A3006 RMK AO2 UUYY 240300Z 20002MPS 9000 3800W -SHSN SCT006 BKN026CB 00/00 Q1002 R19/550145 TEMPO 1000 SHSN RMK QFE743/0991 EPCE 240300Z 25005KT CAVOK M02/M03 Q1013 RMK M023 093 0/0 = KJYO 240315Z AUTO 00000KT 10SM SCT120 13/09 A3011 RMK AO2 ENTO 240250Z AUTO 18015KT 6000 RA BKN006/// OVC012/// 02/02 Q1001 ENUG 240250Z AUTO 02004KT 340V060 9999NDV BKN046/// 01/M05 Q1006 W06/S3 KJZI 240315Z AUTO 14007G13KT 10SM CLR 23/21 A2980 RMK AO2 KJYR 240315Z AUTO 17013KT 10SM CLR 14/00 A2988 RMK AO2 EPDA 240300Z 29012KT 9999 FEW055 05/02 Q1014 RMK 054 080 2/2 = ENVA 240220Z 14007KT 9999 FEW047 M02/M05 Q1005 RMK WIND 670FT 17010KT FGBT 240300Z 00000KT 9999 SCT010 BKN100 26/26 Q1011 KLGU 240251Z AUTO 12005KT 10SM CLR 10/04 A2980 RMK AO2 SLP072 60000 T01000039 56005 TSNO KLIC 240255Z AUTO 14005KT 10SM CLR 11/04 A2973 RMK AO2 SLP028 T01110039 56016 KLHM 240315Z AUTO 16008KT 10SM CLR 16/08 A2991 RMK AO1 ENVD 240250Z 35005KT 9999 FEW020 M08/M11 Q1008 EPDE 240300Z 30008KT 9999 -RA SCT012 BKN020 02/01 Q1016 RMK 022 091 7/4= KJZP 240315Z AUTO 16007KT 10SM BKN012 BKN020 10/10 A2985 RMK AO2 T01000098 KLHQ 240253Z AUTO 04005KT 10SM CLR 11/04 A3000 RMK AO2 SLP157 T01110044 50006 EPBY 240300Z 26008KT CAVOK M00/M01 Q1015 UWKD 240300Z VRB01MPS CAVOK 03/M00 Q1007 R11/CLRD70 NOSIG RMK QFE745/0994 UWKE 240300Z 13003MPS CAVOK 05/M01 Q1009 R21/210370 NOSIG RMK QFE739/0986 VOBG 240300Z 27008KT 6000 NSC 26/21 Q1016 KMAE 240253Z AUTO 33009KT 10SM CLR 18/07 A2992 RMK AO2 SLP132 T01830067 55001 KLHW 240312Z AUTO 17010G20KT 2 1/2SM R33/3500FT +TSRA BR FEW017 BKN029 BKN055 OVC065 22/20 A2974 RMK AO2 VIS 2 1/2V6 TSE06TSB12 CIG 029V060 SLP074 KMAF 240253Z 13009KT 10SM CLR 18/00 A2999 RMK AO2 SLP127 T01780000 55008 KLHX 240253Z AUTO 17008KT 10SM CLR 20/04 A2968 RMK AO2 SLP008 T02000039 56013 KLJF 240245Z AUTO 09012G17KT 10SM CLR 11/05 A2988 RMK AO2 LBSF 240300Z 30004KT 270V330 9999 FEW061 00/M01 Q1022 NOSIG DXNG 240300Z 30006KT 9999 FEW007 25/21 Q1013 KLHZ 240315Z AUTO 06008KT 10SM OVC006 11/11 A3002 RMK AO2 VOCB 240300Z 20010KT 4000 HZ FEW015 SCT080 29/22 Q1013 BECMG 5000 HZ KMAI 240253Z AUTO 28005KT 10SM FEW043 SCT100 17/14 A2981 RMK AO2 SLP094 T01720144 51016 ENVR 231350Z 04008KT CAVOK 04/M03 Q1001 VOBL 240300Z 28009KT 8000 NSC 26/21 Q1016 NOSIG VOBM 240300Z 27003KT CAVOK 26/12 Q1016 KLIT 240253Z 32004KT 10SM FEW200 15/05 A2997 RMK AO2 SLP151 T01500050 51007 $ KMAN 240315Z AUTO 00000KT 10SM FEW065 BKN075 OVC100 13/05 A2975 RMK A01 KMAO 240315Z AUTO 08010G14KT 7SM OVC004 15/14 A2987 RMK AO2 KMBG 240252Z AUTO 03011G20KT 10SM OVC014 04/00 A2973 RMK AO2 SLP081 T00440000 51005 VOCI 240300Z VRB03KT 3000 HZ SCT012 BKN080 28/25 Q1011 NOSIG UWKS 240300Z 00000MPS 9999 SCT040 02/M04 Q1007 R24/010060 NOSIG RMK QFE741 VNKT 240320Z 13003KT 5000 HZ FEW010 20/15 Q1013 NOSIG VOCL 240300Z 33007KT 6000 FEW015 30/24 Q1012 NOSIG KMCB 240253Z AUTO 00000KT 10SM OVC050 12/10 A2997 RMK AO2 SLP145 T01220100 53012 TSNO KMBL 240256Z AUTO 08009KT 10SM CLR 05/M04 A3010 RMK AO2 SLP215 T00501039 51012 KMCC 240315Z AUTO 17008KT 10SM CLR 16/09 A2994 RMK AO2 KMCD 240316Z AUTO 00010G15KT 10SM SCT110 00/M05 A3016 RMK AO2 KMCE 240253Z AUTO 33012KT 10SM CLR 18/07 A2993 RMK AO2 SLP134 T01780072 53002 TSNO $ KMAW 240315Z AUTO 35003KT 10SM CLR 13/06 A2996 RMK AO2 ENWV 240250Z AUTO 26033KT 9999NDV FEW016/// OVC072/// 08/07 Q1006 W///S4 EPGD 240300Z 27010KT CAVOK 01/M02 Q1012 KMBO 240315Z AUTO 00000KT 10SM OVC048 13/10 A2996 RMK AO2 PWINO KMCF 240258Z AUTO 30003KT 10SM CLR 23/21 A2982 RMK AO2 SLP101 T02320214 52013 $ VOBZ 240300Z 18004KT 3000 HZ FEW020 32/27 Q1008 NOSIG KMCI 240253Z 18007KT 10SM SCT250 12/01 A3000 RMK AO2 SLP155 T01220011 55001 KLKR 240315Z AUTO 02007KT 2 1/2SM VCTS RA BKN005 OVC009 13/13 A2987 RMK AO2 LTG DSNT S P0009 KMCJ 240255Z AUTO 35005KT 10SM CLR 19/07 A2998 RMK AO1 KMBS 240253Z 05008KT 10SM CLR 08/04 A3012 RMK AO2 SLP201 T00780044 51017 KLLJ 240255Z AUTO 32006KT 10SM CLR 07/M01 A2977 RMK AO2 SLP060 T00671006 53002 LCLK 240300Z 31006KT 9999 FEW025 10/01 Q1016 NOSIG KMCK 240253Z AUTO 16009KT 10SM CLR 15/M01 A2976 RMK AO2 SLP068 T01501011 56014 UWLW 240300Z 07001MPS 8000 NSC 05/02 Q1006 R20/CLRD60 NOSIG RMK QFE749 KLKU 240315Z AUTO 02003KT 10SM -DZ SCT026 OVC100 12/11 A3007 RMK AO2 KLKV 240315Z AUTO 25004KT 10SM SCT110 07/M03 A2990 RMK AO1 KMDD 240315Z AUTO 13009KT 10SM CLR 19/00 A3000 RMK AO2 T01860000 KMCN 240300Z AUTO 00000KT 7SM -RA FEW016 BKN048 OVC065 17/16 A2979 RMK AO2 RAB0259 P0000 T01670156 KMCO 240253Z 15006KT 10SM FEW150 22/19 A2983 RMK AO2 SLP098 T02220194 51017 $ KMDH 240252Z AUTO 34005KT 10SM CLR 13/04 A2997 RMK AO2 SLP147 T01280044 52009 TSNO KLLQ 240253Z AUTO 00000KT 10SM CLR 11/09 A2998 RMK AO2 SLP151 T01110089 53009 TSNO $ KMDJ 240315Z AUTO 35026G31KT 10SM SCT037 BKN044 OVC050 19/12 A2995 RMK A01 KMEB 240304Z AUTO 08015G20KT 4SM BR OVC005 14/13 A2990 RMK AO2 T01390133 TSNO $ KLNC 240315Z AUTO 00000KT 10SM CLR 12/08 A3003 RMK AO2 T01220075 KLND 240253Z AUTO 00000KT 10SM CLR 10/00 A2971 RMK AO2 SLP031 T01000000 53009 KMCW 240253Z AUTO 17007KT 9SM CLR 09/01 A2995 RMK AO2 SLP136 T00940011 53004 KMCX 240315Z AUTO 04003KT 10SM CLR 11/02 A3003 RMK AO2 T01140016 KLMO 240315Z AUTO 00000KT 10SM CLR 14/05 A2970 RMK AO2 T01360051 KO54 240255Z AUTO 26003KT 10SM 12/02 A2995 RMK AO1 KMEH 240310Z AUTO VRB04KT 1 1/2SM +RA FEW008 BKN016 OVC024 03/01 A2984 RMK AO2 P0008 T00330006 KMDQ 240315Z AUTO 29003KT 3SM BR 10/09 A2985 RMK AO2 SKY OBSCURED KMEI 240317Z AUTO 31008KT 10SM BKN027 OVC034 13/09 A2993 RMK AO2 T01280094 KKY8 240255Z AUTO 06006KT 10SM FEW047 BKN060 15/03 A2994 RMK AO1 KMDS 240310Z AUTO 18010KT 10SM CLR 12/00 A2977 RMK AO2 KLMT 240253Z 29012KT 10SM BKN110 08/01 A2989 RMK AO2 SLP113 T00830006 58003 KLNK 240254Z 17010KT 10SM CLR 14/M01 A2991 RMK AO2 SLP125 T01391006 56006 KMDT 240256Z 00000KT 10SM BKN230 OVC250 13/07 A3009 RMK AO2 SLP192 T01280072 51010 KLNL 240315Z AUTO 08003KT 10SM CLR 00/M04 A3011 RMK AO2 T00021037 LDDU 240300Z 03012KT 360V060 CAVOK 09/M00 Q1021 NOSIG UWOO 240300Z 11006MPS CAVOK 08/04 Q1012 R08/290054 NOSIG RMK QFE748/0998 KMFD 240252Z AUTO 04007KT 10SM CLR 10/01 A3005 RMK AO2 SLP176 T01000006 50004 $ KMEM 240254Z 29004KT 10SM BKN060 12/10 A2993 RMK AO2 SLP135 T01220100 50002 KMFE 240253Z 00000KT 10SM CLR 24/06 A3002 RMK AO2 SLP165 T02390061 53010 KMDW 240253Z 07006KT 10SM BKN250 16/M04 A3005 RMK AO2 SLP173 T01561039 50000 ENZV 240250Z 30017KT 9999 FEW005 SCT007 BKN010 03/01 Q0999 KLNN 240315Z AUTO 00000KT 10SM CLR 06/02 A3007 RMK AO1 T00570021 LBWN 240300Z 29011KT CAVOK 05/01 Q1019 NOSIG UWOR 240300Z 16005MPS 9999 BKN049 05/03 Q1015 R25/CLRD65 NOSIG RMK QFE738/0984 KLNP 240255Z AUTO 00000KT 10SM -DZ OVC005 09/09 A2993 RMK AO2 P0004 KMDZ 240315Z AUTO 11012G17KT 10SM CLR 07/03 A3001 RMK AO2 T00730031 VOHB 231200Z 27008KT 9999 SCT015 30/17 Q1012 KMER 240255Z AUTO 32009KT 10SM CLR 17/M33 A2995 RMK AO1 KMFI 240254Z AUTO 12012KT 10SM CLR 08/04 A3001 RMK AO2 SLP166 T00830039 53014 KLNR 240256Z AUTO 06004KT 10SM CLR 11/06 A2999 RMK AO2 SLP152 T01060056 53003 EPIR 240300Z 26010KT CAVOK 01/M00 Q1016 RMK 012 091 2/2= KLNS 240253Z 00000KT 10SM CLR 12/08 A3011 RMK AO2 SLP195 T01170078 51013 KO69 240315Z AUTO VRB05G10KT 10SM CLR 12/09 A3000 RMK A01 DXSK 240300Z 28002KT CAVOK 23/22 Q//// KLOL 240253Z AUTO 26018G27KT 10SM CLR 15/M06 A2984 RMK AO2 PK WND 28029/0239 SLP087 T01501061 51012 TSNO KLPC 240256Z AUTO 28012G17KT 10SM OVC017 13/09 A2994 RMK AO2 SLP143 T01280094 55002 KMGC 240315Z AUTO 00000KT 10SM CLR 06/00 A3006 RMK AO2 VOGO 240300Z 04005KT 6000 FEW016 FEW090 28/23 Q1010 NOSIG KLOM 240315Z AUTO 00000KT 10SM CLR 10/07 A3014 RMK AO1 KMEV 240315Z AUTO 25008G15KT 10SM CLR 10/M05 A2994 RMK AO2 KMGE 240313Z AUTO 08008KT 10SM OVC007 12/10 A2982 RMK AO2 SLP096 KMGG 240313Z AUTO 06009G15KT 10SM CLR 08/03 A2992 RMK AO2 T00750033 LCPH 240300Z 02006KT 9999 FEW030 09/05 Q1017 KMEZ 240315Z AUTO 00000KT 10SM CLR 10/09 A3001 RMK AO2 KMFR 240253Z 32008KT 10SM BKN075 OVC095 12/04 A2991 RMK AO2 SLP128 T01220039 58007 KLOR 240258Z AUTO 30005KT 10SM OVC055 15/12 A2984 RMK AO2 SLP087 T01530116 52020 KMGJ 240254Z AUTO 22006KT 10SM CLR 11/04 A3008 RMK AO2 SLP186 T01060039 51016 TSNO KLOT 240315Z AUTO 09006KT 10SM CLR 13/01 A3004 RMK AO2 T01250012 KLOU 240253Z AUTO 00000KT 10SM OVC050 16/04 A2996 RMK AO2 SLP144 T01560044 51016 EPKK 240300Z 25008KT 9999 BKN020 02/01 Q1018 EPLB 240300Z 27011KT 9999 SCT015 BKN034 03/02 Q1015 KMGM 240253Z 30009KT 10SM SCT018 BKN022 OVC029 14/10 A2986 RMK AO2 SLP109 T01440100 51014 KMFV 240315Z AUTO 07008KT 10SM -RA OVC080 12/10 A3008 RMK AO2 T01180100 KMHE 240253Z AUTO 17014KT 10SM CLR 18/M01 A2972 RMK AO2 SLP061 T01831011 56003 KMGN 240314Z AUTO 05006KT 10SM SCT110 03/M03 A3015 RMK AO2 T00351041 FHAW 240250Z 14009KT 9999 FEW020 26/22 Q1013 BLU VOHS 240300Z 34005KT 6000 NSC 32/16 Q1013 NOSIG KLOZ 240253Z AUTO 05005KT 10SM OVC015 12/09 A2988 RMK AO2 SLP116 60000 T01220094 53019 KO86 240315Z AUTO 17007KT 10SM CLR 12/ A2991 RMK AO1 KLPR 240253Z AUTO 00000KT 10SM CLR 08/00 A3007 RMK AO2 SLP184 T00780000 50004 KMGR 240315Z AUTO 30006KT 10SM RA BKN025 BKN031 OVC070 17/15 A2980 RMK AO2 KMIA 240253Z 25003KT 10SM FEW014 23/21 A2979 RMK AO2 SLP088 T02280211 50012 LCRA 240250Z 29004KT 9999 FEW020 11/03 Q1016 NOSIG EPKS 240300Z 26006KT CAVOK 01/M01 Q1018 RMK 013 085 1/1= KMIB 240258Z AUTO 10013KT 10SM FEW011 OVC023 M01/M03 A2990 RMK AO2 SLP151 T10071032 57018 KMHK 240252Z AUTO 24004KT 10SM CLR 12/04 A2996 RMK AO2 SLP143 T01220039 56005 KLQK 240315Z AUTO 07009G16KT 10SM RA SCT033 BKN039 OVC060 10/09 A2985 RMK AO2 T01000092 EPMB 240300Z AUTO 25008KT 9999 // 01/M01 Q1014 RMK 006 086 ///= EPLK 240300Z AUTO 25004KT 9999 01/M01 Q1017 RMK 008 088 = KMHL 240335Z AUTO 00000KT 10SM CLR 13/02 A3001 RMK AO2 KMIC 240253Z AUTO 04004KT 10SM CLR 09/02 A2991 RMK AO2 SLP131 T00940022 53012 EPKT 240300Z 26007KT 9999 FEW024 SCT049 02/01 Q1018 KLRD 240256Z AUTO 09005KT 10SM CLR 21/07 A3002 RMK AO2 SLP170 T02060072 53009 $ EPLL 240300Z 24009KT CAVOK 01/M00 Q1016 VOHY 240300Z VRB02KT 5000 HZ NSC 33/09 Q1013 BECMG 6000 KMGW 240253Z VRB04KT 10SM CLR 13/01 A3005 RMK AO2 SLP175 T01280011 52009 KMIE 240253Z AUTO 07008KT 10SM CLR 14/M01 A3002 RMK AO2 SLP163 T01391006 51005 KLRF 240258Z AUTO 00000KT 10SM CLR 13/06 A2998 RMK AO2 SLP155 T01330062 52009 KMGY 240253Z AUTO 06004KT 10SM CLR 13/01 A2999 RMK AO2 SLP153 T01280011 51007 KMHR 232256Z 16008KT 10SM SKC 22/09 A2994 EPMI 240300Z 26004KT CAVOK 01/M01 Q1016 RMK 008 089 0/0= KMHS 240256Z AUTO 00000KT 10SM OVC100 12/01 A2990 RMK AO2 SLP136 T01170006 53001 $ KLRJ 240315Z AUTO 16005KT 10SM CLR 13/00 A2987 RMK AO2 KP08 240315Z AUTO RMK AO2 PNO PWINO TSNO LEAB 240300Z 11005KT CAVOK 08/03 Q1017 NOSIG KMHT 240253Z 18007KT 10SM FEW200 12/04 A3004 RMK AO2 SLP185 T01220039 51014 KMHV 240300Z AUTO 28031G41KT 10SM CLR 16/04 A2984 RMK A01 EPMM 240300Z 26008KT 6000 BKN006 BKN011 02/02 Q1015 RMK 021 097 7/5 = KLSE 240253Z AUTO 11003KT 10SM CLR 16/05 A2994 RMK AO2 SLP136 T01560050 53002 KLRO 240315Z AUTO 13004KT 9SM CLR 23/21 A2981 RMK AO2 KLSF 240258Z AUTO 26003KT 10SM OVC043 15/13 A2981 RMK AO2 SLP096 T01460132 52011 LEAG 240300Z AUTO 09005KT 050V140 9999 FEW015 16/13 Q1016 EPMO 240300Z 26010KT CAVOK 01/00 Q1015 EPLY 240300Z 27006KT CAVOK 00/M01 Q1016 RMK 003 092 1/1= UWSS 240300Z 07006MPS 2000 RA BR OVC003 07/07 Q1000 R12/290355 NOSIG RMK QFE738 LEBA 240300Z AUTO 21001KT 9999 NCD 13/09 Q1015 KMIS 240315Z AUTO 01026KT 10SM FEW031 OVC041 18/12 A2992 RMK A01 LEBB 240300Z VRB02KT CAVOK 09/06 Q1016 NOSIG KNAK 240254Z AUTO 10006KT 10SM CLR 14/10 A3009 RMK AO2 SLP191 T01440100 50002 LEAL 240300Z 33005KT CAVOK 12/10 Q1016 NOSIG KMKC 240254Z 18006KT 10SM CLR 16/02 A2999 RMK AO2 SLP153 T01560017 53002 KNBC 240305Z AUTO 15006KT 10SM SCT021 BKN027 OVC070 24/23 A2977 RMK AO2 T02440228 $ KLRU 240315Z AUTO 14005KT 10SM CLR 21/M01 A2994 RMK AO2 T02051013 LEAM 240300Z 00000KT CAVOK 13/08 Q1015 KMIV 240254Z AUTO 08004KT 10SM CLR 09/08 A3013 RMK AO2 SLP200 T00890083 50003 KMKE 240252Z 02007KT 10SM BKN250 04/01 A3009 RMK AO2 SLP192 T00390006 55000 KMIW 240253Z AUTO 16006KT 10SM CLR 14/01 A2996 RMK AO2 SLP145 T01440006 55000 LEBG 240300Z AUTO VRB01KT 9999 NCD 06/00 Q1016 KLRY 240315Z AUTO 00000KT 10SM CLR 10/05 A3003 RMK AO2 KNBG 240309Z AUTO 36005KT 10SM FEW004 A2996 RMK AO2 PWINO $ KMKG 240255Z 00000KT 10SM BKN250 07/04 A3007 RMK AO2 SLP186 LAST T00720044 50003 KMJQ 240315Z AUTO 17008KT 10SM CLR 13/M01 A2988 RMK AO2 KNCA 240256Z AUTO 03007KT 10SM OVC007 16/16 A2993 RMK AO2 SLP138 60000 T01610156 50001 LEAS 240300Z AUTO VRB01KT 5000 BR NCD 08/08 Q1015 KLUA 240315Z AUTO 02003KT 10SM DZ SCT080 OVC100 10/07 A3008 RMK AO2 KP28 240256Z AUTO 16008KT 13/02 A2995 RMK AO1 SLP140 T01330022 56007 KMKJ 240315Z AUTO 00000KT 10SM RA OVC005 07/06 A3002 RMK AO2 P0001 T00680061 KMLB 240253Z 12006KT 10SM CLR 24/21 A2981 RMK AO2 SLP094 T02390206 51006 VOMD 240300Z 34004KT 7000 NSC 32/24 Q1010 NOSIG EPOK 240300Z 27011KT CAVOK 03/M01 Q1012 RMK 025 078 0/0 = LEBL 240300Z 31004KT CAVOK 11/07 Q1017 NOSIG KMKL 240253Z AUTO 34006KT 10SM RA CLR 12/11 A2992 RMK AO2 SLP131 P0002 60005 T01170106 53004 $ KMLC 240253Z AUTO 00000KT 10SM FEW075 FEW110 09/07 A3002 RMK AO2 SLP162 T00940072 58005 KLUD 240315Z AUTO 00000KT 10SM CLR 16/04 A3003 RMK AO2 T01620040 KLSV 240258Z AUTO 17013KT 10SM CLR 27/M04 A2962 RMK AO2 SLP011 T02691045 50006 $ KMKN 240315Z AUTO 15004KT 10SM CLR 15/05 A3004 RMK AO2 T01490047 KMLE 240315Z AUTO 13006KT 10SM CLR 15/02 A2991 RMK AO2 T01500019 KMLF 240252Z AUTO 29005KT 10SM FEW110 12/02 A2981 RMK AO2 SLP061 60000 T01220022 51020 KMKO 240253Z AUTO 10004KT 10SM CLR 12/06 A3000 RMK AO2 SLP159 T01170061 58013 KMJX 240256Z AUTO 17003KT 10SM CLR 06/05 A3014 RMK AO2 SLP214 T00610050 50008 KLUF 240258Z AUTO 24012KT 10SM CLR 30/M03 A2965 RMK AO2 SLP029 T03021026 55001 $ LECH 240300Z AUTO VRB02KT 9999 NCD 08/05 Q1017 KMLI 240252Z 08003KT 10SM CLR 11/03 A3001 RMK AO2 SLP162 T01060028 53002 LEDA 231630Z 18006KT 150V210 CAVOK 24/01 Q1016 UWUU 240300Z 13002MPS 2500 -RA BR OVC012 05/05 Q1012 R14R/290248 TEMPO 0200 RA FG VV002 RMK QFE749/0999 KMKS 240315Z AUTO 00000KT 10SM SCT018 21/19 A2981 RMK AO2 KMLJ 240315Z AUTO 01004KT 7SM -RA BKN006 OVC013 15/15 A2980 RMK AO2 KLTS 240258Z AUTO 15006KT 10SM CLR 11/04 A2998 RMK AO2 SLP149 60000 T01120037 56007 VOML 240300Z 09005KT 6000 SCT015 29/23 Q1012 NOSIG VOND 240130Z 14001KT 2500 HZ NSC 25/08 Q1011 KNBT 240256Z AUTO 04011G21KT 8SM OVC007 A2995 RMK AO2 SLP148 52003 PWINO $ LEBT 240300Z AUTO VRB01KT 9999 // NCD 05/03 Q1017 KLUK 240253Z 06003KT 10SM CLR 09/08 A2999 RMK AO2 SLP156 T00940083 51010 KMKT 240256Z AUTO 17007KT 10SM CLR 17/M02 A2989 RMK AO2 SLP124 T01671017 53007 VOMM 240300Z 19007KT 4500 BR FEW018 32/27 Q1009 NOSIG KLUL 240315Z AUTO 33006KT 10SM OVC030 13/10 A2995 RMK AO2 T01320104 KLUM 240315Z AUTO 02008KT 10SM CLR 13/06 A2992 RMK AO2 T01310057 LDLO 231400Z 12008KT 9999 SCT060 16/06 Q1018 LECO 240300Z AUTO 00000KT 9999 NCD 09/06 Q1014 DXXX 240200Z 27002KT 9999 FEW012 28/26 Q1011 NOSIG KMLP 240310Z AUTO 00000KT 10SM BKN012 BKN018 OVC022 01/00 A2976 RMK AO2 T00060000 TSNO EPPO 240300Z 28006KT CAVOK 00/M01 Q1017 LEBZ 231900Z 25007KT 220V280 9999 FEW045 24/11 Q1013 KMMH 240315Z AUTO 35009KT 10SM CLR 08/M04 A2997 RMK AO2 T00771038 KMMI 240315Z AUTO 00000KT 10SM OVC005 13/13 RMK EPPR 240300Z 25004KT 9999 SCT061 02/M02 Q1013 RMK 016 077 4/4= KLVJ 240253Z AUTO 00000KT 10SM CLR 18/09 A3002 RMK AO2 SLP165 T01830094 53014 KMLS 240253Z AUTO 05013KT 10SM SCT110 08/02 A2963 RMK AO2 LTG DSNT W AND NW SLP041 T00780022 55008 KLWA 240317Z AUTO 00000KT 10SM CLR 06/01 A3006 RMK AO2 T00550011 KLVK 240303Z 25010KT 10SM BKN024 13/08 A3001 RMK AO2 T01280078 KMLT 240253Z AUTO VRB03KT 10SM CLR 07/04 A2995 RMK AO2 SLP151 T00670044 50003 TSNO KMMK 240253Z AUTO 18005KT 10SM CLR 09/04 A3013 RMK AO2 SLP202 T00890044 51013 TSNO KLWB 240315Z AUTO 00000KT 10SM -RA BKN013 BKN020 OVC055 07/06 A3004 RMK AO2 T00700055 EPRA 240300Z 29011KT 260V320 9999 BKN012 OVC019 03/01 Q1016 KLWC 240252Z AUTO 00000KT 10SM CLR 11/06 A3000 RMK AO2 SLP158 T01110056 55001 $ KMLU 240253Z 00000KT 10SM CLR 14/11 A2999 RMK AO2 SLP156 T01390106 51015 KMML 240256Z AUTO 15009KT 10SM CLR 14/00 A2980 RMK AO2 SLP096 T01390000 55001 KLVL 240315Z AUTO 06005KT 7SM OVC007 11/10 A3003 RMK AO1 T01060100 LECV 231800Z VRB02KT 9999 FEW065 21/M06 Q1016 KLWD 240253Z AUTO 17006KT 10SM CLR 15/M01 A2998 RMK AO2 SLP151 T01501006 55002 KLVM 240253Z AUTO 26015KT 10SM FEW110 07/03 A2973 RMK AO2 SLP054 60002 T00720028 58003 KLVN 240311Z AUTO 19005KT 10SM CLR 13/01 A2989 RMK AO2 KMNE 240315Z AUTO 00000KT 10SM CLR 12/10 A3001 RMK AO2 T01210098 KP53 240256Z AUTO 01008KT 01/M04 A3018 RMK AO1 SLP230 T00061039 50001 EPPW 240300Z 26006KT CAVOK M00/M01 Q1017 RMK M002 093 1/1 = KLUX 240315Z AUTO 03010G20KT 10SM OVC006 11/11 A2985 RMK AO2 LTG DSNT SE KMNH 240315Z AUTO 19013KT 10SM CLR 10/00 A2982 RMK AO2 VOPB 240300Z 22004KT 6000 FEW014 31/25 Q1012 NOSIG KMNI 240315Z AUTO 11018G25KT 10SM SCT011 BKN015 BKN022 20/18 A2981 RMK AO2 LTG DSNT NW KLVS 240253Z AUTO 20012KT 10SM CLR 14/M02 A2997 RMK AO2 SLP078 T01391017 55001 KP58 240251Z AUTO 02009KT 05/03 A3012 RMK AO1 SLP202 T00500028 53008 $ KP60 240256Z AUTO 28009KT 250V320 00/M01 A2985 RMK AO1 SLP105 P0009 60016 T00001006 55001 $ KP59 240251Z AUTO 00000KT 00/M08 A3019 RMK AO1 SLP234 T00001078 56002 KMOB 240256Z 31007KT 10SM OVC036 14/09 A2993 RMK AO2 SLP132 T01440089 51017 KMMT 240258Z AUTO 05009KT 7SM -RA OVC003 17/17 A2980 RMK AO2 RAB56 SLP093 53001 $ UWWW 240300Z 10004MPS 2800 R23/1900U -SHRA BKN002 OVC020CB 07/07 Q1006 R23/290150 NOSIG RMK QFE743/0991 KMMU 240315Z AUTO 17003KT 10SM CLR 10/06 A3013 RMK AO2 KMMV 240301Z AUTO 24004KT 10SM SCT026 BKN041 OVC048 10/08 A2987 RMK AO2 RAE01 P0000 T01000078 $ KMOD 240253Z 32008KT 10SM CLR 16/07 A2996 RMK AO2 SLP146 T01610072 53007 KLWM 240254Z AUTO 20008KT 10SM CLR 12/04 A3008 RMK AO2 SLP186 T01170044 51010 KMNM 240256Z AUTO 07015KT 10SM CLR 03/M03 A3015 RMK AO2 SLP233 T00331033 50004 $ EPSC 240300Z 25004KT 210V280 CAVOK 01/M01 Q1016 KNFE 240306Z AUTO 03006KT 10SM BKN009 OVC024 13/12 A3004 RMK AO2 RAE00 CIG 007V012 P0000 T01330117 KMNN 240253Z AUTO 05009KT 10SM CLR 08/02 A3005 RMK AO2 SLP178 T00830017 51008 KNFG 240305Z AUTO 15005KT 5SM HZ OVC015 17/13 A2987 RMK AO2 T01670133 KNDZ 240256Z 33007KT 10SM SCT050 16/11 A2988 RMK AO2 SLP105 T01560111 51024 PNO $ LEGA 231200Z 22011KT 150V260 9999 FEW050 FEW050TCU 22/08 Q1017 KP68 240253Z AUTO 31007KT 10/M06 A2987 RMK AO1 SLP071 T01001056 53007 KLWS 240256Z 17008KT 10SM FEW060 BKN090 12/05 A2978 RMK AO2 SLP087 T01170050 56006 KP69 240252Z AUTO 00000KT 09/07 A2984 RMK AO1 SLP108 P0008 60008 T00890072 53013 KLWT 240254Z AUTO 00000KT 10SM FEW010 BKN055 OVC070 07/06 A2970 RMK AO2 RAB07E51 SLP054 P0003 60009 T00670061 56003 KLXL 240313Z AUTO 06007KT 10SM CLR 02/00 A2994 RMK AO2 KNFL 240256Z AUTO 28015KT 10SM CLR 15/M12 A2986 RMK AO2 SLP087 T01501117 51014 $ FGSL 240300Z 21004KT 9999 FEW010 24/22 Q1011 NOSIG KLWV 240253Z AUTO 02008KT 10SM CLR 14/01 A2998 RMK AO2 SLP151 T01390006 53012 KMNV 240315Z AUTO 06004KT 10SM OVC004 13/13 A2981 RMK A01 LEGE 240300Z 05001KT 9999 FEW090 07/06 Q1016 KNEW 240253Z AUTO 35015KT 10SM FEW030 17/11 A2997 RMK AO2 SLP142 T01670111 51017 $ KLXN 240315Z AUTO 16015G19KT 10SM CLR 15/M01 A2979 RMK AO2 T01471012 EPSN 240300Z 25008KT CAVOK 01/M01 Q1015 RMK 009 090 0/0 = KMOP 240312Z AUTO 09003KT 10SM CLR 07/02 A3011 RMK AO2 T00650015 KLYH 240318Z AUTO 02010KT 9SM -RA FEW006 BKN010 OVC060 09/08 A3006 RMK AO2 CIG 007V015 P0001 T00890083 KMNZ 240315Z AUTO 11003KT 10SM CLR 16/04 A3004 RMK AO2 T01600036 KMOR 240315Z AUTO 07006KT 10SM BKN010 OVC013 11/11 A2984 RMK A01 EPRZ 240300Z 26012KT 9999 SCT019 BKN026 03/01 Q1017 LDOS 240300Z 24004KT CAVOK 02/01 Q1022 KLXT 240253Z AUTO 18006KT 10SM CLR 16/02 A3001 RMK AO2 SLP158 T01560017 55002 KMOT 240254Z 08014KT 10SM OVC007 M01/M02 A2990 RMK AO2 SLP149 T10061022 56018 KMQB 240315Z AUTO 00000KT 10SM CLR 13/M01 A3004 RMK AO2 T01311012 LEHC 240300Z AUTO 03001KT 9999 NCD 10/00 Q1016 LDPL 240300Z AUTO 08006KT 9999 SCT022/// OVC052/// 10/05 Q1020 NOSIG KLXV 240253Z AUTO 27011G19KT 220V300 10SM CLR 08/M12 A3000 RMK AO2 SLP046 T00781117 53004 EPTM 240300Z 24006KT CAVOK 01/M00 Q1016 RMK 008 091 2/2= KNFW 240252Z AUTO 09004KT 10SM CLR 18/04 A3002 RMK AO2 SLP149 T01780039 53001 $ KMQE 240256Z AUTO 20014KT 08/02 A3008 RMK AO1 SLP200 T00780022 50014 KMPO 240253Z AUTO 00000KT 10SM CLR 06/02 A3010 RMK AO2 SLP198 T00610017 50006 KMOX 240312Z AUTO 09025G31KT 10SM CLR 08/03 A2980 RMK AO2 KLXY 240315Z AUTO 00000KT 10SM CLR 13/08 A3002 RMK AO2 T01310076 KNGP 240256Z AUTO 03012KT 10SM CLR 23/08 A3001 RMK AO2 SLP162 T02280083 53014 EPSY 231800Z VRB01KT CAVOK 04/M00 Q1012 LEGR 240300Z AUTO VRB01KT 9999 NCD 10/07 Q1016 KMQI 240315Z AUTO 06015G19KT 10SM OVC013 14/13 A2998 RMK AO2 T01430130 KMQJ 240300Z AUTO 04008KT 10SM CLR 10/00 A3002 RMK AO1 LEGT 231800Z 00000KT CAVOK 24/M02 Q1014 LEIB 240300Z 36003KT 330V040 9999 FEW014 11/10 Q1016 NOSIG KNHK 240252Z AUTO 10009KT 10SM OVC100 12/09 A3010 RMK AO2 SLP193 T01220094 51008 $ KMRB 240253Z AUTO 00000KT 10SM CLR 11/07 A3010 RMK AO2 SLP192 T01060072 51010 TSNO KNGU 240259Z 06011G17KT 4SM -RA BR BKN013 BKN026 OVC038 12/11 A3007 RMK AO2 SLP181 P0008 60009 T01220106 50002 $ KMRC 240315Z AUTO 01007KT 10SM OVC013 A2985 RMK KP92 240253Z AUTO 00000KT 15/10 A2999 RMK AO1 SLP156 T01500100 53023 KMPV 240251Z AUTO 21003KT 10SM FEW110 09/01 A3006 RMK AO2 SLP186 T00890011 51016 KNID 240256Z AUTO 23011G21KT 10SM CLR 22/M01 A2971 RMK AO2 SLP045 T02171006 53009 $ KLYV 240319Z AUTO 17005KT 10SM CLR 11/00 A2983 RMK AO2 KMRF 240256Z AUTO 13006KT 10SM CLR 15/00 A3007 RMK AO2 SLP147 6//// T01500000 53003 KMRH 240258Z AUTO 04010KT 10SM OVC006 18/18 A2993 RMK AO2 SLP137 T01830178 50000 TSNO KMPZ 240255Z AUTO 17004KT 10SM CLR 13/00 A3002 RMK AO2 T01321001 LDRI 240300Z 09002KT CAVOK 09/03 Q1021 KMQS 240315Z AUTO 00000KT 10SM CLR 10/08 A3013 RMK AO2 KMRJ 240315Z AUTO 15005KT 10SM CLR 15/00 A3000 RMK AO2 EPWA 240300Z 26010KT 9999 SCT008 01/01 Q1015 NOSIG KLZU 240045Z 04008KT 5SM BR OVC007 12/11 A2982 RMK CLOSING FORECAST ; OO KMRN 240310Z AUTO 01005KT 10SM RA SCT013 SCT022 BKN027 09/09 A3002 RMK AO2 P0002 T00860085 VORY 240300Z 25006KT 6000 FEW020 SCT025 34/25 Q1010 KNIP 240253Z 15012KT 10SM SCT048 BKN250 24/19 A2979 RMK AO2 RAE0157B13E39 SLP083 P0000 60000 T02440189 50015 KMQY 240256Z AUTO 35014KT 8SM OVC008 12/11 A2987 RMK AO2 RAE14B35E46 SLP046 P0000 60001 T01170106 51009 KLZZ 240315Z AUTO 00000KT 10SM CLR 13/08 A3003 RMK AO2 T01300076 VOTK 240300Z 35003KT 6000 FEW020 33/23 Q1010 LFBA 240300Z AUTO 00000KT CAVOK 05/04 Q1015 KOAJ 240256Z AUTO 03009KT 8SM OVC004 14/14 A2995 RMK AO2 SLP147 60000 T01440139 50002 KOAK 240253Z 29019G27KT 10SM FEW020 SCT180 BKN220 14/09 A3002 RMK AO2 PK WND 27028/0222 SLP164 T01440089 55001 KMRT 240312Z AUTO 04006KT 10SM CLR 12/04 A3003 RMK AO2 T01170040 KNJK 240256Z AUTO 26016KT 10SM -RA CLR 28/M14 A2968 RMK AO2 PK WND 25027/0233 SLP066 P0000 60000 T02781139 55002 $ LFBC 240300Z AUTO 01004KT CAVOK 07/02 Q1016 KMSL 240313Z AUTO 30005KT 10SM BKN006 OVC011 11/09 A2988 RMK AO2 CIG 003V009 T01110094 PNO $ KMTC 240258Z 06003KT 12SM FEW230 08/04 A3008 RMK AO2A SLP191 T00800040 53017 KNJM 240308Z AUTO 05008KT 5SM -RA BR OVC005 17/16 A2994 RMK AO2 P0000 T01720161 $ LFBD 240300Z AUTO 01004KT CAVOK 08/01 Q1016 NOSIG LFBE 240300Z AUTO 09001KT CAVOK 03/02 Q1015 NOSIG KMSN 240253Z 10006KT 10SM CLR 09/03 A3003 RMK AO2 SLP171 T00940033 53014 $ KOBE 240315Z AUTO 00000KT 10SM CLR 18/18 A2982 RMK AO2 VOTP 240300Z 25010KT 3000 HZ FEW020 32/25 Q1008 KMSO 240253Z 34008KT 10SM BKN100 09/03 A2977 RMK AO2 SLP087 T00890033 53004 LFBG 240300Z AUTO 03005KT CAVOK 08/00 Q1016 VOTR 240300Z 28009KT 4000 HZ FEW018 32/23 Q1009 NOSIG KMRY 240254Z VRB06G16KT 10SM CLR 13/08 A3004 RMK AO2 SLP184 T01330083 58001 KMSP 240253Z 03010KT 10SM BKN190 13/05 A2990 RMK AO2 SLP125 T01330050 53007 LDSP 240300Z AUTO 35005KT CAVOK 10/03 Q1021 NOSIG LFBH 240300Z AUTO 03007KT CAVOK 06/03 Q1018 NOSIG LFAQ 240300Z AUTO 00000KT CAVOK 03/M01 Q1020 KMTH 240301Z AUTO 00000KT 10SM SCT014 SCT022 25/23 A2981 RMK AO2 T02500228 LFBI 240300Z AUTO 02006KT CAVOK 02/M00 Q1018 NOSIG LEJR 240300Z AUTO 00000KT 9999 NCD 12/10 Q1015 KMSS 240253Z AUTO 34006KT 10SM OVC100 11/03 A3010 RMK AO2 SLP195 T01060028 51044 KMTJ 240253Z AUTO 16006KT 10SM CLR 16/M07 A2977 RMK AO2 SLP025 T01561067 56012 EPWR 240300Z 28010KT 9999 FEW034 04/01 Q1019 LFAT 240300Z AUTO 15003KT 110V180 CAVOK 03/01 Q1020 VOTV 240300Z 33008KT 4000 HZ FEW015 31/25 Q1011 NOSIG LELC 232100Z 04004KT CAVOK 15/11 Q1018 NOSIG LFBL 240300Z AUTO 05007KT CAVOK 07/01 Q1015 NOSIG KNLC 240256Z AUTO 34013KT 10SM CLR 19/04 A2991 RMK AO2 SLP128 T01940039 55001 LFBM 240300Z AUTO 00000KT CAVOK 05/02 Q1015 NOSIG KMSV 240315Z AUTO 00000KT 10SM CLR 11/01 A3010 RMK AO1 KMTN 240300Z AUTO 09005KT 10SM CLR 13/10 A3012 RMK AO2 LFBO 240300Z AUTO 19006KT CAVOK 09/05 Q1016 NOSIG KMTO 240253Z AUTO 00000KT 10SM CLR 12/M01 A3000 RMK AO2 SLP158 T01171006 51005 KOCF 240315Z 23003KT 10SM SCT048 BKN060 OVC080 23/18 A2981 RMK AO1 LFBP 240300Z AUTO 13003KT CAVOK 08/05 Q1015 NOSIG KMSY 240253Z 34009KT 10SM FEW035 16/10 A2997 RMK AO2 SLP151 T01560100 51017 KMTP 240254Z AUTO 20004KT 08/07 A3015 RMK AO1 SLP209 T00830067 50005 KOCH 240315Z 00000KT CLR 11/08 A2999 RMK AO1 KMUI 240258Z AUTO 00000KT 10SM CLR 10/07 A3010 RMK AO2 SLP196 T00980072 50010 $ LFCK 240300Z AUTO 12017KT CAVOK 15/01 Q1016 LFBT 240300Z AUTO 17007KT CAVOK 09/04 Q1015 NOSIG KNKT 240254Z 05012KT 7SM OVC006 17/15 A2995 RMK SLP139 T01670150 50000 LELL 240300Z AUTO 00000KT 9999 NCD 09/08 Q1016 LFBU 240300Z AUTO 02007KT CAVOK 05/00 Q1016 LEMD 240300Z 36004KT CAVOK 11/02 Q1016 NOSIG KMTV 240315Z AUTO 04007KT 5SM +RA OVC007 09/08 A3003 RMK AO2 P0007 T00850077 LELN 231900Z 00000KT CAVOK 21/M07 Q1016 KMVE 240312Z AUTO 17008KT 10SM CLR 14/01 A2979 RMK AO2 KMTW 240256Z AUTO 04009KT CLR 04/M02 A3011 RMK AO2 SLP221 T00391017 56002 PWINO LELO 232100Z 12003KT 070V170 CAVOK 16/05 Q1016 KMUO 240258Z AUTO 00000KT 10SM CLR 13/05 A2976 RMK AO2 SLP072 60000 T01270047 50003 KNKX 240255Z 21005KT 10SM FEW015 FEW250 17/12 A2987 RMK AO2 SLP111 T01670117 51004 $ LFBY 240300Z AUTO 00000KT 9999 // ////// 07/06 Q1015 LEMG 240300Z 30006KT CAVOK 11/09 Q1016 NOSIG LEMH 240300Z AUTO 12003KT 9999 NCD 11/09 Q1017 LFBZ 240300Z AUTO 19003KT CAVOK 08/07 Q1015 NOSIG KMVH 240315Z AUTO 29005KT 10SM OVC100 05/04 A2973 RMK AO2 KOCQ 240315Z AUTO 07007KT 10SM CLR 04/M02 A3014 RMK AO1 T00361022 EPZG 240300Z 24005KT CAVOK 00/M01 Q1019 LFCR 240300Z AUTO 13006KT CAVOK 08/03 Q1016 NOSIG KMWA 240315Z AUTO 36003KT 10SM CLR 11/04 A2997 RMK AO2 KMUT 240315Z AUTO 00000KT 8SM CLR 11/03 A3002 RMK AO2 KOEB 240315Z AUTO 00000KT 10SM CLR 08/03 A3006 RMK AO2 T00760032 KMVL 240254Z AUTO 20004KT 10SM BKN110 05/03 A3003 RMK AO2 SLP173 T00500028 51018 $ KMWC 240315Z AUTO 04006KT 10SM CLR 03/00 A3009 RMK AO2 KNMM 240256Z AUTO 32006KT 10SM SCT027 OVC033 13/08 A2992 RMK AO2 SLP142 T01280078 51010 KMVN 240256Z AUTO 01003KT 10SM CLR 09/03 A2999 RMK AO2 SLP155 T00890033 51011 KOCW 240315Z AUTO 05008G14KT 10SM OVC006 14/13 A2998 RMK AO2 T01350130 VOVZ 240300Z 23010KT 4500 BR FEW018 SCT090 31/27 Q1008 NOSIG LEMO 240300Z 16003KT 9000 NSC 13/10 Q1015 NOSIG KODO 240253Z AUTO 13009KT 10SM CLR 18/M01 A2999 RMK AO2 SLP128 T01781006 55009 KMWH 240252Z 22009KT 10SM OVC090 13/03 A2975 RMK AO2 SLP075 60000 T01280033 56008 KMWK 240315Z AUTO 32003KT 3SM +RA OVC012 10/09 A3001 RMK AO2 P0010 T00980085 KMWL 240253Z AUTO 13003KT 10SM CLR 14/04 A3001 RMK AO2 SLP158 6//// T01390039 53002 PNO $ KMWM 240314Z AUTO 16009KT 10SM CLR 14/M01 A2986 RMK AO2 KMWN 240252Z 28049G56KT 130SM FEW160 FEW180 01/M03 RMK KODX 240253Z AUTO 17012KT 10SM CLR 15/M01 A2978 RMK AO2 SLP083 T01501011 56006 KOFF 240256Z AUTO 15006KT 10SM CLR 15/00 A2991 RMK AO2 SLP131 T01471002 55001 $ KMWO 240315Z AUTO 00000KT 10SM CLR 10/04 A3001 RMK AO2 T00960040 KOEO 240315Z AUTO 06013G17KT 10SM CLR 08/03 A2996 RMK AO2 T00820030 KMXF 240313Z AUTO 29007KT 10SM BKN015 BKN026 OVC050 14/11 A2985 RMK AO2 CIG 015V026 BKN015 V SCT SLP110 KMVY 240253Z AUTO VRB06KT 10SM CLR 08/06 A3014 RMK AO2 SLP208 T00780056 50009 TSNO KNOG 240256Z AUTO A3002 RMK AO2 SLPNO 53014 PWINO TSNO $ PTKK 240252Z 09007KT 15SM FEW014 BKN120 OVC280 31/27 A2980 RMK SLP094 8/171 T03110271 57025 LEPA 240300Z 03003KT CAVOK 06/06 Q1017 NOSIG LFGA 240300Z AUTO 27007KT CAVOK 03/M02 Q1020 KNPA 240256Z AUTO 33013G19KT CLR 16/10 A2987 RMK AO2 SLP118 6//// T01560100 51025 PNO $ KOGA 240315Z AUTO 15009G15KT 10SM CLR 15/04 A2970 RMK AO2 T01510038 KOGB 240309Z AUTO 09004KT 10SM VCTS OVC019 21/19 A2977 RMK AO2 LTG DSNT SW-N T02110194 KMWT 240253Z AUTO 00000KT 10SM CLR 12/08 A2998 RMK AO2 SLP152 T01170078 53005 KOFK 240256Z AUTO 17012KT 10SM CLR 14/M02 A2983 RMK AO2 SLP100 T01441017 55001 KOGD 240253Z AUTO 16006KT 10SM CLR 11/02 A2979 RMK AO2 SLP060 T01110022 58007 KMYF 240315Z 19005KT 8SM BKN013 16/12 A2988 RMK AO2 T01560117 KMXO 240315Z AUTO 15003KT 10SM CLR 12/02 A3000 RMK AO2 KOFP 240254Z AUTO 00000KT 8SM OVC085 11/09 A3009 RMK AO2 RAB0156E10B36E45 SLP190 P0001 60001 T01110094 50003 $ PTKR 240255Z 35005KT 15SM FEW018TCU SCT120 OVC300 32/25 A2982 RMK TCU E SLP097 8/271 T03170249 57010 LFGJ 240300Z AUTO 34004KT CAVOK 02/M01 Q1018 NOSIG KMYJ 240335Z AUTO 00000KT 10SM CLR 08/01 A3001 RMK AO2 PWINO KNQA 240315Z AUTO 00000KT 10SM 12/10 A2993 RMK A01 LDZA 240300Z 11003KT CAVOK 06/03 Q1022 NOSIG KMYL 240251Z AUTO 09005KT 10SM FEW029 OVC075 04/01 A2978 RMK AO2 RAB23E41 SLP087 P0001 60004 T00440011 56004 LDZD 240300Z 12003KT 9999 BKN070 08/04 Q1021 NOSIG KNOW 240315Z AUTO 31006KT 10SM OVC038 10/06 A2977 RMK AO2 T00950064 LEPP 240300Z AUTO 00000KT 9999 NCD 06/04 Q1017 ESCF 240250Z AUTO 19004KT 9999 NCD M02/M05 Q1007 KMYP 240310Z AUTO 24019G24KT 10SM CLR 02/M10 A3023 RMK AO2 KMZG 240315Z AUTO 35015G21KT 10SM CLR 22/10 A3000 RMK A01 KMZH 240315Z AUTO 07007G14KT 032V092 10SM OVC110 01/M03 A2999 RMK AO2 KNOZ 240259Z AUTO 28009KT 10SM CLR A2968 RMK AO2 SLPNO 55000 $ KMYR 240255Z AUTO 07015G19KT 10SM OVC008 20/18 A2986 RMK AO2 SLP112 6//// T02000183 58001 KNQI 240256Z AUTO 00000KT 10SM CLR 18/09 A3001 RMK AO2 SLP160 T01780089 53013 KOGS 240315Z AUTO 35006KT 10SM SCT100 11/04 A3009 RMK AO2 T01050036 TSNO GABS 240300Z 24004KT CAVOK 29/18 Q1011 NOSIG KNRB 240252Z AUTO 16011G20KT 10SM SCT049 SCT065 BKN085 22/21 A2978 RMK AO2 SLP082 T02220206 50010 $ KMYV 240253Z AUTO 16009KT 10SM CLR 18/11 A2990 RMK AO2 SLP129 T01780106 55006 ESDF 240250Z AUTO 00000KT 9999 NCD M02/M03 Q1011 FJDG 240255Z 16007KT 9999 FEW020 SCT050 BKN080 27/26 A2990 RMK SLP122 T2SET 8/870 T02690262 52017 KMYZ 240315Z AUTO 16006KT 10SM CLR 12/02 A2994 RMK AO2 LERI 231800Z 06009KT CAVOK 18/07 Q1017 NOSIG WIBB 240300Z 00000KT 9999 FEW010 29/24 Q1011 LESA 231800Z 00000KT CAVOK 24/01 Q1015 KOJA 240315Z AUTO 16005KT 10SM CLR 12/04 A2999 RMK AO2 KOJC 240253Z AUTO 16003KT 10SM CLR 13/04 A3000 RMK AO2 SLP157 T01280039 55002 LGAD 240250Z 00000KT CAVOK 07/05 Q1021 KPAE 240257Z 14015G23KT 10SM -RA FEW016 OVC050 08/06 A2980 RMK AO2 P0000 T00830061 KNSE 240256Z AUTO 32007KT 10SM -RA CLR 14/11 A2988 RMK AO2 SLP104 P0000 60000 T01390106 51024 $ KNQX 240253Z AUTO 02005KT SCT012 A2982 RMK AO2 SLP098 52017 PWINO $ KPAH 240253Z 09003KT 10SM CLR 12/07 A2994 RMK AO2 SLP136 T01220067 53009 $ KMZZ 240316Z AUTO 05006KT 10SM CLR 12/01 A3004 RMK AO2 FIMP 240300Z 32004KT 9999 FEW018 23/21 Q1014 KNSI 240257Z AUTO 29029G38KT 10SM CLR A2987 RMK AO2 PK WND 29039/0203 SLPNO 56003 PWINO $ LERS 240300Z AUTO 02003KT 350V050 9999 NCD 08/06 Q1017 FIMR 231800Z 36008KT 9999 FEW018 26/23 Q1015 KNRS 240314Z AUTO 18004KT 9SM BKN015 15/12 A2989 RMK AO2 T01500117 $ LERT 240300Z 12008KT CAVOK 16/11 Q1015 NOSIG LFKB 240300Z 24004KT 9999 SCT023 09/06 Q1019 NOSIG KOKB 240252Z AUTO 19006KT 9SM OVC015 17/13 A2985 RMK AO2 SLP109 T01720133 52001 LGAL 240250Z 04007KT 9999 SCT030 BKN060 08/04 Q1020 LFKC 240300Z AUTO 19005KT CAVOK 09/07 Q1018 NOSIG LFJL 240300Z AUTO VRB02KT CAVOK 01/M03 Q1020 NOSIG KOKC 240252Z 11008KT 10SM FEW250 12/04 A3000 RMK AO2 SLP154 T01170039 55011 $ RCFN 240300Z 02005KT 350V050 9999 VCSH FEW025 BKN040 BKN050 23/18 Q1016 NOSIG RMK A3002 KPAM 240256Z AUTO 01004KT 10SM CLR 18/15 A2983 RMK AO2 SLP104 60000 T01810146 52017 $ KNTD 240256Z 29005KT 9SM SCT280 14/10 A2983 RMK AO2 SLP101 T01440100 56005 $ KPAN 240315Z AUTO 23005KT 10SM CLR 20/M08 A2995 RMK AO2 KPAO 240247Z 26010KT 10SM SCT030 SCT200 14/08 A3003 LFKF 240300Z AUTO VRB02KT CAVOK 02/02 Q1018 NOSIG LESO 240300Z AUTO 19003KT 9999 NCD 10/08 Q1016 KPBF 240253Z AUTO 00000KT 10SM CLR 14/10 A2998 RMK AO2 SLP150 T01390100 53009 KPBG 240253Z AUTO 31005KT 10SM OVC110 14/M07 A3004 RMK AO2 SLP172 T01441067 53029 KPBH 240315Z AUTO 07008KT 10SM CLR 04/01 A3003 RMK AO2 T00400008 LFJR 240300Z AUTO 04003KT 010V070 CAVOK 06/01 Q1019 KPBI 240253Z 02003KT 10SM FEW015 SCT025 SCT045 21/20 A2979 RMK AO2 SLP089 60004 T02060200 51014 $ LFKJ 240300Z AUTO 04006KT CAVOK 07/05 Q1018 NOSIG WIDD 240300Z 13008KT 9999 FEW015CB 31/24 Q1014 NOSIG LEST 240300Z VRB02KT 9999 FEW040 11/03 Q1014 NOSIG LFLB 240300Z AUTO 19001KT CAVOK 04/02 Q1019 NOSIG KOKK 240256Z AUTO 04009KT 10SM CLR 12/01 A3004 RMK AO2 SLP175 T01220011 50006 LESU 231700Z 21014KT 9999 FEW030 20/M01 Q1016 LFLC 240300Z AUTO VRB02KT CAVOK 04/00 Q1017 NOSIG LETL 240300Z AUTO 16004KT 9999 NCD 05/M02 Q1018 LGBL 240250Z 27005KT 9999 FEW040 08/03 Q1020 PTPN 240250Z 11008KT 15SM BKN017TCU BKN130 OVC300 31/25 A2983 RMK TCU S LAST LGAV 240250Z VRB01KT 9999 FEW025 07/04 Q1020 NOSIG KOKM 240315Z AUTO 16003KT 10SM CLR 10/07 A3001 RMK AO2 T00950067 LETO 240300Z 02008KT CAVOK 10/01 Q1016 NOSIG KOLF 240253Z AUTO 09016KT 7SM -RA OVC007 02/M01 A2979 RMK AO2 RAB49 SLP107 P0000 60000 T00171006 50000 KOLG 240315Z AUTO 05009KT 10SM BKN110 01/M03 A3003 RMK AO1 ESGG 240250Z 19009KT 9999 DZ BKN006 BKN010 OVC016 03/02 Q1007 KNUI 240253Z AUTO 07005KT 10SM OVC100 12/08 A3009 RMK AO2 RAE50 SLP190 P0000 60000 T01220083 51006 LFKS 240300Z AUTO 28006KT CAVOK 11/07 Q1019 KOMA 240252Z 17012KT 10SM CLR 17/M01 A2991 RMK AO2 SLP127 T01671006 55003 ESGJ 240250Z AUTO 23008KT 9999 NCD 00/M01 Q1007 WIEE 240230Z 20003KT 170V240 9999 SCT020 31/25 Q1012 LFLL 240300Z 00000KT CAVOK 05/M01 Q1018 NOSIG LFMC 240300Z AUTO 00000KT 9999 ////// 10/09 Q1018 LEVC 240300Z 28003KT CAVOK 07/05 Q1017 NOSIG KNTU 240313Z 05007KT 6SM -RA BR FEW008 OVC023 12/10 A3003 RMK AO2 P0000 T01170100 $ KPDC 240315Z AUTO 00000KT 10SM CLR 13/04 A2997 RMK AO2 T01250040 LFMD 240300Z AUTO VRB02KT 9999 FEW020 SCT029 OVC040 15/12 Q1018 TEMPO BKN014 BKN035 LEVD 231930Z 28002KT 9999 FEW040 20/M05 Q1016 KOLM 240313Z AUTO 28003KT 10SM -RA BKN023 OVC037 09/08 A2983 RMK AO2 RAB01 P0000 T00890078 KOKV 240315Z AUTO 00000KT 10SM OVC120 08/07 A3010 RMK AO2 KPCM 240315Z AUTO 00000KT 10SM SCT039 24/20 A2984 RMK AO2 LFLN 240300Z AUTO 09001KT CAVOK M00/M01 Q1018 KPBX 240315Z AUTO 06008KT 10SM -DZ SCT009 BKN048 OVC050 10/10 A2992 RMK AO2 T00960096 LFLP 240300Z AUTO VRB02KT 9999 ////// 04/M00 Q1019 LFMH 240300Z AUTO 17002KT CAVOK M00/M03 Q1018 NOSIG KNUQ 240256Z 29008KT 10SM CLR 14/08 A3004 RMK AO2 SLP175 T01390078 53004 KOKZ 240315Z AUTO 06004KT 10SM OVC004 18/18 A2977 RMK AO2 T01770177 KOMH 240315Z AUTO 00000KT 10SM RA BKN027 BKN060 OVC100 10/09 A3009 RMK AO2 P0001 PTSA 242350Z 06006KT 10SM -SHRA BKN013TCU BKN130 OVC300 26/24 A2910 RMK TCU NE-SE-SW LFMI 240300Z AUTO 04003KT CAVOK 09/08 Q1018 NOSIG LFLS 240300Z AUTO 10004KT CAVOK M00/M02 Q1018 NOSIG ESGR 240250Z AUTO 17005KT 9999 NCD M02/M05 Q1006 KPEA 240315Z AUTO 14003KT 10SM CLR 14/00 A2999 RMK AO2 T01400001 KOLS 240254Z AUTO 00000KT 10SM CLR 24/M11 A2990 RMK AO2 SLP065 T02391111 53004 $ KONA 240312Z AUTO 00000KT 10SM CLR 12/03 A2994 RMK AO2 LFMK 240300Z AUTO VRB03KT CAVOK 10/08 Q1017 NOSIG KOMK 240253Z AUTO 18006KT 10SM BKN100 BKN120 13/01 A2969 RMK AO2 SLP054 T01330011 56011 TSNO $ KPDK 240253Z VRB05KT 10SM OVC008 11/10 A2982 RMK AO2 SLP095 T01110100 51009 ESGT 231850Z 26007KT CAVOK 06/M05 Q1011 LFLU 231800Z AUTO 36015KT CAVOK 17/00 Q1017 LFML 240300Z AUTO 10004KT CAVOK 11/08 Q1018 NOSIG ESIB 240250Z AUTO 19009KT 9999 OVC074/// 03/01 Q1006 KOLU 240315Z AUTO 16008KT 10SM CLR 14/M01 A2987 RMK AO2 RVRNO KOLV 240055Z 35003KT 10SM BKN045 A2991 KOMN 232250Z 12010KT 10SM SKC 25/20 A2977 RMK LAST LFLW 240300Z AUTO 10008KT CAVOK 09/02 Q1016 LFMN 240300Z 09011KT 9999 SCT015 OVC040 15/12 Q1018 NOSIG KPCW 240316Z AUTO 00000KT 10SM CLR 08/02 A3005 RMK AO2 $ KNUW 240256Z 15014KT 10SM SCT025 BKN035 OVC060 10/07 A2981 RMK AO2 RAE41 SLP094 P0003 60004 T01000067 55003 $ PTRO 240250Z 14004KT 14SM SCT016TCU BKN120 OVC300 28/25 A2980 RMK TCU VC ALQDS AND OHD LFMO 240300Z AUTO 03002KT CAVOK 07/03 Q1018 NOSIG LFLX 240300Z AUTO 06004KT CAVOK 01/M01 Q1018 NOSIG LFMP 240300Z AUTO 29004KT 250V330 CAVOK 10/09 Q1017 NOSIG LFLY 240300Z AUTO 00000KT CAVOK 04/00 Q1018 NOSIG KOLY 240315Z AUTO 02004KT 10SM CLR 15/M01 A3000 RMK AO2 T01481014 KOLZ 240255Z AUTO 17008KT 10SM CLR 12/02 A2999 RMK AO2 KPCZ 240315Z AUTO 09010KT 10SM CLR 06/02 A3009 RMK AO2 T00600022 LEVS 232000Z 00000KT 9999 FEW050 20/M02 Q1015 LFOA 240300Z AUTO 07006KT CAVOK 04/M00 Q1018 KOOA 240315Z AUTO 15007KT 10SM CLR 12/00 A3000 RMK AO2 T01190000 LEVT 240300Z 00000KT CAVOK 04/02 Q1016 LFOB 240300Z AUTO 31002KT CAVOK M01/M02 Q1020 NOSIG LFMT 240300Z AUTO 02006KT CAVOK 09/03 Q1018 TEMPO BKN008 KPDT 240253Z 30011KT 10SM -RA BKN049 OVC065 09/07 A2981 RMK AO2 LTG DSNT SE RAB32 SLP091 P0000 60000 T00940067 53004 LFMU 240300Z AUTO 04005KT CAVOK 09/04 Q1017 TEMPO BKN008 LFOC 240300Z AUTO 02003KT CAVOK 03/M00 Q1020 LGEL 240250Z 00000KT CAVOK 09/05 Q1019 KONL 240315Z AUTO 17013G18KT 10SM CLR 15/M02 A2977 RMK AO2 T01461016 LFMV 240300Z AUTO 00000KT CAVOK 08/06 Q1018 NOSIG KONM 240315Z AUTO 27006KT 10SM CLR 19/M01 A2992 RMK AO2 T01931011 LFOE 240300Z AUTO 30003KT CAVOK 01/M00 Q1020 ETAD 240258Z AUTO 00000KT 9999 CLR M01/M04 A3012 RMK AO2 SLP202 T10071036 57019 TSNO $ LEVX 240300Z 00000KT CAVOK 13/07 Q1014 NOSIG KONO 240253Z AUTO 02004KT 10SM FEW100 14/04 A2976 RMK AO2 SLP077 T01440044 56003 KPDX 240253Z 22007KT 6SM RA BR FEW025 BKN045 OVC055 10/08 A2987 RMK AO2 RAB01E15B43 SLP113 P0002 60002 T01000078 58012 KPEO 240253Z AUTO 00000KT 10SM CLR 07/03 A3008 RMK AO2 SLP188 T00670033 51012 KNXF 240256Z AUTO 17003KT 8SM OVC014 18/14 A2986 RMK AO2 SLP195 T01780139 56000 RCKH 240300Z 04003KT 320V110 9999 FEW014 SCT030 BKN060 25/20 Q1015 NOSIG RMK A2999 LFMY 240300Z AUTO VRB03KT CAVOK 08/06 Q1018 NOSIG KONP 240315Z AUTO 22015G24KT 4SM RA BKN011 OVC022 08/07 RMK AO2 P0001 LFOH 240300Z AUTO 12003KT CAVOK 05/01 Q1021 KPEQ 240315Z AUTO 10009KT 10SM CLR 18/00 A2996 RMK AO2 T01820000 LEXJ 240300Z AUTO 19001KT 7000 NCD 09/08 Q1015 LFOJ 240300Z AUTO 05004KT CAVOK 02/M01 Q1019 KPGA 240253Z AUTO 26012G22KT 220V290 10SM CLR 25/M12 A2971 RMK AO2 SLP006 T02501122 53001 TSNO LFPB 240300Z AUTO VRB01KT CAVOK 02/M01 Q1020 NOSIG LFOK 240300Z AUTO 01004KT CAVOK 01/M01 Q1020 NOSIG KONT 240253Z 25011KT 10SM FEW160 SCT250 18/12 A2983 RMK AO2 SLP092 T01780117 53007 KNYC 240251Z AUTO VRB04KT 10SM CLR 11/05 A3015 RMK AO2 SLP203 T01110050 51013 $ KPGD 240305Z AUTO 00000KT 10SM BKN029 24/19 A2984 RMK AO2 T02390189 KOPF 240253Z 27004KT 10SM CLR A2979 RMK AO2 SLP090 51003 KPEX 240313Z AUTO 07011G16KT 10SM CLR 06/02 A2989 RMK AO2 T00600021 PTTP 240250Z 04009KT 15SM SCT018 OVC300 30/25 A2985 RMK SLP107 8/101 T03030246 57027 KONX 240320Z AUTO 04009KT 10SM OVC012 14/14 A3002 RMK AO2 T01370137 LFPG 240300Z 01006KT CAVOK 04/M00 Q1020 NOSIG LFOP 240300Z AUTO 10002KT CAVOK 03/M01 Q1020 KNYG 240256Z AUTO 10008KT 10SM FEW033 BKN110 14/09 A3011 RMK AO2 SLP195 T01390094 52002 $ KNXP 240256Z AUTO 27009KT 10SM CLR 26/00 A2979 RMK AO2 PK WND 28026/0158 SLP055 T02560000 53002 KONZ 240313Z AUTO 00000KT 10SM CLR 09/04 A3007 RMK AO2 T00940041 KPEZ 240255Z AUTO 00000KT 5SM HZ CLR 16/06 A3001 RMK AO2 T01560062 LFQA 240300Z AUTO VRB03KT CAVOK M02/M03 Q1020 ETAR 240258Z 00000KT 9999 CLR M04/M05 A3013 RMK AO2A SLP217 T10381046 57020 $ LFOT 240300Z AUTO 04004KT 350V080 CAVOK 04/00 Q1019 NOSIG LFQB 240300Z AUTO 29004KT CAVOK 00/M02 Q1019 KOPL 240315Z AUTO 00000KT 10SM CLR 11/10 A2999 RMK AO2 T01130102 PWINO KNYL 240257Z AUTO 30010KT 10SM CLR 30/02 A2965 RMK AO2 SLP038 T03000017 55004 $ LFOV 240300Z AUTO 35004KT CAVOK 04/02 Q1020 LFPM 240300Z AUTO 03002KT CAVOK 02/M00 Q1020 KPHD 240253Z AUTO 00000KT 10SM CLR 11/04 A3004 RMK AO2 SLP172 T01110039 51007 KOPN 240315Z AUTO 00000KT 10SM BKN006 OVC013 15/13 A2981 RMK AO2 LFPN 240300Z AUTO 34004KT CAVOK 02/M00 Q1020 ESKM 240250Z AUTO 02002KT 9999 NCD M07/M10 Q1005 LFPO 240300Z 00000KT CAVOK 03/M02 Q1020 NOSIG ESKN 240250Z 25003KT CAVOK M03/M06 Q1007 KPHF 240254Z 06006KT 9SM -RA BKN015 BKN019 OVC047 12/11 A3007 RMK AO2 SLP181 P0004 60004 T01170111 50009 LFQG 231800Z AUTO 02009KT CAVOK 14/01 Q1021 LEZG 240300Z 15004KT 110V190 CAVOK 10/02 Q1016 WIII 240300Z 09014KT 8000 FEW020 31/26 Q1011 NOSIG LGHI 240250Z 21004KT 9999 FEW020 08/06 Q1018 KPIA 240254Z 00000KT 10SM CLR 12/01 A3002 RMK AO2 SLP166 T01220006 50001 LFRB 240300Z AUTO 06004KT CAVOK 05/03 Q1020 NOSIG LFPT 240300Z AUTO 00000KT CAVOK M01/M02 Q1020 KORB 240313Z 10SM SCT040 BKN060 OVC075 00/M03 A3005 RMK AO2 KPIB 240315Z AUTO 31006KT 10SM OVC035 13/09 A2995 RMK AO1 GAMB 240300Z 00000KT CAVOK 28/19 Q1009 LFRC 240300Z AUTO 17004KT CAVOK 05/01 Q1020 LEZL 240300Z 22004KT CAVOK 16/13 Q1015 NOSIG KORC 240315Z AUTO 18008KT 10SM CLR 13/02 A2986 RMK AO2 KPHL 240254Z 19004KT 10SM FEW150 SCT210 BKN280 11/07 A3014 RMK AO2 SLP204 T01110067 50012 $ LFRD 240300Z AUTO 09003KT CAVOK 04/03 Q1020 TEMPO 0500 BCFG LFPV 240300Z AUTO VRB01KT CAVOK 05/M01 Q1020 NOSIG KORD 240251Z 04007KT 10SM BKN250 08/03 A3005 RMK AO2 SLP178 T00830033 51007 KPGV 240320Z AUTO 05006KT 4SM BR OVC004 13/12 A3001 RMK AO2 KORE 240252Z AUTO 17007KT 10SM CLR 11/03 A3008 RMK AO2 SLP187 T01110033 51019 TSNO KPIE 240253Z AUTO 30005KT 10SM SCT045 23/20 A2982 RMK AO2 SLP098 T02280200 51012 KPHN 240317Z AUTO 36004KT 10SM CLR 04/02 A3010 RMK AO2 KORF 240304Z 05013G21KT 5SM -RA BR BKN012 BKN022 OVC039 13/11 A3004 RMK AO2 P0001 T01280106 LFRG 240300Z AUTO 21004KT CAVOK 03/M00 Q1021 RCMQ 240300Z 32003KT 4000 BR FEW010 BKN020 BKN040 22/22 Q1016 NOSIG RMK A3001 KPHP 240255Z AUTO 07009KT 10SM CLR 13/07 A2962 RMK AO2 SLP022 T01280067 53003 $ KORG 240315Z AUTO 00000KT 10SM CLR 13/12 A3002 RMK AO2 T01260119 GAKY 231800Z 32006KT 260V350 CAVOK 41/10 Q1007 LFQQ 240300Z AUTO 00000KT CAVOK 03/M00 Q1020 NOSIG LFRH 240300Z AUTO 06005KT CAVOK 06/04 Q1020 NOSIG KPIH 240253Z 19006KT 10SM CLR 08/02 A2979 RMK AO2 SLP073 T00780022 55000 KORH 240254Z AUTO 23010KT 10SM CLR 08/03 A3009 RMK AO2 SLP193 T00780028 50011 LFRI 240300Z AUTO 04005KT CAVOK 03/00 Q1018 LFRJ 240300Z AUTO 05005KT CAVOK 05/04 Q1020 KOSA 240315Z AUTO 00000KT 10SM CLR 12/10 A3002 RMK AO1 T01210096 LFRK 240300Z AUTO 00000KT 6000 NSC 02/01 Q1021 LFSB 240300Z 27001KT CAVOK M00/M03 Q1020 NOSIG KOQT 240253Z AUTO VRB03KT 10SM OVC012 12/11 A2984 RMK AO2 SLP105 60000 T01220106 51010 $ KPHT 240315Z AUTO 36005KT 10SM CLR 10/07 A2991 RMK KOQU 232150Z 20016KT 15SM SCT250 11/04 A3007 RMK LAST LFRL 240300Z AUTO 06006KT CAVOK 08/05 Q1020 KPIL 240253Z AUTO 00000KT 10SM CLR 18/11 A3002 RMK AO2 SLP165 T01830106 53009 ESMK 240250Z AUTO 22005KT 9999 NCD 02/M00 Q1012 KORL 240253Z AUTO 16005KT 10SM CLR 23/19 A2982 RMK AO2 SLP101 T02280189 51017 KOSC 240313Z AUTO 35005KT 10SM BKN110 06/02 A3013 RMK AO2 T00590015 ETEB 240258Z AUTO 18003KT 9999 CLR M01/M04 A3013 RMK AO2 SLP235 T10131038 57016 $ RCNN 240300Z 02002KT 8000 FEW010 SCT030 BKN060 24/17 Q1014 NOSIG RMK A2997 LFRM 240300Z AUTO 00000KT CAVOK 05/01 Q1020 LFSD 240300Z AUTO 34004KT CAVOK 04/M02 Q1018 KPIM 240315Z AUTO 30005KT 10SM BKN019 BKN026 OVC035 16/14 A2980 RMK AO2 T01580139 LFRN 240300Z AUTO 30002KT 6000 NSC 04/03 Q1020 TEMPO 0500 BCFG ESND 240250Z AUTO 29004KT 9999 NCD M09/M10 Q1004 LFRO 240300Z AUTO 00000KT 9000 NSC 05/04 Q1021 KPHX 240251Z 26012KT 10SM FEW140 FEW200 SCT250 32/M02 A2965 RMK AO2 SLP022 T03221022 55001 LGIO 231920Z /////KT 9999 FEW045 08/05 Q1021 LFSG 240300Z AUTO 03002KT CAVOK 01/M02 Q1019 KNZY 240252Z 18005KT 10SM BKN015 BKN250 17/13 A2988 RMK SLP116 T01670128 53001 KQC5 240256Z AUTO 00000KT 9999 FEW090 21/20 A2986 RMK AO2 SLPNO T02140198 LFRQ 240300Z AUTO 03005KT CAVOK 06/04 Q1020 ESNG 240250Z 32003KT 9999 SG OVC011 M03/M05 Q1003 KOSH 240253Z AUTO 09009KT 10SM CLR 04/00 A3009 RMK AO2 SLP189 T00440000 51010 LFSI 240300Z AUTO 09002KT CAVOK 01/M02 Q1020 PTYA 240251Z VRB03KT 12SM SCT016TCU BKN130 OVC300 30/26 A2977 RMK SHRAE07 TCU NW SLP083 60011 8/271 T02960259 58015 ESMQ 240250Z AUTO 26005KT 9999 NCD 00/M02 Q1010 KPIR 240253Z AUTO 34009KT 10SM CLR 13/07 A2960 RMK AO2 SLP022 T01330072 56004 LGIR 240250Z 18007KT 9999 FEW020 10/08 Q1020 NOSIG LFRS 240300Z AUTO 06004KT CAVOK 08/02 Q1019 NOSIG KORS 240315Z AUTO 17008KT 10SM -RA CLR 09/07 A2975 RMK AO2 LFRT 232100Z AUTO 06003KT CAVOK 08/06 Q1023 KPIT 240251Z 08004KT 10SM OVC250 16/M02 A3004 RMK AO2 SLP180 T01561017 53009 $ ESMS 240250Z 23007KT 9999 -RA SCT013 BKN029 BKN049 03/02 Q1012 KPKB 240253Z 06005KT 10SM CLR 14/03 A3002 RMK AO2 SLP163 T01390028 50007 $ LGKC 231350Z 27017KT 9999 FEW020 16/11 Q1019 LFRU 232000Z AUTO 07006KT CAVOK 09/03 Q1023 LFSL 240300Z AUTO 00000KT CAVOK 04/01 Q1015 NOSIG ESNK 240250Z AUTO 08003KT 050V110 9999 NCD M03/M04 Q1004 ESMT 240250Z AUTO 25010KT 9999 DZ FEW010/// SCT021/// 05/04 Q1010 LHBC 240245Z 27004KT CAVOK 01/M01 Q1021 LFRV 240300Z AUTO 03006KT CAVOK 05/04 Q1020 ESNL 240250Z AUTO VRB01KT 9999 NCD M06/M07 Q1001 KPKD 240253Z AUTO 09010G21KT 10SM OVC008 02/M01 A2995 RMK AO2 SLP160 T00171011 56009 TSNO $ KQBD 240255Z AUTO 12003KT 10SM FEW110 14/01 A2980 RMK AO2 SLP042 WND DATA ESTMD T01350013 58008 LFSN 240300Z AUTO VRB01KT CAVOK 01/M02 Q1020 KQD3 240256Z AUTO 31005KT 9999 CLR 28/17 A2973 RMK AO2 SLP065 T02750169 53006 LFSO 240300Z AUTO 00000KT CAVOK 01/M02 Q1019 LGKF 240250Z 00000KT CAVOK 10/07 Q1020 ESNN 240250Z AUTO 00000KT 9999 ////// M04/M05 Q1004 ESOE 240250Z 15003KT CAVOK M02/M04 Q1006 KQBF 240256Z AUTO 00000KT 9999 BKN160 31/16 A2981 RMK AO2 SLPNO T03050164 ESNO 240250Z AUTO 26004KT 9999 NCD M03/M05 Q1002 ESMX 240250Z AUTO 22007KT 9999 NCD 00/M01 Q1009 KOTG 240256Z AUTO 17011KT 10SM CLR 14/M02 A2985 RMK AO2 SLP112 T01441017 53003 KS25 240315Z AUTO 09013G23KT 9SM OVC004 M02/M02 A2981 RMK AO2 LFTH 240300Z AUTO 33005KT CAVOK 09/08 Q1018 NOSIG LFRZ 240300Z AUTO 35003KT CAVOK 05/02 Q1019 NOSIG KOTH 240315Z 20007G14KT 9SM BKN012 BKN024 OVC035 09/08 A2994 RMK AO1 P0002 ESNQ 240250Z AUTO 01004KT 9999 -SN OVC009/// M07/M08 Q1003 GANR 240300Z 00000KT CAVOK 28/07 Q1010 LFST 240300Z AUTO 30002KT CAVOK 01/M03 Q1020 NOSIG ESPA 240250Z AUTO VRB01KT 1400 1200// R14/1400VP2000U R32/1900N -SN VV008/// M01/M02 Q1003 ESNS 240250Z AUTO 28007KT 9999 OVC008/// M00/M02 Q1002 LGKL 240250Z 32007KT 9999 FEW030 08/05 Q1020 ESOK 240250Z AUTO 11004KT 9999 FEW091/// M01/M03 Q1004 KOSU 240253Z 02007KT 10SM CLR 11/02 A3001 RMK AO2 SLP161 T01110022 50007 KQBL 240255Z AUTO 35005G13KT 10SM CLR 17/11 A2987 RMK AO2 SLP116 WND DATA ESTMD T01670108 52023 ESNU 240250Z 32002KT CAVOK M06/M06 Q1002 R14/09//95 KS32 240315Z AUTO 07022G27KT 10SM OVC006 M01/M01 A2990 RMK AO2 KOTM 240253Z AUTO 15004KT 10SM CLR 13/00 A3000 RMK AO2 SLP157 T01330000 55000 ESNV 240250Z AUTO 00000KT 9999 NCD M07/M09 Q1001 KS33 240315Z AUTO 22005KT 10SM SCT070 SCT080 BKN110 08/01 A2985 RMK AO2 LFSX 240300Z AUTO 00000KT CAVOK M01/M02 Q1019 LGKO 240250Z VRB03KT CAVOK 10/03 Q1018 ESPE 240250Z AUTO 35003KT 2300 -SN VV014/// M01/M02 Q1002 LGKP 240250Z 31008KT 9999 FEW020 14/09 Q1019 ESNX 240250Z AUTO 02005KT 8000 -SN FEW009/// SCT012/// BKN030/// M03/M04 Q1000 LHBP 240300Z VRB03KT CAVOK 02/M01 Q1022 NOSIG ETGG 240220Z 23011KT 9999 SCT039 BKN110 06/03 Q1013 BLU ESNZ 240250Z AUTO 29008KT 9999 NCD M03/M06 Q1002 LGKR 240250Z 27003KT CAVOK 08/07 Q1021 NOSIG ETHA 240220Z AUTO 03003KT //// // ////// M02/M04 Q1020 /// VRMM 240200Z 24009KT 9999 FEW019 30/26 Q1010 NOSIG KQDB 230555Z 00000KT 7SM SKC 27/M02 A2976 RMK SLP072 T02691024 10357 20270 50006 WIMM 240300Z 00000KT 9999 SCT017 30/25 Q1012 KS39 240315Z AUTO 27008KT 10SM FEW065 FEW075 07/02 A2983 RMK AO2 ETHB 240220Z 20007KT 9999 SCT150 03/00 Q1019 BLU+ LHDC 232215Z 14003KT CAVOK 02/M00 Q1020 NOSIG ETHC 240220Z 20004KT 9999 FEW140 00/M01 Q1019 BLU+ LGKV 240250Z 00000KT 9999 SCT025 08/07 Q1020 LGLM 240250Z 07011KT 9999 FEW020 SCT090 11/08 Q1020 KPMD 240253Z AUTO 28022G32KT 10SM CLR 18/03 A2986 RMK AO2 PK WND 29033/0156 SLP096 T01780028 53002 KPKV 240238Z AUTO 00000KT 10SM CLR 17/11 A3002 RMK AO2 LFTW 240300Z AUTO 08002KT 9999 FEW010 09/02 Q1018 TEMPO 4000 BR BKN008 KOVE 240253Z AUTO 13007KT 10SM CLR 19/09 A2992 RMK AO2 SLP133 T01940094 55006 KPLN 240254Z AUTO 05008KT 10SM BKN120 03/M05 A3016 RMK AO2 SLP220 T00281050 51008 KOUN 240315Z AUTO 12005KT 10SM CLR 13/03 A3001 RMK AO2 ETHE 240220Z AUTO 23004KT //// // ////// 03/M00 Q1019 /// ESOW 240250Z AUTO 08002KT 9999 NCD M06/M09 Q1007 ETHF 240220Z 27001KT 9999 SCT300 M02/M02 Q1021 BLU+ KQDG 240256Z AUTO 12009KT 9999 CLR 12/05 A3032 RMK AO2 SLP269 T01200051 58006 PWINO $ LGKZ 231150Z 12006KT CAVOK 17/M01 Q1016 KPLR 240315Z AUTO 31004KT 10SM BKN017 OVC023 13/12 A2986 RMK A01 KQCS 240258Z VRB03KT 7SM FEW200 14/02 A2965 RMK AO2A SLP017 WND DATA ESTMD ALSTG DATA ESTMD T01400024 56011 LAST KOWA 240315Z AUTO 17008KT 10SM CLR 14/M01 A2991 RMK AO2 KPNA 240315Z AUTO 26004KT 10SM SCT090 SCT120 02/M01 A2986 RMK AO2 LGMK 240250Z VRB01KT CAVOK 12/10 Q1018 KOWB 240256Z 36005KT 10SM CLR 16/06 A2994 KPNC 240253Z AUTO 15004KT 10SM CLR 14/03 A2999 RMK AO2 SLP152 T01390033 55005 KOVL 240313Z AUTO 15006KT 10SM CLR 13/01 A2982 RMK AO2 KPLU 240315Z AUTO 24003KT 10SM 08/08 A2983 RMK AO2 ETHL 240220Z 06002KT 9999 M01/M03 Q1020 BLU+ KOWD 240253Z AUTO 19006KT 10SM CLR 09/03 A3011 RMK AO2 SLP195 T00940033 50016 ETIC 240259Z AUTO 00000KT 9999 CLR M02/M03 A3013 RMK AO2 SLP224 T10211034 57012 $ KPNE 240254Z 17005KT 10SM CLR 12/07 A3014 RMK AO2 SLP207 T01170067 51015 ETHN 240220Z VRB02KT 9999 M00/M04 Q1020 BLU+ LFVP 232100Z 36007KT 9999 BKN004 BKN026 01/M01 Q1010 NOSIG KPMP 240253Z AUTO 27004KT 10SM BKN021 BKN026 22/21 A2978 RMK AO2 SLP085 T02220211 51004 KQEI 240310Z AUTO 20004G17KT 9999 CLR 19/M04 A3006 RMK A02 TSNO ETIH 240259Z AUTO 00000KT 9999 CLR M03/M04 A3014 RMK AO2 SLP229 57013 KOWI 240315Z AUTO 19003KT 10SM CLR 11/07 A2999 RMK AO2 KOVS 240253Z AUTO 00000KT 10SM CLR 12/05 A2998 RMK AO2 SLP154 T01220050 53002 PWAK 240258Z AUTO 08010KT 9999 CLR 29/23 A2994 RMK AO2 SLP145 T02940226 57022 $ ETHS 240220Z 24006KT 9999 SCT110 SCT230 00/M01 Q1018 BLU+ LGMT 240250Z VRB03KT 9999 FEW025 11/08 Q1019 ESSA 240250Z 24004KT CAVOK M05/M06 Q1006 R01L/19//95 R08/19//95 R01R/19//95 NOSIG KOXB 240253Z AUTO 09008KT 10SM OVC110 11/08 A3011 RMK AO2 SLP195 T01110083 50003 KQFB 240310Z AUTO 19002KT 9999 CLR 22/01 A3016 RMK A02 TSNO KPOB 240310Z AUTO 09009G15KT 7SM R23/5500FT -RA OVC006 13/12 A2993 RMK AO2 RAB10 SLP138 $ KPOC 240247Z 24007KT 10SM CLR 17/12 A2986 ETIK 240258Z AUTO 00000KT 9999 CLR M03/M04 A3015 RMK AO2 SLP226 T10301036 57016 ESSB 240250Z AUTO 00000KT 9999 NCD M03/M05 Q1007 KQEL 240310Z AUTO 18006G13KT 9999 FEW210 19/M02 A3017 RMK A02 TSNO KOXC 240315Z AUTO 21003KT 10SM CLR 08/02 A3014 RMK AO1 WIOO 240300Z 05004KT 9999 BKN011 31/26 Q1012 NOSIG KPNM 240314Z AUTO 05010G17KT 10SM CLR 06/01 A2995 RMK AO2 KPMV 240315Z AUTO 16010KT 10SM CLR 15/M04 A2992 RMK AO2 T01531043 ESSD 240250Z AUTO 25007KT 9999 NCD M07/M09 Q1005 KQEN 232110Z AUTO 22005KT 9999 CLR 06/M04 A3008 RMK A02 TSNO KPOE 240258Z AUTO 34004KT 10SM CLR 12/11 A3000 RMK AO2 SLP161 T01240111 53013 KPOF 240253Z AUTO 34004KT 10SM CLR 12/06 A2996 RMK AO2 SLP145 T01220056 50004 TSNO $ KQEP 240310Z AUTO 19003G12KT 9999 CLR 19/M03 A3012 RMK A02 TSNO KOWP 240315Z AUTO 11005KT 10SM CLR 14/04 A3001 RMK AO2 T01420040 KQEQ 240310Z AUTO 21009G19KT 9999 CLR 18/M00 A3014 RMK A02 TSNO RCSS 240300Z 09007KT 8000 -RA FEW010 SCT035 OVC050 21/18 Q1015 NOSIG RMK A3000 RA AMT 0.4MM KQER 240310Z AUTO 20007G16KT 9999 CLR 18/M04 A3004 RMK A02 TSNO KOXI 240315Z AUTO 03003KT 10SM CLR 09/M13 A3005 RMK AO1 LGPA 240250Z AUTO 10006KT //// // ////// 10/07 Q1019 RE// KQES 240310Z AUTO 21014G24KT 9999 CLR 19/M01 A3014 RMK A02 TSNO KPNS 240253Z 33010KT 10SM CLR 16/10 A2988 RMK AO2 SLP119 T01560100 51025 KPPA 240315Z AUTO 16016KT 10SM CLR 14/M01 A2995 RMK AO2 T01401010 ESTA 240250Z AUTO 23012KT 9999 -RA SCT010/// BKN013/// OVC027/// 04/02 Q1010 KPNT 240315Z AUTO 07004KT 10SM CLR 11/M01 A3003 RMK AO2 T01111009 ESSL 240250Z AUTO VRB03KT 9999 NCD M00/M05 Q1007 WIPP 240300Z 05007KT 9999 FEW013 31/25 Q1012 NOSIG FKKD 240300Z 00000KT 9999 BKN013 FEW016CB 25/24 Q1010 NOSIG KQEW 240310Z AUTO 22001KT 9999 CLR 20/05 A3008 RMK A02 TSNO KQGE 240256Z AUTO 35008KT 10SM FEW055 17/10 A2986 RMK AO2 SLP116 T01660100 52023 $ LGNX 231550Z 21006KT 9999 FEW025 17/03 Q1018 RCTP 240300Z 15007KT 9999 FEW020 BKN040 BKN060 23/19 Q1015 NOSIG RMK A3000 KPPF 240252Z AUTO 00000KT 10SM CLR 09/07 A3001 RMK AO2 SLP161 T00940067 55013 $ KQEX 240310Z AUTO 14004G13KT 9999 CLR 21/01 A3001 RMK A02 TSNO KOWX 240315Z AUTO 10005KT 10SM CLR 06/01 A3006 RMK AO1 KQEY 240310Z AUTO 05002KT 9999 CLR 21/M03 A2979 RMK A02 TSNO ESSP 240050Z 25005KT CAVOK M02/M06 Q1008 KOXR 240251Z 26005KT 10SM CLR 15/11 A2981 RMK AO2 SLP094 T01500106 56005 KOZA 240315Z 19003KT 10SM 14/00 A3004 RMK AO2 KQFT 240310Z AUTO 18006G16KT 9999 FEW200 21/M02 A3007 RMK A02 TSNO ESST 240250Z AUTO 34001KT 9999 NCD M04/M06 Q1004 KQFU 240310Z AUTO 22010G16KT 9999 CLR 18/M04 A3013 RMK A02 TSNO KPOU 240253Z AUTO 16004KT 10SM CLR 12/04 A3008 RMK AO2 SLP183 T01220039 51017 KQFV 240300Z AUTO 18006G13KT 9999 CLR 19/M05 A3010 RMK A02 TSNO ESTL 240250Z AUTO 22007KT 9999NDV -DZ FEW033/// 03/02 Q1011 REUP KOXV 240315Z AUTO 14007KT 10SM CLR 15/M00 A2997 RMK AO2 KPOV 240300Z AUTO 06007KT 10SM CLR 09/00 A3006 RMK AO2 T00880001 ESSV 240250Z AUTO 20007KT 9999 NCD 01/M01 Q1008 KQFW 240310Z AUTO 25008G13KT 9999 CLR 19/M03 A3009 RMK A02 TSNO ESUD 240250Z AUTO 27003KT 9999 OVC028/// M03/M04 Q1001 FKKN 231700Z 00000KT 9999 SCT020 26/21 Q1014 KQFX 240310Z AUTO 26004KT 9999 FEW230 20/M02 A3008 RMK A02 TSNO KPPO 240315Z AUTO 00000KT 10SM CLR 09/M01 A3007 RMK AO2 T00881011 KPOY 240315Z AUTO 36019G25KT 10SM CLR 06/02 A2969 RMK AO2 KPPQ 240315Z AUTO 30003KT 10SM CLR 11/03 A3002 RMK AO2 T01110031 LFYR 240300Z AUTO 04003KT CAVOK M01/M01 Q1019 KPQI 240256Z AUTO 21005KT 10SM OVC070 08/02 A2989 RMK AO2 SLP166 T00780022 50001 FKKR 240300Z 25007KT CAVOK 31/21 Q1008 KPRB 240253Z AUTO 31016G21KT 10SM FEW060 16/08 A2993 RMK AO2 SLP133 T01610078 53006 TSNO KPQL 240253Z AUTO 33006KT 10SM FEW028 OVC037 15/09 A2993 RMK AO2 SLP135 T01500089 51021 $ KPRC 240253Z 21008KT 10SM CLR 19/M07 A2988 RMK AO2 SLP047 T01941067 56009 KPQN 240314Z AUTO 18012KT 10SM CLR 14/M04 A2980 RMK AO2 KPRG 240315Z AUTO 04005KT 10SM CLR 14/00 A3002 RMK AO2 T01410000 LGPZ 240250Z 04007KT CAVOK 11/08 Q1021 ESUP 240250Z VRB02KT 9999 -SN NSC M04/M05 Q1005 KOZR 240256Z AUTO 31007KT 10SM OVC055 16/11 A2984 RMK AO2 SLP105 T01560110 52020 LGSA 240250Z 29014KT 9999 FEW018 12/10 Q1019 KOZS 240315Z AUTO 00000KT 10SM CLR 12/00 A3001 RMK AO2 VTBD 240300Z 21007KT 130V250 9999 FEW020 34/25 Q1011 NOSIG ESUT 240250Z AUTO 31002KT 9999 SCT005/// BKN007/// OVC037/// M09/M10 Q1001 KPSC 240253Z 26007KT 10SM SCT050 BKN070 14/03 A2980 RMK AO2 SLP091 T01390033 50004 $ KRAC 240253Z AUTO 01007KT 10SM CLR 04/02 A3010 RMK AO2 SLP194 T00390017 50001 ETML 240220Z AUTO 22008G19KT //// // ////// 05/03 Q1014 /// KOZW 240314Z AUTO 00000KT 10SM CLR 10/01 A3005 RMK AO2 T00990008 KPRN 240318Z AUTO 31009KT 10SM BKN013 OVC020 13/09 A2986 RMK AO2 T01330094 ETMN 240220Z 22012KT 9999 SCT039 BKN100 04/02 Q1016 BLU KPRO 240315Z AUTO 15007KT 10SM CLR 11/00 A2995 RMK AO2 T01100000 KPSF 240254Z AUTO 00000KT 10SM CLR 08/02 A3006 RMK AO2 SLP173 T00780022 50009 LGRP 240250Z 29009KT CAVOK 13/05 Q1019 NOSIG KQHY 240256Z AUTO 35009KT 10SM FEW055 16/11 A2987 RMK AO2 SLP121 T01640108 52023 $ ETNG 240250Z 17006KT CAVOK 01/M01 Q1021 ETNH 240220Z 21007KT 9999 -RA SCT025 BKN055 06/03 Q1015 BLU VTCC 240300Z VRB02KT 8000 SCT040 31/15 Q1014 A2994 NOSIG KPRS 240315Z AUTO 04013G17KT 10SM CLR 24/03 A2997 RMK AO2 T02350025 LGSK 240250Z 35008KT CAVOK 14/05 Q1020 KPSK 240315Z AUTO 06009KT 5SM RA BKN007 OVC014 08/06 A3003 RMK AO2 P0003 T00750055 KPTB 240315Z AUTO 06005KT 10SM -RA OVC050 11/09 A3006 RMK AO2 T01070091 KT20 240315Z AUTO 07003KT 10SM CLR 16/09 A3002 RMK AO2 T01620086 KRAL 240253Z AUTO 27010KT 10SM CLR 18/12 A2983 RMK AO2 SLP087 T01830122 53010 ETNL 240220Z 24008KT 9999 FEW033 BKN120 02/00 Q1016 BLU VTBO 240300Z 00000KT 7000 -TSRA FEW018CB SCT020 31/28 Q1012 CB NE LGSM 240250Z 00000KT 9999 FEW025 08/03 Q1019 LIBD 240220Z 00000KT CAVOK 08/06 Q1020 KRBD 240253Z AUTO 00000KT 10SM CLR 14/07 A3001 RMK AO2 SLP160 T01390067 53003 KPSM 240258Z 20007KT 10SM FEW200 10/04 A3003 RMK AO2A SLP173 T00960044 50006 LHKE 240245Z 26006KT CAVOK 04/M01 Q1021 NOSIG RMK BLU KPSN 240315Z AUTO 00000KT 10SM CLR 11/09 A3002 RMK AO2 T01140095 LIBF 231550Z 31004KT 250V360 9999 FEW030 19/05 Q1017 LGSO 240250Z 00000KT CAVOK 11/08 Q1019 ETNN 240220Z VRB02KT 9999 FEW220 01/M01 Q1021 BLU+ VTCH 240200Z 29003KT 190V320 6000 FEW025 29/17 Q1013 A2991 INFO LGRX 240250Z 00000KT CAVOK 06/06 Q1021 KPSO 240315Z AUTO 00000KT 10SM SCT120 11/M03 A2995 RMK AO2 T01061031 KPRX 240315Z 02007KT 10SM CLR 13/06 A3001 RMK AO1 LIBG 231750Z 18004KT CAVOK 15/08 Q1018 KRAP 240252Z 01009KT 10SM CLR 12/04 A2962 RMK AO2 SLP028 T01170044 56008 KRBG 240253Z AUTO 00000KT 10SM SCT048 OVC095 12/06 A2991 RMK AO2 SLP127 T01220056 58018 KPSP 240253Z 30013G25KT 10SM CLR 29/02 A2966 RMK AO2 PK WND 32026/0154 SLP040 T02890017 53001 KQKG 240255Z AUTO 00000KT 8000 BR FEW090 17/15 A3037 RMK AO2 SLP225 WND DATA ESTMD T01700152 53002 LIBH 240255Z 34003KT CAVOK 11/09 Q1019 RMK SKC QUK / QUL / VIS MAR 20 KM VIS MIN 9999 VTBS 240300Z 22008KT 160V280 9999 FEW020 33/24 Q1012 NOSIG LGSR 240250Z 22005KT 9999 FEW025 14/10 Q1019 VTBU 240300Z 18010KT 5000 HZ FEW020 32/23 Q1011 NOSIG VTCL 240300Z 28005KT 240V330 CAVOK 32/19 Q1012 A2989 LICA 240250Z 09005KT 9999 FEW020 06/05 Q1021 KRAS 240315Z AUTO 04007KT 10SM CLR 21/08 A3002 RMK AO2 T02050081 KRCA 240258Z AUTO 04011KT 10SM FEW170 13/06 A2963 RMK AO2 SLP031 T01310060 56008 ETNS 240220Z AUTO 22014KT //// // ////// 05/03 Q1014 /// LICB 232050Z 10003KT 9999 FEW020 09/07 Q1022 KPTK 240253Z 13003KT 10SM FEW250 11/02 A3006 RMK AO2 SLP179 T01110022 53008 KPUB 240253Z VRB04KT 10SM CLR 14/08 A2969 RMK AO2 SLP025 T01440078 55009 ETNT 240300Z 20011KT 9999 SCT040 BKN050 05/02 Q1015 BLU VTCN 240300Z 02004KT 9999 SCT025 SCT100 27/22 Q1011 A2988 LICC 240250Z 26005KT CAVOK 08/05 Q1020 KPUC 240253Z AUTO 32016G23KT 10SM SCT120 13/02 A2981 RMK AO2 PK WND 29034/0157 SLP065 T01280017 53015 KRBL 240254Z AUTO 33009KT 10SM SCT060 BKN070 OVC085 18/12 A2990 RMK AO2 RAB41E54 SLP124 P0000 60000 T01780122 55003 TSNO LICD 232250Z 15010KT CAVOK 14/09 Q1021 KQN2 240256Z AUTO 00000KT 9999 CLR 22/20 A2991 RMK AO2 SLPNO T02190199 VTCP 240300Z 20002KT 3000 HZ NSC 31/21 Q1011 A2987 LIBN 240255Z 10003KT CAVOK 09/08 Q1020 RMK SKC VIS MIN 9999 WIND THR32 11002KT WIND THR32 08003KT BLU KRCE 240355Z AUTO 14007KT 10SM CLR 12/04 A3001 RMK AO2 KPTN 240256Z AUTO 34004KT 10SM CLR 15/11 A3000 RMK AO2 SLP161 T01500111 53021 KQN3 240256Z AUTO 26003KT 9999 SCT095 33/15 A2982 RMK AO2 SLP065 T03280151 ETNW 240220Z AUTO 20009KT //// // ////// 02/M00 Q1019 /// LICF 240255Z 36005KT 9999 FEW050 14/12 Q1020 RMK FEW QUK / QUL / VIS MAR 15 KM MON INVIS NC VIS MIN 9999 KPSX 240253Z AUTO 02006KT 10SM CLR 15/09 A3001 RMK AO2 SLP162 T01500094 53013 TSNO KRBO 240315Z AUTO 07005KT 10SM CLR 19/08 A3002 RMK AO2 T01900082 LICG 231755Z 18012KT CAVOK 14/11 Q1019 LIBP 240250Z AUTO 22004KT 9999 NCD 06/05 Q1020 LGSY 240250Z 32007KT 9999 FEW025 14/12 Q1018 RMK FEW080 BLU KT35 240315Z AUTO 00000KT 10SM CLR 15/09 A3003 RMK AO2 T01510092 LIBQ 230355Z 27006KT CAVOK 03/M04 Q1018 VTCT 240300Z VRB03KT 9999 FEW035 25/22 Q1013 A2992 LIBR 240245Z 22004KT CAVOK 10/08 Q1021 NOSIG KQKR 240256Z AUTO 27005KT 9999 CLR 31/20 A2975 RMK AO2 SLPNO T03070202 KPTS 240315Z AUTO 00000KT 10SM CLR 11/09 A3000 RMK AO2 T01050086 LICJ 240250Z 17004KT CAVOK 11/05 Q1020 LGTS 240250Z 35012KT 9999 FEW030 10/00 Q1022 NOSIG KPUJ 240315Z AUTO 10005KT 4SM DZ OVC004 15/15 A2982 RMK AO2 KPVB 240315Z AUTO 16008KT 10SM CLR 14/03 A3000 RMK AO1 T01400034 KPTT 240315Z AUTO 16014G18KT 10SM CLR 11/01 A2994 RMK AO2 T01120010 KPVC 240256Z AUTO 21013KT 10SM CLR 07/06 A3013 RMK AO2 SLP203 T00720056 51012 LIBV 240255Z 36002KT CAVOK 05/05 Q1020 RMK SKC VIS MIN 9999 WIND THR32 02002KT WIND THR14 36001KT BLU KPVD 240251Z 20005KT 10SM BKN300 07/04 A3014 RMK AO2 SLP206 T00720039 51012 KRDD 240253Z 22005KT 10SM CLR 18/04 A2988 RMK AO2 SLP114 T01830039 55003 KPTV 240256Z AUTO 29007KT 10SM 18/06 A2990 RMK AO2 SLP136 T01780056 55002 $ ETOU 240258Z AUTO 00000KT 9999 CLR 00/M02 A3015 RMK AO2 SLP216 T10011018 57018 GCGM 240300Z AUTO VRB01KT 9999 NCD 18/13 Q1018 RMK R09/VRB02KT ARP/00000KT GCFV 240300Z AUTO 36011KT 9999 NCD 19/14 Q1016 KPTW 240254Z AUTO 18004KT 10SM CLR 11/07 A3013 RMK AO2 SLP202 T01110072 51017 KPVE 240315Z AUTO VRB04KT 10SM FEW049 SCT060 OVC085 11/11 A2988 RMK A01 KRBW 240315Z AUTO 13008KT 10SM BKN014 BKN020 OVC090 22/20 A2978 RMK AO2 LTG DSNT SW KPVF 240315Z AUTO 21005KT 10SM CLR 11/07 A2999 RMK AO1 LIBY 240255Z 18004KT CAVOK 14/13 Q1019 RMK SKC QUK / QUL / VIS MAR 12 KM VIS MIN 9999 KPVG 240315Z 07008KT 10SM SCT011 BKN021 OVC027 12/09 A3003 RMK AO1 KRDG 240254Z AUTO 17003KT 10SM CLR 13/07 A3010 RMK AO2 SLP199 T01280067 51014 LICR 232150Z 01007KT CAVOK 14/07 Q1021 KRCR 240315Z AUTO 01004KT 10SM CLR 13/00 A3005 RMK AO2 GCHI 240300Z AUTO 36010KT 9999 SCT018/// 20/16 Q1018 LIEA 240250Z 35002KT CAVOK 06/05 Q1019 KPWA 240253Z 13008KT 10SM CLR 15/03 A3000 RMK AO2 SLP154 T01500028 56010 KPVJ 240315Z AUTO 00000KT 10SM CLR 12/06 A3000 RMK AO2 T01160063 LIEB 240155Z 30007KT CAVOK 12/12 Q1018 RMK SKC QUK / QUL / VIS MAR 20 KM MON INVIS VIS MIN 9999 LICT 240255Z 11005KT CAVOK 09/09 Q1020 KRDK 240315Z AUTO 17003KT 10SM CLR 12/01 A2995 RMK AO2 LIEC 231755Z 22007KT CAVOK 16/11 Q1018 RMK SCT SCT200 QUK 2 QUL 0 VIS MAR 25 KM VIS MIN 9999 KPWC 240313Z AUTO 08013KT 10SM SCT017 OVC110 02/M02 A3001 RMK AO2 LIED 240255Z 34003KT CAVOK 06/05 Q1017 RMK SKC VIS MIN 9999 WIND THR35 33003KT WIND THR17 /////KT BLU KRCV 240305Z AUTO 26004KT 10SM CLR 10/M07 A2994 RMK AO2 T01021066 KQND 240256Z AUTO 00000KT 8000 HZ CLR 30/M07 A2978 RMK AO2 SLPNO T03001074 55005 KRDM 240256Z AUTO 30006KT 10SM FEW080 08/00 A2983 RMK AO2 SLP103 T00780000 57004 LIEE 240250Z 33004KT CAVOK 07/05 Q1018 KPUW 240253Z AUTO 25005KT 10SM FEW080 10/02 A2980 RMK AO2 SLP094 T01000022 56007 FLHN 230800Z 07009KT 9000 -RA OVC090 23/16 Q1021 KRCX 240315Z AUTO 05009KT 10SM CLR 07/02 A3002 RMK AO2 T00650022 KPWG 240256Z AUTO 00000KT 10SM CLR 14/08 A3003 RMK AO2 SLP182 T01390083 53004 KREG 240315Z AUTO 00000KT 10SM CLR 12/11 A2998 RMK AO2 T01150106 LICZ 240255Z 24005KT CAVOK 10/10 Q1020 RMK SKC VIS MIN 9999 WIND THR28 /////KT WIND THR10 24004KT A3014 BLU KRDR 240301Z AUTO 08015KT 10SM UP BKN008 OVC085 00/M02 A2998 RMK AO2 UPB01 BKN V OVC SLP169 ETSA 240220Z 13002KT 9999 FEW220 M02/M05 Q1020 BLU+ KPWK 240252Z AUTO 05005KT 10SM CLR 06/04 A3007 RMK AO2 SLP185 T00610044 50006 ETSB 240220Z AUTO 19002KT 7000 // ////// 02/M02 Q1020 /// KRDU 240251Z 07009G19KT 10SM OVC008 12/11 A2998 RMK AO2 SLP151 60000 T01170106 58003 KPVU 240258Z 14007KT 10SM BKN150 10/08 A2984 RMK LAST KPWM 240251Z 19003KT 10SM CLR 07/04 A3004 RMK AO2 SLP172 T00670044 50003 KRFD 240254Z 15008KT 10SM BKN250 14/02 A3004 RMK AO2 SLP173 T01390022 53006 KPVW 240315Z AUTO 16010KT 10SM CLR 13/01 A2998 RMK AO2 T01300008 KPXE 240315Z AUTO 00000KT 10SM SCT004 BKN017 OVC049 18/16 A2979 RMK AO2 T01780163 KREO 240252Z AUTO 24010KT 14/M04 A2979 RMK AO1 SLP072 T01391044 55000 LIEO 240250Z 21001KT CAVOK 05/03 Q1019 KT65 240255Z AUTO 15003KT 10SM CLR 20/09 A3002 RMK AO2 T02000093 ETSH 240220Z 26003KT 9999 SCT210 00/M02 Q1020 BLU+ KRFI 240315Z AUTO 00000KT 10SM CLR 11/09 A3000 RMK AO2 T01120089 ETSI 240220Z AUTO 00000KT //// // ////// M03/M04 Q1021 /// LHPA 240245Z 35008KT CAVOK 02/M02 Q1022 NOSIG RMK BLU KRGA 240315Z AUTO 04004KT 10SM OVC010 11/09 A2991 RMK AO2 KT70 240258Z AUTO 18007KT 10SM CLR 16/08 A2996 RMK AO2 SLP139 T01600081 53004 $ KQPC 240255Z 11007KT 7SM SCT180 17/M01 A2971 RMK AO2A SLP039 WND DATA ESTMD ALSTG ESTMD ETSL 240220Z 31001KT 9999 M03/M04 Q1020 BLU+ ETSN 240220Z 05002KT 9999 BKN210 M04/M06 Q1021 BLU+ LGZA 240250Z 00000KT CAVOK 06/05 Q1021 GCLA 240300Z AUTO 32003KT 9999 NCD 19/13 Q1018 KRGK 240315Z AUTO 19004KT 10SM CLR 17/M02 A2989 RMK AO2 FLKK 232200Z 09004KT CAVOK 17/15 Q1022 KPYM 240252Z AUTO 22007KT 10SM CLR 07/04 A3014 RMK AO2 SLP205 T00720039 51014 TSNO KT82 240250Z AUTO 00000KT 10SM CLR 11/06 A3004 RMK AO2 T01100055 LHPP 231645Z 33008KT CAVOK 11/M03 Q1020 FMCH 240300Z 06003KT 9999 FEW020 23/21 Q1014 NOSIG KRHI 240253Z AUTO 09010KT 10SM CLR 04/M01 A3007 RMK AO2 SLP195 T00391006 51008 TSNO LHPR 240245Z AUTO 25006KT CAVOK 02/M01 Q1022 RMK BLU AGGH 240300Z 11004KT 9999 SCT017 FEW018CB 32/24 Q1009 KRIC 240254Z 07006KT 10SM FEW009 OVC075 12/11 A3006 RMK AO2 RAE22 SLP185 P0000 60001 T01170111 50001 KRID 240315Z AUTO 03009KT 7SM CLR 12/01 A3001 RMK AO2 KQRD 240258Z AUTO 33008KT 10SM FEW055 16/11 A2986 RMK AO2 SLP116 52023 KPYX 240315Z AUTO 16015KT 10SM CLR 14/02 A2990 RMK AO2 T01370020 KRHP 240310Z AUTO 00000KT 10SM SCT021 SCT025 OVC029 13/13 A2981 RMK AO2 T01300130 GCLP 240300Z 01014KT 9999 FEW040 20/14 Q1016 NOSIG KPZQ 240314Z AUTO 35006KT 10SM OVC044 03/M02 A3018 RMK AO2 T00251021 KQRH 240256Z AUTO 31004KT 9999 CLR 28/19 A2979 RMK AO2 SLP075 T02840191 53006 KSAA 240315Z AUTO 27006KT 10SM CLR 10/M01 A2979 RMK AO2 KRIL 240253Z AUTO 00000KT 10SM CLR 17/M04 A2972 RMK AO2 SLP020 T01721044 58010 KSAC 240253Z 20010G15KT 10SM CLR 15/10 A2993 RMK AO2 SLP136 T01500100 58001 $ KRHV 240258Z 33008KT 10SM SCT030 14/08 A3005 KSAD 240251Z AUTO 34005KT 10SM CLR 24/M04 A2977 RMK AO2 SLP039 T02391039 55004 FMEE 240300Z 19006KT 9999 FEW026 22/18 Q1014 NOSIG KSAF 240253Z AUTO 22008KT 10SM CLR 17/M01 A2994 RMK AO2 SLP068 T01671011 55004 KQQY 240255Z AUTO 00000KT 12SM BKN100 24/22 A3005 RMK AO2 SLP157 T02410217 51023 $ KU16 231558Z AUTO 01005KT 10SM CLR A2984 RMK AO2 SLPNO $ FMCZ 240300Z 24007KT 9999 FEW020 26/22 Q1013 NOSIG KSBA 240253Z 35008KT 10SM CLR 19/09 A2979 RMK AO2 SLP089 T01940094 52003 $ KRKD 240256Z AUTO 19005KT 10SM CLR 06/04 A3006 RMK AO2 SLP181 T00610044 50006 KRIV 240258Z AUTO 18003KT 10SM CLR 17/11 A2984 RMK AO2 SLP097 T01720105 52011 KSBD 240150Z 24011KT 6SM HZ BKN150 23/07 A2982 LHSM 231945Z 23002KT CAVOK 07/01 Q1023 ETWM 240220Z AUTO 22005KT 9999 // ////// 03/M00 Q1018 /// KSAN 240308Z 18007KT 10SM BKN015 BKN250 17/12 A2990 RMK AO2 T01720122 LHSN 240245Z 25008KT 230V290 CAVOK 04/M01 Q1021 NOSIG RMK BLU KRIW 240253Z AUTO 30020G26KT 10SM FEW100 10/01 A2971 RMK AO2 PK WND 30026/0251 SLP030 T01000006 53001 FMEP 240300Z AUTO 04008KT CAVOK 23/14 Q1014 BECMG 23010KT KSAR 240315Z AUTO 00000KT 10SM CLR 12/03 A2999 RMK AO2 T01220026 KSAT 240251Z 04004KT 10SM CLR 19/05 A3002 RMK AO2 SLP150 T01890050 53004 KSAV 240253Z 16016KT 10SM FEW080 24/19 A2975 RMK AO2 RAB04E15 SLP074 P0000 60000 T02390189 51002 KSBM 240253Z AUTO 04011KT 10SM CLR 04/00 A3010 RMK AO2 SLP194 T00390000 55000 KRLD 240315Z AUTO 23004KT 10SM BKN070 OVC090 14/04 A2980 RMK AO2 T01370044 KSCD 240315Z AUTO 29003KT 10SM SCT020 BKN034 OVC043 14/12 A2985 RMK AO2 T01350116 LHUD 240245Z 28003KT CAVOK 03/00 Q1022 LJCE 240300Z AUTO 07001KT 9999 NSC 07/04 Q1022 GBYD 240300Z 29007KT CAVOK 21/18 Q1010 KSBN 240254Z 00000KT 10SM CLR 09/00 A3007 RMK AO2 SLP182 T00940000 51006 KSAW 240316Z AUTO 03005KT 10SM OVC050 M01/M06 A3017 RMK AO2 T10111059 KSCF 240130Z AUTO 35009G20KT 320V020 10SM BKN038 18/11 A2998 RMK A01 KSBO 240315Z AUTO 00000KT 10SM SCT005 BKN016 OVC020 20/20 A2978 RMK AO2 LTG DSNT E KRKP 240253Z AUTO 03005KT 10SM CLR 19/08 A3001 RMK AO2 SLP162 T01890078 52009 KSBP 240256Z 32013G20KT 10SM CLR 13/09 A2993 RMK AO2 SLP134 T01280094 56005 KSCH 240050Z 00000KT 10SM CLR 16/01 A3005 RMK LAST KSAZ 240312Z AUTO 08007G16KT 053V113 10SM CLR 02/M01 A2994 RMK AO2 KRKR 240315Z AUTO 00000KT 10SM CLR 11/08 A3001 RMK AO2 T01100079 LIMA 231650Z 13005KT 9999 BKN040 19/07 Q1015 KSBS 240314Z AUTO 08003KT 10SM CLR 11/M02 A2980 RMK AO1 T01111022 KRKS 240254Z AUTO 00000KT 6SM -RA FEW013 OVC026 07/03 A2987 RMK AO2 SLP088 P0004 60004 T00670033 53022 TSNO $ KSDA 240315Z AUTO 17009KT 10SM CLR 14/01 A2995 RMK AO2 KSDB 240253Z AUTO 03007G23KT 340V050 10SM CLR 12/04 A2997 RMK AO2 SLP118 T01170039 53004 KSCK 240255Z 25014KT 10SM CLR 14/09 A2995 RMK AO2 SLP142 T01440089 53001 LIMC 240250Z 11005KT 9999 OVC030 13/06 Q1020 NOSIG KU42 240315Z AUTO 22007KT 10SM CLR 12/07 A2984 RMK AO1 T01230071 LIME 240250Z 08002KT 9999 BKN040 12/06 Q1019 NOSIG KRME 240253Z AUTO 00000KT 10SM CLR 06/03 A3008 RMK AO2 SLP186 T00610028 50007 $ LIMF 240250Z VRB02KT 9999 SCT045 12/08 Q1019 KSDF 240256Z 01005KT 10SM SCT055 OVC075 16/05 A2995 RMK AO2 SLP139 T01560050 51015 $ KQVF 240255Z AUTO VRB04KT 9999 FEW020 28/24 A2990 RMK AO2 SLP124 WND DATA ESTMD T02780238 53011 LIMG 231750Z 09004KT 9999 FEW018 SCT035 14/12 Q1017 KSBY 240254Z AUTO 07004KT 10SM -RA OVC100 10/09 A3011 RMK AO2 RAB49 SLP197 P0000 60000 T01000089 50002 KRMG 240253Z AUTO 13003KT 10SM OVC016 14/11 A2982 RMK AO2 RAB04E27 SLP090 P0000 60000 T01440111 51019 LIMH 231955Z /////KT CAVOK M05/M13 Q1022 RMK MON LIB VAL FOSCHIA VIS MIN 9999 KSCR 240310Z AUTO 05009KT 7SM -RA OVC005 11/11 A2995 RMK AO2 T01060106 LIMJ 240250Z 03006KT 9999 SCT030 BKN045 12/10 Q1019 KSEA 240253Z 17007KT 10SM -RA FEW012 BKN035 OVC045 09/08 A2983 RMK AO2 RAB03 SLP108 P0001 60017 T00890078 58005 LIMK 230355Z 30003KT CAVOK 09/09 Q1015 FKYS 232300Z 25004KT 9999 BKN006 23/22 Q1016 NOSIG LIML 240250Z 09004KT 9999 BKN045 13/07 Q1019 NOSIG KSDL 240253Z AUTO 25008G16KT 10SM CLR 32/M05 A2969 RMK AO2 SLP029 T03221050 55005 KRNC 240315Z AUTO 35005KT 1 1/2SM OVC006 12/12 A2983 RMK KSDM 240253Z AUTO VRB04KT 10SM CLR 14/12 A2988 RMK AO2 SLP117 T01440122 53003 KRND 240258Z AUTO 06005KT 10SM CLR 16/06 A3001 RMK AO2 SLP159 T01570064 53005 $ KRMN 240315Z AUTO 00000KT 10SM -RA SCT030 OVC100 11/11 A3013 RMK AO2 T01050105 KSEE 240247Z VRB05KT 10SM SKC 16/12 A2988 LIMP 232050Z 07004KT 9999 FEW035 14/10 Q1019 KSEG 240253Z AUTO 00000KT 10SM CLR 08/04 A3009 RMK AO2 SLP189 T00830044 51008 KRNH 240315Z AUTO 06011KT 10SM CLR 09/03 A2993 RMK AO2 T00880032 KROA 240254Z 05005KT 5SM -RA BR FEW007 SCT012 OVC018 09/08 A3008 RMK AO2 SLP186 P0004 60010 T00890083 50006 KSFB 240253Z 16007KT 10SM CLR 23/19 A2981 RMK AO2 SLP095 T02280189 51015 LIMU 240255Z 00000KT 9999 SCT020 14/14 Q1020 RMK SCT QUK / QUL / VIS MAR 20 KM VIS MIN 9999 KROC 240254Z 00000KT 10SM CLR 10/02 A3007 RMK AO2 SLP187 T01000017 51008 KRNM 240253Z 29006KT 10SM CLR 14/13 A2987 RMK AO2 SLP107 T01440128 53004 $ KSEM 240315Z AUTO 31009KT 10SM BKN021 OVC029 13/09 A2988 RMK AO2 VTPH 240300Z 08004KT 050V110 CAVOK 34/20 Q1011 KSFF 240253Z 23008KT 10SM SCT100 13/03 A2975 RMK AO2 SLP072 T01280028 56008 KRNO 240255Z 29015G20KT 10SM FEW100 SCT140 BKN190 BKN250 13/M04 A2992 RMK AO2 SLP110 ACSL DSNT N-E-SE AND NW T01281044 51017 LIMY 231155Z 08011KT CAVOK 19/10 Q1016 RMK SKC VAL FOSCHIA VIS MIN 9999 KRMY 240314Z AUTO 00000KT 10SM CLR 10/01 A3006 RMK AO2 T01010008 KRNP 240315Z AUTO 02006KT 10SM CLR 09/05 A3008 RMK AO2 T00900053 KSDY 240256Z AUTO 08010KT 10SM OVC006 01/M01 A2979 RMK AO2 SLP113 T00061011 56015 FZRANO KSEP 240315Z AUTO 00000KT 10SM CLR 12/06 A3006 RMK AO2 T01230063 KROG 240258Z AUTO 00000KT 10SM CLR 11/05 A3002 RMK AO2 SLP161 T01110050 58012 LIMZ 231950Z 14004KT 9999 BKN070 14/09 Q1017 GCRR 240000Z 03007KT 9999 FEW032 19/14 Q1018 KU68 240315Z AUTO 32021G34KT 10SM SCT085 SCT110 11/03 A2969 RMK AO2 VTPM 240300Z 27005KT 230V300 7000 BKN026 30/21 Q1013 A2991 LIPB 232050Z 17004KT CAVOK 13/04 Q1018 KRNT 240316Z AUTO 00000KT 7SM -RA SCT019 BKN025 OVC045 09/09 A2983 RMK AO2 P0000 T00940089 KSET 240254Z AUTO 02004KT 10SM CLR 12/06 A2999 RMK AO2 SLP155 T01170061 55001 FLSK 231600Z 04002KT 9999 FEW060CB FEW060 BKN300 23/19 Q1018 LIPC 240255Z 27004KT CAVOK 08/07 Q1019 FNBC 230700Z VRB03KT 5000 BR SCT007 BKN010 23/// Q//// VTPO 240200Z 21007KT 5000 HZ SCT022 29/19 Q1010 KRPD 240315Z AUTO 03008KT 10SM CLR 07/03 A2999 RMK AO2 T00720026 KSFM 240256Z AUTO 20004KT 10SM CLR 03/02 A3004 RMK AO2 SLP186 T00280022 50003 KRNV 240315Z AUTO 28006KT 10SM BKN065 13/12 A2996 RMK AO2 T01300121 VTPP 240300Z 34004KT 9999 FEW025 31/22 Q1011 LIPE 240250Z 24002KT 9999 SCT010 11/10 Q1019 LIPF 231755Z 00000KT CAVOK 15/10 Q1017 KSGF 240252Z 00000KT 10SM CLR 10/04 A3000 RMK AO2 SLP157 T01000039 56013 KQWX 240255Z AUTO VRB02KT 12SM CLR 16/M02 A2993 RMK AO2 SLP136 WND DATA ESTMD T01571020 57002 KSFO 240256Z 27022G29KT 10SM FEW018 BKN180 BKN200 13/08 A3000 RMK AO2 PK WND 28034/0225 SLP158 T01330083 58011 LIPH 232050Z 09004KT 9999 BKN060 13/08 Q1020 FNBG 231600Z 28008KT 9999 SCT020 27/23 Q1010 KSGH 240256Z AUTO 04008KT 10SM CLR 12/02 A3001 RMK AO2 SLP164 T01170017 50009 KSEZ 240315Z AUTO 16010KT 10SM CLR 21/M06 A2987 RMK AO2 KSFQ 240315Z AUTO 04006KT 10SM -RA BKN015 OVC021 12/11 A3004 RMK AO2 T01170112 KRPH 240315Z AUTO 00000KT 10SM CLR 11/07 A3001 RMK AO2 T01060065 LIPI 230355Z 03004KT CAVOK 06/04 Q1017 KROS 240315Z AUTO 05009G16KT 10SM CLR 03/00 A2996 RMK AO2 T00301003 KSGJ 240256Z AUTO 16010KT 10SM BKN049 OVC080 24/20 A2980 RMK AO2 SLP090 T02390200 51010 KRPJ 240315Z AUTO 15007KT 10SM CLR 12/02 A3004 RMK AO2 T01240016 FNCA 231700Z 19007KT 9999 FEW020 FEW025CB 27/25 Q1010 EVLA 240250Z AUTO 00000KT 5000 FEW012/// BKN056/// 01/01 Q1009 KRQB 240314Z AUTO 11005KT 10SM CLR 09/03 A3009 RMK AO2 T00860030 LIQC 240255Z 00000KT CAVOK 12/09 Q1021 RMK SKC QUK / QUL / VIS MAR 20 KM VIS MIN 9999 LIPL 240255Z /////KT 9999 BKN045 13/10 Q1019 RMK BKN VIS MIN 9999 WIND THR31 10003KT BLU KSHD 240315Z AUTO 00000KT 10SM RA SCT075 SCT090 OVC110 09/07 A3010 RMK AO2 T00900074 KROW 240251Z AUTO 16016KT 10SM CLR 18/M01 A2992 RMK AO2 SLP086 T01831006 56009 $ KRQE 240253Z AUTO 21006KT 10SM CLR 15/M08 A2996 RMK AO2 SLP064 T01501078 53004 TSNO LIPO 240250Z 07002KT 9999 FEW040 13/06 Q1019 KROX 240314Z AUTO 07010KT 10SM SCT042 02/M06 A3003 RMK AO2 KQZF 240255Z AUTO VRB02KT 2000 HZ CLR 28/M10 A2981 RMK AO2 SLP065 WND DATA ESTMD T02841101 56005 $ KSFY 240315Z AUTO 00000KT 10SM CLR 13/03 A3002 RMK AO2 T01280025 KSFZ 240256Z AUTO 21004KT 10SM CLR 07/03 A3012 RMK AO2 SLP222 T00720028 50013 LIPQ 240250Z AUTO 05003KT 9999 FEW069/// OVC086/// 11/04 Q1020 VTSB 240300Z 18003KT 9999 FEW020 30/26 Q1012 LIPR 240245Z 32002KT CAVOK 10/10 Q1019 KSGR 240253Z AUTO 01005KT 10SM CLR 16/09 A3001 RMK AO2 SLP164 T01610094 53014 LIPS 240255Z 05004KT 9999 BKN080 12/11 Q1020 RMK BKN VIS MIN 9999 WIND THR26 05004KT WIND THR08 04005KT BLU VTSC 240300Z 16004KT 9999 SCT022 32/24 Q1012 LIRA 240250Z 10005KT CAVOK 09/05 Q1020 KSGS 240314Z AUTO 01004KT 10SM CLR 14/07 A2989 RMK AO2 T01410065 GCTS 240300Z 34007KT 9999 SCT025 19/14 Q1017 NOSIG KSGT 240315Z AUTO 36004KT 10SM CLR 14/06 A2998 RMK AO1 LIPU 230600Z 36004KT CAVOK 08/05 Q1016 VTSE 240300Z 29006KT 8000 FEW022 32/25 Q1012 KSGU 240256Z AUTO 29006KT 10SM CLR 26/M04 A2967 RMK AO2 SLP021 T02561044 53013 KSHL 240315Z AUTO 17012KT 10SM CLR 13/M01 A2984 RMK AO2 VTSF 240300Z VRB02KT 9999 FEW018 32/26 Q1012 KSHM 240258Z AUTO 18004KT 10SM CLR 13/02 A2979 RMK AO2 SLP061 T01270023 55011 $ LIQN 231750Z 18006KT CAVOK 14/03 Q1018 VTSG 240300Z VRB03KT 9999 FEW020 32/24 Q1013 LIRE 240255Z 10008KT 9999 FEW020 12/10 Q1020 RMK FEW VIS MIN 9999 WIND THR13 VRB01KT WIND THR31 /////KT BLU KSHN 240304Z AUTO 23007KT 6SM -RA BR SCT018 BKN024 OVC031 09/07 A2980 RMK AO2 RAB0259 P0000 T00890072 LIQO 231755Z 18020KT 0000 FG VV/// 11/11 Q1017 RMK VAL INVIS VIS MIN 0000 KRPX 240315Z AUTO 00000KT 10SM 07/04 A2965 VTSH 240300Z 09006KT 9999 FEW020 31/25 Q1012 NOSIG LIRF 240250Z 07003KT 9999 FEW025 08/05 Q1020 NOSIG LIPX 240250Z 06008KT 9999 BKN070 13/07 Q1019 KRQO 240315Z AUTO 16009KT 10SM CLR 10/06 A3001 RMK AO2 T00980059 KSIF 240315Z AUTO 04006KT 7SM -RA OVC007 09/09 A3000 RMK AO2 T00860086 LIPY 240250Z 16003KT CAVOK 10/08 Q1019 WMBA 240300Z 11002KT 9999 FEW018TCU SCT022 BKN290 32/26 Q1011 LIPZ 240250Z 03009KT 9999 FEW040 BKN070 12/07 Q1020 NOSIG LIRI 231450Z 21010KT 9999 FEW030 17/10 Q1020 KSHR 240253Z AUTO 33008KT 10SM BKN100 OVC120 12/06 A2962 RMK AO2 PK WND 27029/0213 SLP023 T01220056 53011 FMMI 240300Z 00000KT 9999 FEW003 BKN020 17/17 Q1019 NOSIG VTSM 240300Z 05007KT 9999 FEW020 33/26 Q1013 KSIK 240315Z AUTO 33004KT 10SM CLR 15/04 A2994 RMK AO2 KSJC 240253Z 29009KT 10SM SCT025 SCT050 BKN170 14/07 A3003 RMK AO2 SLP167 T01440072 53002 KRRL 240315Z AUTO 11011G17KT 10SM CLR 06/01 A3006 RMK AO2 T00610011 LIRM 240255Z 03003KT 9999 FEW025 06/04 Q1020 KTAD 240254Z AUTO 22009KT 10SM CLR 18/M04 A2979 RMK AO2 SLP026 T01781039 56002 TSNO KSHV 240256Z 25003KT 10SM CLR 13/10 A3000 RMK AO2 SLP156 T01330100 53007 VTSP 240300Z 26009KT 8000 SCT018 BKN100 30/25 Q1014 NOSIG LIRN 240250Z VRB02KT 9999 FEW030 08/06 Q1020 NOSIG VTSR 240100Z VRB02KT 9999 R02///// FEW022 29/27 Q1012 LIRP 240245Z 12003KT CAVOK 08/07 Q1020 NOSIG VTSS 240300Z 21003KT 9999 FEW020 31/25 Q1012 NOSIG LIRQ 240220Z 00000KT CAVOK 07/06 Q1020 VTST 240300Z 00000KT 9999 SCT020 31/27 Q1011 WMAU 240300Z 11003KT 360V170 9999 FEW020 SCT140 BKN270 32/28 Q//// QFF1010 LIRS 240255Z 01003KT 9999 FEW020 10/08 Q1019 KSKA 240258Z AUTO 23010KT 10SM FEW049 SCT055 BKN080 BKN090 10/03 A2974 RMK AO2 RAB40E49 SLP077 P0000 60000 T01030025 57007 $ LIRT 240255Z ///07KT CAVOK 05/05 Q1020 RMK SKC MON INVIS VAL INVIS VIS MIN 9999 VTUD 240300Z 15007KT 120V180 9999 BKN017 28/24 Q1012 KRRT 240314Z AUTO 08013KT 10SM OVC048 02/M06 A3005 RMK AO2 LIRU 231650Z 24006KT 210V270 CAVOK 17/03 Q1019 FMMT 240300Z 00000KT 9999 VCSH SCT017 BKN033 25/24 Q1013 NOSIG KRSL 240253Z AUTO 16013KT 10SM CLR 13/01 A2987 RMK AO2 SLP114 T01280011 56015 LIRV 231455Z 24013KT 9999 SCT040 17/07 Q1018 FMNM 240300Z 08004KT 9999 FEW020 22/21 Q1012 NOSIG KTAN 240252Z AUTO 00000KT 10SM CLR 08/04 A3013 RMK AO2 SLP203 T00780039 51014 KSJN 240254Z AUTO 24008KT 10SM CLR 19/M06 A2993 RMK AO2 SLP051 T01941056 51003 TSNO KRSN 240315Z AUTO 00000KT 10SM CLR 11/10 A3003 RMK AO2 T01060095 FMNN 231500Z 17002KT 9999 SCT020CB 28/24 Q1011 LIRX 231755Z 06001KT CAVOK 14/10 Q1017 RMK SKC VIS MIN 9999 VIS MAR 30 KM KSKF 240258Z AUTO 06006KT 10SM CLR 18/06 A2999 RMK AO2 SLP152 T01810058 53002 $ KRSP 240254Z AUTO 17004KT 10SM CLR 09/04 A3010 RMK AO2 SLP200 T00890044 50006 $ VTUI 240300Z 13007KT 100V160 9999 FEW035 27/23 Q1013 KSIY 240253Z AUTO 27005KT 10SM OVC095 11/02 A2991 RMK AO2 SLP140 T01060017 56001 LIRZ 232050Z 22006KT 9999 SCT060 13/07 Q1020 VTUK 240300Z 21005KT 140V260 8000 FEW030 32/24 Q1012 NOSIG VTUL 240300Z 00000KT 6000 SCT032 BKN040 26/23 Q1013 KSJS 240315Z AUTO 06008KT 10SM BKN006 BKN040 OVC050 10/10 A2993 RMK AO2 T01020102 KSJT 240251Z 11006KT 10SM CLR 14/M01 A3000 RMK AO2 SLP153 T01441006 55004 KSLB 240315Z AUTO 16012KT 10SM CLR 11/M00 A2989 RMK AO2 KRST 240254Z 18008KT 10SM CLR 12/03 A2994 RMK AO2 SLP139 T01220028 53003 KTCC 240253Z AUTO 20022G31KT 10SM CLR 19/01 A2985 RMK AO2 PK WND 20032/0219 SLP066 T01940011 55007 KSLC 240254Z 14006KT 10SM FEW060 FEW100 FEW140 14/03 A2980 RMK AO2 SLP059 T01390033 58003 VTUO 240000Z 18006KT 140V210 7000 NSC 28/24 Q1012 A2988 INFO A RWY 22 KRSV 240315Z AUTO 04004KT 10SM CLR 13/M01 A3001 RMK AO2 T01251006 KRSW 240253Z 00000KT 10SM CLR 22/19 A2982 RMK AO2 SLP096 T02220189 51016 KRTN 240300Z AUTO 17016KT 10SM CLR 14/00 A2987 RMK AO2 WSHFT 0240 T01390000 KRUE 240253Z AUTO 06003KT 10SM CLR 11/07 A2999 RMK AO2 SLP150 T01060072 52003 KSLE 240256Z 20006KT 10SM OVC033 11/07 A2986 RMK AO2 SLP113 60001 T01060067 58016 KTBN 240258Z AUTO 00000KT 10SM CLR 10/04 A2999 RMK AO2 SLP158 T00990041 $ VTUQ 240300Z AUTO VRB04KT ////NDV ////// 32/22 Q1013 A2991 KSJX 240317Z AUTO 03007KT 10SM SCT100 01/M04 A3016 RMK AO2 T00101043 VVCR 240300Z 09004KT 9999 FEW017 32/24 Q1013 NOSIG GCXO 240300Z AUTO 30011KT 9999 OVC008/// 14/13 Q1019 KSLG 240315Z AUTO 00000KT 10SM CLR 10/03 A3000 RMK AO1 KSLH 240314Z AUTO 02003KT 10SM SCT120 00/M04 A3016 RMK AO2 T00071046 KTAZ 240315Z AUTO 05004KT 10SM CLR 11/00 A3001 RMK AO2 T01141001 VVCT 240300Z 12004KT 070V150 9999 BKN015 32/24 Q1012 NOSIG KTBR 240315Z AUTO 00000KT 2 1/2SM -RA SCT010 BKN034 OVC060 20/20 A2977 RMK AO2 LTG DSNT ALQS T02040204 KSLI 240258Z AUTO 19006KT 10SM CLR 16/14 A2984 RMK AO2 SLP108 60000 T01610138 53003 VTUU 240300Z 12006KT 9999 SCT030 30/23 Q1013 NOSIG LJLJ 240300Z 00000KT 9999 BKN057 05/04 Q1021 NOSIG KRTS 240315Z AUTO 28012G19KT 10SM CLR 09/M05 A2994 RMK AO2 VTUV 240300Z 12010KT 9000 NSC 32/23 Q1012 A2989 INFO D RWY 36 LJMB 240300Z AUTO 14004KT 9999 BKN051/// 06/04 Q1022 KSLK 240251Z AUTO 00000KT 10SM CLR 06/M03 A3004 RMK AO2 SLP181 T00561033 51017 $ LIVC 232155Z 35006KT CAVOK 03/M02 Q1021 RMK SKC MON LIB VAL CLD SCT VIS MIN 9999 VVDN 240300Z 35008KT 7000 FEW015 SCT060 BKN250 29/24 Q1013 NOSIG VTUW 240300Z 14005KT 9999 SCT025 26/23 Q1013 KTCL 240315Z AUTO 32005KT 10SM FEW013 SCT028 OVC035 11/09 A2989 RMK AO2 T01110089 LIVD 231755Z ///03KT CAVOK 12/M03 Q1016 RMK SKC VIS MIN 9999 KTCM 240258Z 17006KT 10SM FEW010 SCT045 BKN060 BKN075 09/09 A2983 RMK AO2A SLP106 P0001 60004 $ LIVE 240155Z 02003KT CAVOK 00/M03 Q1018 RMK VIS MIN 9999 KSLN 240253Z 15010KT 10SM CLR 13/04 A2994 RMK AO2 SLP135 T01330044 56013 KSME 240315Z AUTO 01004KT 10SM OVC021 11/11 A2989 RMK AO2 LIVF 230355Z 22014KT 9999 FEW030 08/04 Q1015 KTBX 240315Z AUTO 10SM CLR 06/M03 A2983 RMK AO2 PWINO KSMF 240253Z 16012KT 10SM SCT150 BKN200 17/11 A2991 RMK AO2 SLP127 T01670111 55001 $ KSKX 240315Z 23009KT 10SM 14/M03 A2996 RMK AO1 KSLO 240315Z AUTO 03004KT 10SM CLR 15/M01 A2999 RMK AO2 T01481014 KTDF 240310Z AUTO 06009G15KT 10SM OVC006 10/09 A3001 RMK AO2 KRUQ 240310Z AUTO 01006KT 10SM OVC007 10/10 A2995 RMK AO2 P0001 T01000100 KSLR 240315Z AUTO 05003KT 10SM CLR 15/06 A3003 RMK AO2 T01500058 KTCS 240253Z AUTO 19010KT 10SM CLR 22/M01 A2990 RMK AO2 SLP061 T02221011 $ KSNA 240253Z 18005KT 10SM FEW012 FEW250 18/13 A2984 RMK AO2 SLP105 T01780133 52000 KTEB 240251Z 18006KT 10SM CLR 11/06 A3012 RMK AO2 SLP199 T01110061 51014 EVRA 240320Z 24004KT 210V270 CAVOK M00/M02 Q1009 NOSIG KRUT 240256Z AUTO 26007KT 10SM CLR 15/M02 A3005 RMK AO2 SLP196 T01501022 51013 $ KSNC 240315Z AUTO 20004KT 10SM CLR 07/05 A3013 RMK AO2 LKCV 240300Z 24005KT CAVOK 02/M01 Q1020 NOSIG RMK BLU BLU KSMN 240315Z AUTO 13004KT 10SM SCT085 BKN110 07/03 A2977 RMK AO1 LIVO 231755Z 06002KT 9999 BKN030 06/04 Q1018 RMK BKN VIS MIN 9999 KSMO 240251Z AUTO 22007KT 10SM CLR 16/11 A2983 RMK AO2 SLP100 T01560111 55000 $ KRWF 240253Z AUTO 16012KT 10SM CLR 15/00 A2982 RMK AO2 SLP100 T01500000 50001 LIVP 240255Z 18009KT 0000 FZFG VV/// M01/M01 Q1017 RMK MON INVIS VAL INVIS VIS MIN 0000 KSMP 240256Z AUTO VRB05KT 3SM -SN BR BKN005 OVC011 01/01 A2976 RMK AO2 SNB40 SLP094 P0001 60004 T00110011 56008 KSMQ 240253Z AUTO 14003KT 10SM CLR 11/07 A3011 RMK AO2 SLP198 T01060067 51020 KSNH 240315Z AUTO 01004KT 10SM FEW012 BKN065 OVC075 12/11 A2988 RMK A01 LIVR 240255Z 12011KT 0100 FZFG VV/// M01/M03 Q1020 RMK MON INVIS VIS MIN 0100 KRWI 240253Z AUTO 05010KT 9SM -RA OVC007 12/12 A3000 RMK AO2 RAB50 SLP158 P0000 60000 T01170117 50000 $ KTDR 240256Z AUTO 33005KT 10SM CLR 18/16 A2982 RMK AO2 SLP102 T01800155 52016 $ KRVS 240253Z 00000KT 10SM CLR 11/07 A3001 RMK AO2 SLP165 T01110067 55007 KSMS 240315Z AUTO VRB06KT 10SM OVC004 17/17 A2984 RMK AO2 LTG DSNT W AND NW KSOA 240315Z AUTO 00000KT 10SM CLR 16/01 A3005 RMK AO2 LIVT 240255Z 05002KT CAVOK 12/03 Q1020 RMK BKN BKN070 QUK / QUL / VIS MAR 30 KM VIS MIN 9999 KSNK 240315Z AUTO 11007KT 10SM CLR A3001 RMK AO2 KRWL 240253Z AUTO 27010KT 10SM SCT110 12/M02 A2978 RMK AO2 SLP017 T01171017 53006 KSNL 240315Z AUTO 14003KT 10SM CLR 14/03 A3000 RMK AO2 T01430030 FNHU 231600Z 21005KT 9999 SCT013 25/15 Q1020 FMSD 240300Z 28004KT 9999 FEW020 SCT040 21/20 Q1014 KRXE 240253Z AUTO 08005KT 10SM SCT085 SCT120 08/02 A2980 RMK AO2 SLP083 T00780022 53016 KSMX 240251Z AUTO 30016KT 8SM CLR 12/10 A2993 RMK AO2 PK WND 29027/0214 SLP137 T01170100 53003 KTDZ 240253Z AUTO 10004KT 10SM CLR 09/02 A3007 RMK AO2 SLP182 T00940017 50008 KSPA 240315Z AUTO 03015G19KT 10SM -RA OVC008 10/08 A2989 RMK AO2 LTG DSNT SE KSNS 240253Z AUTO 22010KT 10SM CLR 14/09 A3002 RMK AO2 SLP173 T01390089 58001 $ KSNT 240251Z AUTO 00000KT 04/00 A2983 RMK AO1 SLP066 60001 T00390000 55001 KSPB 240253Z AUTO 00000KT 10SM SCT050 BKN070 OVC090 11/07 A2985 RMK AO2 SLP107 60000 T01060072 58011 KSPD 240256Z AUTO 18020KT 16/02 A2980 RMK AO1 PK WND 18026/0250 SLP053 T01560022 55005 KTEW 240314Z AUTO 34003KT 10SM CLR 10/04 A3006 RMK AO2 T01040043 KSPF 240315Z AUTO 11010KT 10SM FEW095 FEW110 11/06 A2966 RMK AO2 KTEX 240315Z AUTO 22012G21KT 10SM CLR 12/M09 A3000 RMK AO2 T01241089 KSNY 240253Z AUTO 16009KT 10SM CLR 12/04 A2969 RMK AO2 SLP032 T01220039 55013 TSNO KSPG 240253Z AUTO 31005KT 10SM BKN046 24/20 A2981 RMK AO2 SLP094 T02390200 52014 KSOP 240256Z AUTO 06012KT 5SM -RA BR 12/12 A2994 RMK AO2 RAE14B48 SLP156 P0001 60001 T01220117 58004 $ KTFP 240315Z AUTO 05005KT 10SM CLR 19/09 A3002 RMK AO2 T01860087 KSPI 240252Z 00000KT 10SM CLR 13/01 A3001 RMK AO2 SLP163 T01280011 53001 KTGI 240315Z AUTO 05011G16KT 10SM OVC080 13/11 A3008 RMK AO1 KTHA 240315Z AUTO 34004KT 4SM OVC005 09/09 A2984 RMK KRYN 240246Z 26016G20KT 10SM CLR 30/M06 A2980 RMK LAST KSOW 240315Z AUTO 22006KT 10SM CLR 15/M10 A3000 RMK AO2 KSQI 240256Z AUTO 00000KT 10SM CLR 12/02 A3002 RMK AO2 SLP188 T01220022 51001 KSPR 240315Z AUTO 36023KT 10SM OVC039 19/11 A2998 RMK A01 KSPS 240252Z AUTO 15007KT 10SM CLR 13/03 A3000 RMK AO2 SLP156 T01280033 55005 MBGT 240000Z 12015KT 9999 SCT018 BKN040 25/20 Q1013 FNMA 231600Z 19004KT 9999 BKN008 FEW010CB 23/20 Q1015 KRYT 240253Z AUTO 00000KT 10SM CLR 10/07 A3009 RMK AO2 SLP192 T01000067 51009 TSNO $ EVVA 240250Z AUTO 18003KT CAVOK 00/00 Q1009 KSRB 240315Z AUTO VRB04KT 1 3/4SM BR OVC004 12/12 A2982 RMK A01 KSRC 240256Z AUTO 00000KT 10SM CLR 11/09 A3000 RMK AO2 SLP164 6//// T01110089 51011 KSQL 240255Z 27007G15KT 10SM FEW030 SCT200 13/08 A3003 KRZL 240315Z AUTO 04005KT 10SM CLR 11/M03 A3005 RMK AO2 KRYV 240315Z AUTO 08004KT 10SM CLR 04/02 A3006 RMK AO2 T00440023 KSPW 240253Z AUTO 10SM CLR 12/01 A2988 RMK AO2 SLP117 T01170006 55002 $ KRYW 240315Z AUTO 07004KT 10SM CLR 16/05 A3004 RMK AO2 T01600049 KRZN 240250Z AUTO 08008G14KT 10SM CLR 03/M01 A3000 RMK AO2 T00281015 KTIF 240315Z AUTO 16012G16KT 10SM CLR 16/02 A2972 RMK AO2 T01570022 KRYY 240247Z 12008KT 10SM OVC010 12/11 A2984 WMKA 240300Z 34002KT 9999 FEW017CB BKN300 32/27 Q1011 LJPZ 240300Z AUTO 12004KT 9999 SCT038/// BKN044/// BKN080/// 09/06 Q1020 WMKB 240300Z 04003KT 9999 FEW020 BKN300 32/26 Q1011 NOSIG KRZR 240315Z AUTO 00000KT 10SM OVC022 14/14 A2980 RMK A01 WMKC 240300Z 10004KT 9999 FEW018 BKN280 32/25 Q1012 WMKD 240300Z 33002KT 9999 SCT019 SCT280 31/27 Q1012 NOSIG KRZT 240315Z AUTO 00000KT 10SM CLR 08/06 A3000 RMK AO2 KTIK 240258Z AUTO 13005KT 10SM CLR 14/02 A3000 RMK AO2 SLP163 T01380022 WMKE 240300Z VRB03KT 9999 FEW016CB SCT018 BKN270 30/25 Q1012 KSSC 240305Z AUTO 07011KT 10SM OVC005 17/16 A2980 RMK AO2 RAE03DZB03E04RAB04E05 SLP091 GEML 240300Z AUTO VRB02KT //// SCT008/// BKN017/// 15/13 Q1016 FNLU 240200Z VRB02KT CAVOK 24/22 Q1012 NOSIG KTHV 240253Z AUTO 00000KT 10SM CLR 11/07 A3010 RMK AO2 SLP196 T01060067 50012 KW13 240315Z AUTO 00000KT 10SM SCT021 SCT048 OVC095 09/08 A3008 RMK AO1 T00850084 KSSF 240253Z 06004KT 10SM CLR 20/04 A2999 RMK AO2 SLP150 T02000044 53004 $ FNMO 231700Z 23013KT CAVOK 22/18 Q1012 WMKI 240300Z 05002KT 9999 FEW017CB BKN290 32/26 Q1011 KTIP 240315Z AUTO 04008KT 10SM CLR 14/M02 A3002 RMK AO2 T01361025 WMKJ 240300Z 16002KT 9999 FEW017CB SCT018 BKN280 31/27 Q1011 KSRQ 240253Z 31003KT 10SM FEW042 23/20 A2982 RMK AO2 SLP096 T02280200 52013 WMKK 240300Z 33004KT 260V020 1000 +TSRA FEW008 FEW016CB SCT028 BKN270 26/25 Q1013 TEMPO TL0400 2500 +TSRA BECMG FM0400 6000 -TSRA KSRR 240255Z AUTO 22018G24KT 10SM CLR 15/M03 A3006 RMK AO2 KSSI 240253Z AUTO 18007KT 10SM -RA SCT048 BKN070 OVC090 22/19 A2978 RMK AO2 LTG DSNT S RAB17 TSB18E42 SLP084 P0008 60008 T02220194 50004 WMKL 240300Z 14001KT 9999 FEW017CB BKN280 31/27 Q1012 WMKM 240300Z 03002KT 9999 FEW019 SCT140 BKN280 32/25 Q1012 LKKB 240300Z 25005KT CAVOK 03/M02 Q1020 WMKN 240300Z 10003KT 9999 SCT018 BKN300 31/26 Q1012 KSTC 240253Z 06009KT 10SM CLR 04/02 A2993 RMK AO2 SLP150 T00440017 51010 $ KTKC 240313Z AUTO 18011G18KT 10SM CLR 16/01 A2981 RMK AO2 T01550006 KW22 240315Z AUTO 05004KT 10SM BKN080 OVC095 12/01 A3000 RMK AO2 WMKP 240300Z 07005KT 050V110 9000 FEW020 BKN280 32/26 Q1012 NOSIG KTIW 240253Z 19006KT 10SM -RA FEW018 BKN049 OVC070 08/08 A2983 RMK AO2 SLP102 P0003 60011 T00830078 58009 KSTE 240315Z AUTO 09012G16KT 10SM CLR 04/01 A3007 RMK AO2 T00370007 KUBE 240315Z AUTO 06012KT 10SM CLR 04/00 A2997 RMK AO2 KTIX 240047Z 14010KT 7SM SCT020 23/20 A2980 RMK LAST KUAO 240253Z 20007KT 10SM -RA BKN026 OVC042 11/06 A2987 RMK AO2 RAE04B36 SLP116 P0000 60000 T01060061 58013 KSTF 240315Z AUTO 30003KT 10SM BKN017 BKN022 OVC030 11/09 A2992 RMK AO2 LLBG 240250Z 29004KT 9999 SCT035 SCT050 17/08 Q1018 NOSIG KTKI 240253Z 00000KT 10SM CLR 14/07 A3001 RMK AO2 SLP167 T01390072 55001 KSUA 240255Z AUTO 07004KT 10SM SCT020 24/ A2981 RMK AO2 KSTJ 240253Z AUTO 19004KT 10SM CLR 13/04 A2998 RMK AO2 SLP151 T01280044 55003 $ KW29 240255Z AUTO 10004KT 7SM CLR 12/08 A3011 RMK AO2 TSNO KSTK 240305Z AUTO 17007KT 10SM CLR 14/05 A2964 RMK AO2 KSTL 240251Z 35003KT 10SM CLR 16/00 A3001 RMK AO2 SLP158 T01560000 53003 KW31 240315Z AUTO 04003KT 10SM OVC007 10/10 A3004 RMK AO1 T01020102 KSUE 240256Z AUTO 06008KT 10SM CLR 03/M03 A3014 RMK AO2 SLP230 T00331028 50001 KSTP 240253Z AUTO 04007KT 10SM CLR 14/07 A2991 RMK AO2 SLP126 T01390067 53007 KTLH 240304Z AUTO 34006KT 10SM OVC030 18/18 A2981 RMK AO2 T01830178 $ VVNB 240300Z 07005KT 050V110 5000 BR FEW015 BKN025 23/22 Q1014 NOSIG KSTS 240253Z AUTO 26006KT 10SM BKN250 14/08 A2996 RMK AO2 SLP140 T01440083 53005 KTMA 240250Z AUTO 30009KT 10SM -RA SCT012 OVC020 17/17 A2979 RMK AO2 T01720172 KTMB 240253Z AUTO 28004KT 10SM CLR 21/19 A2979 RMK AO2 SLP088 T02110194 51014 KSVC 240315Z AUTO 11005KT 10SM CLR 18/00 A2998 RMK AO2 T01771001 LKKV 240300Z VRB01KT CAVOK M02/M03 Q1019 KTKV 240315Z AUTO 07005KT 10SM CLR 04/00 A3006 RMK AO2 T00410000 FOGM 231300Z /////KT 9999 SCT015 OVC030 33/27 Q//// LKLN 240300Z AUTO 00000KT CAVOK 01/M02 Q1021 KSVE 240315Z AUTO 24004KT 10SM CLR 11/00 A2992 RMK AO2 KSUN 240248Z 22005KT 10SM SCT070 10/M02 A2981 KTME 240315Z AUTO 00000KT 10SM BKN020 BKN026 14/10 A3003 RMK AO2 KW43 240315Z AUTO 15013KT 10SM RA SCT050 BKN085 OVC110 12/05 A2966 RMK AO2 KTKX 240315Z AUTO 33005KT 9SM CLR 14/06 A2993 RMK AO2 FOGO 231500Z 20004KT 9999 BKN013 FEW020CB 29/22 Q//// KUCP 240256Z AUTO 03005KT 10SM CLR 13/03 A3006 RMK AO2 SLP195 T01280033 51010 KUDG 240256Z AUTO 07014KT 6SM BR OVC003 14/14 A2988 RMK AO2 SLP123 T01440139 51002 KSVH 240310Z AUTO 04008G15KT 5SM +RA OVC006 09/09 A2994 RMK AO2 P0005 T00900090 FOGR 231300Z /////KT 9999 SCT010 BKN027 27/24 Q//// LKNA 240300Z 25004KT CAVOK 01/M02 Q1020 RMK BLU KSUS 240254Z 00000KT 10SM CLR 10/05 A3000 RMK AO2 SLP158 T01000050 55000 KTMK 240315Z AUTO 18005KT 4SM SCT016 BKN024 OVC037 08/07 A2988 RMK AO2 P0002 PWINO KSUT 240320Z AUTO 05005KT 7SM DZ BKN007 OVC011 19/18 A2989 RMK AO2 T01870179 KTNB 240317Z AUTO 00000KT 2 1/2SM UP 07/07 A2998 RMK AO2 P0007 KSUU 240258Z AUTO 24019G26KT 10SM CLR 14/09 A2991 RMK AO2 PK WND 25026/50 SLP135 T01360089 58005 $ KSUW 240315Z AUTO 07013G19KT 10SM BKN110 02/M02 A3008 RMK AO2 T00151016 KSVN 240258Z AUTO 15012G18KT 10SM FEW070 24/23 A2974 RMK AO2 SLP074 T02370227 50001 KSUX 240252Z 19017KT 10SM CLR 17/M03 A2986 RMK AO2 PK WND 18026/0215 SLP108 T01721028 55002 KSWF 240245Z VRB05KT 10SM SKC 15/04 A3010 KUCY 240315Z AUTO 00000KT 1/4SM FG BKN075 10/09 A2993 RMK A01 VVPB 240300Z 30005KT 6000 SCT020 BKN050 26/25 Q1014 NOSIG KTOA 240254Z 32004KT 10SM SCT200 17/11 A2983 LKMT 240300Z 21006KT CAVOK 03/00 Q1020 NOSIG KTOB 240313Z AUTO 18008KT 10SM CLR 12/02 A2993 RMK AO2 KTOC 240315Z AUTO 04006KT 10SM -RA BKN009 OVC017 13/12 A2985 RMK AO2 KW63 240315Z AUTO 07006KT 10SM OVC007 11/11 A3002 RMK AO1 KSWO 240253Z AUTO 00000KT 10SM CLR 09/05 A2999 RMK AO2 SLP153 T00890050 56009 KTOI 240253Z AUTO 31005KT 10SM OVC055 14/12 A2985 RMK AO2 SLP106 T01390117 51015 KTPA 240253Z 31004KT 10SM BKN047 24/20 A2983 RMK AO2 SLP100 T02440200 53013 KUES 240315Z AUTO 07005KT 10SM CLR 02/00 A3009 RMK AO2 LLET 240250Z 02012KT CAVOK 16/07 Q1017 KTOL 240252Z 00000KT 10SM CLR 09/M01 A3006 RMK AO2 SLP181 T00891006 50009 KTNU 240315Z AUTO 17005KT 10SM CLR 10/01 A2997 RMK AO2 PWINO LKPD 240302Z 26007KT CAVOK 04/M01 Q1020 KSWW 240315Z AUTO 14005KT 7SM CLR 15/01 A3004 RMK AO2 T01450005 VVPQ 240300Z 19004KT 150V220 8000 VCSH SCT015 FEW017CB SCT040 29/26 Q1012 NOSIG CB/NE KSYF 240315Z AUTO 16024G28KT 10SM CLR 14/03 A2970 RMK AO2 T01400033 KTPF 240315Z AUTO 00000KT 10SM BKN043 OVC049 25/22 A2983 RMK AO2 KTOP 240253Z AUTO 00000KT 10SM CLR 14/05 A2999 RMK AO2 SLP152 T01390050 55002 KW75 240315Z AUTO 07008KT 10SM OVC070 12/10 A3008 RMK AO1 T01180103 KTPH 240256Z AUTO 35009KT 10SM CLR 17/ A2984 RMK AO2 SLP063 T0167 53002 $ KTOR 240253Z AUTO 13008KT 10SM FEW120 17/M01 A2962 RMK AO2 SLP002 T01671006 56008 KSYI 240315Z AUTO 36004KT 2SM OVC008 12/11 A2985 RMK LLHA 231650Z 30009KT 9999 SCT038 18/09 Q1017 KW78 240315Z AUTO 05004KT 7SM OVC005 10/10 A3003 RMK AO1 T01030096 KSXS 240258Z AUTO 32007KT 10SM OVC055 15/11 A2984 RMK AO2 SLP105 T01500109 52019 KSXT 240256Z AUTO 18010G18KT 10SM OVC012 03/02 A2989 RMK AO2 SLP133 T00330017 58016 FNUB 231700Z VRB02KT 9999 FEW020 20/// Q1022 KTPL 240251Z AUTO 04004KT 10SM CLR 13/07 A3003 RMK AO2 SLP183 T01330072 53005 TSNO KSXU 240315Z AUTO 16015G23KT 10SM CLR 17/00 A2991 RMK AO2 T01650000 KW81 240255Z AUTO 00000KT 7SM OVC006 11/11 A3006 RMK AO1 T01050105 FNSU 231700Z 21006KT 9999 FEW013 28/// Q1012 KSYM 240310Z AUTO 06007G12KT 030V090 10SM BKN048 OVC055 13/08 A2997 RMK AO2 KSYN 240314Z AUTO 20006KT 10SM CLR 14/01 A2989 RMK AO2 T01350008 KTQE 240254Z AUTO 17011KT 10SM CLR 12/03 A2988 RMK AO2 SLP112 T01170028 55004 KUGN 240255Z 03005KT 10SM CLR 05/ A3007 RMK AO2 SLP184 T0050 50004 $ FNUE 231500Z 09006KT 9999 SCT030 FEW032TCU 24/19 Q1016 FNUG 231600Z 30008KT 9000 VCSH BKN025 28/20 Q1012 WMSA 240300Z 19003KT 9000 FEW017CB SCT140 BKN280 31/25 Q1012 KTQH 240315Z AUTO 00000KT 10SM CLR 07/05 A2999 RMK AO2 LKPR 240300Z 22008KT CAVOK 01/M01 Q1020 NOSIG KSYR 240254Z 00000KT 10SM SCT200 10/03 A3006 RMK AO2 SLP178 T01000033 51009 LLIB 240300Z VRB03KT 9999 BKN045 14/07 Q1017 KSZL 240258Z AUTO 00000KT 10SM CLR 13/02 A2999 RMK AO2 RAB33E40 SLP157 P0000 60000 T01330018 55005 $ GFLL 240300Z 28008KT 9999 SCT013 FEW027CB 27/24 Q1010 RMK CB-NE MBPV 240300Z 14012KT 9999 SCT012 26/23 Q1012 KW96 240315Z AUTO 07005KT 10SM OVC070 11/11 A3006 RMK AO1 T01120112 KTRI 240253Z 07005KT 5SM -RA BR SCT018 OVC045 09/09 A2994 RMK AO2 SLP125 P0006 60022 T00940089 53010 MDAB 232200Z 09006KT 9999 BKN018 OVC070 25/24 Q1011 KSZT 240315Z AUTO 00000KT 10SM BKN060 BKN070 OVC085 08/05 A2974 RMK AO2 KTRK 240315Z AUTO 25003KT 10SM CLR 05/M03 A2998 RMK AO2 KW99 240255Z AUTO 00000KT 10SM OVC110 10/08 A3009 RMK AO2 T01010080 KUIL 240315Z AUTO VRB03KT 2 1/2SM RA BR SCT007 BKN010 OVC040 08/08 A2976 RMK AO2 P0001 T00830078 KTRL 240253Z AUTO 00000KT 10SM CLR 12/08 A3001 RMK AO2 SLP160 T01170083 56001 KTRM 240252Z AUTO 35019G26KT 10SM CLR 29/06 A2961 RMK AO2 PK WND 35026/0251 SLP037 T02940061 53003 KVAD 240258Z AUTO 25006KT 10SM BKN030 BKN100 23/14 A2976 RMK AO2 SLP078 60000 T02270144 52013 $ KUIN 240254Z AUTO 15003KT 10SM CLR 16/M03 A3001 RMK AO2 SLP162 T01561028 50001 KTTA 240315Z AUTO 06006KT 7SM OVC006 12/11 A2995 RMK AO2 T01150106 LKTB 240300Z 25002KT CAVOK 03/M01 Q1021 NOSIG FOOB 231300Z /////KT 9999 BKN020TCU 29/23 Q1008 KTTD 240253Z 00000KT 10SM -RA SCT027 BKN033 OVC040 11/08 A2987 RMK AO2 SLP114 P0001 60004 T01110083 58010 KTTF 240314Z AUTO 00000KT 10SM CLR 07/03 A3007 RMK AO2 T00690032 KUKF 240310Z AUTO 06007KT 7SM -RA SCT010 BKN013 OVC044 07/07 A3002 RMK AO2 LTG DSNT S KTSP 240315Z AUTO 27013G21KT 10SM FEW036 11/03 A2996 RMK AO2 KVBG 240258Z AUTO 35018G24KT 7SM CLR 11/10 A2993 RMK AO2 PK WND 35027/24 SLP138 T01120103 55003 MDBH 240000Z 16010KT 5000 +RA FEW012CB BKN014 OVC070 23/23 Q1012 CB/E/SE/S/W/NW FOOG 232300Z VRB02KT 9999 FEW008 BKN030 27/25 Q1012 VVTS 240300Z 14006KT 060V190 9999 SCT015 31/25 Q1012 NOSIG KUKI 240256Z AUTO 34010G15KT 10SM CLR 13/06 A3001 RMK AO2 SLP157 T01280061 51003 KVCB 240253Z AUTO 23010KT 10SM CLR 17/10 A2993 RMK AO2 SLP134 T01670100 58005 TSNO FOOK 231500Z 0000KT 9999 SCT010 FEW020CB BKN030 28/23 Q1009 FOOL 240300Z 10001KT 8000 FEW010 FEW020CB 25/25 Q1011 NOSIG KTTN 240253Z AUTO 17006KT 10SM CLR 10/07 A3013 RMK AO2 SLP196 T01000072 51016 FOON 231800Z /////KT 4000 -TSRA SCT006 SCT016CB OVC023 22/22 Q1013 KVAY 240254Z AUTO 00000KT 10SM CLR 09/06 A3013 RMK AO2 SLP203 T00890061 50012 TSNO $ FOOR 231300Z /////KT 9999 BKN008 30/24 Q//// KTTS 240303Z AUTO 00000KT 5SM BR CLR 19/18 A2981 RMK AO2 SLP099 KVBT 240315Z AUTO 00000KT 10SM CLR 10/04 A3001 RMK AO1 KUKT 240315Z AUTO 17003KT 10SM CLR 11/08 A3012 RMK AO1 FOOT 231300Z 09004KT 9999 SCT011 BKN033 30/23 Q//// KTUL 240253Z 00000KT 10SM FEW250 12/06 A3000 RMK AO2 SLP157 T01170061 55008 KTVC 240253Z AUTO 01005KT 10SM CLR 04/M04 A3014 RMK AO2 SLP210 T00441039 51008 KULM 240314Z AUTO 16008KT 10SM CLR 14/M01 A2986 RMK AO2 KVBW 240315Z AUTO 00000KT 10SM SCT060 SCT080 BKN120 09/08 A3009 RMK AO2 T00900083 KVDF 240315Z AUTO 00000KT 10SM BKN046 OVC055 22/19 A2983 RMK AO2 KTVF 240318Z AUTO 06015KT 10SM UP SCT008 SCT015 OVC060 M01/M02 A3000 RMK AO2 UPB08SNE08 P0000 FZRANO $ KTUP 240253Z 30004KT 10SM FEW022 FEW085 SCT110 11/09 A2991 RMK AO2 SLP126 60001 T01110094 53000 RJAA 240300Z 13008KT 9999 FEW030 BKN045 14/07 Q1027 NOSIG KTVI 240315Z AUTO 33009KT 7SM DZ BKN009 OVC018 17/17 A2981 RMK AO2 KVDI 240315Z AUTO 00000KT 10SM CLR 20/19 A2976 RMK AO2 KTUS 240253Z 27011KT 10SM CLR 30/M07 A2982 RMK AO2 SLP048 T03001072 53011 $ KVCT 240251Z AUTO 06003KT 10SM CLR 16/11 A3001 RMK AO2 SLP162 T01560106 53008 KTVK 240255Z AUTO 00000KT 10SM CLR 14/00 A3001 RMK AO2 KTVL 240253Z AUTO 18011G15KT 10SM CLR 07/M02 A2999 RMK AO2 SLP128 T00671017 51009 KVCV 240315Z AUTO 28020G27KT 10SM CLR 17/01 A2985 RMK AO2 RJAF 240300Z 02005KT 340V080 9999 FEW050 18/02 Q1023 KTWF 240253Z AUTO 26007KT 10SM CLR 10/03 A2980 RMK AO2 SLP063 T01000033 53010 MDCY 240000Z 00000KT 8000 -RA SCT016 OVC070 24/24 Q1012 RJAH 240300Z 10007KT 040V130 9999 FEW030 BKN040 15/06 Q1026 RJAI 240309Z 09005KT 9999 FEW020 SCT040 16/02 Q1026 RMK 1CU020 3SC040 A3032 KTVR 240253Z AUTO 00000KT 10SM FEW060 13/11 A2998 RMK AO2 SLP158 T01330106 51016 TSNO KUNI 240255Z AUTO 00000KT 10SM SCT120 12/09 A2998 RMK AO2 T01210092 RJBB 240300Z 35005KT 9999 FEW030 19/09 Q1023 BECMG 28006KT KX60 240315Z AUTO 22004KT 10SM CLR 23/20 A2981 RMK A01 RJBD 240300Z 13009KT 9999 FEW035 SCT050 BKN070 21/07 Q1023 KVEL 240253Z AUTO 28012KT 10SM CLR 16/M01 A2974 RMK AO2 PK WND 28042/0158 RAE12 SLP036 P0000 60000 T01561006 53006 RJBE 240300Z 16003KT 140V200 9999 FEW025 19/10 Q1023 KTWM 240314Z AUTO 06010G14KT SCT110 01/M03 A3008 RMK AO2 PWINO SABE 240300Z 02007KT CAVOK 20/10 Q1016 KUNO 240253Z AUTO 00000KT 10SM CLR 12/02 A3001 RMK AO2 SLP160 T01170017 53001 KTVY 240315Z AUTO 22006KT 10SM BKN120 10/05 A2981 RMK AO2 SAAR 240300Z 36004KT CAVOK 18/12 Q1013 KVER 240315Z AUTO 00000KT 10SM CLR 13/M01 A3000 RMK AO2 T01301006 RJCB 240300Z 16008KT 130V220 9999 FEW020 07/02 Q1025 KVES 240315Z AUTO 06003KT 10SM CLR 10/00 A3002 RMK AO2 RJCC 240300Z 17013KT 9999 FEW015 SCT/// 10/M01 Q1025 EYKA 240250Z 22002KT 9999 SCT015 BKN027 M01/M03 Q1011 KTXK 240253Z 00000KT 10SM CLR 14/07 A3000 RMK AO2 SLP158 T01390067 53005 KUNU 240315Z AUTO 07006KT 10SM CLR 04/01 A3007 RMK AO2 T00420012 RJAW 240300Z 07019KT 9999 -SHRA SCT008 BKN010 21/19 Q1016 RMK 3ST008 7CU010 A3002 KUNV 240315Z AUTO 23006KT 10SM CLR 12/00 A3008 RMK AO2 T01151001 RJCH 240300Z 14009KT 9999 FEW012 10/05 Q1025 RJBT 240300Z 17008KT 140V210 9999 FEW035 22/01 Q1021 RJCK 240300Z 19014KT 170V230 9999 FEW020 06/01 Q1026 RJDC 240300Z 08014KT 9999 FEW025 18/12 Q1022 RJCM 240300Z VRB01KT 9999 FEW030 08/M01 Q1025 LLOV 231750Z 30013KT CAVOK 18/07 Q1016 RJCN 240300Z VRB03KT 9999 FEW030 09/M01 Q1024 SADF 240300Z 05005KT CAVOK 18/09 Q1016 SACO 240300Z 02003KT 9999 SCT020 SCT100 17/13 Q1015 KUOX 240255Z AUTO 31003KT 10SM BKN050 BKN060 12/09 A2996 RMK AO2 KTYQ 240315Z AUTO 04007KT 10SM CLR 12/00 A3003 RMK AO2 T01171005 KTYR 240253Z AUTO 00000KT 10SM CLR 13/09 A3000 RMK AO2 SLP157 T01330089 55000 FQCH 240300Z /////KT 9999 FEW015 BKN020 18/16 Q1021 RJEB 240300Z 09008KT 9999 FEW040 BKN050 06/M02 Q1025 KTYS 240253Z 02010KT 4SM -RA BR BKN007 OVC049 12/11 A2981 RMK AO2 SLP089 P0000 60000 T01220111 53007 FQBR 240300Z /////KT 9999 BKN018 23/22 Q1015 RJEC 240300Z VRB03KT 9999 FEW070 SCT/// 11/M02 Q1023 KVGT 240253Z 25011G19KT 10SM CLR 28/M11 A2963 RMK AO2 SLP031 T02781111 53004 RJCW 240300Z 35010KT 9999 SCT050 BKN100 08/00 Q1024 KVIH 240253Z AUTO 00000KT 10SM CLR 10/02 A2999 RMK AO2 SLP156 T01000022 57008 KTZR 240315Z AUTO 03006KT 10SM CLR 12/03 A3001 RMK AO2 T01150032 RJDT 240300Z 15009KT 110V180 9999 FEW035 18/10 Q1020 MDJB 232300Z 15004KT 8000 -RA FEW012CB BKN014 OVC070 24/24 Q1011 CB/SW/W/NW/N LLSD 240250Z 31010KT 9999 SCT034 BKN038 17/08 Q1018 RJFF 240300Z 15011KT 9999 FEW035 23/01 Q1020 WS R16 KUSE 240315Z AUTO 00000KT 10SM SCT035 BKN042 12/00 A3006 RMK AO2 RJFG 240300Z 09010KT 040V120 9999 FEW025 SCT070 18/08 Q1021 KVJI 240315Z AUTO 09009KT 10SM RA SCT060 BKN070 OVC090 09/08 A2996 RMK AO2 P0002 T00890083 RJFK 240300Z 11010KT 060V130 9999 FEW040 BKN/// 19/06 Q1021 KUTA 240315Z AUTO 00000KT 10SM CLR 10/09 A2995 RMK AO2 TSNO KVIS 240256Z AUTO 33010KT 10SM CLR 19/04 A2990 RMK AO2 SLP132 T01890039 55002 TSNO KY19 240315Z AUTO 06015G23KT 2SM BR OVC002 M01/M01 A2982 RMK AO2 RJFM 240300Z 08007KT 9999 FEW030 BKN/// 21/10 Q1022 KWAL 240254Z AUTO 07012KT 10SM OVC090 12/09 A3010 RMK AO2 RAE03 SLP190 P0000 60000 T01170094 50005 RJFO 240300Z 06006KT 9999 FEW030 17/12 Q1022 KY23 240315Z AUTO 06007KT 10SM CLR 08/03 A2997 RMK AO2 T00780031 RJGG 240300Z 12014KT 9999 FEW025 20/09 Q1025 NOSIG SAEZ 240300Z 04005KT CAVOK 19/12 Q1015 RJFR 240300Z 07012KT 9999 FEW030 17/12 Q1021 RJFS 240300Z 18004KT 150V230 9999 FEW030 BKN/// 20/08 Q1021 RJFT 240300Z VRB06KT 9999 FEW035 BKN/// 22/00 Q1020 RJFU 240300Z 13009KT 9999 FEW040 BKN/// 22/08 Q1020 EYPA 240250Z VRB01KT 9999 BKN010 BKN014 03/02 Q1010 KY31 240314Z AUTO 36006KT 10SM CLR 05/03 A3011 RMK AO2 T00450030 KVLD 240253Z 00000KT 10SM FEW070 BKN100 OVC120 22/17 A2977 RMK AO2 SLP087 T02170167 51012 KUTS 240253Z AUTO 00000KT 10SM CLR 13/09 A3001 RMK AO2 SLP161 T01330089 53006 $ KUVA 240315Z AUTO 00000KT 10SM CLR 14/09 A3003 RMK AO2 T01350091 KVKS 240315Z AUTO 00000KT 10SM FEW060 14/10 A2995 RMK A01 KVLL 240313Z AUTO 06005KT 10SM CLR 13/01 A3010 RMK AO2 T01270006 GGOV 240300Z 30006KT CAVOK 23/22 Q1010 NOSIG KWDG 240315Z AUTO 18003KT 10SM CLR 09/06 A2997 RMK AO2 KVKY 240315Z AUTO 35021KT RMK A01 MDLR 240300Z 00000KT 9999 BKN016 BKN070 23/22 Q1014 KY50 240256Z AUTO 09007KT 10SM CLR 06/03 A3008 RMK AO2 SLP214 6//// T00610028 53016 KY49 240315Z AUTO 08011G18KT 10SM OVC014 01/M01 A2998 RMK AO2 T00111011 KVNC 240315Z AUTO 33006KT 10SM FEW038 SCT048 SCT055 24/21 A2983 RMK AO2 LMML 240245Z 18003KT CAVOK 09/07 Q1020 NOSIG KUUU 240253Z AUTO VRB05KT 10SM CLR 07/06 A3014 RMK AO2 SLP204 T00720056 50011 KY51 240315Z AUTO 16005KT 10SM CLR 14/00 A2997 RMK AO1 T01441001 SBAF 240300Z 01003KT 7000 BKN012 OVC040 20/19 Q1021 KWDR 231635Z AUTO 08005KT OVC005 17/16 A2987 RMK AO1 PWINO RJKA 240300Z 17012KT 9999 FEW025 SCT030 24/15 Q1018 KVOA 240315Z AUTO 35012G19KT 4SM HZ FEW027 SCT033 BKN039 19/13 A2987 RMK A01 EYSA 240320Z 23006KT 9999 FEW002 M01/M01 Q1010 BLU NOSIG SBAN 240300Z 18005KT CAVOK 18/12 Q1020 SBBE 240300Z 00000KT CAVOK 25/24 Q1013 KY63 240315Z AUTO 07019G24KT 030V140 10SM CLR 06/02 A2983 RMK AO2 T00570023 FQIN 231300Z 23009KT 9999 BKN020 27/18 Q1016 SBBH 240300Z 10006KT CAVOK 20/16 Q1021 SBBI 240100Z 13004KT 9999 BKN007 15/14 Q1023 SBAR 240300Z 11008KT 9999 FEW017 27/23 Q1014 SBCA 240200Z 06002KT CAVOK 19/15 Q1019 SBAT 240100Z 00000KT 9999 SCT015 24/23 Q1014 SBCB 240000Z 19004KT 9999 FEW020 SCT090 23/22 Q1020 SBCC 232000Z 18005KT 9999 -TSRA BKN040 FEW042CB BKN100 23/22 Q1013 KY70 240313Z AUTO 02008KT 10SM CLR 09/06 A3008 RMK AO2 T00930055 KVOK 240258Z AUTO 11010KT 10SM CLR 11/06 A3000 RMK AO2 SLP163 T01130060 53013 KVPC 240253Z AUTO 12006KT 10SM OVC013 13/11 A2983 RMK AO2 SLP094 60001 T01280106 51017 MDPC 240300Z 11010KT 9999 BKN018 BKN070 26/23 Q1014 KUXL 240315Z AUTO 00000KT 10SM CLR 15/13 A3002 RMK AO2 T01460127 SBCF 240300Z 10014KT CAVOK 20/15 Q1021 KUYF 240315Z AUTO 01007KT 10SM CLR 12/00 A3001 RMK AO2 SBCG 240300Z 08007KT CAVOK 19/16 Q1017 SBBQ 232300Z 15004KT CAVOK 17/16 Q1024 SBCH 240200Z 09004KT CAVOK 20/18 Q1018 KVNY 240251Z 12008KT 10SM CLR 20/09 A2981 RMK AO2 SLP088 T02000094 53004 SBBR 240300Z 22004KT CAVOK 22/20 Q1020 SBCJ 232130Z 00000KT 9999 FEW020 23/21 Q1013 KUZA 240317Z AUTO 05007KT 2SM +RA BR SCT008 BKN013 OVC035 11/11 A2989 RMK AO2 P0025 T01110106 SBBU 240300Z 09014KT CAVOK 18/17 Q1019 SBCM 232200Z 00000KT 9999 SCT015 BKN035 20/17 Q1020 FPST 240100Z 21004KT 9999 FEW020CB BKN040 27/25 Q1012 NOSIG SBBV 240300Z 11004KT 9999 SCT045 30/22 Q1012 SBBW 232100Z 22002KT 9999 FEW020 30/21 Q1014 FQLC 240300Z 13006KT 9999 SCT014 16/15 Q1021 SAME 240300Z 14008KT 9999 BKN030 15/10 Q1016 SBCO 240300Z 12002KT CAVOK 15/13 Q1019 SBCP 240100Z 22008KT 8000 -RA BKN015 OVC080 23/22 Q1019 MDPP 240300Z 00000KT 9999 SCT016 BKN070 23/23 Q1012 SBCR 240000Z 17002KT CAVOK 24/21 Q1013 SBCT 240300Z 12002KT 9999 BKN007 13/13 Q1023 KVPS 240255Z 33012KT 10SM FEW055 17/10 A2985 RMK AO2A SLP114 T01660103 52020 $ FQMA 240300Z 19012KT 9999 SCT020 20/15 Q1019 NOSIG KVRB 240253Z 10004KT 10SM FEW020 FEW037 23/21 A2981 RMK AO2 SLP093 60001 T02330206 52005 SBDN 240300Z 10008KT CAVOK 20/15 Q1017 SBCX 232300Z 15004KT CAVOK 14/11 Q1021 RJNG 232341Z VRB01KT 9999 FEW025 SCT035 15/07 Q1026 RMK 1CU025 4CU035 A3031 SBEG 240300Z 06003KT CAVOK 26/24 Q1012 SBCY 240300Z 32005KT 9999 FEW020 25/24 Q1014 KWHP 240250Z 13006KT 10SM SKC 20/08 A2985 SBCZ 240300Z 22001KT CAVOK 24/24 Q1013 RETS KVQQ 240315Z AUTO 00000KT 9SM BKN047 BKN055 OVC065 21/21 A2978 RMK AO2 KVPZ 240256Z AUTO 04003KT 10SM CLR 10/M01 A3006 RMK AO2 SLP179 T01001011 53004 RJOA 240300Z 20007KT 140V250 9999 FEW020 19/01 Q1023 RJOB 240300Z 14007KT 080V210 9999 FEW030 20/05 Q1023 RJNK 240300Z 31010KT 280V340 9999 FEW030 19/04 Q1023 EYVI 240250Z 17004KT CAVOK M04/M05 Q1011 NOSIG SAOC 240300Z 23004KT 9999 SCT020 SCT040 18/11 Q1014 RJOC 240300Z 34005KT CAVOK 23/01 Q1020 KVQT 240315Z AUTO 36023KT 10SM BKN038 BKN045 19/12 A2999 RMK A01 MDSD 240300Z 09004KT 9999 BKN014 OVC070 25/24 Q1013 RJOF 232334Z 09010KT 060V120 9999 FEW035 18/09 Q1023 RMK 1CU035 A3021 KVSF 240254Z AUTO VRB03KT 10SM CLR 06/02 A3005 RMK AO2 SLP180 T00560022 51016 KWJF 240256Z 27023KT 10SM CLR 17/04 A2986 RMK AO2 PK WND 26033/0158 SLP103 T01670039 51003 $ RJOH 240300Z 05010KT 9999 FEW200 21/05 Q1021 RJOI 240255Z 12005KT 9999 FEW025 17/08 A3021 RMK SLP230 T01720083 58007 SBFI 240300Z 13003KT CAVOK 20/19 Q1016 SBES 232000Z 19009KT 9999 FEW006 SCT025 BKN070 24/20 Q1018 RJNS 240300Z 15007KT 110V190 9999 FEW020 SCT030 BKN035 15/08 Q1026 RJOK 240300Z 12009KT 9999 FEW025 SCT040 BKN050 20/10 Q1023 RJNT 240300Z 36011KT 9999 FEW030 19/04 Q1023 SANT 240300Z 09004KT 9999 FEW040 18/16 Q1012 KVTA 240254Z AUTO 36003KT 10SM CLR 11/03 A3001 RMK AO2 SLP163 T01060033 51010 SBFL 240300Z 00000KT CAVOK 18/16 Q1020 RJOM 240300Z 35011KT 9999 FEW030 19/08 Q1022 SBFN 232200Z 14013KT 8000 -RA BKN009 25/24 Q1013 RJNW 240300Z 22008KT 170V260 9999 FEW030 19/02 Q1023 LOAN 231800Z 27006KT 25KM FEW040SC BKN070SC RJOO 240300Z 25004KT 170V350 9999 FEW035 23/01 Q1023 RJNY 240014Z 10007KT 050V150 9999 FEW020 BKN030 15/09 Q1026 RMK 1CU020 5CU030 A3031 RJOR 240300Z 03006KT 350V090 CAVOK 23/M01 Q1021 FQNP 240100Z 24005KT 9999 BKN020 21/20 Q1015 SBFS 232000Z /////KT 9999 FEW025 BKN070 ///// Q//// KVTI 240315Z AUTO 16004KT 10SM CLR 14/00 A2998 RMK AO2 RJOT 240300Z 04009KT 9999 FEW030 19/09 Q1022 VYMD 240230Z 17010G20KT 6000 BKN018 FEW020CB BKN100 27/21 Q1008 MDST 240300Z 12008KT 9999 FEW015CB BKN016 BKN070 23/23 Q1013 CB/W SBGL 240300Z 06005KT 9999 BKN019 BKN027 20/18 Q1020 SBGM 231900Z 02006KT 9999 FEW020TCU SCT027 29/24 Q1011 FQPB 240200Z 24006KT 9999 FEW020 22/22 Q1014 LOAV 231800Z 27010KT 20KM FEW040CU BKN050SC 09/M03 RJOW 240300Z 33008KT 290V360 9999 FEW035 20/08 Q1021 KWLD 240254Z AUTO 14005KT 10SM CLR 13/04 A3000 RMK AO2 SLP157 T01330039 55006 KVTN 240252Z AUTO 18015KT 10SM CLR 18/03 A2968 RMK AO2 SLP040 T01830028 56007 SBGO 240300Z 00000KT CAVOK 21/16 Q1018 RJOY 240300Z VRB03KT 9999 FEW035 23/04 Q1023 KVTP 240317Z AUTO 20024G38KT 10SM CLR 08/M06 A3011 RMK AO2 KXBP 240315Z AUTO 00000KT 10SM CLR 10/07 A3004 RMK AO2 T01020068 SBFZ 240300Z 08006KT 2500 +RA BKN012 FEW025TCU BKN100 25/24 Q10 12 RETS SBGR 240300Z 11005KT 9999 OVC030 17/13 Q1023 KVUJ 240310Z AUTO 07012G17KT 7SM OVC006 11/11 A2996 RMK AO2 T01120110 SARC 240300Z 11004KT CAVOK 20/17 Q1013 KWMC 240256Z AUTO 21008KT 10SM CLR 13/M04 A2981 RMK AO2 SLP075 T01281044 58001 SBGW 232300Z 17003KT 6000 -RA BKN020 BKN030 19/16 Q1021 SARE 240300Z 07006KT CAVOK 20/16 Q1013 SARF 240300Z 09003KT 9999 BKN025 21/19 Q1013 KVUO 240253Z AUTO 18004KT 10SM FEW027 BKN047 OVC085 11/08 A2986 RMK AO2 RAE04B40E49 SLP111 P0000 60000 T01110078 58011 SBIH 232100Z 00000KT 9999 FEW020 FEW025TCU 29/25 Q1009 KVVG 240250Z AUTO 00000KT 10SM 23/20 A2972 RMK A01 SARI 240300Z 00000KT CAVOK 20/19 Q1017 RJSA 240300Z 05009KT CAVOK 14/00 Q1024 SASA 240300Z 00000KT 9999 FEW015 OVC100 16/15 Q1016 SBHT 240100Z 00000KT CAVOK 24/24 Q1013 RKJB 240300Z 20011KT CAVOK 21/03 Q1020 NOSIG SBIL 240200Z 10006KT 9999 SCT015 SCT025 27/24 Q1015 RJSC 240300Z VRB03KT CAVOK 16/M01 Q1025 SARL 240300Z 09013KT CAVOK 19/13 Q1015 FQQL 240300Z 00000KT 9999 BKN020 BKN100 24/22 Q1015 SBJF 232100Z 24014KT 9999 BKN008 BKN070 19/18 Q1020 RJSF 240300Z 26006KT 210V350 9999 FEW040 15/03 Q1025 SBIP 240000Z 32003KT 9999 SCT020 BKN040 21/20 Q1018 SARP 240300Z 11005KT CAVOK 21/16 Q1015 RJSI 240300Z 18007KT 140V220 9999 FEW030 15/04 Q1026 SASJ 240300Z 23003KT 9999 SCT020 OVC100 17/16 Q1015 SCBA 240300Z AUTO 31008KT CAVOK 07/04 Q1008 RKJK 240258Z AUTO 22008KT 10SM FEW060 SCT120 BKN150 BKN170 BKN200 19/04 A3011 RMK AO2 SLP201 T01870040 58004 $ RJSK 240300Z 12006KT 060V170 CAVOK 17/M01 Q1024 HAAB 240300Z 31004KT 9999 FEW025 11/M02 Q1025 RJSN 240300Z 35006KT CAVOK 18/06 Q1024 KVVV 240314Z AUTO 09018G22KT 10SM CLR 11/06 A2976 RMK AO2 RJTF 240300Z 09005KT 040V130 9999 FEW030 BKN040 16/05 Q1026 SBKG 240200Z 09006KT 9999 SCT004 BKN010 BKN013 23/22 Q1016 SBJP 240300Z 21003KT CAVOK 24/23 Q1014 SCAP 240300Z AUTO 04004KT //// // NSC 07/05 Q1019 SBIZ 240000Z 00000KT 9999 TS FEW025CB 29/23 Q1012 SBJR 240000Z 01005KT 9000 SCT020 BKN080 21/20 Q1020 RJTI 240300Z 16006KT 120V220 9999 FEW030 17/06 Q1026 RJSR 240300Z VRB04KT CAVOK 17/01 Q1024 SCAR 240300Z 00000KT 9999 OVC026 21/15 Q1015 RJSS 240300Z 14014KT 9999 FEW030 13/05 Q1027 RJTK 240111Z 11004KT 030V150 9999 FEW030 SCT050 BKN080 16/05 Q1027 RMK 1CU030 3SC050 6AC080 A3034 SBLB 232000Z /////KT 9999 SCT020 SCT070 26/22 Q1016 W///S3 SCAT 240300Z AUTO 03008KT 9999 // NCD 14/11 Q1015 RJSU 240027Z 15007KT 9999 FEW020 SCT025 12/06 Q1028 RMK 1CU020 3CU025 A3037 RJTL 230609Z 07010KT 030V130 9999 FEW030 18/03 Q1015 RMK 1CU030 A3000 SBJU 240200Z 05002KT 9999 SCT020 24/21 Q1017 SBJV 240200Z 00000KT 8000 SCT045 17/17 Q1020 KVWU 240315Z AUTO 08009KT 3SM -SN BKN016 BKN022 OVC032 M01/M02 A3004 RMK AO2 SBLE 231800Z 08003KT 9999 SCT040 31/19 Q1014 RJTO 240300Z VRB06KT 9999 FEW025 BKN035 16/08 Q1027 SCCF 240300Z 12008KT CAVOK 09/M04 Q1027 RJSY 240300Z 25009KT CAVOK 15/02 Q1024 SBKP 240300Z 12015KT CAVOK 17/// Q1020 SCCH 240300Z AUTO 11002KT 9999 ///////// 07/05 Q1019 SCCI 240300Z 05017KT 9999 FEW011 BKN120 07/05 Q1003 NOSIG SBMA 240300Z 00000KT 9999 VCTS FEW025CB 26/25 Q1013 SCDA 240300Z 19006KT 9999 FEW030 19/14 Q1015 RJTT 240300Z 08004KT 9999 FEW030 16/07 Q1026 BECMG 16010KT RJTU 232340Z 15004KT 9999 FEW025 SCT045 13/05 Q1028 RMK 1CU025 4SC045 A3037 SAVC 240300Z 36007KT 280V070 CAVOK 12/02 Q1011 SBME 240200Z 27003KT 9999 BKN013 OVC070 21/19 Q1020 SBLO 240300Z 12004KT CAVOK 18/16 Q1019 SBMG 240200Z 06011KT CAVOK 20/16 Q1017 RJTY 240259Z 15006KT 10SM FEW039 17/07 A3031 RMK AO2A SLP268 58010 SBLS 240100Z 14012KT 9999 FEW048 20/16 Q1021 SBMK 240200Z 17008KT 130V200 CAVOK 24/18 Q1018 KVYS 240315Z AUTO 13007KT 10SM CLR 15/M02 A3003 RMK AO2 T01451021 KWRB 240312Z AUTO 33003KT 10SM FEW021 BKN050 17/16 A2977 RMK AO2 RAE10DZB10E12 SLP082 FQTT 231800Z 07005KT 9999 SCT020 25/17 Q1015 SAWE 240300Z 23002KT 5000 BR BKNT007 04/04 Q1008 RERA SBMN 240300Z 10003KT CAVOK 26/24 Q1012 SBNF 240300Z 26002KT 9999 BKN035 SCT070 19/18 Q1020 SBMO 240300Z 02002KT CAVOK 24/23 Q1015 SAWG 240300Z 02010KT 360V110 CAVOK 07/05 Q1003 SCCY 240300Z AUTO 03006KT 360V060 9999 -RA NSC 07/06 Q1007 SBMQ 240300Z 36003KT 9999 SCT010 BKN080 26/26 Q1014 SAWH 240300Z 36005KT 9999 FEW040 05/M00 Q1006 KXIH 240315Z AUTO 04011G17KT 10SM CLR 21/10 A3000 RMK A01 SBMS 232100Z 18002KT 9999 FEW020 28/23 Q1010 KWRI 240258Z AUTO 16005KT 10SM BKN170 08/07 A3011 RMK AO2 SLPNO T00810066 50009 $ SCFA 240300Z VRB02KT CAVOK 16/14 Q1014 NOSIG SBMT 240200Z 10011KT 9999 SCT030 BKN040 17/12 Q1023 SCEL 240300Z 16003KT CAVOK 13/05 Q1018 NOSIG KWRL 240253Z AUTO 28004KT 10SM CLR 14/06 A2963 RMK AO2 SLP014 T01440056 53010 $ SBOI 232000Z 06007KT 030V090 9999 4500SW VCSH BKN025 FEW027TCU BKN070 29/24 Q1010 SBPA 240300Z 09005KT CAVOK 15/13 Q1019 SBPB 232145Z 10004KT 9999 FEW017 FEW025TCU ///// Q1010 SBNT 240300Z 18005KT CAVOK 25/23 Q1013 SBPC 232000Z 09004KT 9999 FEW020 22/15 Q1021 RKPC 240300Z 28004KT CAVOK 18/10 Q1019 NOSIG SCGE 232100Z 18004KT 9999 SCT027 BKN200 17/06 Q1019 SBPF 232300Z 15008KT CAVOK 16/14 Q1019 RKNY 240300Z 08008KT CAVOK 18/06 Q1016 NOSIG SAZA 240034Z 16004KT 9999 -DZ OVC020 14/11 Q1016 SBPJ 240300Z 32002KT 9999 FEW030 SCT090 26/24 Q1014 SBPK 232145Z 09003KT CAVOK 16/11 Q1019 LPBJ 240300Z 15005KT CAVOK 13/11 Q1015 RKPK 240300Z 18008KT CAVOK 19/00 Q1020 NOSIG SCFT 240300Z AUTO VRB02KT 9999 08/03 Q1014 MGCB 240000Z 00000KT 8000 OVC015 20/16 QFE 869.4 HZ MTN NE/SE/W CUB/CL KWST 240253Z AUTO 20006KT 10SM CLR 08/06 A3015 RMK AO2 SLP207 T00830061 50008 $ SBPL 240300Z 15006KT CAVOK 29/17 Q1014 SBPP 232200Z 04005KT CAVOK 22/19 Q1016 SBPR 232000Z 09010KT 9999 FEW030 25/17 Q1018 LPAZ 240300Z 12013KT 9999 FEW008 SCT014 BKN050 18/16 Q1014 SBPS 240300Z 33002KT 8000 VCSH BKN020 BKN050 BKN080 24/24 Q1016 SBRB 240300Z 21002KT CAVOK 22/21 Q1014 SCIC 240300Z AUTO VRB02KT 9999 NCD 08/08 Q1018 SAZM 240311Z 05008KT 6000 -RA SCT025 OVC050 15/11 Q1018 KXLL 240315Z AUTO 19007KT 10SM CLR 13/05 A3012 RMK AO2 SBPV 240300Z 20003KT CAVOK 25/24 Q1012 SAZN 240300Z 00000KT CAVOK 06/04 Q1016 SCIE 240300Z 00000KT CAVOK 10/07 Q1020 SBRF 240300Z 14008KT 9999 SCT023 27/24 Q1013 SCGZ 231900Z VRB03KT 9999 SCT040 09/00 Q1007 SAZR 240019Z 05024G34KT 5000 RA FEW008 FEW045CB OVC050 12/12 Q1015 KWVI 240253Z AUTO 09005KT 7SM CLR 15/11 A3001 RMK AO2 SLP162 T01500106 53007 $ SBRJ 240300Z 04007KT 9999 BKN010 OVC070 21/19 Q1020 SAZS 240300Z 29010KT CAVOK 07/M00 Q1016 SAZT 232022Z 00000KT 9999 -RA SCT035TCU BKN045 16/11 Q1017 LPCS 232130Z 36010KT 9999 FEW018 17/11 Q1015 KXNA 240253Z 00000KT 10SM CLR 10/05 A3000 RMK AO2 SLP156 T01000050 58013 SBSC 240300Z 03003KT 9999 SCT020 BKN040 20/20 Q1020 FSIA 240300Z 06002KT 9999 SCT016 29/25 Q1011 NOSIG SBQV 240100Z 13007KT CAVOK 21/19 Q1020 KWVL 240256Z AUTO 19005KT 10SM CLR 06/03 A3000 RMK AO2 SLP190 T00560028 51012 KWWD 240256Z AUTO 00000KT 10SM SCT120 10/07 A3013 RMK AO2 SLP206 T01000072 50002 $ SBSG 240300Z 21004KT 9999 FEW020 24/23 Q1013 RKSG 240258Z AUTO 29008KT 270V330 10SM FEW130 SCT200 21/01 A3010 RMK AO2 SLP196 T02080013 57009 $ SBRP 240300Z 13004KT CAVOK 19/17 Q1017 SCIP 240300Z 11014KT 9999 FEW020 23/19 Q1023 NOSIG SCIR 231800Z 16012KT 9999 BKN014 18/14 Q1021 RKSI 240300Z 22017KT 9999 FEW040 SCT110 BKN180 19/00 Q1020 NOSIG SBTA 240300Z VRB02KT 5000 BR SCT009 OVC020 18/16 Q1022 SBSJ 240300Z 07003KT 9999 BKN036 19/11 Q1022 KXMR 240258Z AUTO 17005KT 10SM CLR 22/20 A2981 RMK AO2 SLP098 T02240196 52008 $ SBTC 232000Z 06006KT 9999 FEW020 SCT070 28/25 Q1013 SBSL 240300Z 12003KT 9999 SCT017 26/24 Q1012 SBSM 240200Z 10006KT CAVOK 15/13 Q1018 RKSM 240300Z 18010KT 9999 BKN200 21/01 A3011 RMK CIG200 SLP193 8/008 9/005 SBSN 240300Z 16002KT 9999 VCTS FEW015 FEW017CB 25/24 Q1012 SBTE 240300Z 36002KT CAVOK 26/23 Q1012 SBTF 232345Z 00000KT 9999 FEW010 27/25 Q1010 SCJO 232100Z VRB02KT 9999 BKN045 15/05 Q1018 RKSO 240255Z 18010KT 7SM BKN200 21/M03 A3012 RMK AO2A SLPNO WND DATA ESTMD ALSTG ESTMD $ SBSP 240300Z AUTO 12006KT 090V150 9999 BKN030 BKN039 17/11 Q1023 KXNO 240258Z AUTO 03007KT 6SM R23/5000FT TSRA BR SCT004 19/19 A2977 RMK AO2 RAE02RAB37 TSB27E42TSB43 SLP081 P0003 60004 T01850185 50005 $ SBSR 240200Z 19006KT CAVOK 20/16 Q1018 SBUA 232000Z 10007KT 9999 SCT027 32/25 Q1007 RKSS 240300Z 23016KT CAVOK 20/M03 Q1019 NOSIG KWWR 240315Z AUTO 15012KT 10SM CLR 13/01 A2998 RMK AO2 MGES 240000Z 03008KT 8000 SCT018 BKN200 25/18 QFE 907.5 HZ SBST 232300Z 17003KT 140V200 CAVOK 22/19 Q1020 HBBA 230500Z 00000KT 9999 FEW022TCU FEW025CB BKN300 23/20 Q1015 NOSIG KXNT 240315Z AUTO 00000KT 10SM CLR 07/M01 A3009 RMK AO2 LPFL 231800Z 15012KT 9999 BKN005 17/16 Q1012 SBSV 240300Z 08009KT 9999 SCT017 27/23 Q1015 RKTN 240300Z 36002KT CAVOK 20/04 Q1018 NOSIG SBUF 231900Z 14006KT 9999 FEW023 36/17 Q1010 SBUG 232200Z 07005KT CAVOK 20/12 Q1016 SBSY 240100Z AUTO 20009KT CAVOK 18/16 Q1019 LPFR 240300Z VRB02KT CAVOK 16/14 Q1015 SBTT 232300Z 00000KT CAVOK ///// Q1009 SBUL 240200Z 17005KT CAVOK 18/14 Q1019 RKTU 240300Z 26007KT CAVOK 20/03 Q1019 NOSIG VYYY 240300Z 33007KT 8000 SCT016 FEW020TCU 30/24 Q1013 SBVH 232300Z 28004KT 4000 BR BKN003 21/21 Q1014 SBUR 240300Z 32003KT CAVOK 19/16 Q1019 KWYS 240310Z AUTO 00000KT 1 1/4SM BR OVC100 00/00 A2984 RMK AO2 MGGT 240300Z 02010KT 9999 BKN014 BKN080 20/16 Q1025 A3027 KXPY 240315Z AUTO 34013G20KT 10SM OVC035 17/10 A2997 RMK A01 YABA 240300Z AUTO 29007KT 9999 // SCT014 BKN031 OVC047 18/13 Q1023 LPHR 232100Z 11015KT 4000 -DZ BR SCT004 BKN007 BKN011 18/17 Q1013 KXSA 240315Z AUTO 05004KT 10SM BKN090 12/09 A3009 RMK AO2 T01220093 SBVT 240300Z 00000KT 9999 SCT025 BKN070 23/21 Q1018 MGHT 240300Z 00000KT 8000 SCT024 SCT200 19/12 QFE 817.6 WSAP 240300Z 18006KT 9999 FEW017CB SCT018TCU BKN300 32/25 Q1011 KYIP 240253Z AUTO 00000KT 10SM CLR 11/01 A3007 RMK AO2 SLP182 T01110006 53010 MHAM 240000Z 23008KT 9999 FEW030 30/25 SCON 240300Z AUTO /////KT //// // ///// Q//// LPLA 240300Z 14008KT 9999 FEW009 BKN018 17/16 Q1014 MHCA 240300Z 00000KT 9999 SCT028TCU BKN080 24/23 TCU TDS LQBK 240300Z 15004KT CAVOK 02/01 Q1023 NOSIG KYKM 240253Z 22005KT 10SM SCT120 12/03 A2976 RMK AO2 SLP080 T01220033 55003 KYKN 240315Z AUTO 17012KT 10SM CLR 16/M02 A2979 RMK AO1 SCPQ 240300Z AUTO 01016KT 3600 -SHRA SCT004 OVC028 10/09 Q1013 MHCH 240000Z 18006KT 9999 FEW030TCU SCT070 30/22 TCU E FU HZ SBYS 240200Z 20008KT CAVOK 18/16 Q1019 LPMA 240300Z 00000KT 9999 SCT015 19/15 Q1018 SCRD 232200Z 18014KT CAVOK 16/05 Q1017 SCQP 240300Z 02002KT CAVOK 04/04 Q1020 KXVG 240316Z AUTO 06005KT 10SM OVC120 01/M01 A3000 RMK AO2 FSPP 240300Z 24002KT //// //// 28/24 Q1012 SCRM 240300Z 24016KT 9999 OVC017 M02/M04 Q1000 MGMM 240300Z 31010KT CAVOK 29/18 Q1014 A2994 SCSE 240300Z 11003KT CAVOK 14/10 Q1014 KYNG 240251Z 04004KT 10SM OVC250 11/02 A3007 RMK AO2 SLP185 T01060017 50013 $ LOWG 240250Z AUTO VRB01KT 9999 NCD 00/M02 Q1022 LOWI 240250Z AUTO VRB02KT 9999 NCD 00/M01 Q1021 SCTB 232200Z 18006KT 9999 SCT150 18/01 Q1018 MGMT 240000Z 00000KT CAVOK 30/24 QFE 1006.4 SCT070 BKN200 LOWK 240250Z AUTO VRB02KT 9999 FEW048 SCT050 05/M02 Q1021 SEAM 23212300Z 18007KT 9999 TS VCSH FEW030CB SCT036 LOWL 240250Z AUTO VRB02KT 9999 NCD M00/M03 Q1022 SCTE 240300Z 35011KT 9999 FEW040 OVC080 11/08 Q1017 NOSIG SCSN 240300Z AUTO VRB02KT CAVOK 09/06 Q1018 SECA 232300Z 35008KT 9999 FEW040 26/18 Q1014 LOWS 240250Z AUTO 16004KT 120V180 9999 NCD 00/M01 Q1021 MGPB 240300Z 00000KT 8000 SCT200 25/24 Q1012 A2988 BR LPPD 240300Z 09008KT 060V130 9999 FEW012 BKN020 17/15 Q1014 SCTN 240300Z AUTO 02012KT 350V060 CAVOK 12/08 Q1014 LOWW 240250Z 25006KT CAVOK 02/M02 Q1022 NOSIG LOXT 232050Z 30006KT 30KM FEW060SC 06/M02 Q1022 RMK FEW SCVD 240300Z AUTO VRB02KT CAVOK 08/08 Q1019 SECO 232300Z 20004KT 9999 SCT026 BKN300 27/23 Q1010 LOXZ 240250Z VRB01KT 15KM FEW300CI M04/M07 Q1021 LPPR 240300Z 00000KT 3500 BR BCFG SCT001 11/11 Q1014 LPPS 240300Z 00000KT 9999 FEW014 16/14 Q1018 LPPT 240300Z 00000KT CAVOK 14/10 Q1014 SECU 240300Z AUTO 00000KT ////NDV FEW038 FEW050 BKN170 14/11 Q1028 SCVM 240300Z 00000KT CAVOK 15/08 Q1017 YBAF 240300Z AUTO 04006KT 010V080 9999 // SCT068 BKN080 26/16 MGQZ 240000Z 18004KT 1000 -TSRA BKN006 FEW025CB SCT070 15/13 QFE 771.1 CB/TS W/WNW YBAS 240300Z 33016KT CAVOK 32/07 Q1015 BKN130 MGSJ 240000Z 25004KT 8000 SCT080 SCT200 30/22 Q1009 A2980 HZ MGRT 240000Z 36004KT 8000 SCT018 BKN080 26/24 Q1011 A2985 HZ VOL. STA. MARIA Y SANTIAGUITO EN ACTIVIDAD LRBC 240300Z AUTO 06003KT 030V110 9999 NCD 03/01 Q1018 YBBN 240300Z 11008KT 070V140 9999 SCT035 24/16 Q1019 NOSIG YBCG 240300Z AUTO 11012KT 9999 // SCT100 24/15 Q1019 YBCK 240300Z AUTO 07004KT 350V140 //// // ////// 30/11 Q1016 LRAR 240300Z 26006KT CAVOK 01/M01 Q1021 YAMB 240300Z 02005KT 9999 SCT043 26/13 Q1018 MHLC 240300Z 00000KT 9999 FEW024 25/24 Q1012 A2989 NOSIG LRBM 240300Z AUTO 05003KT 9999 FEW065/// SCT210/// 00/M00 Q1020 YBDG 240300Z AUTO 03009KT 360V070 //// // BKN110 21/14 Q1017 MHLE 240000Z 36004KT 9999 SCT024 SCT070 21/15 FU LRBO 240300Z VRB02KT 8000 BKN070 02/M00 Q1018 BLU BLU YBCS 240300Z 12012KT 9999 SCT025 SCT300 28/22 Q1014 NOSIG SEGS 240100Z 11003KT 9999 FEW020 27/24 Q1009 A2980 LRBS 240300Z 25006KT 0300 R07/0600N R25/1400VP2000D FG VV001 03/03 Q1019 R07/29//95 NOSIG LRCK 240300Z 28008KT 0600 R18/0600N R36/1000VP2000D FG SCT001 02/01 Q1018 R36/290295 NOSIG SEGU 240300Z 21006KT 9999 FEW026 27/24 Q1010 NOSIG RMK A2982 YBCV 240300Z AUTO 34004KT 310V040 9999 // SCT065 29/10 Q1017 MGTU 240000Z 09010KT 8000 TSVCSH BKN016 FEW020CB 28/23 CB/TS/PCPN ENE/E LRCL 240300Z 16003KT CAVOK M01/M02 Q1019 MHLM 240300Z 00000KT 9999 FEW025 SCT080 27/26 Q1012 A2989 NOSIG YANG 240300Z AUTO 29005KT 9999 // NCD 26/18 Q1017 LRCT 240300Z 24008G18KT 9999 FEW080 M01/M02 Q1019 BLU BLU YBDV 240300Z AUTO 03010KT 330V030 //// // ////// 33/11 Q1014 SEJD 232300Z 08005KT 9999 SCT030 BKN100 26/23 Q1012 RMK A2990 LRCV 240300Z 26008KT CAVOK 02/01 Q1020 LQMO 240300Z VRB02KT 9999 FEW050 02/00 Q1021 ROAH 240300Z 08007KT 020V130 9999 FEW035 25/15 Q1017 BGBW 240250Z AUTO 08029G39KT 9999NDV BKN095/// 05/M06 Q1017 YBGD 240300Z AUTO 29013KT 9999 // NCD 29/17 Q1016 RMK GMAD 240300Z 06005KT 8000 FEW016 SCT083 17/14 Q1014 NOSIG MHNO 240000Z 34004KT 9999 SCT040TCU 28/18 TCU ALL FU GMAG 231800Z 36012KT 6000 FEW016 SCT200 23/14 Q1011 NOSIG FTTA 240300Z 18010KT CAVOK 30/21 Q1009 FTTC 231500Z 14006KT CAVOK 40/11 Q1007 FTTD 231500Z 22008KT CAVOK 37/18 Q1008 YBHI 240300Z AUTO 35011KT 9999 // ////// 25/14 Q1016 KZPH 240315Z AUTO 30003KT 10SM CLR 23/20 A2983 RMK AO2 T02270197 MGZA 240000Z 08012KT CAVOK 31/19 QFE 983.0 FEW100 BKN200 SEMC 232300Z 11003KT 9999 FEW026 BKN190 22/20 Q1015 FTTJ 240300Z 00000KT CAVOK 28/03 Q1006 NOSIG YBHM 240300Z AUTO 13019KT 9999 // OVC061 26/19 Q1016 MHPL 231200Z METAR MHCA 231200Z 00000KT 9999 FEW026 SCT070 22/21 GMAT 231800Z 36016KT 8000 SCT016 19/13 Q1014 NOSIG YARG 240230Z AUTO 07005KT 9999 // NCD 34/17 Q1013 SELT 240300Z 35003KT 9999 SCT030 SCT100 11/11 Q1031 LRIA 240300Z 29005KT CAVOK 02/M03 Q1017 R14/09//95 BGGH 240250Z AUTO 06015KT 9999NDV BKN055/// BKN100/// 03/M01 Q1010 YARM 240300Z AUTO 22005KT 9999 // SCT043 19/08 Q1022 RMK FVBU 240300Z 11012KT 9999 -RA FEW006 BKN100 11/09 Q1023 TEMPO BKN006 RODN 240258Z AUTO 12010KT 10SM FEW037 25/16 A3006 RMK AO2 SLP186 T02500162 50001 YCBA 240300Z AUTO 05012KT 9999 // SCT055 BKN077 27/11 Q1017 PRESENT WEATHER SENSOR US HCMH 231300Z 00000KT 9999 BKN035 31/12 Q1016 NOSIG YCBB 240300Z AUTO 35005KT //// // ////// 20/11 Q1020 SEMT 240300Z 00000KT CAVOK 24/23 Q1010 RMK A2985 LQSA 240300Z 00000KT 8000 NSC M02/M02 Q1023 WSSL 240300Z 12006KT 100V160 9999 FEW018 FEW020TCU BKN300 32/25 Q1011 RMK 0230Z Q1012 SENL 232300Z 13005KT 9999 SCT020 SCT100 29/25 Q1010 YBKE 240300Z AUTO 34010KT 310V020 //// // ////// 29/10 Q1016 MHSC 240258Z AUTO 34016KT 9999 OVC130 27/19 A2997 RMK AO2 SLP102 T02690192 52035 $ HCMM 231300Z 19012KT 9999 SCT024 31/26 Q1008 N0SIG MHRO 240000Z 32004KT 9999 FEW020 28/23 Q1010 A2983 NOSIG YCAR 240300Z AUTO 19017KT //// // NCD 25/18 Q1014 WSSS 240300Z 13007KT 100V180 9999 SCT018 FEW018TCU FEW020CB BKN300 31/26 Q1012 NOSIG YCAS 240300Z AUTO 20003KT //// // ////// 25/14 Q1019 FVCZ 240300Z 00000KT 8000 -RA OVC100 17/16 Q1024 FVFA 231600Z 12006KT 8000 BKN030 OVC090 19/17 Q1018 BECMG 9999 MHTE 240000Z 07002KT 9999 SCT028TCU SCT250 30/23 Q1009 HZ YCBP 240300Z AUTO 17005KT 130V190 9999 // OVC087 22/18 Q1015 PRESENT WEATHER SENSOR US MHTG 240300Z 02004KT 8000 VCSH SCT026 SCT070 22/20 Q1018 A3006 NOSIG GMFF 240300Z 07003KT 9999 BKN030 16/15 Q1016 NOSIG YBMA 240300Z AUTO 05011KT 020V080 9999 // NCD 33/13 Q1015 YBKT 240300Z AUTO 07010KT //// // ////// 32/18 Q1012 MHSR 240000Z 34010KT 9999 BKN030TCU BKN100 24/17 TCU NE SE SW HZ YBLN 240300Z AUTO 15009KT 110V170 //// // ////// 20/13 Q1023 GMFK 232200Z 11003KT CAVOK 21/00 Q1018 NOSIG GMFM 240300Z 10008KT 8000 SCT023 FEW030CB 15/15 Q1016 NOSIG GMFO 240300Z 32007KT 600 FG OVC002 13/13 Q1016 NOSIG BGJN 240250Z AUTO 00000KT 9999NDV SCT170/// M07/M09 Q1018 YBNA 240300Z AUTO 15009KT 9999 // NCD 24/17 Q1020 YBLT 240300Z AUTO 01011KT 9999 // SCT022 SCT036 BKN095 19/15 MHTR 240000Z 06002KT 9999 FEW025 29/24 HZ YBMK 240300Z AUTO 13013KT 9999 // OVC073 26/21 Q1016 SERB 232300Z 06004KT 9999 BKN040 17/10 Q1027 FVHA 240300Z 13004KT CAVOK 14/14 Q1023 NOSIG YCEE 240300Z AUTO 31007KT //// // ////// 18/17 Q1015 SEQM 240300Z 25004KT 220V290 6000 BCFG SCT004 OVC020 16/15 Q1027 NOSIG RMK A3034 YCDO 240300Z AUTO 35010KT //// // ////// 23/14 Q1018 RMK BGKK 240250Z AUTO 17005KT 110V230 9999NDV BKN170/// M08/M12 Q1036 YCCY 240300Z AUTO 07010KT //// // ////// 32/11 Q1014 ROIG 240300Z 09012KT 9999 FEW015 BKN070 BKN100 25/21 Q1016 LQTZ 240300Z VRB02KT 8000 NSC M01/M02 Q1023 SESA 240300Z 21001KT 9999 SCT012 26/24 Q1010 YCDU 240300Z AUTO 22007KT 9999 // NCD 20/16 Q1017 YCEM 240300Z AUTO 36009KT //// // ////// 22/13 Q1017 RMK GLRB 240300Z 00000KT 9999 SCT012 FEW025CB 27/25 Q1011 RMK CB-SW SERO 240200Z 14003KT 110V170 9999 OVC040 26/24 Q1010 SESG 240200Z 03010KT 9999 FEW040 SCT100 BKN200 19/M02 Q1013 YBNS 240300Z AUTO 10004KT 9999 // NCD 23/14 Q1016 RMK YBOK 240300Z 07005KT 360V160 CAVOK 24/11 Q1020 NOSIG YCFL 240300Z AUTO 14018KT //// // ////// 29/22 Q1013 RMK SESM 232300Z 29008KT 2000 -TSRA OVC020CB 20/19 Q1015 YAYE 240300Z AUTO 29006KT 250V310 9999 // NCD 29/15 Q1015 LROD 240300Z 18007KT CAVOK 01/M01 Q1020 YCFS 240300Z AUTO 11007KT 9999 // NCD 23/16 Q1020 RF00.0/000.0 SGAS 240300Z 00000KT 9999 FEW033 BKN080 22/20 Q1012 SEST 240000Z 16004KT 9999 SCT023 SCT330 27/24 Q1007 A2976 HEBA 240200Z 33006KT 9999 SCT020 14/10 Q1020 NOSIG FVKB 231500Z 03003KT 9999 FEW045 SCT100 27/19 Q1014 YBPN 240300Z AUTO 13014KT 9999 // BKN054 OVC066 26/21 Q1016 LSGC 240250Z AUTO 00000KT CAVOK M01/M04 Q1017 SETN 232300Z 24007KT 9999 SCT026 BKN100 27/24 Q1007 A2975 LROP 240300Z 25005KT 2000 BR NSC 02/01 Q1019 R88/29//95 TEMPO 1500 BR LSGG 240250Z AUTO VRB02KT 9999 NCD 03/00 Q1019 NOSIG YCHK 240300Z AUTO 27003KT 9999 // ////// 28/20 Q1017 RMK YAYT 240200Z 00000KT CAVOK 20/M07 Q1012 HEAR 240200Z 32005KT CAVOK 15/05 Q1018 NOSIG SETU 232300Z 07008KT 9999 FEW023 BKN300 15/10 Q1030 HECA 240300Z 03006KT CAVOK 16/06 Q1019 NOSIG HEAT 240100Z 36018KT CAVOK 15/07 Q1017 NOSIG HEBL 240200Z 35012KT CAVOK 21/03 Q1013 NOSIG HEAX 240200Z 32005KT 9999 SCT020 SCT022 16/04 Q1020 NOSIG MHYR 240000Z 03006KT 9999 BKN025TCU 27/19 TCU ALL HZ YBRK 240300Z 10009KT 070V130 CAVOK 27/14 Q1017 YBRL 240300Z AUTO 10009KT //// // ////// 34/16 Q1012 RMK LSGS 240250Z AUTO 09002KT 8000 NCD 06/01 Q1019 YBRM 240300Z 13006KT CAVOK 33/22 Q1012 GMMB 240300Z AUTO 29003KT 260V320 //// R32/P2000N ////// 16/16 Q1015 NOSIG YCIN 240300Z AUTO 26006KT 9999 // NCD 32/22 Q1011 GMMC 232000Z 32006KT 8000 SCT016 BKN200 19/15 Q1013 FWCL 231400Z 23014KT 9999 SCT025 25/17 Q1018 NOSIG YBSG 240300Z AUTO 11009KT //// // ////// 31/23 Q1010 RMK GMMD 232000Z 30017KT 9999 TS BKN026TCU SCT030CB 21/11 Q1016 TEMPO TSRA GMME 240300Z VRB02KT 6000 BKN012 17/15 Q1014 NOSIG GMMH 232100Z 02012KT CAVOK 19/16 Q1017 NOSIG GMMI 240300Z AUTO 35004KT 9999NDV ////// 15/14 Q1014 NOSIG LTAB 230502Z 26013KT 230V290 9999 -RA BKN032 BKN080 04/02 Q1002 NOSIG RMK RWY06 25012KT LRSB 240300Z 09003KT 9999 SCT053 00/M01 Q1019 R27/29//95 LTAC 240250Z VRB02KT 7000 SCT040 SCT100 01/M01 Q1018 NOSIG LTAD 230659Z 27009KT 8000 -RASN FEW008 BKN030 OVC080 02/01 Q1005 RESN NOSIG RMK RWY29 25010KT SGEN 232100Z 05005KT CAVOK 24/16 Q1014 GMML 240300Z 01008KT 9999 BKN020 16/14 Q1016 NOSIG KZZV 240253Z AUTO 36003KT 10SM CLR 13/01 A3001 RMK AO2 SLP160 T01330006 50007 YBRY 240300Z AUTO 02006KT 9999 // SCT105 26/19 Q1018 RMK LTAE 230814Z 25010KT 220V290 9000 -SN SCT015 BKN030 OVC080 02/M01 Q1007 RERASN NOSIG RMK RWY21 25012KT YBTH 240300Z AUTO 29006KT 9999 // SCT046 BKN105 22/09 Q1021 ROMY 240300Z 08014KT 9999 FEW025 BKN090 25/18 Q1016 LTAF 240250Z 02008KT CAVOK 13/01 Q1015 NOSIG GMMN 240300Z 26004KT 9999 FEW016 SCT200 15/14 Q1015 NOSIG LTAG 240250Z 04012KT CAVOK 10/M00 Q1015 NOSIG SGES 240300Z 00000KT CAVOK 20/19 Q1015 LTAI 240250Z 30004KT 220V360 CAVOK 12/01 Q1017 NOSIG YBSU 240300Z AUTO 14012KT 9999 // NCD 25/15 Q1018 LTAJ 240250Z 00000KT CAVOK 06/01 Q1015 NOSIG LTBA 240250Z 24006KT 220V280 9999 FEW015 SCT040 BKN090 10/07 Q1021 NOSIG YBTL 240300Z 07015KT 9999 FEW035 28/20 Q1015 YBUD 240300Z AUTO 11009KT 9999 // SCT050 SCT077 28/15 Q1017 YCKN 240300Z AUTO 14014KT 9999 // SCT029 28/22 Q1013 LRTC 240300Z AUTO 31010KT 9999 NCD 04/01 Q1017 LTAL 230850Z 25015KT 210V280 1400 R18/1400N -SN BKN002 OVC018 00/00 Q1002 RESN LRSM 240300Z AUTO 14003KT 100V160 9999 BKN070/// 02/02 Q1019 FVMV 231500Z 20010KT 9999 FEW040 BKN100 19/13 Q1020 LTAN 240250Z VRB02KT 9999 FEW040 01/M03 Q1019 NOSIG GMMW 240300Z 03001KT 6000 FEW017 BKN200 14/14 Q1016 NOSIG LTBF 240250Z 01002KT CAVOK 05/04 Q1022 NOSIG LTBG 240213Z 01009KT 9999 SCT035 BKN100 09/07 Q1021 RESHRA NOSIG RMK RWY18 01012KT LTAP 240250Z 27002KT 9999 SCT040 BKN100 02/M00 Q1017 NOSIG GMMX 240300Z 23006KT 9999 FEW026 SCT200 16/10 Q1014 NOSIG BGSF 240250Z AUTO 05006KT 9999NDV FEW100/// BKN160/// M05/M07 Q1016 LTBH 240301Z 06012KT 9999 -SHRA SCT030 BKN100 10/05 Q1021 RMK RWY22 07010KT GMMZ 240300Z 21005KT 6000 NSC 19/07 Q1015 NOSIG LTAR 240250Z 29004KT 9999 FEW040 M03/M05 Q1017 LTAS 231614Z 10007KT 070V130 9999 BKN030 BKN100 09/03 Q1016 RMK RWY18 19008KT LTBJ 240250Z 00000KT CAVOK 05/04 Q1020 NOSIG LTCA 240250Z 22005KT CAVOK 03/M03 Q1016 NOSIG LTAT 240250Z 28006KT CAVOK 04/M05 Q1017 NOSIG LTCB 240250Z 00000KT 9999 SCT008 BKN028 06/04 Q1018 LTAU 240250Z 00000KT 9999 SCT040 BKN100 M00/M03 Q1019 NOSIG LTCC 240250Z 28006KT CAVOK 06/M02 Q1013 NOSIG LRSV 240300Z 27010KT CAVOK 01/M04 Q1016 LRTM 240300Z AUTO VRB01KT 8000 NCD M02/M03 Q1020 LTCD 240250Z 32001KT 9999 SCT040 02/M05 Q1016 NOSIG YDBY 240300Z AUTO 27007KT 9999 // NCD 32/23 Q1012 LTCE 240250Z 23004KT 180V260 9999 SCT030 BKN080 00/M05 Q1014 NOSIG LTAW 230550Z 24007KT 200V280 9999 FEW010 BKN033 BKN090 09/06 Q0998 BIBD 231300Z 17003KT 9999 VCSH SCT020 OVC025 00/// Q1028 LTCF 240250Z 07013KT CAVOK 01/M02 Q1012 LTCG 240250Z 08002KT 9999 BKN035 08/06 Q1019 NOSIG LTAY 240250Z 00000KT 8000 NSC M01/M02 Q1020 LTAZ 240250Z 12005KT 9999 SCT040 M01/M03 Q1020 LTBQ 240250Z 29003KT 210V340 5000 -SHRA BR FEW015 BKN030 BKN080 07/07 Q1022 TEMPO 4000 LRTR 240300Z 12004KT CAVOK M00/M01 Q1022 NOSIG LTBR 240250Z 33008KT 6000 -SHRA FEW015 BKN030 BKN090 07/05 Q1020 NOSIG LTCI 240250Z 18012KT 9999 SCT035 SCT080 12/M00 Q1011 NOSIG LSMA 240250Z AUTO 20003KT 9000NDV NCD 01/M00 Q1019 RMK LTBS 240250Z 34009KT CAVOK 11/02 Q1018 NOSIG LTCJ 240250Z 18004KT 150V230 CAVOK 06/01 Q1012 LTDA 240250Z 03005KT 9999 SCT030TCU 10/07 Q1016 YCMM 240300Z AUTO 30015KT //// // ////// 22/14 Q1015 RMK BIAR 240300Z 32013KT 290V350 9999 SCT044 OVC051 M04/M11 Q1034 LTCK 240250Z 31006KT 9999 FEW040 SCT100 04/M01 Q1013 LTCL 231050Z 15014KT 9999 FEW025CB SCT040 BKN100 25/08 Q1009 RETS LTBU 240250Z 29007KT 9999 FEW035 BKN080 07/05 Q1021 LSMD 240250Z AUTO 32004KT 300V360 9999NDV NCD 01/M03 Q1020 RMK LTCM 230819Z 30005KT 6000 -SHRA SCT012 BKN025 BKN080 07/04 Q1007 RESHRA RMK RWY05 29004KT 220V350 LSME 240250Z AUTO 00000KT 9999NDV NCD 01/M00 Q1020 RMK BGTL 240258Z AUTO 12010KT 9999 CLR M17/M20 A3019 RMK AO2 SLP213 T11661196 57009 $ LTCN 240250Z 08006KT CAVOK 06/01 Q1015 NOSIG HEGN 240200Z 35012KT 4000 SA NSC 18/01 Q1013 NOSIG LTCO 231250Z 16004KT 120V210 9999 -SHRA SCT030 BKN070 13/04 Q1012 LTBY 240250Z 25004KT 5000 BR SCT040 01/00 Q1019 LTCP 231250Z 26026KT 9999 FEW040 20/M04 Q1007 LRTZ 240300Z 32010KT 9999 FEW100 03/02 Q1018 BLU BLU LTBZ 231950Z 02004KT CAVOK 04/02 Q1019 YCMT 240300Z AUTO 11007KT 050V140 //// // ////// 27/15 Q1017 YCNK 240300Z AUTO 05006KT //// // ////// 24/15 Q1019 RMK LTCR 240250Z VRB07KT CAVOK 12/M02 Q1012 LTCS 240250Z 32012KT CAVOK 07/M02 Q1014 YCNM 240300Z AUTO 01007KT //// // ////// 25/11 Q1018 LTCT 240250Z 30011KT 9999 SCT037 BKN070 12/01 Q1009 YCOE 240300Z AUTO 10009KT //// // ////// 28/21 Q1012 LTCU 231650Z 19016KT 9999 FEW035 SCT100 15/04 Q1009 LTCV 231650Z 11016KT 9999 FEW040 SCT100 18/11 Q1011 LSMM 240250Z AUTO VRB01KT 9999NDV NCD 03/02 Q1018 RMK LTCW 231150Z 21007KT 130V260 9999 -SHRA SCT025CB BKN030 OVC050 10/05 Q1020 YBWP 240300Z AUTO 11014KT 9999 // NCD 31/23 Q1010 LSMP 240250Z AUTO 22003KT 9999NDV NCD 01/M02 Q1019 RMK RORS 240300Z 09015KT 9999 FEW027 BKN080 24/17 Q1016 LSMS 240250Z AUTO 09002KT 8000 NCD 06/01 Q1019 YCOM 240300Z AUTO 06006KT 9999 // BKN071 OVC086 16/12 Q1020 YBWW 240300Z AUTO 12007KT 9999 // NCD 24/08 Q1020 RMK LTFC 240250Z 28005KT CAVOK 01/M01 Q1019 LTFD 240250Z 07009KT CAVOK 09/05 Q1020 YBWX 240300Z AUTO 21009KT //// // ////// 29/21 Q1014 YCNY 240300Z AUTO 07006KT 040V110 //// // ////// 35/12 Q1012 LTFE 240250Z 13003KT 100V160 CAVOK 04/03 Q1020 NOSIG RORY 240300Z AUTO 13008KT 080V180 9999 FEW034 25/17 Q1018 LTFG 240250Z 09004KT CAVOK 06/05 Q1015 LTFH 240250Z 09004KT 9999 SCT036 BKN100 06/03 Q1017 NOSIG BIEG 240300Z 34010KT 9999 FEW025 SCT035 BKN055 M05/M10 Q1030 RPLB 240300Z 06006KT 9999 FEW020TCU SCT300 35/22 Q1011 NOSIG RMK A2985 LTFJ 240250Z VRB02KT 9999 -SHRA SCT030 BKN090 08/06 Q1021 NOSIG LTFK 230850Z 29010KT 250V320 CAVOK 17/06 Q1015 RPLC 240300Z 27002KT 9000 SCT020 BKN300 33/23 Q1013 NOSIG RMK A2991 GMTA 240300Z 23002KT 210V280 8000 NSC 16/15 Q1016 NOSIG ROTM 240158Z 09009KT 9999 FEW030 23/09 A3009 RMK SLP174 STNPR29785 T02280089 RPLI 240300Z 29010KT 9999 FEW019 31/24 Q1012 NOSIG RMK A2988 YBYU 240300Z AUTO 23008KT 9999 // BKN022 BKN027 30/24 Q1012 FWKI 231600Z 07006KT 9999 FEW030 20/15 Q1019 NOSIG RPLL 240300Z 13006KT 050V220 9999 FEW025 33/22 Q1012 NOSIG RMK A2988 RPMD 240300Z 07007KT 9999 FEW016 31/24 Q1011 RMK A2985 GMTN 240300Z AUTO 06005KT /// 16/14 Q1016 HEMA 240200Z 32019KT CAVOK 22/11 Q1010 NOSIG GMTT 240300Z 11006KT 6000 BKN013 17/13 Q1015 NOSIG RPMR 240300Z 05004KT 9999 SCT020TCU 33/24 Q1013 RMK A2991 TCU W AND NW HEMM 240200Z 34006KT 9999 SCT020 15/08 Q1020 NOSIG BIHN 232200Z 35018G28KT 9999 FEW045 M04/// Q1027 HELX 240100Z 25002KT CAVOK 22/10 Q1012 NOSIG RPMZ 240300Z 27002KT 9999 SCT017CB FEW018 SCT300 31/25 Q1013 RMK A2991 CB OHD NW AND S NCAI 240300Z AUTO 09012KT 050V110 //// ////// 27/22 Q1011.0 MKJP 240300Z 33006KT 9999 FEW022 27/23 Q1011 MKJS 240200Z VRB02KT 9999 FEW022 27/24 Q1010 YCUN 240300Z AUTO 11007KT 080V140 //// // ////// 21/12 Q1022 BIIS 231650Z 11008KT 9999 -SN BKN025 OVC030 M01/M07 Q1031 ROYN 240300Z AUTO 11007KT 080V140 9999 SCT026 OVC060 25/19 Q1016 YDLQ 240300Z AUTO 03008KT //// // ////// 25/12 Q1016 RMK YCWA 240300Z AUTO 33005KT 9999 // SCT033 SCT044 SCT052 26/18 GOGG 240300Z VRB02KT CAVOK 23/18 Q1011 BIKF 240300Z 03012KT 9999 FEW047 M03/M10 Q1035 GOGK 240300Z VRB02KT 8000 NSC 26/20 Q1010 HEPS 240200Z 34012KT 9999 SCT030 16/09 Q1018 NOSIG GOGS 240300Z 34004KT CAVOK 21/19 Q1011 YCWR 240300Z AUTO 36007KT //// // ////// 24/11 Q1019 HESC 240200Z 00000KT CAVOK 11/00 Q1019 NOSIG HESG 240200Z 33011KT CAVOK 18/05 Q1013 NOSIG HESH 240200Z 36024KT CAVOK 19/07 Q1011 NOSIG YDPO 240300Z AUTO 33009KT 9999 // SCT025 SCT034 OVC084 18/17 HESN 240200Z 36007KT CAVOK 21/05 Q1012 NOSIG LSZA 240250Z AUTO 20005KT 150V230 9999 OVC029 13/08 Q1019 LSZB 240250Z AUTO 00000KT CAVOK M01/M02 Q1019 RPVD 240300Z 04010KT 9999 FEW015 31/26 Q1011 NOSIG RMK A2985 LSZC 240250Z AUTO VRB07KT 9999 NCD 04/01 Q1019 LSZG 240250Z AUTO 05004KT CAVOK 02/M02 Q1019 LSZH 240250Z VRB01KT CAVOK 00/M02 Q1020 NOSIG HETR 240200Z 31026KT 6000 NSC 21/15 Q1012 LSZL 240250Z AUTO VRB02KT 9999NDV BKN039 14/09 Q1019 RMK RPVM 240300Z 07006KT 9999 FEW020 32/24 Q1012 NOSIG RMK A2988 RPVP 240300Z 15005KT 9999 FEW019 BKN250 32/23 Q1012 NOSIG RMK A2988 LSZR 240250Z AUTO VRB02KT CAVOK 01/M01 Q1020 LSZS 240250Z AUTO VRB01KT 9999 FEW050 M05/M08 Q1019 MMAA 240245Z 28003KT 8SM BKN300 25/21 A2987 RMK SLP116 52029 920 8/002 HZY YELD 240300Z AUTO 10006KT //// // ////// 31/25 Q1010 RMK CAHR 240300Z AUTO 19006KT 03/01 RMK AO1 SLP155 T00260008 50003 BIRK 240300Z 06007KT CAVOK M04/M14 Q1035 GOOD 240300Z 36004KT 8000 NSC 21/16 Q1011 MMAN 240240Z 16006KT 12SM SKC 20/08 A3007 RMK SLP/// 5//// 9// YFBS 240300Z AUTO 35011KT //// // ////// 25/11 Q1018 RMK GOOG 240300Z 34006KT 8000 NSC 25/10 Q//// MMAS 240240Z 12006KT 10SM BKN030 OVC200 24/M04 A3015 RMK 8/507 MMCB 232345Z 35009KT 10SM SCT080 BKN220 30/04 A2992 RMK 8/038 ISOL CU HZY LUKK 240300Z 30009KT CAVOK 03/M00 Q1015 R26/CLRD// NOSIG GOOK 240000Z 36012KT CAVOK 27/23 Q1013 FYGB 231500Z AUTO 14004KT //// // ////// 21/13 Q1022 YFDF 240300Z AUTO 04002KT 9999 // NCD 28/20 Q1017 RMK MMCE 240245Z 36013KT 7SM SCT015 27/22 A2994 RMK SLP135 52016 9// 8/100 CBBC 240300Z AUTO 31005KT 300V360 9SM BKN050 11/04 A2975 RMK SLP075 YEML 240300Z AUTO 13007KT 9999 // SCT049 BKN063 28/15 Q1017 MMBT 240254Z 27010KT 6SM SCT200 26/19 A2990 RMK 8/001 HZY MMCL 240241Z 22005KT 10SM SCT100 BKN250 25/19 A2981 RMK SLP103 52027 905 8/078 HZY MMCM 240240Z 12009KT 7SM SCT020 28/25 A2986 RMK SLP113 5//// 9// 8/100 MMCN 240141Z 19005KT 10SM FEW200 28/09 A2971 RMK 8/008 MMCP 240241Z 34010G20KT 7SM SKC 26/22 A2990 NCMH 240300Z AUTO Manea Maretapu Operational Ob erver Cook I land Meteorological Service Mini try of Tran port phone GOOY 240300Z 01010KT CAVOK 20/18 Q1012 NOSIG MMCS 240240Z 11006KT 10SM FEW200 25/04 A2985 RMK SLP028 57010 992 8/002 MMCT 231942Z 36008KT 8SM SCT025 34/17 A2982 RMK 8/100 HZY MSGTX MMMD MMCU 240244Z 28004KT 10SM FEW030 SCT080 BKN200 25/06 A3005 RMK SLP088 52017 900 8/832 PRESRR MMCV 240240Z 25004KT 10SM SKC 19/14 A3004 RMK SLP178 52016 9// ISOL SC MMDO 240240Z 36007KT 7SM BKN025CB OVC070 18/05 A3018 RMK SLP077 52028 925 8/36/ MMCZ 240247Z 36014KT 7SM FEW015 25/20 A2989 RMK SLP130 52027 919 8/500 FZAA 240200Z 25004KT 8000 -RA SCT014 BKN100 22/22 Q1016 NOSIG BIVM 231800Z 03017G27KT 360V060 CAVOK 01/M09 Q1027 MMEP 232343Z 22007KT 12SM SCT030 SCT250 26/15 A2995 RMK SLP156 52020 904 8/509 GOSM 240300Z 34002KT CAVOK 26/03 Q1009 GOSP 240300Z 28004KT CAVOK 24/13 Q1011 GOSS 240300Z 36008KT 330V040 CAVOK 19/17 Q1012 GOTK 240000Z 22004KT CAVOK 34/17 Q1010 MMGL 240243Z 35007KT 10SM SCT030 OVC090 26/00 A3006 RMK SLP052 52020 915 8/57/ MMGM 240144Z 20010KT 10SM SKC 30/08 A2966 FYKM 231500Z 00000KT 9999 FEW030 24/19 Q1017 MMIA 240240Z 00000KT 6SM SCT025 SCT200 21/19 A3000 RMK SLP/// 5//// 9// 8/601 HZY YERN 240300Z AUTO 28010KT //// // ////// 27/13 Q1016 GOTT 240300Z 20004KT CAVOK 28/07 Q1009 FYKT 231500Z 06010KT 9999 FEW040 BKN090 23/11 Q1020 MMHO 240252Z 23006KT 10SM SKC 30/M01 A2975 RMK SLP055 54000 974 ISOL CI HZY NCRG 240300Z 09009KT 9999 FEW023 29/22 Q1012 NCPY 240300Z AUTO 04005KT //// ////// 28/26 Q1007 YESP 240300Z AUTO 10003KT 9999 // SCT029 BKN036 20/11 Q1023 MMIO 240240Z 36006KT 10SM SKC 14/07 A3018 RMK CI YEST 240300Z 09004KT 360V130 9999 FEW027 SCT088 21/11 Q1023 FYLZ 231500Z AUTO 32010KT //// // ////// 28/13 Q1012 FYOA 231400Z AUTO 10002KT //// // ////// 26/14 Q1018 YGAY 240300Z AUTO 07004KT //// // ////// 27/13 Q1018 RMK YFLI 240300Z AUTO 22005KT 9999 // SCT024 22/15 Q1016 RMK MNBL 232300Z 07004KT 9999 -TS FEW016CB BKN019 29/25 Q1007 CB N NE E YGDH 240300Z AUTO 32007KT 280V350 //// // ////// 26/09 Q1019 MNCH 232300Z 19004KT 9999 FEW025 31/23 Q1007 MMMA 240041Z 04006KT 8SM FEW200 22/10 A3000 RMK 8/005 MMLM 240240Z 25006KT 10SM SKC 26/10 A2978 RMK SLP085 MMMD 240250Z 33006KT 7SM SKC 24/20 A2994 RMK SLP146 52010 924 MMLO 240247Z 16006KT 8SM SCT030 BKN220 23/04 A3020 RMK SLP074 52019 906 8/403 FYOW 231500Z AUTO 01002KT //// // ////// 17/13 Q1019 MMLP 240240Z 21010KT 10SM SKC 26/04 A2984 RMK SLP105 52027 908 ISOL CI YGEL 240300Z 09012KT CAVOK 26/12 Q1018 MMLT 240148Z 00000KT 8SM SKC 29/20 A2973 MMML 240250Z 28009KT 10SM SKC 29/M09 A2966 RMK SLP044 54000 977 MMMM 240246Z 02007KT 7SM SCT030 SCT270 17/06 A3016 RMK SLP083 52011 934 8/502 FZIC 231300Z 21006KT 9999 SCT025 BKN310 31/23 Q1011 NOSIG MMMT 240044Z 36010KT 8SM SCT020 BKN180 26/20 A2992 RMK 8/102 MMNL 240040Z 00000KT 12SM SKC 24/05 A2999 YGFN 240300Z AUTO 34006KT 9999 // NCD 25/12 Q1019 MMMV 232240Z 04010KT 8SM SKC 24/08 A3000 RMK HZY SKBG 240300Z 33003KT 9999 SCT015 SCT240 21/21 A2999 FYRN 231500Z 00000KT 9999 SCT020 23/15 Q1018 MMMX 240248Z 10004KT 8SM FEW020 SCT080 17/05 A3030 NOSIG RMK SLP094 52016 902 8/460 HZY CI MMMY 240246Z 15007KT 15SM SCT120 BKN250 20/09 A3004 RMK SLP166 53007 909 8/072 MMMZ 240242Z 20002KT 10SM SCT230 24/21 A2986 RMK SLP105 57033 903 8/002 HZY SKAR 240300Z 00000KT 9999 SCT020 BKN080 21/21 A3004 MMPA 240140Z 03060KT 6SM FEW070 SCT280 23/20 A3006 RMK 8/032 HZY ISOL SC MMPB 240144Z 02007KT 7SM BKN020CB OVC100 16/07 A3029 RMK 8/36/ HZY PCPN E-W SKCC 240300Z 19020KT 9999 SCT020 SCT090 29/21 A2987 RMK/LTNG/S FYRU 231500Z AUTO 28002KT //// // ////// 24/14 Q1020 MMPE 231410Z RTD 33005KT 10SM FEW200 17/M02 A2977 RMK 8/006 SKBO 240300Z VRB02KT 9999 FEW020 14/08 A3037 SKCG 240300Z 03007KT 9999 SCT016 SCT200 28/26 A2983 MMPG 232340Z 00000KT 10SM SKC 25/06 A3001 RMK SKBQ 240300Z 01004KT 9999 FEW015 28/26 A2983 SKCL 240300Z 03004KT 9999 -DZ SCT040 BKN100 23/22 A2998 MMPN 240207Z RTD 00000KT 10SM OVC260 21/08 A3012 RMK 8/007 FU HZ SC AC MMOX 240144Z 16003KT 7SM FEW025 SCT220 18/12 A3019 RMK 8/402 HZY PRESRR MMPQ 232341Z 32012KT 4SM FEW040 29/21 A2977 RMK 8/100 HZY MSGTX MMMD MMPR 240246Z 25004KT 12SM BKN015 BKN250 25/22 A2989 RMK SLP121 52028 917 8/508 MMPS 232345Z 22010KT 6SM SKC 28/22 A2990 RMK HZY YHBA 240300Z AUTO 17009KT 140V200 9999 // SCT024 25/17 Q1017 SKEJ 232300Z 07003KT 9999 FEW015 BKN200 32/25 A2967 YFRT 240300Z AUTO 22008KT //// // ////// 21/12 Q1019 FZNA 230900Z 24008KT 8000 BKN016 FEW018CB 24/18 Q1022 NOSIG BKPR 240300Z VRB01KT 9999 FEW005 M01/M03 Q1023 TEMPO 3000 BR MMQT 240245Z 11009KT 7SM SKC 19/08 A3025 FYWB 231500Z AUTO 24015KT //// // ////// 26/12 Q1013 MMSD 240245Z 18003KT 10SM SCT250 27/06 A2983 RMK SLP088 52023 951 8/004 FYWE 231500Z 08005KT 9999 SHRA FEW010 FEW030CB BKN090 15/12 Q1022 MNJG 232300Z 00000KT 9999 BKN020 28/16 Q1010 YGLA 240300Z AUTO 09010KT 9999 // SCT047 28/14 Q1017 RF00.0/000.0 YGLB 240300Z AUTO 25005KT 210V270 9999 // NCD 21/10 Q1020 RMK FYWH 231500Z 02007KT 9999 VCSH FEW030CB SCT035TCU 18/09 Q1022 NOSIG TAPA 240300Z 10009KT 9999 SCT018 SCT038 26/21 Q1015 NOSIG GQNI 231200Z 04008KT CAVOK 39M05 Q//// MMTC 240244Z 13005KT 10SM SCT030 BKN110 OVC250 27/06 A3001 RMK SLP075 50020 940 8/477 MMSL 240252Z 27010KT 7SM SCT250 28/M03 A2989 RMK 8/008 YHAY 240300Z AUTO 01010KT //// // ////// 26/13 Q1016 RMK MMRX 240253Z 15003KT 10SM FEW140 19/08 A3002 RMK SLP159 52007 9// 8/030 HZY FU YGLI 240300Z AUTO 12002KT 9999 // SCT045 BKN056 OVC070 18/07 MMTG 240249Z 26014G24KT 8SM SCT090 BKN300 24/15 A2995 RMK SLP108 52025 921 8/078 FU HZ ARND WND E30014G24KT MMSP 240244Z 06006KT 8SM SKC 16/09 A3019 RMK SLP096 52007 905 CI GQNO 240300Z 35015KT 8000 NSC 21/15 Q1012 NOSIG MMTJ 240241Z 29006KT 7SM FEW015 15/10 A2990 RMK SLP128 54000 904 8/500 HZY ISOL CI GQPA 231800Z 36006KT CAVOK 33/10 Q1013 MNJU 232300Z 18004KT 9999 FEW025 BKN300 33/22 Q1007 MMTM 240243Z 02017KT 10SM SKC 22/17 A3003 RMK SLP168 52017 940 YFTZ 240300Z AUTO 27007KT 230V290 //// // ////// 35/20 Q1012 FYWW 231500Z 06004KT 9999 -SHRA SCT010 FEW025CB BKN090 13/12 Q1022 RESH MMTO 240246Z 32005KT 5SM SCT015 BKN070 BKN200 11/07 A3037 RMK SLP119 52010 916 8/463 HZY MMTP 240241Z 00000KT 7SM SCT030 SCT100 27/23 A2983 RMK SLP124 52018 952 8/560 SKIB 240200Z 27004KT 9999 SCT025 BKN100 25/22 A3003 MMVA 240243Z 00000KT 7SM SCT012 SCT070 22/21 A2999 RMK SLP153 52020 937 8/120 HZY FZQA 231300Z 09006KT 9999 BKN022 BKN300 26/20 Q1017 NOSIG MMUN 240245Z 34004KT 7SM SKC 22/22 A2991 RMK SLP130 52018 916 K04V 240316Z AUTO 01006KT 10SM CLR 10/M08 A2993 RMK AO2 K06D 240315Z AUTO 08014KT 10SM OVC065 M00/M07 A2995 RMK AO2 K04W 240315Z AUTO 07008G16KT 10SM CLR 02/00 A2999 RMK AO2 MNMG 240300Z 29008KT 8000 FEW021 30/20 Q1009 A2981 FU NOSIG GQPP 240300Z 36016KT 7000 NSC 18/15 Q1015 NOSIG K05U 240315Z AUTO 00000KT 10SM CLR 09/M06 A2990 RMK A01 SKIP 232300Z 09008KT 9999 FEW020 SCT200 14/10 A3038 GQPZ 231800Z 32014KT 280V350 CAVOK 30/03 Q1011 MMVR 240251Z 02010KT 7SM FEW008 SCT220 25/22 A3001 RMK SLP150 52015 942 8/101 HZY SLAL 232300Z 35007KT 9999 FEW015 SCT200 14/09 Q1025 K08D 240315Z AUTO 11014G20KT 9SM OVC003 M02/M02 A2990 RMK AO2 LWOH 231230Z 15008KT 120V220 9999 FEW035 SCT090 14/00 Q1016 SLCA 232300Z 00000KT 2000 -DZ OVC010 20/19 Q1014 SLCB 240300Z 06003KT 9999 NSC 17/07 Q1023 SKLC 240000Z 32008KT 9999 FEW020 28/25 A2975 LXGB 240250Z AUTO 10009KT 9999 // FEW012/// SCT017/// 15/15 Q1016 MNPC 232300Z 00000KT 6000 VCRA FEW014CB BKN016TCU 27/24 Q1008 CBRA N TCURA S NFFN 240300Z 24010KT 9999 FEW020CB SCT048 30/25 Q1009 NOSIG YHID 240308Z AUTO 12019G31KT //// // SCT017 BKN026 OVC043 27/26 Q1010 SKMD 232300Z 36012KT 9999 VCSH SCT033CB BKN080 26/15 A2996 RMK CB VCSH SW/NW MMZC 240241Z 32006KT 8SM BKN100 21/00 A3023 RMK 8/020 SLCO 232200Z 17006KT 9999 FEW015 SCT200 27/24 Q1010 SLCP 232200Z 00000KT 9999 FEW015 26/23 Q1014 MMZH 240145Z 00000KT 6SM SCT250 26/20 A2985 RMK 8/002 HZY SKLT 240300Z 00000KT CAVOK 24/23 A2991 MMZO 240148Z 00000KT 8SM SCT210 25/22 A2985 RMK 8/004 HZY SKMR 240300Z 00000KT 9999 SCT020 28/25 A2980 K11R 240315Z AUTO 26003KT 10SM CLR 14/10 A3003 RMK AO2 T01370103 YGTE 240300Z AUTO 09012KT 9999 // NCD 32/23 Q1011 YGTH 240300Z AUTO 36011KT 9999 // BKN062 26/10 Q1017 K12N 240254Z AUTO VRB03KT 12/06 A3010 RMK AO1 SLP195 T01170061 51013 YHLC 240300Z AUTO 33005KT 280V020 9999 // BKN062 32/16 Q1014 MNRS 232300Z 00000KT 9999 FEW018CB 33/21 Q1006 CB SE S NW SLET 232300Z 33006KT 9999 FEW010 BKN020 BKN070 24/21 Q1011 TBPB 240300Z 10015KT 9999 SCT016 27/24 Q1015 NOSIG SKPC 240300Z 00000KT 9999 BKN070 25/24 A2978 LWSK 240300Z 06002KT 9999 FEW070 03/01 Q1024 NOSIG YGTN 240300Z AUTO 08011KT //// // SCT052 31/16 Q1014 SKNV 240200Z 22004KT 9999 FEW020 29/21 A2985 NFKD 240300Z AUTO 16005KT //// 30/26 Q//// SKPE 240300Z 14003KT 9999 SCT016 SCT090 23/18 A3003 LYBE 240300Z 19005KT CAVOK 04/01 Q1023 NOSIG MPBO 240100Z 00000KT 9999 FEW016 SCT100 Q1011 SKPS 232300Z 09004KT 9999 SCT020 21/19 A3006 YHML 240300Z AUTO 20006KT 9000 // SCT032 BKN068 OVC084 16/14 MPDA 240300Z 00000KT 9999 FEW018 Q1008 LYBT 240300Z 19003KT 160V240 CAVOK 01/01 Q1023 NOSIG SKPV 232100Z 00000KT 9999 SCT017 30/25 A//// SKRG 240300Z 06004KT 9999 BKN010CB SCT200 18/16 A3032 RMK CB NE/SE SKRH 232300Z 04010KT 9999 BKN020TCU 29/26 A2974 RMK TUC/SE K14Y 240313Z AUTO 03011G16KT 10SM SCT014 03/00 A2992 RMK AO2 NFNA 240300Z 00000KT 9999 VCSH FEW020CB BKN022 27/24 Q1010 K0A9 240315Z AUTO 07005KT 5SM RA SCT025 BKN032 OVC060 11/10 A2993 RMK AO2 SLJE 231800Z 00000KT 9999 BKN015 30/23 Q1017 YIFL 240300Z AUTO 13012KT 9999 // SCT026 BKN032 BKN043 27/21 K18A 240315Z AUTO 07006KT 10SM -RA OVC009 11/10 A2983 RMK AO2 T01100103 SKSM 240300Z 18004KT 9999 FEW020 BKN200 30/26 A2980 YHOO 240300Z AUTO 35006KT 260V020 //// // ////// 35/13 Q1013 SLJO 232200Z 00000KT 9999 SCT015 FEW023CB 28/24 Q1011L SKSP 240300Z 01004KT 340V050 9999 FEW016 BKN200 29/25 A2984 YHOT 240300Z AUTO 31007KT 9999 // ////// 15/06 Q1021 NFNR 240300Z AUTO 15004KT //// 31/27 Q1009 K18H 240315Z AUTO 34019G24KT 9SM BKN034 20/14 A2996 RMK A01 SKUC 240200Z 00000KT 9999 SCT017 24/24 A2990 TDCF 240000Z 02004KT 9999 SCT016 BKN036 26/22 Q1013 SKUI 240100Z 00000KT 9999 SCT025CB 27/25 A2974 RMK CB E S K0E0 240315Z AUTO 16008KT 10SM CLR 14/00 A2997 RMK AO2 T01391005 NGFU 240300Z 12005KT 9999 FEW019TCU 32/26 Q1007 K21D 240312Z AUTO 04009G15KT 10SM CLR 11/05 A2992 RMK AO2 SLMG 232200Z 00000KT 9999 FEW017 FEW023CB SCT200 29/25 Q1010 SLLP 240300Z 07005KT 9999 FEW070 BKN200 03/01 Q1038 YJAB 240300Z AUTO 10008KT //// // ////// 33/19 Q1010 RMK K19S 240315Z AUTO 16017G21KT 10SM CLR 14/M01 A2986 RMK AO2 T01361006 K20U 240315Z AUTO 11017G25KT 10SM OVC007 02/02 A2974 RMK AO2 K20V 240315Z AUTO 00000KT 10SM CLR 15/M08 A2984 RMK AO2 K0F2 240315Z AUTO 00000KT 10SM CLR 11/08 A3002 RMK AO2 T01050080 SKVP 240100Z 02016KT 8000 TS SCT015CB SCT080 29/23 A2983 RMK CB/VCSH N/W K0CO 240321Z AUTO 25020G28KT 10SM SCT100 SCT120 01/M05 A3010 RMK AO2 YHSM 240300Z AUTO 01006KT 9999 -SHRA BKN053 BKN069 OVC081 SKVV 232300Z 00000KT 9999 FEW023 27/22 A2986 K22N 240315Z AUTO 00000KT 10SM CLR 07/05 A3011 RMK AO2 K24A 240315Z AUTO 00000KT 10SM SCT015 BKN027 BKN031 09/08 A2987 RMK AO2 LTG DSNT S T00860081 HKEL 232000Z 08007KT 9999 FEW018 17/14 Q1025 YHUG 240300Z AUTO 12012KT 060V130 9999 // NCD 32/10 Q1015 NFTF 240300Z 03005KT 9999 FEW018 30/24 Q1010 SLOR 240000Z 01007KT 9999 NSC 12/03 Q1032 K24J 240315Z AUTO 00000KT 10SM BKN120 21/20 A2979 RMK A01 NFTL 240300Z 08004KT 9999 FEW020 29/25 Q1009 SLPO 231300Z 00000KT 9999 FEW015 08/M01 Q1037 SLPS 232300Z 00000KT 9999 NSC 26/23 Q1011 SLRB 232300Z 00000KT 9999 NSC 25/24 Q1014 LYKV 240300Z 00000KT CAVOK M02/M03 Q1024 NOSIG NFTV 240300Z 10005KT 9999 SCT017TCU 29/25 Q1009 MPMG 240300Z 34004KT 300V360 CAVOK 27/24 Q1009 NOSIG K0J4 240258Z AUTO 00000KT 10SM BKN050 14/10 A2987 RMK AO2 RAB13E20 SLP113 P0000 60000 T01440100 $ SLRI 232300Z 00000KT 8000 VCSH SCT008 BKN015 FEW020CB BKN070 24/24 Q1012 K1A5 240310Z AUTO 26003KT 10SM OVC032 12/11 A2984 RMK AO2 T01200111 SLSA 232300Z 00000KT 9999 FEW017 SCT080 26/24 Q1011 K1A6 240315Z AUTO 00000KT 10SM OVC017 12/10 A2988 RMK AO2 T01200100 K1A9 240315Z AUTO 29011G17KT 10SM BKN015 OVC021 13/11 A2986 RMK AO2 T01300107 SLRQ 232200Z 00000KT 9999 SCT020 BKN200 25/24 Q1011 SLSI 232300Z 00000KT 9999 NSC 27/24 Q1013 LYNI 240300Z 12002KT 9999 BKN066 00/00 Q1024 SLRY 232200Z 00000KT 9999 SCT017 SCT070 BKN200 26/23 Q1011 SMJP 240300Z 08003KT 9999 FEW025 26/25 Q1013 NOSIG SLTJ 240300Z 08003KT 9999 BKN025 17/13 Q1018 MPPA 240300Z 01007KT 320V020 9999 FEW020 28/// Q1009 K28J 240255Z AUTO 17008KT 10SM OVC045 24/19 A2980 RMK AO2 HKJK 240300Z 21002KT 9999 FEW009 SCT016 17/16 Q1022 NOSIG K1AM 240258Z AUTO 08004KT 10SM BKN075 06/03 A2970 RMK AO2 SLP024 T00610032 58003 $ K1AN 240256Z AUTO 09016G22KT 10SM OVC008 M02/M03 A2986 RMK AO2 SLP155 T10181031 57016 $ LYPG 240300Z 36005KT CAVOK 07/00 Q1022 NOSIG SLTR 232300Z 00000KT 9999 FEW015 SCT200 26/24 Q1011 HKKI 231700Z 30009KT 5000 -TSRA FEW018CB OVC080 18/17 Q1016 K1BM 240258Z AUTO 31003KT 10SM CLR 06/05 A2969 RMK AO2 SLP073 T00560045 58001 $ K1BN 240256Z AUTO 10014G20KT 10SM OVC004 M03/M03 A2989 RMK AO2 SLP154 T10271031 57015 $ K1AW 240258Z AUTO 23004KT 10SM FEW130 BKN190 11/02 A2971 RMK AO2 SLP039 T01110024 56008 $ ZBAA 240300Z 28009MPS CAVOK 23/M13 Q1012 NOSIG LZIB 240300Z 28007KT CAVOK 04/M02 Q1022 K1F0 240315Z AUTO 00000KT CLR 09/05 A3002 RMK AO2 PWINO K1CM 240258Z AUTO 07003KT 10SM BKN180 05/05 A2970 RMK AO2 SLP071 60032 T00490046 58001 $ SLUY 231100Z 00000KT 9999 NSC M01/M08 Q1033 K1CN 240256Z AUTO 09018KT 10SM OVC005 M02/M03 A2988 RMK AO2 SLP149 T10251028 55010 $ K1BW 240258Z AUTO 18010KT 10SM FEW130 BKN170 10/04 A2972 RMK AO2 SLP038 T00960043 56011 $ SLVR 240300Z 35006KT 9999 BKN023 BKN070 22/22 Q1014 HKML 232000Z 18012KT 9999 FEW022 29/24 Q1012 K1DM 240258Z AUTO M 10SM BKN020 BKN150 BKN180 07/06 A2967 RMK AO2 CIG 020V150 BKN V SCT SLP073 60002 T00730064 50001 $ K1DN 240256Z AUTO 10020G25KT 10SM OVC005 M03/M03 A2987 RMK AO2 PK WND 10028/42 SLP148 T10281033 55010 $ K1CW 240258Z AUTO 19021G26KT 10SM CLR 16/03 A2969 RMK AO2 PK WND 18027/33 SLP021 T01590030 56013 $ HKMO 240300Z 22008KT 9999 FEW020CB 26/24 Q1013 NOSIG GUCY 240300Z 00000KT 5000 HZ NSC 27/23 Q1011 NOSIG SLYA 232300Z 00000KT 2500 -RADZ BKN003 OVC070 20/20 Q1012 YJLC 240300Z AUTO 09008KT 060V140 //// // ////// 34/11 Q1014 NGTA 240300Z 04004KT 9999 FEW018TCU SCT300 31/25 Q1008 TDPD 240300Z 12006KT 9999 BKN017 26/22 Q1016 MPSM 232200Z 12008KT 9999 FEW030 30/25 Q1006 K1H2 240315Z AUTO 00000KT 10SM CLR 15/00 A3001 RMK AO2 T01520001 K1EM 240258Z AUTO 13006KT 10SM FEW019 BKN027 BKN150 07/05 A2969 RMK AO2 SLP076 T00650050 58001 $ CERM 240300Z AUTO 31004KT 04/02 RMK AO1 9PAST HR 3027 SLP147 P0004 T00410015 50014 K1EN 240256Z AUTO 11020KT 10SM OVC004 M03/M03 A2985 RMK AO2 SLP148 T10261031 55008 $ K1DW 240258Z AUTO 19007KT 10SM SCT140 13/04 A2974 RMK AO2 SLP040 T01260044 55005 $ K0R0 240315Z AUTO 00000KT 10SM OVC046 13/ A2998 RMK AO2 K33V 240315Z AUTO 20004KT 10SM 08/M03 A2987 RMK AO1 K1FM 240258Z AUTO 28012KT 10SM FEW150 SCT200 08/00 A2970 RMK AO2 LTG DSNT NW SLP074 T00761001 52005 $ HKNW 231800Z 06007KT 9999 FEW022 20/15 Q1021 MPTO 240300Z 00000KT 9999 FEW020 26/25 Q1010 NOSIG K1FN 240256Z AUTO 11018G22KT 10SM OVC004 M03/M03 A2978 RMK AO2 PK WND 10026/05 SNB0156E02SHSNB02E45 SLP151 T10281035 55010 $ K0R4 240315Z AUTO 00000KT 10SM CLR 12/10 A2998 RMK AO2 T01200102 NGTT 240300Z VRB03KT 9999 SCT017TCU 32/26 Q1008 K1J0 240158Z AUTO 00000KT 10SM CLR 15/15 A2983 RMK AO2 SLP058 T01500150 K2A0 240315Z AUTO 01005KT 10SM FEW018 SCT022 BKN031 14/13 A2980 RMK A01 YIVO 240300Z AUTO 01007KT //// // ////// 26/13 Q1016 RMK LYTV 240300Z 00000KT CAVOK 03/02 Q1021 K1GM 240258Z AUTO 29009KT 10SM FEW180 06/00 A2968 RMK AO2 SLP063 T00640000 53003 $ K1GN 240256Z AUTO 11019G26KT 10SM OVC004 M03/M03 A2986 RMK AO2 PK WND 10028/0159 SLP152 T10261032 55009 $ K1FW 240258Z AUTO 18009KT 10SM FEW210 12/04 A2971 RMK AO2 SLP035 T01180036 55003 TSNO $ LZKZ 240300Z VRB01KT CAVOK 01/M02 Q1019 K1K1 240315Z AUTO 16006KT 10SM CLR 11/04 A2998 RMK AO2 T01120035 K1HM 240258Z AUTO 02011KT 10SM BKN075 BKN095 08/04 A2968 RMK AO2 LTG DSNT NE SLP061 T00810038 53005 $ K1HN 240256Z AUTO 10019G23KT 10SM OVC006 M02/M02 A2988 RMK AO2 SLP151 T10191024 $ LYUZ 240300Z AUTO VRB01KT CAVOK M01/M03 Q1022 LYVR 240300Z 17003KT CAVOK 02/M00 Q1022 NOSIG GVAC 240300Z 04013KT 9999 SCT014 21/17 Q1017 NOSIG K36U 240315Z AUTO 25006KT 10SM BKN110 08/04 A2985 RMK AO2 K1IM 240258Z AUTO 11007KT 10SM SCT060 BKN210 07/04 A2968 RMK AO2 LTG DSNT N SLP074 T00710038 55004 $ K1IN 240256Z AUTO 11020KT 10SM OVC004 M02/M03 A2987 RMK AO2 PK WND 11027/26 SLP152 T10241032 55013 $ K1HW 240258Z AUTO 15011KT 10SM BKN210 14/05 A2968 RMK AO2 SLP033 T01360052 55008 $ SOCA 240300Z AUTO 00000KT 9999 FEW029 BKN062 BKN072 26/25 Q1013 TEMPO 4000 SHRA SCT014TCU GVBA 231900Z 02018KT 9999 FEW015 SCT200 23/18 Q1015 NOSIG K2C8 240315Z AUTO 07008KT 10SM BKN040 01/M07 A3002 RMK AO2 K40B 240316Z AUTO 00000KT 06/05 A2995 RMK AO1 SLP152 T00550046 53028 P0001 60001 K1JM 240258Z AUTO 33014G18KT 10SM -SHRA VCTS SCT020 BKN030 BKN034 BKN050 07/05 A2970 RMK AO2 RAB26E54SHRAB54 TSB39E55 SLP079 T00730050 53008 $ ZBHH 240300Z 34006MPS 310V030 CAVOK 13/M21 Q1017 NOSIG K1JN 240256Z AUTO 10017KT 5SM BR OVC002 M02/M03 A2987 RMK AO2 PK WND 10026/08 SLP150 T10241028 55014 $ K1IW 240258Z AUTO 16010KT 10SM CLR 13/05 A2969 RMK AO2 SLP034 T01340051 55012 $ K1M4 240256Z AUTO 33004KT 7SM OVC004 09/09 A2989 RMK AO2 RAE42 SLP147 P0000 60000 T00940089 53006 K0V4 240315Z AUTO 03006KT 7SM SCT007 OVC020 11/09 A3004 RMK AO1 T01050092 K1M5 240315Z AUTO 02008KT 10SM OVC020 11/10 A2988 RMK A01 K40J 240315Z AUTO 24006KT 10SM SCT018 BKN090 OVC110 22/19 A2979 RMK AO2 T02200185 K1KN 240256Z AUTO 12017G24KT 10SM OVC002 M02/M03 A2987 RMK AO2 PK WND 10026/38 SLP149 T10241030 55016 $ K1JW 240258Z AUTO M 10SM CLR 11/04 A2968 RMK AO2 SLP032 T01090044 57011 $ YKII 240300Z AUTO 26005KT 9999 // OVC032 16/13 Q1017 RMK LZPP 240300Z AUTO VRB02KT 9999 OVC082/// 01/M01 Q1021 K1LM 240258Z AUTO 31007KT 10SM FEW017 BKN037 BKN060 BKN140 06/04 A2970 RMK AO2 SLP070 60002 T00560037 55008 $ HLLM 240250Z 12003KT 7000 FEW060 13/08 Q1019 K1LN 240256Z AUTO 13017G25KT 10SM OVC022 M01/M03 A2990 RMK AO2 PK WND 11038/19 SLP153 T10151031 56017 $ K1KW 240258Z AUTO 18011KT 10SM FEW220 13/05 A2967 RMK AO2 SLP031 T01280049 55006 $ AYGN 240300Z 14010KT 9999 SCT020 SCT150 31/27 Q1010 K2F5 240315Z AUTO 12013KT 10SM BKN100 BKN120 15/00 A3000 RMK AO2 K0VG 240315Z AUTO 06013G20KT 8SM -RA FEW040 SCT065 OVC100 10/10 A2985 RMK AO2 YLBD 240300Z AUTO 27003KT 9999 // NCD 33/21 Q1012 RMK K42J 240315Z AUTO 27007KT 10SM OVC046 23/18 A2980 RMK AO1 TSNO MSAC 232250Z 27006KT 9999 FEW040 30/25 Q1007 A2974 K1P1 240315Z AUTO 00000KT 10SM CLR 05/03 A3003 RMK AO2 T00460033 K1MM 232058Z AUTO 02008KT 10SM FEW023 FEW065 11/05 A2970 RMK AO2 LTG DSNT E SLPNO T01090046 $ TFFF 240300Z AUTO 09007KT 9999 FEW022 26/22 Q1015 NOSIG K1MN 240256Z AUTO 12014KT 10SM OVC023 M01/M03 A2990 RMK AO2 SLP155 T10121029 57017 PWINO FZRANO $ K1LW 240258Z AUTO 14005KT 10SM CLR 13/05 A2972 RMK AO2 SLP037 T01330045 56009 $ K2G4 240300Z AUTO 11009KT 10SM BKN120 06/02 A3005 RMK AO1 K2DP 240256Z AUTO 05011KT 10SM OVC011 15/13 A2997 RMK AO2 SLPNO T01490130 55006 $ LZSL 240300Z 10003KT 070V130 CAVOK M01/M02 Q1020 K2G9 240315Z AUTO 00000KT 10SM CLR 08/00 A3007 RMK AO2 K1NM 240258Z AUTO 02003KT 5SM BR BKN002 06/06 A2968 RMK AO2 RAE24 SLP074 P0001 60011 T00640061 50003 $ K1NN 240256Z AUTO 12014KT 10SM OVC025 M01/M03 A2992 RMK AO2 SLP155 T10071033 57021 $ K1MW 240258Z AUTO 17011KT 10SM CLR 14/03 A2967 RMK AO2 SLP030 T01400026 57012 $ TFFR 240300Z AUTO 09006KT 9999 FEW028 OVC056 25/22 Q1015 MRLB 240300Z 02004KT CAVOK 27/23 A2983 NOSIG K2I0 240215Z AUTO 08006KT 10SM OVC060 14/11 A2994 RMK AO2 T01360106 K1ON 240256Z AUTO 12010KT 10SM OVC031 01/M03 A2992 RMK AO2 SLP157 T00051030 57018 $ K1NW 240258Z AUTO 16014KT 10SM BKN160 13/04 A2966 RMK AO2 SLP021 T01270042 57014 TSNO $ YLEC 240300Z AUTO 25001KT //// // ////// 19/19 Q1017 K1R7 240315Z AUTO 00000KT 10SM BKN045 13/11 A2998 RMK AO2 LZTT 240300Z 26011KT 9999 FEW013 SCT050 00/M02 Q1017 MRLM 240000Z 14006KT 9999 FEW020 BKN200 29/25 A2977 YKMP 240300Z AUTO 06006KT 030V090 //// // ////// 25/14 Q1019 SMZO 240000Z 06006KT 9999 FEW010 SCT030 28/24 Q1011 NOSIG K1OW 240258Z AUTO 19007KT 10SM CLR 12/03 A2972 RMK AO2 SLP041 P0002 60009 T01160034 55006 $ K1S5 240315Z AUTO 22014G20KT 10SM OVC100 11/02 A2980 RMK AO2 T01110020 YLEO 240300Z AUTO 10007KT 9999 // NCD 21/12 Q1020 RMK YKNT 240300Z AUTO 27006KT //// // ////// 32/13 Q1015 MROC 240300Z 11004KT 9999 FEW012 22/20 A3000 NOSIG K46U 240300Z AUTO 20003KT 10SM SCT060 BKN085 08/00 A2985 RMK A01 AYMO 240300Z 18004KT 9999 SCT018 31/26 Q1009 RMKS YKOW 240300Z AUTO 10006KT 9999 // NCD 32/19 Q1011 RMK K3D2 240315Z AUTO 06004KT 10SM CLR 02/M03 A3014 RMK AO2 T00221031 YLHI 240300Z AUTO 11007KT 9999 // SCT033 SCT039 BKN078 22/15 Q1020 K1V4 240254Z AUTO 07/03 A3000 RMK AO1 SLP163 T00670033 51019 K1V6 240310Z AUTO 30005KT 10SM CLR 15/05 A2974 RMK AO2 SPCL 240300Z VRB01KT 9999 BKN015 BKN070 25/24 Q1014 RMK PP000 K3AU 240315Z AUTO 14004KT 10SM CLR 10/05 A2998 RMK AO2 YLHR 240300Z AUTO 11010KT //// // SCT021 BKN027 BKN046 28/24 Q1011 LZZI 240300Z VRB01KT 0800 R06/P2000N FG OVC002 01/00 Q1020 YKSC 240300Z AUTO 36009KT 9999 // SCT018 BKN115 21/17 Q1013 AYNZ 240100Z 09005KT 5000 +DZ BKN015 OVC120 24/24 Q1012 MRPV 240000Z COR 06004KT 9999 FEW015 SCT200 21/16 A2997 RERA NOSIG K3F3 240315Z AUTO 00000KT 10SM CLR 13/11 A3003 RMK AO2 T01250105 PWINO YMBA 240300Z AUTO 11009KT //// // ////// 27/16 Q1016 YLIS 240300Z AUTO 06004KT 030V100 9999 // ////// 26/15 Q1019 ZBSJ 240300Z 18003MPS 130V220 CAVOK 22/07 Q1012 NOSIG OAHR 240255Z 31001KT CAVOK 14/00 Q1016 RMK BLU YMBD 240300Z AUTO 36004KT 9999 -SHRA SCT094 OVC110 17/16 Q1015 K2LS 240315Z AUTO 36005KT 10SM SCT036 BKN043 16/09 A2998 RMK AO2 YKRY 240300Z AUTO 17007KT 9999 // SCT040 24/12 Q1020 K2P2 240315Z AUTO 04006KT 10SM CLR 02/M06 A3015 RMK AO2 T00181060 ZBTJ 240300Z 05004MPS 010V120 CAVOK 22/M01 Q1012 NOSIG AYPY 240300Z 32006KT 9999 BKN019 BKN300 30/25 Q1007 YMAV 240300Z AUTO 13007KT 9999 // NCD 19/16 Q1016 OAKB 240250Z VRB01KT 7000 NSC 14/M06 Q1017 NOSIG RMK BLU BLU YLLE 240300Z AUTO 02007G17KT 9999 // NCD 32/08 Q1015 OAJL 240255Z VRB04KT 9000 HZ SCT100 BKN150 OVC200 21/11 A2990 RMK AO2A SLP107 T02060106 52027 $ YMAY 240300Z AUTO 15004KT 080V170 9999 // NCD 22/15 Q1018 GVNP 240300Z 03019KT 9999 FEW015 22/17 Q1015 NOSIG OBBI 240300Z 26002KT CAVOK 25/14 Q1007 NOSIG K54J 240315Z AUTO 32012G16KT 10SM BKN050 15/10 A2986 RMK AO2 T01530103 SPGM 231900Z /////KT 9999 FEW030 BKN120 28/21 Q1013 RMK BIRD HAZARD RWY19 PP000 YMCO 240300Z AUTO 12005KT //// // ////// 21/17 Q1017 NIUE 240300Z AUTO 05009KT 020V100 //// ////// 29/24 Q1010.0 OAKN 231655Z 27012KT 9999 CLR 23/M12 A2988 RMK SLP055 Q1012 DA5113 YMDG 240300Z AUTO 03006KT 9999 // OVC120 22/12 Q1020 K3I2 240315Z AUTO 04003KT 10SM OVC060 15/10 A2998 RMK AO2 T01450100 SPHI 240300Z 18013KT CAVOK 23/19 Q1012 RMK BIRD HAZARD RWY 19/01 PP000 SPHO 232300Z 09006KT 9999 VCSH SCT040 22/11 Q1024 RMK SH QUAD S PP000 MSLP 240250Z 34003KT CAVOK 28/24 Q1010 A2984 NOSIG K4A6 240255Z AUTO 33003KT 10SM OVC030 12/11 A2984 RMK AO2 YMEK 240300Z AUTO 11012KT 9999 // BKN006 OVC010 18/16 Q1018 K3J7 240315Z AUTO 36003KT 2SM +RA BKN005 BKN017 OVC022 13/12 A2978 RMK AO2 VIS 1 1/2V3 SPJC 240300Z 16005KT 9999 OVC011 21/19 Q1013 NOSIG RMK PP000 YMEN 240300Z AUTO 01012KT 9999 // NCD 22/16 Q1016 K4A9 240315Z AUTO 00000KT 10SM OVC012 12/09 A2982 RMK AO2 K1YT 240258Z AUTO 19007KT 10SM BKN085 10/03 A2974 RMK AO2 SLPNO T01030032 56005 $ K57C 240315Z AUTO 09005KT 10SM 04/02 A3007 RMK AO2 T00400018 SPHY 231900Z /////KT 8000 SCT012 BKN060 16/11 Q1037 RMK BIRD HAZARD RWY03/21 PP000 K3K3 240315Z AUTO 15014KT 10SM CLR 15/04 A2979 RMK AO2 YMER 240300Z AUTO 04008KT 9999 // NCD 22/16 Q1017 YMES 240300Z 18005KT CAVOK 18/17 Q1017 YMGB 240300Z AUTO 11008KT //// // ////// 30/24 Q1011 OAMS 240250Z 28002KT 7000 SKC 20/07 Q1015 WHT BLU+ YMGD 240300Z AUTO 11009KT 9999 // SCT030 SCT037 SCT058 31/24 SPJL 240300Z 26005KT 9999 SCT020 09/05 Q1039 RMK PP000 SPJR 232300Z 19006KT 150V240 9999 SCT027 OVC040 15/10 Q1027 RMK SH DSNT QUAD S/SE PP000 YMHB 240300Z 05003KT 9999 FEW026 BKN075 17/13 Q1016 ZBYN 240300Z 36007MPS 330V040 CAVOK 21/M11 Q1014 NOSIG AYWK 240100Z 00000KT 9999 FEW018 SCT040 BKN300 29/25 Q1011 YMIA 240300Z AUTO 35010KT 9999 // SCT036 BKN049 24/15 Q1015 K2V6 240314Z AUTO 14010KT 10SM CLR 13/03 A2969 RMK AO2 YLRE 240300Z AUTO 07006KT 010V140 9999 // NCD 31/12 Q1016 SPME 240300Z /////KT 9999 FEW015 SCT025 24/23 Q1010 RMK BIRD HAZARD RWY 32/14 PP000 K4BM 240314Z AUTO 21012G24KT 10SM CLR 04/M08 A3009 RMK AO2 GVSV 240300Z 06024G34KT 9999 FEW017 BKN200 23/17 Q1016 NOSIG K3LF 240315Z AUTO 01004KT 10SM CLR 12/01 A3001 RMK AO2 T01210011 K2W6 240301Z AUTO 08004KT 10SM OVC100 12/06 A3011 RMK AO1 YMHU 240300Z AUTO 10009KT 060V120 9999 // NCD 35/13 Q1012 K3N8 240315Z AUTO 09016G24KT 10SM SCT015 SCT120 01/M01 A2992 RMK AO2 T00101010 YMIN 240300Z AUTO 33012KT //// // ////// 19/18 Q1014 RMK SPMS 232300Z 02003KT 9999 FEW020 SCT100 27/24 Q1012 RMK BIRD HAZARD RWY 09/27 PP000 MSSA 232250Z 08006KT 9999 FEW037 36/16 Q1013 A2991 YNAR 240300Z AUTO 03010KT 340V040 //// // ////// 27/10 Q1017 YLST 240300Z AUTO 09008KT 9999 // SCT048 OVC069 19/13 Q1019 YLTN 240300Z AUTO 12008KT 070V150 //// // ////// 21/14 Q1020 MSSM 240050Z 23007KT 9999 FEW037 28/21 Q1007 A2974 DAAD 231800Z 09004KT CAVOK 23/M02 Q1016 DAAE 240300Z 23005KT CAVOK 13/07 Q1015 YNBR 240300Z AUTO 16003KT 9999 // BKN059 27/11 Q1018 YMMB 240300Z AUTO 36008KT 9999 // NCD 23/16 Q1016 RMK DAAG 240300Z 10001KT CAVOK 09/08 Q1015 MSSS 240250Z 00000KT 9999 BKN023 25/21 Q1014 A2996 YLTV 240300Z AUTO 21004KT 9999 // SCT062 20/14 Q1017 RMK DAAJ 240300Z 10010KT 5000 NSC 22/04 Q1015 MUCC 240250Z 21005KT 160V250 9000 SCT020 26/23 Q1009 DABB 240300Z 24003KT CAVOK 09/07 Q1016 DABC 240300Z 00000KT CAVOK 08/01 Q1018 K4I3 240317Z AUTO 36007KT 10SM CLR 12/05 A3004 RMK AO2 MUCF 240258Z AUTO 36006KT 25/22 Q1010 K2WX 240256Z AUTO 07021G26KT 07/03 A2960 RMK AO1 PK WND 07026/0256 SLP037 T00670033 58018 $ DAAP 240300Z 09018KT 1000 DRSA SCT046 SCT100 24/03 Q1010 YMLT 240300Z AUTO 35006KT 9999 // SCT039 SCT056 OVC089 17/13 Q1016 YMML 240300Z 01012KT 9999 FEW030 SCT095 BKN250 22/14 Q1016 NOSIG K3R7 240315Z AUTO 00000KT 10SM CLR 13/11 A3001 RMK AO2 T01260109 YMNE 240300Z AUTO 10010KT 9999 // SCT016 BKN037 BKN069 19/15 DAAS 240300Z 00000KT CAVOK 08/M01 Q1019 MUCL 240250Z 26005KT 9000 SCT020 26/22 Q1010 DAAT 240300Z 10007KT 3000 HZ SCT046 SCT100 23/M08 Q1018 MUCM 240250Z 21004KT 9000 FEW020 24/21 Q1011 YMNG 240300Z AUTO 01005KT 9999 // NCD 22/12 Q1017 RMK DAAV 240300Z 14005KT CAVOK 16/07 Q1014 TGPY 240300Z 09018KT 9999 SCT018 27/24 Q1014 NOSIG DAAY 240300Z 24008KT 9999 FEW030 14/05 Q1020 K5A6 240315Z AUTO 32003KT 10SM BKN065 11/10 A2994 RMK AO2 T01120095 AZUH 240153Z 24010KT 9999 FEW040 12/08 Q1010 SPQT 240300Z 00000KT 9999 SCT020 SCT100 25/24 Q1012 NOSIG RMK PP000 K3S8 240315Z AUTO 00000KT 10SM OVC070 11/04 A2997 RMK AO2 K65S 240315Z AUTO 00000KT 10SM BKN060 OVC075 08/04 A2975 RMK AO2 SPQU 240300Z VRB02KT CAVOK 12/05 Q1027 RMK PP000 DABS 240300Z 08004KT CAVOK 06/M04 Q1019 MUCU 240251Z 13007KT 9000 SCT018 BKN070 25/23 Q1012 DABT 240300Z 11006KT CAVOK 08/M05 Q1018 YMOG 240300Z AUTO 10011KT //// // ////// 21/13 Q1019 RMK K3T5 240315Z AUTO 00000KT 10SM CLR 14/11 A3001 RMK AO2 T01380112 K66R 240315Z AUTO 00000KT 10SM CLR 13/10 A3004 RMK AO2 T01310102 SPRU 240300Z 14008KT 8000 NSC 21/19 Q1012 RMK BR PP000 K5C1 240315Z AUTO 00000KT 10SM CLR 11/05 A3004 RMK AO1 SPSO 240300Z 04005KT 8000 BKN010 21/19 Q1012 RMK PP000 YMOR 240300Z AUTO 04006KT 010V070 9999 // SCT062 27/11 Q1018 SPST 240300Z 28004KT 9999 FEW025 24/22 Q1013 RMK BIRD HAZARD RWY 17/35 PP000 SPTN 240300Z 23004KT 9999 OVC030 18/15 Q1016 RMK PP000 YMRB 240300Z AUTO 12009KT 9999 // BKN043 BKN051 27/16 Q1017 YNHL 240300Z AUTO 03005KT //// // ////// 20/15 Q1015 RMK DAFH 231800Z 12010KT CAVOK 20/02 Q1019 MUHA 240255Z 33004KT 290V350 9999 NSC 23/20 Q1011 SPTU 232300Z /////KT 8000 SCT010 BKN020 24/23 Q1010 RMK BIRD HAZARD RWY 01/19 PP000 K4M9 240255Z AUTO 33006KT 10SM CLR 15/05 A2997 RMK AO2 MUGM 240256Z 11009KT 9999 FEW029 BKN036 BKN060 26/25 A2990 RMK SLP123 60000 T02610250 53006 MTPP 232300Z 08010KT 8000 RERA FEW008 SCT020 OVC040 25/23 Q1009 A2982 MUHG 240250Z 18004KT 9000 FEW025 BKN200 24/21 Q1011 K4O4 240315Z AUTO 00000KT 10SM CLR 10/06 A3001 RMK AO2 YMRY 240300Z AUTO 05011KT 9999 // NCD 22/16 Q1018 RMK YMTG 240300Z AUTO 07005KT 9999 -RA BKN004 OVC096 15/14 Q1016 RERA YMTI 240300Z AUTO 13009KT 070V140 //// // ////// 32/22 Q1012 K4MR 240258Z AUTO 17011KT 10SM CLR 16/01 A2994 RMK AO2 SLP103 T01600010 55003 $ K5H4 240315Z AUTO 09017G22KT 10SM M02/M02 A2993 RMK AO2 PWINO SPYL 232300Z 19011KT CAVOK 26/20 Q1008 RMK BIRD HAZARD RWY 17/35 PP000 DBBB 240300Z 00000KT 8000 FEW011 27/25 Q1009 NOSIG K4R5 240315Z AUTO 08005KT 10SM OVC070 02/M02 A3012 RMK AO2 T00151023 K6A1 240315Z AUTO 28003KT 10SM 18/18 A2980 RMK AO2 T01820175 K4S2 240315Z AUTO 00000KT 7SM -RA BKN046 OVC060 09/05 A2985 RMK AO2 K74V 240315Z AUTO 29019G25KT 10SM SCT070 SCT090 SCT110 13/02 A2982 RMK AO2 K6A2 240315Z AUTO 05004KT 10SM OVC003 15/15 A2981 RMK AO2 SPZO 240300Z /////KT 9999 SCT050 SCT100 09/05 Q1034 RMK PP000 UAAA 240300Z VRB01MPS 9999 NSC 17/07 Q1022 R88/CLRD65 NOSIG K6B0 240315Z AUTO 00000KT 10SM CLR 09/02 A3003 RMK AO2 T00880017 UAAH 240300Z 04008MPS CAVOK 16/00 Q1021 R05/0///60 NOSIG RMK QFE728/0971 YMYB 240300Z AUTO 12013KT 9999 // SCT073 26/17 Q1018 K6B9 240315Z AUTO 00000KT 10SM CLR 08/05 A3007 RMK AO2 UACC 240300Z 26006MPS 9999 SCT021 08/01 Q1021 R22/0///70 NOSIG RMK QFE734/0979 K4V0 240315Z AUTO 28018G23KT 10SM SCT085 OVC110 18/M04 A2974 RMK AO2 T01771037 DAOB 240300Z 00000KT CAVOK 09/07 Q1017 TJBQ 240250Z 11007KT 10SM SKC 24/22 A2998 DAOF 240300Z 31013KT 2500 HZ NSC 20/07 Q1011 YNRC 240300Z AUTO 16004KT //// // ////// 15/14 Q1015 RMK UACK 240300Z 28008MPS 9999 BKN016CB OVC040 05/02 Q1018 NOSIG RMK QFE740/0986 DAOI 240300Z 04006KT CAVOK 15/07 Q1014 K79J 240256Z AUTO 31008KT 10SM CLR 15/10 A2986 RMK AO2 SLP108 T01500100 51019 UADD 240300Z VRB01MPS 9999 NSC 15/07 Q1021 NOSIG RMK QFE708/0945 K5M9 240315Z AUTO 01006KT 10SM CLR 12/08 A2994 RMK AO2 T01170077 DAOL 240300Z 22010KT 7000 FEW026 13/13 Q1016 UACP 240300Z 27006MPS 9999 BKN012 OVC030CB 06/04 Q1015 NOSIG RMK QFE749/0999 DAON 240300Z 00000KT 3000 BR BKN010 13/13 Q1016 DAOO 240300Z 18004KT 9999 FEW026 13/11 Q1015 DAOR 240300Z 10011KT CAVOK 20/03 Q1015 YPAD 240300Z 36009KT 9999 -RA FEW018 SCT035 BKN120 20/16 Q1015 INTER 0300/0600 3000 SHRA BKN008 K82C 240315Z AUTO 12007KT 10SM CLR 11/06 A3001 RMK AO2 T01060059 DAOV 240300Z 00000KT CAVOK 11/07 Q1015 DAOY 240300Z 12014KT 9999 SCT030 11/01 Q1018 YNSM 240300Z AUTO 28004KT //// // ////// 20/11 Q1022 RMK OEAB 240300Z 19004KT CAVOK 16/04 Q1023 NOSIG MUSC 240254Z 26005KT 240V300 9000 VCTS BKN020CB 23/20 Q1011 OEAH 240300Z 27003KT CAVOK 21/03 Q1008 NOSIG OEBA 240300Z 21003KT CAVOK 19/11 Q1019 NOSIG YPCC 240300Z 14016KT 9999 FEW020 BKN350 28/22 Q1015 YOLD 240300Z AUTO 19005KT 120V210 9999 // BKN067 OVC086 19/18 Q1016 YNTN 240300Z AUTO 10007KT 9999 // NCD 33/16 Q1012 YPBO 240300Z AUTO 29011KT 9999 // SCT110 30/17 Q1015 K82V 240315Z AUTO 00000KT 10SM CLR 10/04 A2971 RMK AO2 PWINO OEAO 232100Z 18006KT CAVOK 29/07 Q1013 OEBH 240300Z 19005KT CAVOK 19/M08 Q1015 NOSIG OEAR 240300Z 00000KT CAVOK 28/12 Q1008 MWCB 240000Z 26010KT 9999 FEW016CB 27/24 Q1009 K6I2 240310Z AUTO 01004KT 10SM BKN031 13/09 A2993 RMK AO2 YPEA 240300Z 09003KT CAVOK 24/12 Q1021 FM0400 12008KT CAVOK K5R8 240315Z AUTO 00000KT 10SM CLR 12/12 A3001 RMK AO2 T01210116 YOLW 240300Z AUTO 31009KT //// // ////// 29/20 Q1014 RMK DAUA 240300Z 06017KT 6000 NSC 23/02 Q1006 YPDN 240300Z 12008G19KT 9999 FEW040 32/19 Q1010 NOSIG DAUB 240200Z 34004KT CAVOK 15/M00 Q1017 TJIG 232246Z 15008KT 1SM RA OVC025 25/23 A2995 DATM 231200Z 21008KT 8000 NSC 41/03 Q1008 OEDF 240300Z 20006KT CAVOK 20/06 Q1007 NOSIG DAUE 240300Z 03015KT CAVOK 19/02 Q1013 UAII 240300Z VRB01MPS CAVOK 18/05 Q1018 R10/0///70 NOSIG RMK QFE728/0971 MWCR 240300Z 26006KT 9999 FEW020 27/24 Q1010 DAUG 240300Z 02014KT CAVOK 16/M00 Q1016 DAUH 240300Z 01007KT 9999 SCT040 SCT100 19/04 Q1013 YOOD 240300Z AUTO 36017KT //// // ////// 31/14 Q1012 RMK DAUI 230948Z 05022KT 3000 DRSA NSC 30/03 Q1009 YNWN 240300Z AUTO 34004KT 280V020 9999 // SCT031 BKN110 27/19 Q1017 DAUK 240300Z 36005KT CAVOK 14/07 Q1015 OEDM 231800Z 12010KT CAVOK 31/M05 Q1015 DAUL 240300Z 00000KT CAVOK 12/04 Q1018 DAUO 240300Z 08006KT CAVOK 14/04 Q1016 OEDR 242200Z VRB02KT CAVOK 19/07 Q1005 NOSIG MUVR 240250Z 29005KT 9000 SCT020 24/21 Q1011 UBBB 240300Z 32025G35KT CAVOK 16/07 Q1007 R88/CLRD// NOSIG YOOM 240300Z AUTO 34005KT 280V030 9999 // SCT115 32/12 Q1014 DAUT 240300Z 05022KT 7000 DRSA NSC 21/05 Q1009 DAUU 240300Z 03012KT 9999 FEW046 17/03 Q1013 ZGGG 240300Z 09002MPS 020V130 3000 BR OVC033 22/19 Q1015 NOSIG UBBG 240300Z 30025KT 9999 FEW100 10/02 Q1011 R30/CLRD// NOSIG K6L4 240315Z AUTO 00000KT 8SM OVC080 10/09 A2996 RMK AO2 ZGHA 240300Z 18003MPS 150V210 CAVOK 25/11 Q1014 NOSIG DAUZ 240300Z 09017KT 3000 DRSA NSC 22/02 Q1013 UAKK 240300Z 28006MPS 9999 FEW022 07/01 Q1022 R23/0///70 NOSIG RMK QFE720/0960 TIST 240253Z 10012KT 10SM FEW023 27/23 A2999 RMK AO2 SLP155 T02670228 51012 UBBL 240300Z 00000KT 9999 SCT045 BKN100 13/10 Q1007 R33/CLRD// RMK MT OP UBBN 240300Z 13010KT 9999 SCT100 17/08 Q1007 R14R/CLRD// NOSIG RMK MT OP QFE681 TISX 240253Z AUTO 10008KT 4SM +RA FEW005 BKN031 OVC037 24/ A3001 RMK AO2 SLP160 P0025 60112 T0239 51018 $ K5SM 240315Z AUTO 21007G18KT 10SM CLR 02/M08 A3004 RMK AO2 UBBQ 240300Z 31022G32KT 9999 FEW200 12/05 Q1006 R16/CLRD// NOSIG RMK MT OP YPGV 240300Z AUTO 09017KT 9999 // SCT023 BKN030 BKN071 31/24 Q1011 YORG 240300Z AUTO 35007KT 9999 // SCT039 SCT053 OVC071 18/09 OEGN 240300Z 00000KT 9000 NSC 29/20 Q1006 NOSIG K7BM 240315Z AUTO 24008G15KT 10SM CLR 11/M13 A3002 RMK AO2 UBBY 240300Z 34008KT 9999 SCT100 11/05 Q1013 R33/////// NOSIG RMK MT OP OEGS 240300Z 07004KT CAVOK 23/03 Q1010 OEGT 240300Z 28020KT CAVOK 13/09 Q1015 NOSIG OEHL 240300Z 12002KT 9999 FEW035CB SCT040 23/06 Q1013 NOSIG UBEE 240300Z 35016G26KT CAVOK 13/02 Q1008 R30/CLRD// NOSIG YPKA 240300Z AUTO 29007KT 9999 // NCD 30/22 Q1013 RMK YPKG 240300Z AUTO 11007KT 9999 // NCD 19/09 Q1022 TJNR 240316Z AUTO 10009KT 10SM SCT020 BKN026 OVC034 A3001 RMK AO2 $ YPJT 240300Z AUTO 06003KT 9999 // NCD 23/12 Q1022 RF00.0/000.0 YPLC 240300Z AUTO 30019KT 9999 // SCT036 25/13 Q1014 RMK ZHCC 240300Z 05005MPS CAVOK 25/11 Q1011 NOSIG ZGKL 240300Z VRB01MPS CAVOK 25/17 Q1014 NOSIG K6P9 240315Z AUTO 11003KT 10SM CLR 09/05 A3003 RMK AO2 T00890047 UAOO 240300Z 09006MPS 060V120 CAVOK 16/01 Q1019 R05/CLRD70 NOSIG RMK QFE753/1004 OEJN 240300Z 01003KT CAVOK 27/22 Q1006 NOSIG YPKS 240300Z AUTO 34014KT //// // SCT053 BKN115 24/10 Q1019 YPKT 240300Z AUTO 10006KT 060V150 //// // ////// 33/19 Q1011 OEKJ 240300Z 21006KT CAVOK 24/M02 Q1013 YPKU 240300Z AUTO 23004KT 160V290 9999 // NCD 34/20 Q1011 RF00.0/000.0 OEKK 232000Z 09008KT CAVOK 28/12 Q1011 NOSIG YPLM 240300Z 25005KT 9999 FEW036 BKN385 31/17 Q1013 OEKM 240300Z 15007KT CAVOK 17/00 Q1023 NOSIG K6R3 240315Z AUTO 00000KT 10SM CLR 12/11 A3002 RMK AO2 T01230111 K6R6 240253Z AUTO 13005KT 17/02 A2999 RMK AO1 SLP136 T01670022 53000 TJPS 240250Z 09008KT 10SM BKN030 26/23 A3002 OEMA 240300Z 02004KT 6000 SKC 27/03 Q1012 TEMPO 4000 K6S0 240315Z AUTO 24016G24KT 10SM CLR 07/03 A2973 RMK A01 K8A0 240315Z AUTO 30004KT 10SM SCT005 OVC016 11/11 A2983 RMK AO2 K6S2 240315Z AUTO 20007G14KT 4SM -RA SCT016 BKN033 OVC040 08/07 A2991 RMK AO2 P0003 YPMQ 240300Z AUTO 07009KT 9999 // NCD 23/16 Q1019 SUAA 232200Z 12006KT CAVOK 17/14 Q1018 YPOD 240300Z AUTO 05004KT 9999 // BKN078 OVC087 16/13 Q1017 OEMK 240300Z 00000KT CAVOK 32/15 Q1007 ZGNN 240300Z 10002MPS 070V190 5000 BR SCT009 OVC026 20/17 Q1014 NOSIG K8B0 240315Z AUTO 28005KT 10SM CLR 07/M01 A2999 RMK AO2 OENG 240300Z 00000KT CAVOK 19/M02 Q1016 NOSIG UARR 240300Z 10010MPS 9999 BKN050CB BKN100 10/05 Q1002 R04/290160 TEMPO 12011G16MPS RMK QFE748/0997 TJSJ 240256Z 10009KT 10SM FEW032 SCT055 BKN100 27/24 A2999 RMK AO2 SLP154 60000 T02670239 51012 UASK 240300Z 29006MPS 9999 SCT033CB BKN071 11/05 Q1022 R30/190060 NOSIG RMK QFE741/0988 YPPD 240300Z 02005KT CAVOK 30/23 Q1013 UATE 240300Z 28005MPS CAVOK 12/09 Q1004 R12/0///70 NOSIG RMK QFE751/1001 K7L2 240315Z AUTO 06014KT 10SM 01/01 A2982 RMK AO2 YPPH 240300Z 07005KT 020V130 9999 FEW040 23/12 Q1021 NOSIG UATG 240300Z 15007MPS 9999 BKN033CB 15/06 Q1001 R14/CLRD70 NOSIG RMK QFE752/1003 UASP 240300Z 25009MPS 9999 FEW043 11/03 Q1017 R21/0///60 NOSIG RMK QFE752/1003 SUCA 232200Z 09005KT CAVOK 17/12 Q1015 UASS 240300Z 18004MPS 150V210 CAVOK 13/03 Q1021 NOSIG RMK QFE747/0996 OEPA 240300Z 00000KT CAVOK 23/11 Q1010 NOSIG ZGOW 240300Z 10004MPS 060V140 CAVOK 24/13 Q1016 NOSIG ZHHH 240300Z 18005MPS 150V210 CAVOK 25/12 Q1013 NOSIG K8D3 240256Z AUTO 08012KT 10/05 A2979 RMK AO1 SLP093 T01000050 53011 UATT 240300Z 15008MPS CAVOK 10/04 Q1013 R13/CLRD70 NOSIG RMK QFE740/0987 K7N0 240256Z AUTO 36006KT 10SM 17/10 RMK AO2 SLPNO 6//// T01670100 PNO $ CMGB 240315Z AUTO 36004KT 09/04 RMK AO1 SLP177 T00920040 51045 CMFM 240300Z AUTO 31009G20KT M01/M02 RMK AO1 SOG 59 3008 PK WND 30020/0251 SLP145 T10091022 50016 UAUU 240300Z 18002MPS CAVOK 06/04 Q1019 R33/CLRD60 NOSIG RMK QFE749/0999 OERF 240300Z 11005KT 7000 SCT040 SCT100 25/09 Q1009 SUDU 232100Z 03004KT CAVOK 20/09 Q1017 OERK 240300Z 17002KT CAVOK 21/M03 Q1012 NOSIG OESH 240300Z 22004KT CAVOK 20/M07 Q1013 NOSIG OERR 240300Z 36010KT 0500 DU SKC 19/13 Q1012 NOSIG OETB 240300Z 32008KT CAVOK 15/05 Q1015 NOSIG OESK 240300Z 31015KT CAVOK 18/M05 Q1013 NOSIG UCFL 240300Z 15002MPS 9999 NSC 11/01 Q1028 RMK G/O UCFM 240300Z 12004MPS CAVOK 16/06 Q1022 R08/CLRD70 NOSIG YPTN 240300Z AUTO 11014KT 9999 // NCD 33/16 Q1012 UCFO 240300Z 16003MPS 9999 NSC 18/06 Q1020 R12/CLRD70 NOSIG OETF 240300Z 15005KT CAVOK 20/09 Q1018 NOSIG ZGSZ 240300Z VRB01MPS 8000 BKN033 BKN050 22/17 Q1015 NOSIG TKPK 240200Z 08011KT 9999 BKN018 BKN045 26/22 Q1016 TKPN 240000Z 10014KT 9999 BKN020 BKN045 26/19 Q1014 OETR 240300Z 33014KT 8000 FEW030 SCT100 10/04 Q1014 K9A5 240315Z AUTO 00000KT 10SM OVC027 15/14 A2982 RMK AO2 T01510136 YREN 240300Z AUTO 32011KT 9999 // SCT110 24/15 Q1015 RMK OEWD 240300Z 24004KT CAVOK 21/08 Q1011 NOSIG YPWR 240317Z AUTO 30005KT 3000 // SCT005 BKN010 BKN020 18/18 Q1017 OEWJ 240300Z 33013KT CAVOK 24/18 Q1008 NOSIG YPXM 240300Z AUTO 12011KT 9999 // BKN009 OVC014 27/25 Q1014 SVBM 240300Z 09010KT 9999 BKN013 23/20 Q1015 MYGF 232300Z 00000KT 9000 FEW012CB BKN070 22/22 A2973 RMK CB NE/E HTAR 231900Z 09010KT 9999 BKN026 21/18 Q1017 OEYN 240300Z 27005KT 9999 FEW040 26/21 Q1005 NOSIG K7W4 240315Z AUTO 00000KT 10SM BKN023 BKN055 OVC100 10/10 A3008 RMK AO1 T01020100 K7W6 240315Z AUTO 03012KT 10SM OVC010 15/15 A2996 RMK AO2 T01500145 SULS 240300Z 05006KT 360V080 CAVOK 13/11 Q1019 HTDA 240200Z 20005KT 9999 BKN013 FEW015CB 24/24 Q1013 NOSIG HTBU 240100Z 33012KT 9999 TS FEW017 FEW019CB BKN080 21/18 Q1017 SUMU 240300Z 05009KT CAVOK 14/09 Q1017 NOSIG HTDO 240200Z 10004KT 9999 FEW018 19/18 Q1018 NOSIG YSBK 240300Z AUTO 15004KT 040V190 9999 // NCD 24/13 Q1019 YSCB 240300Z 29005KT 9999 FEW030 SCT200 21/11 Q1020 NOSIG TLPC 240100Z 11012KT 9999 -SHRA SCT021 27/23 Q1014 NOSIG HSOB 240200Z 34009KT CAVOK 26/04 Q1009 HSNN 240200Z 36006KT CAVOK 29/M12 Q1009 YRMD 240300Z AUTO 08009KT //// // ////// 33/12 Q1014 TLPL 240300Z 11018KT 9999 SCT024 27/24 Q1015 NOSIG YSCN 240300Z AUTO 02005KT 360V060 9999 // NCD 24/15 Q1019 RMK YSCO 240300Z AUTO 19007KT //// // ////// 23/13 Q1019 RMK YSCR 240300Z AUTO 09009KT //// // ////// 21/08 Q1021 RMK HSPN 232000Z 30004KT CAVOK 30/23 Q1007 MZBZ 240200Z 18004KT 9999 FEW018 26/25 A2985 Q1010 NOSIG HRYR 240300Z VRB02KT 7000 FEW023 17/16 Q1020 NOSIG YSDU 240300Z AUTO 33007KT 9999 // BKN076 BKN084 OVC110 21/12 Q1020 YROM 240300Z AUTO 01007KT 340V050 9999 // SCT053 SCT063 SCT076 YSGE 240300Z AUTO 01006KT //// // ////// 28/10 Q1018 SUSO 232000Z 06006KT CAVOK 24/10 Q1016 MYNN 240300Z 12010KT 9999 SCT018TCU BKN035 25/22 A2983 RMK TCU/SCT ALQDS PKWND 16KT K9L2 240258Z AUTO 26017KT 10SM CLR 18/03 A2983 RMK AO2 PK WND 28032/10 SLP088 T01750027 50005 TNCA 240200Z 08014KT 9999 FEW018 28/25 Q1009 A2982 HTIR 240200Z 00000KT 9999 FEW017 15/14 Q1021 TNCB 240255Z AUTO 09016KT 060V120 9999 FEW012/// 27/24 Q1011 HTKA 240000Z 00000KT 9999 FEW020 FEW022CB 21/20 Q1018 TNCC 240300Z 10012KT 9999 FEW017 27/24 Q1011 NOSIG TNCE 240255Z AUTO 09012KT 030V120 //// // ///////// 26/22 Q1016 RE// DFFD 240300Z 25006KT CAVOK 31/19 Q1010 NOSIG YSHK 240300Z AUTO 17013KT //// // ////// 27/13 Q1015 RMK ZJHK 240300Z 15002MPS 070V220 9999 FEW015 FEW023CB BKN040 29/25 Q1012 NOSIG HTKJ 240200Z 03005KT 9999 BKN024 21/20 Q1016 NOSIG HSSS 240300Z 35017G26KT CAVOK 30/M04 Q1008 TEMPO FM 0330Z 6000 TNCM 240300Z 10010KT 9999 SCT018 SCT035 26/23 Q1016 A3000 K8W2 240315Z AUTO 00000KT 10SM SCT095 SCT120 10/06 A3007 RMK AO1 T01020062 SVMI 240400Z 00000KT 9999 SCT016 28/23 Q1011 YSHT 240300Z AUTO 03009KT 9999 // NCD 23/13 Q1017 RMK YSHW 240300Z AUTO 34003KT 9999 // NCD 24/13 Q1019 RMK UEEE 240300Z 30003MPS 9999 FEW050CB 08/M07 Q1022 R23L/09//60 NOSIG RMK QFE758 HTMG 240000Z 00000KT 9999 SCT022 22/21 Q1016 OIAA 240300Z 20014KT 7000 SCT040 24/08 Q1007 OIAD 240200Z 00000KT 7000 NSC 21/16 Q1008 A2978 FEW100 BKN170 K9MN 240313Z AUTO 15007KT 10SM CLR 16/01 A2993 RMK AO1 T01550010 YTAR 240300Z AUTO 20004KT //// // ////// 17/16 Q1017 RMK YRTI 240300Z AUTO 16010KT //// // ////// 20/13 Q1022 RMK OIAG 240200Z 16004KT 9999 FEW040 22/07 Q1007 OIAH 240300Z 00000KT CAVOK 19/M01 Q1013 OIAI 240152Z 18004KT CAVOK 24/01 Q1008 OIBA 240300Z 18004KT 6000 NSC 25/24 Q1006 OIBB 240300Z 00000KT 5000 BR NSC 19/16 Q1007 A2976 HTMT 240100Z 21008KT 9999 FEW020 24/23 Q1013 DGAA 240300Z 28003KT CAVOK 27/25 Q1011 NOSIG HTMU 240200Z 00000KT 9999 FEW018CB SCT090 22/18 Q1017 OIAM 240300Z 15004KT 9999 SCT040 25/17 Q1006 HUEN 240300Z 20006KT 8000 -TSRA SCT017 FEW019CB OVC100 19/19 Q1017.0 NOSIG HTMW 240200Z 00000KT 9999 -RA FEW018 FEW019CB BKN080 19/18 Q1016 NOSIG OIBJ 240300Z 20004KT CAVOK 22/02 Q1013 OIBK 240300Z 30004KT 6000 NSC 25/24 Q1006 OIBL 240300Z 07004KT CAVOK 25/08 Q1006 OICC 240300Z 09010KT 9999 FEW040CB SCT045 OVC090 16/06 Q1016 A3003 NOSIG OIAW 240300Z 30006KT 6000 FEW040 BKN100 28/02 Q1007 YSMH 240300Z AUTO 12009KT 9999 // SCT027 SCT035 26/18 Q1017 YSMI 240300Z AUTO 01007KT //// // ////// 17/15 Q1016 OIBP 240300Z 00000KT CAVOK 19/16 Q1005 A2969 OIBQ 240300Z 00000KT 8000 NSC 22/19 Q1007 OICI 240300Z 14002KT 6000 RA FEW035CB SCT040 OVC080 14/10 Q1019 A3010 OICJ 240150Z 00000KT CAVOK 15/02 Q1018 OIBS 240300Z 15008KT 5000 HZ NSC 27/22 Q1006 OICK 240250Z 00000KT 9999 SCT040 BKN100 14/08 Q1016 YTEE 240300Z AUTO 06010KT 040V100 9999 // NCD 33/12 Q1014 RMK KMG 240300Z AUTO 01016KT 9999 // OVC093 18/13 Q1017 OICM 240200Z 32006KT CAVOK 26/11 Q1008 OIBV 231400Z 29006KT 8000 NSC 31/22 Q1006 YSNF 240300Z 11009KT 9999 SCT028 22/12 Q1017 YTEF 240300Z AUTO 15006KT 9999 // NCD 30/16 Q1015 OICS 240300Z 36002KT 9999 FEW040 SCT200 12/09 Q1015 YTEM 240300Z AUTO 02008KT //// // ////// 25/09 Q1018 RMK CPBT 240200Z AUTO 01007KT 08/03 RMK AO1 T00790027 UDSG 240300Z VRB01KT 9999 SCT046CB 04/M02 Q1012 R02/CLRD70 NOSIG YSOL 240300Z AUTO 30007KT 9999 // BKN048 BKN055 29/17 Q1017 YSNW 240300Z 05006KT 9999 FEW035 24/14 Q1018 NOSIG CPEH 240200Z AUTO 02016KT 10/05 RMK AO1 PK WND 02019/0154 T00960052 YTGM 240300Z AUTO 06003KT //// // ////// 29/10 Q1016 OIFK 240200Z 00000KT CAVOK 19/M02 Q1012 HTTB 240200Z 00000KT CAVOK 18/16 Q1019 OIFM 240300Z 32004KT 8000 NSC 11/M08 Q1018 A3008 HTSO 240200Z 00000KT 9999 FG FEW017 FEW020CB SCT080 17/16 Q1019 OIGG 240300Z 33008KT 4000 BR FEW020 SCT090 14/13 Q1006 YTIB 240300Z AUTO 32005KT 280V360 //// // ////// 29/12 Q1016 SVVA 232300Z 25011KT 9999 BKN016 28/23 Q1012 OIFS 240300Z 34002KT 9999 FEW040 SCT200 03/M04 Q1022 CPFI 240300Z AUTO 12007KT 08/05 RMK AO1 9PAST HR M P0004 T00770050 50069 OIGK 240150Z 24012G19KT 9999 SCT035 12/05 Q1014 K9V9 240315Z AUTO 14016G22KT 10SM CLR 18/00 A2966 RMK AO2 T01810000 HTSU 240200Z 00000KT 9999 FEW017 BKN070 16/15 Q1021 YSRI 240300Z AUTO 09006KT 9999 // NCD 24/16 Q1019 PRESENT WEATHER SENSOR US DFOO 240300Z 14004KT CAVOK 29/22 Q1011 OIHH 240300Z 18008KT 9999 FEW040 SCT100 12/05 Q1017 YSRN 240300Z AUTO 32008KT 9999 // SCT008 BKN021 BKN074 17/14 OIHM 240152Z 13004KT 9999 FEW040 SCT090 14/01 Q1017 OIIE 240300Z VRB03KT CAVOK 20/M01 Q1013 OIHR 230900Z 15016KT CAVOK 25/M00 Q1021 OIII 240300Z 04004KT 9999 FEW035 SCT100 22/M07 Q1014 A2996 TEMPO 4000 RA OIIK 240300Z 19002KT 6000 FEW040 BKN100 18/07 Q1014 PAAD 240315Z AUTO 28008KT 5SM -SN OVC006 M14/M16 A3003 RMK AO2 T11401160 YSTH 240300Z AUTO 00000KT 9999 // OVC016 17/14 Q1017 OIIP 240300Z 09006KT 9999 FEW040 SCT200 18/04 Q1014 OJAI 240300Z 27004KT 7000 SCT035 BKN100 07/04 Q1018 NOSIG OIIS 240200Z 30004KT 9999 FEW035 BKN190 20/M06 Q1015 PABA 240252Z AUTO 28005KT 8SM -SN OVC008 M13/M16 A3004 RMK AO2 SLP158 P0000 60000 T11281161 55002 FZRANO TSNO OIKB 240300Z 32004KT CAVOK 26/16 Q1006 A2972 NOSIG PAAK 240316Z 15008KT 10SM BKN022 BKN031 OVC065 08/01 A2900 RMK AO1 OJAM 240300Z 29008KT 5000 HZ SCT025 SCT100 09/04 Q1017 NOSIG ZJSY 240300Z 18002MPS 130V220 9999 SCT020 SCT043 30/24 Q1013 BECMG AT0440 TSRA YSSY 240230Z 10006KT 9999 FEW030 22/15 Q1019 FM0300 04010KT 9999 FEW035 PABE 240253Z 18005KT 10SM FEW043 SCT050 BKN090 11/03 A2951 RMK AO2 SLP995 T01110028 55004 $ OJAQ 240300Z 34012KT CAVOK 17/05 Q1017 NOSIG PAAQ 240253Z AUTO 13008KT 10SM SCT090 13/00 A2965 RMK AO2 SLP041 T01280000 56004 TSNO $ PABI 240253Z 06003KT 10SM OVC200 12/M11 A2963 RMK AO2 SLP048 FU DSNT SE T01221106 56007 CPIR 240200Z AUTO 35006KT 08/05 RMK AO1 T00760051 50005 OIKK 240300Z 00000KT CAVOK 13/M09 Q1020 A3014 PABL 240256Z AUTO 08004KT 10SM CLR 06/M08 A2973 RMK AO2 SLP071 T00611083 56012 YSTW 240300Z AUTO 26006KT 240V310 9999 // NCD 25/08 Q1019 PACD 240253Z AUTO 14016KT 10SM FEW020 BKN038 OVC065 06/03 A2929 RMK AO2 SLP919 T00610028 58006 TSNO OIKO 240150Z 00000KT 8000 NSC 19/09 Q1006 OIKQ 240300Z 00000KT 6000 NSC 24/19 Q1006 PABR 240253Z 02010KT 10SM CLR M08/M11 A3009 RMK AO2 SLP191 T10781111 56002 HTZA 240200Z 00000KT 9999 BKN016 25/24 Q1012 NOSIG OIMB 240300Z 11004KT CAVOK 12/M16 Q1017 PABT 240253Z 05010KT 10SM SCT150 07/M13 A2976 RMK AO2 SLP091 T00671133 56014 OIMC 240300Z AUTO 19004KT //// // ////// 16/06 Q1014 YTMO 240300Z AUTO 06011KT //// // ////// 33/12 Q1015 RMK OIMD 240300Z AUTO 21004KT //// // ////// 17/M03 Q1013 PACM 240256Z AUTO 28003KT 10SM SCT050 OVC085 05/01 A2955 RMK AO2 SLP004 T00500011 56008 PABV 240256Z AUTO 00000KT 10SM BKN075 11/01 A2966 RMK AO2 SLP054 T01060006 56007 $ YTNG 240300Z AUTO 14005KT 9999 // SCT053 27/12 Q1018 PADE 232353Z AUTO 29005KT 10SM CLR M03/M08 A2980 RMK AO2 SLP091 T10281083 11028 21089 58014 TSNO $ YSWG 240300Z 02004KT 310V070 CAVOK 25/11 Q1018 YSWH 240300Z AUTO 02011KT 9999 // NCD 25/14 Q1015 RMK PADG 231707Z 00000KT 10SM SKC M02/M15 A2989 UDYZ 240300Z 16002KT 9999 VCTS SCT040CB 12/05 Q1008 R09/190070 NOSIG YTNK 240300Z AUTO 03007KT 9999 // SCT073 33/12 Q1015 OINB 240200Z VRB02KT 9999 OVC022 15/14 Q1005 PADK 240316Z AUTO 36008KT 10SM BKN018 BKN025 OVC031 05/00 A2907 RMK AO1 PAEC 240046Z 00000KT 30SM BKN090 BKN160 11/M06 A2960 RMK NOSPECI PADL 240256Z 12003KT 10SM -RA BKN032 OVC060 08/05 A2950 RMK AO2 SLP995 P0001 60001 T00780050 55009 OIMM 240300Z 05004KT CAVOK 17/04 Q1017 A3004 PACV 240253Z 25004KT 10SM BKN075 BKN120 11/04 A2970 RMK AO2 SLP057 T01110039 56005 PADM 240256Z AUTO 12007KT 10SM OVC085 12/02 A2959 RMK AO2 SLP028 T01170017 56005 PAED 240258Z AUTO 25005KT 10SM OVC120 13/01 A2964 RMK AO2 CIG 100 RWY24 SLP033 T01310006 57009 OINE 240300Z 21006KT 1200 BR BKN020 OVC080 15/15 Q1006 OIMN 240300Z 00000KT CAVOK 12/04 Q1015 OING 240300Z 24006KT 3000 BR OVC010 16/15 Q1008 PAEG 240253Z AUTO 03003KT 9SM CLR 12/M12 A2966 RMK AO2 SLP052 T01171117 56011 TSNO OIMQ 240300Z AUTO 12002KT //// // ////// 17/M02 Q1017 PADQ 240253Z 07009KT 1/2SM FG VV003 06/06 A2957 RMK AO2 RAE27 SLP013 P0002 60003 T00610061 56007 PACZ 240255Z AUTO 04009KT 10SM BKN044 07/01 A2951 RMK AO2 SLP995 T00660010 57005 PAEH 240255Z AUTO 15012G24KT 120V180 10SM -DZ FEW021 BKN038 07/03 A2944 RMK AO2 RAB0244E0246DZB0246 SLP974 P0000 60000 T00670028 56012 PAEI 240258Z AUTO 01007KT 10SM CLR 12/M07 A2962 RMK AO2 SLP037 T01201067 57007 $ NSFA 240300Z 05011KT 9999 BKN020 33/26 Q1007 PAFA 240253Z 02007KT 10SM CLR 08/M05 A2964 RMK AO2 SLP043 T00831050 56007 VISNO NE OINK 240200Z 26004KT 6000 SCT025 OVC080 15/14 Q1005 OIMT 230500Z 00000KT CAVOK 26/M02 Q1018 PAFB 240258Z AUTO 06007KT 8SM CLR 10/M06 A2963 RMK AO2 SLP039 T01001065 57007 PAEL 240258Z 36010KT 25SM BKN080 11/03 A2970 RMK NOSPECI LAST PADU 240301Z 12009KT 10SM -RA SCT021 BKN025 OVC038 06/02 A2921 RMK AO2 LAST EM P0000 OINN 240300Z 13004KT 4000 BR BKN015 BKN026 14/13 Q1004 PAEN 240253Z 34009KT 10SM FEW045 BKN075 OVC095 11/03 A2965 RMK AO2 SLP041 60001 T01060028 56013 PAFE 240256Z AUTO 00000KT 10SM 11/02 A2974 RMK AO2 SLP084 T01110017 55001 $ OINR 240300Z 18004KT 3000 BR SCT010 BKN180 14/12 Q1004 PAGA 240257Z AUTO 36006KT 10SM CLR 08/M06 A2967 RMK AO2 SLPNO T00831056 56008 PAFM 240256Z AUTO 02010KT 10SM CLR 02/M11 A2980 RMK AO2 SLP107 T00171111 56014 FZRANO YTRA 240300Z AUTO 14007KT 9999 // NCD 22/12 Q1020 RMK OINZ 240300Z VRB02KT 1800 BR OVC020 15/14 Q1005 PAGH 240257Z AUTO VRB03KT 10SM CLR 06/M07 A2976 RMK AO2 SLP111 T00611067 56015 SYCJ 240300Z 05004KT 9999 FEW020 24/23 Q1013 NOSIG PAFR 240317Z AUTO 10006KT 10SM SCT070 12/01 A2965 RMK AO1 PAFS 240301Z AUTO 08006KT 10SM CLR 11/M05 A2960 RMK AO2 SLP044 T01111050 56013 PAGK 240253Z AUTO 17004KT 10SM CLR 13/M09 A2963 RMK AO2 SLP049 T01281094 56008 TSNO $ PAGL 240316Z AUTO 06015G20KT 10SM CLR 06/M07 A2967 RMK AO1 PAHC 240256Z AUTO 13005KT 10SM OVC050 13/01 A2955 RMK AO2 SLP012 6//// T01280011 56007 PNO $ YTRE 240300Z AUTO 13007KT 090V150 9999 // SCT033 23/15 Q1019 PAGM 240256Z AUTO 04027G33KT 10SM OVC013 M02/M04 A2971 RMK AO2 PK WND 04034/0242 SLP068 T10171039 58005 FZRANO PAGN 240256Z AUTO VRB04KT 10SM CLR 11/03 A2972 RMK AO2 SLP053 T01110028 56001 PAGS 240256Z AUTO 26006KT 10SM CLR 15/M02 A2971 RMK AO2 SLP060 T01501017 55002 SYEC 240000Z 04008KT 9999 SCT018 28/24 Q1012= PAHL 240256Z AUTO 05006KT 10SM CLR 06/M08 A2971 RMK AO2 SLP072 T00611078 56009 PAHN 240254Z AUTO 16003KT 10SM CLR 14/03 A2968 RMK AO2 SLP053 T01390033 56004 TSNO PAHO 240253Z 00000KT 10SM FEW055 OVC070 11/02 A2964 RMK SLP038 T01060022 56008 VIA AUTODIAL PAHP 240256Z AUTO 06004KT 10SM FEW041 OVC055 07/03 A2952 RMK AO2 SLP033 T00720028 56005 PAGY 240253Z AUTO 22007KT 10SM CLR 12/02 A2968 RMK AO2 SLP049 T01220017 56004 TSNO PAIG 240256Z AUTO 05018G23KT 10SM BKN080 OVC100 06/02 A2954 RMK AO2 SLP013 60000 T00560022 58006 $ PAII 240256Z AUTO 12013KT 10SM FEW070 OVC110 08/04 A2949 RMK AO2 SLP990 T00780039 56004 OISA 240200Z 36006KT CAVOK 11/M06 Q1021 NTAA 240300Z 32005KT 9999 FEW023 31/23 Q1010 NOSIG PAIK 240301Z AUTO 36006KT 10SM CLR 06/M12 A2979 RMK AO2 SLP132 T00561117 56016 PAJC 240256Z AUTO 10009KT 10SM -RA BKN016 BKN026 OVC049 05/03 A2942 RMK AO2 CIG 008V024 SLP963 P0000 60002 T00500033 56002 PAIL 240253Z 11009KT 10SM BKN041 BKN065 OVC120 06/02 A2961 RMK AO2 SLP028 ACSL DSNT SE-W T00560022 55009 PAIM 240255Z AUTO 09012KT 10SM CLR 04/M12 A2972 RMK AO2 SLP078 T00381119 57008 PAIN 240316Z AUTO 17005KT 10SM BKN120 10/M07 A2961 RMK AO1 OISF 240300Z 00000KT CAVOK 13/02 Q1014 PAHX 240256Z AUTO 05011KT 10SM OVC060 10/M03 A2958 RMK AO2 SLP020 T01001028 56011 YTTI 240300Z AUTO 22010KT //// // ////// 33/25 Q1012 RMK PAHY 240256Z AUTO 13008KT 10SM SCT039 OVC055 11/04 A2974 RMK AO2 SLP067 T01060044 55002 YTST 240300Z AUTO 26006KT 9999 // SCT043 SCT054 32/21 Q1011 OISL 240300Z 00000KT CAVOK 17/07 Q1012 PAJN 240253Z 23005KT 10SM FEW095 SCT200 15/M01 A2968 RMK AO2 SLP052 T01501006 56004 PAIW 240258Z AUTO 05016KT 10SM CLR M03/M05 A2982 RMK AO2 SLP098 T10281050 55005 FZRANO DIAD 231700Z 20004KT 9999 FEW015 31/24 Q1008 NOSIG PAKF 240301Z AUTO 11013G18KT 5SM -RA BR BKN005 OVC009 04/03 A2930 RMK AO2 SLPNO P0001 6//// T00390033 58008 $ CPRO 240300Z AUTO 36007KT 07/04 RMK AO1 T00700038 PAKH 240318Z AUTO 12009KT BKN009 OVC014 05/04 A2953 RMK AO2 CIG 007V012 PWINO $ OISR 240300Z 00000KT CAVOK 16/10 Q1010 ZLLL 240300Z VRB02MPS CAVOK 17/M11 Q1018 NOSIG OISS 240300Z 00000KT CAVOK 13/03 Q1018 A3008 OITK 240300Z 16012KT 9999 FEW035 14/08 Q1009 OKBK 240300Z 18003KT CAVOK 21/06 Q1007 NOSIG PAKK 240316Z AUTO 36008G14KT 330V040 10SM CLR 05/M11 A2965 RMK AO1 OITL 240300Z 21012KT 9999 FEW040 13/05 Q1010 OITM 240300Z 15006KT CAVOK 13/08 Q1012 PAKN 240254Z 11006KT 10SM BKN055 BKN070 09/03 A2940 RMK AO2 SLP947 T00940028 $ OITP 240200Z 32008KT CAVOK 14/12 Q1006 OISY 240300Z 00000KT CAVOK 10/01 Q1022 PAKP 240316Z AUTO 04007KT 10SM CLR M06/M13 A2979 RMK AO1 PALG 240256Z AUTO 10008KT 070V140 10SM BKN085 10/02 A2954 RMK AO2 SLP008 T01000017 55000 PWINO PALH 240253Z AUTO 18007KT 10SM BKN065 11/01 A2965 RMK AO2 SLP043 T01110011 56009 TSNO PAJZ 240256Z AUTO 11018G26KT 8SM -RA FEW023 BKN065 OVC095 07/03 A2960 RMK AO2 PK WND 10032/0230 RAB54 SLP030 P0000 60000 T00720028 56009 $ YTWB 240300Z AUTO 09007KT 9999 // NCD 21/09 Q1022 RMK CPRY 240200Z AUTO 03008KT 09/03 RMK AO1 PK WND 35021/0100 T00870032 OITR 240300Z 22004KT 9000 -SHRA SCT030CB BKN035 10/10 Q1011 NOSIG DIAP 240300Z 21007KT 9999 SCT012 29/26 Q1011 NOSIG PALJ 240258Z 00000KT 30SM BKN070 OVC100 09/04 A2957 RMK LAST EST PASS OPEN NOSPECI OITT 240300Z 04004KT 8000 FEW032 FEW040CB 10/08 Q1013 A2992 NOSIG PAKT 240253Z 12011KT 10SM BKN035 OVC080 10/06 A2977 RMK AO2 SLP083 HARBOR WND 10010KT T01000061 50001 $ PAMB 240256Z AUTO 16004KT 10SM -RA FEW033 BKN050 OVC060 07/05 A2950 RMK AO2 SLP995 P0008 60012 T00670050 55004 $ PAKU 240245Z VRB03KT 7SM R06/P6000FT BKN005 M15/M17 A3006 OITU 240150Z 00000KT 9999 FEW040 09/04 Q1009 PAMC 240253Z AUTO 00000KT 10SM CLR 13/M04 A2959 RMK AO2 SLP025 T01331044 56013 TSNO DIBK 240000Z 20006KT CAVOK 28/22 Q1015 NOSIG CPST 240300Z AUTO 04010KT 04/02 RMK AO1 T00390023 PAKV 240253Z AUTO 03005KT 10SM OVC110 06/M06 A2969 RMK AO2 SLP058 T00611061 56009 TSNO PAMD 240316Z AUTO 09008KT 10SM OVC065 08/02 A2969 RMK AO1 PAKW 240253Z AUTO 36003KT 10SM BKN034 OVC050 10/08 A2972 RMK RAE0157B16E17 SLP066 P0000 60001 T01000083 55005 TSNO $ VIA AUTODIAL CPSV 240300Z AUTO 20006KT 07/04 RMK AO1 T00680043 PALP 240046Z 00000KT 1SM BR OVC002 M15/M17 A3008 OITZ 240300Z 15006KT 9999 FEW035 SCT200 15/05 Q1014 PAMH 240256Z AUTO 07003KT 10SM CLR 07/M06 A2964 RMK AO2 SLP060 T00721056 58009 PANA 240256Z AUTO 17005KT 10SM BKN050 BKN060 OVC085 11/02 A2950 RMK AO2 SLP988 T01110022 56002 PAMK 240256Z AUTO 04009KT 10SM SCT075 BKN090 04/M02 A2961 RMK AO2 SLP031 T00391022 56005 $ PANC 240253Z 15011G24KT 10SM FEW055 SCT075 BKN090 OVC160 11/01 A2964 RMK AO2 SLP039 T01060006 56009 $ PALU 240255Z AUTO 06017KT 10SM OVC009 M07/M08 A3004 RMK AO2 SLP173 T10691083 57006 PAMM 240156Z AUTO 19007KT 10SM OVC065 10/06 A2979 RMK AO2 SLP078 T01000056 DIBU 231700Z 00000KT 9999 SCT016 FEW023CB 36/21 Q1010 TEMPO TS PAMO 240256Z AUTO 11007KT OVC045 10/01 A2954 RMK AO2 SLP020 T01000011 56007 PWINO $ PAMR 240253Z VRB03KT 10SM FEW060 SCT075 12/01 A2964 RMK AO2 SLP039 T01220011 56010 UHBB 240300Z 01005MPS 9999 SCT033 06/04 Q1012 R36/090060 NOSIG RMK QFE741/0988 DIDK 231700Z ///// 9999 SCT015 36/25 Q1008 NOSIG DIDL 231700Z ///// 9999 FEW015 34/23 Q1009 NOSIG PANN 240253Z AUTO 32006KT 10SM CLR 09/M07 A2962 RMK SLP039 T00941072 58008 TSNO VIA AUTODIAL PAMY 240256Z AUTO 09008KT 10SM OVC030 04/02 A2949 RMK AO2 RAB20E37 SLP990 P0000 60000 T00390017 55001 PAOH 240256Z AUTO 07005KT 10SM OVC100 16/M01 A2969 RMK AO2 SLP053 T01561011 56005 PANT 240253Z AUTO 14007KT 10SM -RA FEW018 FEW055 OVC065 10/06 A2977 RMK AO2 RAB14 SLP082 P0000 60000 T01000056 57001 TSNO PAPB 240315Z AUTO 08012KT 2SM -RA BR BKN005 OVC011 04/02 A2923 RMK AO2 RAB06 P0000 T00390022 TSNO PAOM 240253Z 03014KT 10SM SCT140 BKN180 OVC230 06/M05 A2965 RMK AO2 SLP039 T00561050 56006 $ PANV 240316Z AUTO 05010G15KT 10SM BKN050 11/M03 A2956 RMK AO1 PANW 240256Z AUTO 09015G24KT 10SM BKN070 OVC085 07/02 A2953 RMK AO2 PK WND 09029/0227 SLP015 T00670022 56008 UGKO 240300Z VRB03KT 9999 OVC034 07/07 Q1020 R25/29//55 NOSIG PAPG 240256Z 09007KT 10SM FEW060 BKN090 13/04 A2970 RMK AO2 SLP063 60000 T01280044 51003 $ PAPH 240256Z AUTO 14011KT 10SM SCT090 OVC110 06/02 A2941 RMK AO2 SLP963 T00560022 55003 PAOR 240253Z 14003KT 10SM SCT160 BKN220 12/M10 A2960 RMK AO2 SLP043 T01171100 56008 OIZB 240300Z 32012KT CAVOK 21/03 Q1010 PAOT 240253Z 02006KT 10SM CLR 04/M06 A2977 RMK AO2 SLP082 T00391056 56016 $ OIZC 240200Z 00000KT 8000 NSC 21/11 Q1006 A2971 DIGA 231700Z 20004KT 8000 SCT013 FEW020CB 34/25 Q1010 NOSIG PAOU 240256Z AUTO 11015KT 10SM OVC037 06/03 A2934 RMK AO2 SLP937 T00610033 55006 PAPM 240256Z AUTO 07018KT 10SM BKN039 OVC047 08/02 A2945 RMK AO2 SLP976 T00830022 56009 CPXL 240300Z AUTO 18004KT 06/04 RMK AO1 2PAST HR M P0012 T00580042 50032 PAPN 240256Z AUTO 10013G18KT 10SM OVC095 06/03 A2945 RMK AO2 SLP973 T00560028 56005 PAPO 240256Z AUTO 02021KT 10SM CLR M04/M08 A2994 RMK AO2 PK WND 02030/0206 SLP138 T10441078 56010 FZRANO OIZH 240300Z 19004KT CAVOK 14/M12 Q1016 A3002 NOSIG PAQH 240256Z AUTO 07009KT 10SM SCT095 09/03 A2949 RMK AO2 SLP987 T00940028 56009 OIZI 240300Z 00000KT CAVOK 23/M15 Q1011 OIZJ 240300Z 31004KT 8000 NSC 26/19 Q1005 PAPT 240251Z 12008KT 25SM OVC300 08/06 A2960 RMK NOSPECI LAST OIYY 240300Z 12004KT CAVOK 18/M09 Q1016 UGMS 230530Z /////KT 5600 OVC040 ///// Q//// PASA 240256Z AUTO 04018G22KT 10SM CLR M01/M03 A2972 RMK AO2 SLP066 T10061033 56010 FZRANO $ PAQT 240313Z AUTO 35004KT 3SM -SN BR OVC004 M14/M17 A3008 RMK AO2 UPE0257SNB0257 P0000 T11441167 TSNO PASC 240253Z 26005KT 9SM SCT007 M16/M18 A3005 RMK AO2 SLP176 T11561178 55002 PASD 240316Z 16006KT 10SM FEW018 BKN024 OVC032 06/03 A2937 RMK AO1 WEA YWCA 240300Z AUTO 02007KT //// // ////// 27/13 Q1016 RMK PASH 240316Z AUTO 01008KT 10SM CLR M01/M06 A2985 RMK AO1 PNO PASI 240253Z VRB04KT 10SM FEW015 BKN090 10/07 A2973 RMK AO2 SLP068 T01000072 53001 YWBL 240300Z AUTO 33003KT 9999 -RA OVC089 16/15 Q1016 RMK OLBA 240300Z 16006KT 8000 BKN026 16/08 Q1018 PATA 240252Z 09007KT 10SM CLR 07/M07 A2970 RMK AO2 SLP061 T00671072 56009 PNO $ PARS 240256Z AUTO 11008KT 10SM CLR 11/02 A2953 RMK AO2 SLP004 T01110022 55007 $ PASK 240256Z AUTO 05007KT 10SM CLR 02/M05 A2978 RMK AO2 SLP081 T00221050 56015 FZRANO $ PASL 240316Z AUTO 00000KT 10SM SCT065 12/02 A2959 RMK AO1 PATC 240255Z AUTO 02022KT 10SM FEW008 M04/M05 A2976 RMK AO2 PK WND 03028/0156 SLP084 T10421051 55002 PASM 240256Z AUTO 08008KT 10SM OVC045 11/01 A2955 RMK AO2 SLP023 T01060011 56009 PASN 240253Z AUTO 08010KT 8SM OVC005 03/02 A2926 RMK AO2 SLP910 T00280017 56003 TSNO PATE 240258Z AUTO 10SM CLR A2971 RMK AO2 SLPNO 57007 FZRANO $ PASO 240253Z AUTO 19007KT 160V220 10SM BKN050 OVC060 08/03 A2964 RMK AO2 RAB05E25 SLP036 P0000 60000 T00780033 56008 TSNO YWBR 240300Z AUTO 22007KT //// // ////// 22/17 Q1019 PARY 240256Z AUTO 08013G20KT 10SM CLR 07/M11 A2965 RMK AO2 SLP072 T00721106 56008 PATG 240156Z AUTO 06007KT 10SM OVC040 07/03 A2949 RMK AO2 SLP081 T00720028 MSV 240300Z AUTO 03006KT 9999 // SCT041 19/11 Q1020 RMK PATK 240253Z AUTO 20007KT 10SM OVC085 13/M03 A2965 RMK SLP044 T01331028 55005 TSNO VIA AUTODIAL PATL 240255Z AUTO VRB04KT 10SM BKN140 11/M05 A2961 RMK AO2 SLP035 T01131054 57010 $ PASV 240255Z AUTO 19006KT 10SM FEW038 BKN060 09/01 A2957 RMK AO2 SLP018 T00870009 57008 MUI 240300Z AUTO 12008KT 100V160 9999 // NCD 22/07 Q1021 RMK PATO 240253Z AUTO 13005KT 10SM FEW070 BKN120 09/01 A2970 RMK AO2 SLP059 T00890006 56007 TSNO PASX 240316Z AUTO 08009KT 10SM FEW060 BKN100 BKN120 11/M03 A2963 RMK AO1 UHHH 240300Z 24005MPS 220V280 9999 SCT030CB 10/04 Q1015 R23L/290045 NOSIG PASY 240313Z AUTO -RA BKN011 OVC016 04/ A2933 RMK AO2 TSNO $ PATQ 240256Z AUTO 02005KT 9SM -SN CLR M13/M15 A3008 RMK AO2 SLP194 P0000 60000 T11281150 50000 FZRANO TSNO PAVA 240256Z AUTO 12007KT 10SM OVC041 10/02 A2952 RMK AO2 SLP009 T01000022 56005 NSTU 240252Z 07006KT 12SM FEW018 SCT040 BKN100 30/28 A2975 RMK SHRAB20E45 SLP075 60000 8/870 T02950278 56019 PAVC 240256Z AUTO 10013KT 10SM -RA BKN014 OVC022 04/03 A2933 RMK AO2 RAE32B50 SLP939 P0000 60000 T00390028 56009 PAVD 240316Z 25006KT 10SM FEW065 FEW100 SCT200 11/M03 A2972 RMK AO1 0247Z WEA PAUN 240256Z AUTO 08014KT 10SM BKN085 BKN120 09/M06 A2963 RMK AO2 SLP039 T00891061 57005 DIKO 232000Z 18006KT CAVOK 32/20 Q1011 NOSIG UIAA 240300Z 35007MPS 9999 SCT040 06/M05 Q1019 R29/CLRD70 NOSIG RMK QFE705 UGSB 240300Z AUTO 13009KT 9999 -SHRA FEW055 OVC076 07/06 Q1022 R13/29//55 NOSIG PAUT 240315Z AUTO 12017KT 10SM BKN021 OVC060 05/03 A2922 RMK AO2 T00510025 PAVL 240253Z AUTO 02013KT 10SM CLR 00/M05 A2982 RMK AO2 SLP099 T00001050 56013 TSNO PAWD 240253Z AUTO 18003KT 10SM -RA OVC044 07/06 A2970 RMK AO2 SLP057 P0001 60002 T00720061 56007 TSNO $ PAWG 240256Z VRB04KT 10SM BKN060 11/07 A2975 RMK AO2 SLP077 VCSH T01060072 53008 PAWI 240253Z AUTO 03007KT 1/4SM FZFG VV002 M10/M11 A3008 RMK SLP186 I1001 I3002 T11001106 56005 TSNO VIA AUTODIAL UIBB 240300Z 16003MPS 070V230 9999 NSC 07/M12 Q1027 R30/CLRD60 NOSIG RMK QFE726/0969 UGTB 240300Z 31030G40KT 9999 SCT050CB 07/01 Q1015 R31L/19//60 NOSIG PAWM 240258Z AUTO 36005KT 10SM BKN120 06/M06 A2965 RMK AO2 SLP054 T00611056 56006 PAWN 240256Z AUTO 04010KT 10SM CLR 03/M09 A2981 RMK AO2 SLP109 T00331089 56014 DIMN 232000Z 00000KT 8000 FEW015CB 28/24 Q1013 NOSIG YWHA 240300Z AUTO 00000KT //// // OVC006 OVC067 18/18 Q1015 PAYA 240253Z AUTO 34003KT 10SM OVC080 13/M01 A2969 RMK AO2 SLP053 T01281011 56004 TSNO PAWS 240256Z AUTO 28003KT 10SM FEW085 13/M01 A2966 RMK AO2 SLP060 T01281006 56006 $ ZLXY 240300Z 06002MPS 010V100 CAVOK 23/10 Q1012 NOSIG DIOD 232000Z VRB02KT 8000 FEW013 FEW020CB 31/23 Q1012 NOSIG UHMA 240300Z 36006MPS CAVOK M01/M05 Q1015 R88/CLRD60 NOSIG RMK QFE758/1010 YWGT 240300Z AUTO 03005KT 350V070 9999 // NCD 23/14 Q1017 YVRD 240300Z AUTO 05005KT //// // ////// 34/17 Q1012 UHMD 240300Z 02010G15MPS CAVOK M00/M03 Q1008 RMK QFE756/1008 PAZK 240316Z AUTO 00000KT 10SM CLR 07/M07 A2962 RMK AO1 UHMM 240300Z 33003MPS 290V010 9999 NSC 12/M07 Q1020 R10/CLRD70 NOSIG RMK QFE750 YWIS 240300Z AUTO 12008KT //// // ////// 28/17 Q1016 RMK OMAA 240300Z 18004KT 130V220 6000 NSC 26/23 Q1007 NOSIG OMAD 240300Z 22004KT 150V270 7000 NSC 25/23 Q1008 NOSIG ZMUB 240300Z 34009G14MPS 320V030 9999 FEW033 02/M18 Q1022 NOSIG RMK QFE658.6 22 MOP OMAL 240300Z 02005KT CAVOK 25/01 Q1009 NOSIG YWLG 240300Z AUTO 05005KT 9999 // SCT091 OVC120 28/10 Q1018 TQPF 232100Z 09014KT 9999 SCT017 BKN036 27/21 Q1014 YWLM 240300Z 14004KT 9999 SCT028 22/16 Q1019 UHPP 240300Z 16005MPS 9999 NSC 06/M03 Q1013 R34L/CLRD70 NOSIG RMK MT OBSC QFE756/1009 EBBE 240255Z AUTO 19007KT 9999 NCD 05/M02 Q1020 BLU DISP 232100Z 22008KT 9999 FEW013 29/27 Q1011 NOSIG OMDB 240300Z 20006KT 160V230 8000 NSC 24/20 Q1008 NOSIG DISS 231700Z ///// 9999 FEW015 FEW020CB 30/26 Q1009 TEMPO TS EBBL 240255Z AUTO 20003KT 9999 NCD 03/00 Q1020 BLU EBAW 240250Z AUTO 15004KT CAVOK 02/M00 Q1020 UIII 240300Z 24002MPS 150V300 CAVOK 06/M10 Q1026 R30/CLRD60 NOSIG RMK QFE724/0966 EBBR 240250Z 19007KT CAVOK 04/M01 Q1020 NOSIG EBCI 240250Z 19006KT CAVOK 03/M01 Q1020 NOSIG CTCK 240300Z AUTO 33006KT 08/02 RMK AO1 SLP190 T00760016 51035 VAAH 240300Z 27009KT 3000 HZ FEW020 28/19 Q1011 NOSIG YWOL 240300Z AUTO 05009KT 9999 // NCD 23/17 Q1019 RMK VABB 240300Z 23004KT 4000 HZ FEW020 SCT025 30/21 Q1011 NOSIG KA08 240220Z AUTO 32010G17KT 10SM 12/10 A2988 RMK AO2 T01230098 OMDW 240311Z 18005KT 5000 BR FEW006 22/22 Q1009 NOSIG EBCV 240255Z AUTO 20004KT 9999 NCD 01/M01 Q1020 BLU UHSS 240300Z 19006MPS 9999 FEW040 05/M01 Q1025 R19/CLRD70 NOSIG RMK QFE767/1023 OMFJ 240300Z 02003KT 7000 NSC 32/02 Q1007 A2974 VAAU 240000Z 32006KT 6000 NSC 23/14 Q1011 NOSIG EBDT 240255Z AUTO 18005KT 9999 NCD 01/M00 Q1020 BLU VABO 230600Z 23010KT 6000 SCT020 32/24 Q1010 NOSIG VABP 240230Z 28014KT 6000 NSC 27/09 Q1012 NOSIG VABV 231230Z 18017KT 6000 FEW025 34/18 Q1006 EBFN 240255Z 22005KT 9999 BKN055 05/01 Q1020 BLU KA39 240315Z AUTO 27011KT 10SM CLR 29/00 A2974 RMK AO2 EBFS 240255Z VRB01KT 9999 SKC 02/M03 Q1020 BLU DIYO 240000Z 20006KT CAVOK 27/23 Q1014 NOSIG YWUD 240300Z AUTO 28007KT //// // ////// 17/15 Q1016 YWTN 240300Z AUTO 11008KT //// // ////// 32/12 Q1015 RMK UHWW 240300Z 22006MPS 9999 NSC 12/05 Q1017 R25L/0///70 NOSIG RMK QFE761 TRPG 232200Z 12014KT 9999 SCT012 BKN038 24/23 Q1014 VAID 240000Z 27004KT 6000 NSC 21/11 Q1010 NOSIG EBLB 240255Z AUTO 00000KT 9999 NCD M06/M07 Q1019 BLU EBLG 240250Z 17006KT CAVOK 03/M01 Q1020 NOSIG YWWL 240300Z AUTO 02009KT //// // ////// 26/09 Q1018 RMK VAJB 240000Z 00000KT 6000 FEW025 27/08 Q1009 VAJJ 240300Z 26005KT 140V310 6000 FEW020 30/21 Q1012 NOSIG UKBB 240300Z 29002MPS CAVOK 02/00 Q1012 R88/CLRD// NOSIG YWYM 240300Z AUTO 15006KT 110V190 //// // ////// 36/19 Q1011 CTNK 240300Z AUTO 01003KT 01/M03 RMK AO1 SLP213 T00141027 51026 UKDD 240300Z 35003MPS 320V040 9999 SCT025CB BKN040 05/03 Q1008 R26/220360 NOSIG UKDE 240300Z 30004MPS 260V360 9999 SCT033 BKN100 06/03 Q1008 R02/////// NOSIG TTCP 240300Z 08012KT 9999 FEW017 26/22 Q1014 NOSIG UIUU 240300Z 03006MPS 9999 NSC 07/M11 Q1025 R26/CLRD60 NOSIG RMK QFE724/0965 EBOS 240250Z 21006KT CAVOK 04/01 Q1020 NOSIG UKDR 240300Z 31004MPS CAVOK 04/M01 Q1010 R36/09//70 NOSIG OMRK 240300Z 19004KT CAVOK 23/19 Q1007 (A2975) SPECI CTRA 240300Z AUTO 06002KT M01/M10 RMK AO1 SLP217 T10131095 56001 VANP 240300Z 31010KT 6000 HZ 33/09 Q1010 NOSIG NVSG 232200Z 12012KT 9999 SCT020 BKN300 29/25 Q1013 RMK HZ OMSJ 240300Z 20007KT 8000 NSC 24/19 Q1008 EDAC 231650Z 29012KT 9999 FEW020 BKN078 08/03 Q1021 EDAH 231550Z 30005KT 230V360 9999 BKN046 07/M00 Q1015 RESHRA UKHH 240300Z 35003MPS CAVOK 06/M02 Q1007 R25/0///67 NOSIG NVVA 240000Z 12006KT 9999 FEW020 BKN120 27/22 Q1014 RMK RESH PFCL 232256Z AUTO 09009KT FEW037 OVC070 11/03 A2952 RMK AO2 SLP001 T01060028 PWINO $ YYNG 240300Z AUTO 08003KT //// // ////// 24/10 Q1018 RMK ULAA 240300Z 04002MPS 360V070 CAVOK M07/M10 Q1008 R08/CLRD70 NOSIG RMK QFE755/1006 VARK 240100Z 23003KT 6000 SCT012 25/21 Q1008 EDDB 240250Z 22004KT CAVOK 00/M01 Q1019 NOSIG EDDC 240250Z 25004KT 9999 FEW035 02/M01 Q1020 EDDE 240250Z 22007KT CAVOK M01/M02 Q1020 EDDF 240250Z VRB02KT CAVOK M01/M02 Q1021 NOSIG EDDG 240250Z 13002KT CAVOK M00/M01 Q1019 NOSIG EDDH 240250Z 22009KT 9999 BKN025 BKN100 03/01 Q1017 NOSIG KC07 240315Z AUTO 22008G20KT 200V260 10SM CLR 05/M07 A2999 RMK AO2 KAAA 240315Z AUTO 00000KT 10SM CLR 12/00 A3001 RMK AO2 T01201005 KC09 240315Z AUTO 00000KT 10SM CLR 14/M01 A3002 RMK AO2 T01361010 PFEL 240258Z AUTO 02017G22KT 10SM CLR 06/M07 A2966 RMK AO2 SLP049 T00561072 56007 NVVV 231900Z 07003KT 9999 FEW020 SCT040 20/20 Q1013 RMK HZ EDDK 240250Z VRB02KT CAVOK 00/M01 Q1021 NOSIG EDDL 240250Z 15007KT CAVOK 02/00 Q1020 NOSIG EDDM 240250Z VRB02KT CAVOK M04/M04 Q1021 NOSIG KAAF 240253Z AUTO 29005KT 10SM BKN040 BKN075 20/17 A2982 RMK AO2 SLP097 T02000167 53011 TSNO EDDN 240250Z 10003KT CAVOK M01/M03 Q1021 VCBI 240240Z 25007KT 9999 SCT016 30/26 Q1011 NOSIG EDDP 240250Z 23005KT CAVOK 00/M01 Q1020 NOSIG UKKK 240300Z 31003MPS CAVOK 02/00 Q1012 R26/CLRD70 NOSIG EDDR 240250Z 06005KT CAVOK 01/M03 Q1020 VAUD 240300Z 23005KT 5000 HZ NSC 28/15 Q1011 NOSIG EDDS 240250Z VRB02KT CAVOK M01/M03 Q1020 UKKM 240300Z AUTO 29003MPS 9999 ///085/// 01/M00 Q1012 EDDT 240250Z 27005KT CAVOK 01/M01 Q1019 NOSIG ZPPP 240300Z 21006MPS 9999 FEW006 SCT020 OVC036 14/12 Q1019 NOSIG EDDV 240250Z 18005KT CAVOK 02/M00 Q1019 NOSIG KABE 240251Z 20003KT 10SM CLR 13/04 A3010 RMK AO2 SLP194 T01280039 51013 EDDW 240250Z 20007KT CAVOK 03/00 Q1018 KAAO 240254Z AUTO 17007KT 10SM CLR 12/03 A2997 RMK AO2 SLP149 T01170033 56009 $ UKLI 240300Z 00000MPS 9999 SCT033 BKN100 M01/M02 Q1017 R28/090070 NOSIG KABH 240256Z AUTO 16009KT CLR A2977 RMK AO2 SLPNO 56011 $ KABI 240252Z 12008KT 10SM CLR 13/03 A3002 RMK AO2 SLP153 T01330033 56003 EDFH 240250Z 15007KT CAVOK 01/M02 Q1019 UKLL 240300Z 27004MPS 9000 -SHRASN BKN011 BKN020CB 02/M00 Q1016 R31/120070 NOSIG KAAT 240255Z AUTO 32008KT 10SM OVC046 08/02 A2991 RMK AO2 SLP121 T00830022 53006 TSNO KACB 240315Z AUTO 35003KT 10SM CLR 04/M04 A3015 RMK AO2 T00371042 KC29 240315Z AUTO 12009KT 10SM CLR 12/06 A3003 RMK AO1 T01160056 UKLN 240300Z 00000MPS CAVOK M01/M02 Q1016 NOSIG EDFM 231750Z 35006KT CAVOK 10/M03 Q1024 KC35 240315Z AUTO 08007KT 10SM CLR 10/06 A3001 RMK AO2 T01040055 UKLR 240300Z 27004MPS CAVOK M02/M02 Q1014 NOSIG KABQ 240252Z 18019G23KT 10SM FEW200 SCT300 20/M02 A2989 RMK AO2 PK WND 18027/0154 SLP065 T02001017 55004 KABR 240253Z AUTO 04016KT 10SM SCT100 09/04 A2971 RMK AO2 PK WND 05026/0155 SLP067 T00940039 51001 KACJ 240315Z AUTO 29006KT 10SM SCT009 SCT019 OVC045 16/16 A2982 RMK AO2 UKLU 240300Z 00000MPS 9999 BKN100 02/00 Q1019 NOSIG KACK 240253Z AUTO 21008KT 10SM CLR 07/05 A3016 RMK AO2 SLP212 T00720050 51012 $ KADC 240314Z AUTO 08012G17KT 10SM OVC015 02/M01 A2991 RMK AO2 KADF 240256Z AUTO 00000KT 10SM CLR 13/12 A2999 RMK AO2 SLP161 T01280122 53006 KADG 240253Z AUTO 00000KT 10SM CLR 12/M01 A3007 RMK AO2 SLP186 T01171006 51012 TSNO KABY 240253Z AUTO 30005KT 10SM OVC041 17/16 A2982 RMK AO2 SLP096 60002 T01670156 51013 KACP 240315Z AUTO 00000KT 10SM CLR 10/10 A3000 RMK AO2 T01040098 KACQ 240313Z AUTO 16006KT 10SM CLR 12/00 A2992 RMK AO2 KADH 240315Z AUTO 10005KT 10SM CLR 12/04 A3001 RMK AO2 EDGS 231850Z 29006KT 250V320 9999 BKN026 04/M00 Q1023 KACT 240251Z 00000KT 10SM CLR 12/09 A3002 RMK AO2 SLP163 T01170094 53003 EDHK 231850Z 29013KT 9999 FEW033 05/M01 Q1019 KACV 240253Z AUTO 21004KT 10SM OVC037 11/08 A3003 RMK AO2 SLP174 T01110083 58014 EDHL 231820Z 29007G17KT 210V340 9999 FEW024 06/M00 Q1019 KADM 240315Z AUTO 00000KT 10SM CLR 11/08 A3001 RMK AO2 T01060075 UKOH 240300Z 30004MPS CAVOK 03/02 Q1011 NOSIG KAEG 240247Z 16014G19KT 10SM SKC 18/01 A2991 KACY 240254Z 00000KT 10SM CLR 09/07 A3014 RMK AO2 SLP205 T00890067 50007 KADS 240315Z AUTO 00000KT 10SM CLR 16/04 A3003 RMK AO2 T01570044 KAEJ 240315Z AUTO 24008KT 10SM CLR 13/M10 A2991 RMK AO2 T01261105 DNAA 240100Z VRB01KT CAVOK 28/19 Q1012 NOSIG EDJA 232050Z 08005KT CAVOK 02/M02 Q1023 KADU 240315Z AUTO 00000KT 10SM CLR 11/01 A2994 RMK AO2 KAEL 240311Z AUTO 19009KT 10SM CLR 16/M03 A2992 RMK AO2 UKON 240300Z 29003MPS 9999 SCT033 OVC100 03/M01 Q1012 NOSIG KC62 240315Z AUTO 11003KT 10SM CLR 10/03 A3005 RMK AO2 T01070038 UKOO 240300Z 31006MPS CAVOK 02/01 Q1014 R34/090060 NOSIG KADW 240258Z AUTO 06003KT 10SM CLR 12/07 A3008 RMK AO2 SLP193 T01160072 58001 CWAE 240100Z 18004KT 15SM BKN032 OVC200 10/03 A2972 RMK CU6CI2 LAST OBS/NEXT 241300UTC WND ESTD SLP071 DENSITY ALT 2200FT KAFF 240258Z AUTO 09006KT 10SM CLR 12/02 A2979 RMK AO2 SLP049 T01200015 55007 CWAF 240300Z AUTO 29021KT 03/M02 RMK AO1 PK WND 29032/0212 T00271023 KAFJ 240315Z AUTO 00000KT 10SM CLR 08/02 A3006 RMK AO1 CWBA 240300Z AUTO 00000KT M01/M04 RMK AO1 T10051043 CWAJ 240300Z AUTO RMK AO1 KAFK 240315Z AUTO 18010KT 10SM CLR 14/M03 A2994 RMK AO2 T01371030 KAGC 240253Z AUTO 13005KT 10SM CLR 14/M04 A3004 RMK AO2 SLP177 T01441039 51008 TTPP 240300Z 12005KT 9999 FEW018 26/24 Q1013 NOSIG KAFN 240252Z AUTO 21006KT 10SM CLR 11/04 A3007 RMK AO2 SLP189 T01110039 51016 CWBE 240300Z AUTO 04006KT 02/M05 RMK AO1 SLP238 T00241047 51023 KAEX 240253Z 00000KT 10SM CLR 12/11 A2998 RMK AO2 SLP155 T01220111 53011 $ KAFO 240315Z AUTO 29004KT 10SM SCT065 OVC080 06/M01 A2984 RMK AO2 KC75 240315Z AUTO 00000KT 10SM CLR 10/03 A3001 RMK AO2 T00990027 KAFP 240315Z AUTO 06009G14KT 5SM BR OVC006 13/12 A2989 RMK AO2 P0001 T01280117 CWAQ 240300Z AUTO 12014KT M01/M02 RMK AO1 SOG 09 5003 PK WND 13018/0200 SLP115 T10101017 PFKT 240258Z AUTO 04028G32KT 10SM CLR 03/M07 A2972 RMK AO2 PK WND 04033/0245 SLP066 T00281072 58005 CWCA 240300Z 20003KT 15SM SKC M03/M05 A2968 RMK SLP054 CWBK 240300Z AUTO 22005KT 04/02 RMK AO1 SOG 01 3004 SLP161 T00420018 PFKW 240256Z AUTO 16014KT 10SM BKN050 OVC060 11/02 A2950 RMK AO2 RAE02 SLP990 P0000 60000 T01060017 55001 CWAV 240300Z AUTO 10003KT 03/01 RMK AO1 SLP101 T00270008 55000 KAFW 240253Z 00000KT 10SM CLR 10/07 A3002 RMK AO2 SLP163 T01000067 53001 $ CWCF 240300Z AUTO 29003KT M05/M09 RMK AO1 SOG 00 6005 SLP226 T10461089 CWBO 240300Z AUTO 05005KT 08/05 RMK AO1 SOG 00 3004 SLP065 T00770048 CWCI 240200Z AUTO 33008KT M00/M04 RMK AO1 SLP233 T10021040 53005 KAIA 240253Z AUTO 15008KT 10SM CLR 12/04 A2965 RMK AO2 SLP023 T01220044 56008 TSNO $ KAGS 240253Z 36007KT 10SM -RA OVC007 19/17 A2977 RMK AO2 LTG DSNT E AND SE RAB06 SLP079 P0001 60001 T01890172 51015 $ EDMA 231920Z 07004KT CAVOK 02/M01 Q1023 CWDA 240200Z AUTO 27008G16KT 01/M02 RMK AO1 SLP092 T00051021 50003 CWCJ 240300Z AUTO 03002KT M02/M07 RMK AO1 SLP237 T10221070 50007 CWBS 240300Z AUTO 33012KT 06/01 RMK AO1 PK WND 34018/0235 T00560007 KAIB 240315Z AUTO 18004KT 10SM CLR 17/M13 A2980 RMK AO2 CWBT 240300Z AUTO 14001KT 01/01 RMK AO1 SLP096 T00060006 58009 CWBU 240300Z AUTO 06014KT 01/M07 RMK AO1 SOG 00 5003 PK WND 07021/0203 SLP186 T00061067 CWDC 240100Z AUTO 13004KT M04/M18 RMK AO1 SOG 05 6012 SLP238 T10361179 CWBV 240300Z AUTO 24007KT 03/ RMK AO1 SLP182 T0034 51013 KAHN 240305Z AUTO 06008KT 10SM -RA BKN008 BKN012 OVC048 12/12 A2982 RMK AO2 P0001 T01170117 EDLN 231820Z VRB02KT CAVOK 09/02 Q1024 CWCO 240300Z AUTO 26002KT 07/02 RMK AO1 SLP193 T00660020 50005 KAIG 240315Z AUTO 11011KT 10SM CLR 02/M01 A3008 RMK AO2 T00191014 CWBY 240300Z AUTO 16004KT 01/M00 RMK AO1 SOG 12 8014 SLP092 T00061003 EDLP 240220Z 17007KT CAVOK 03/M00 Q1020 KAHQ 240315Z AUTO 16008KT 10SM CLR 12/M01 A2989 RMK AO2 T01191008 CWBZ 240300Z AUTO 30005KT 09/02 RMK AO1 SLP188 T00930024 51047 UMBB 240200Z 28003MPS 6000 BKN035CB 01/00 Q1013 NOSIG KD07 240256Z AUTO 05021G31KT 03/03 A2966 RMK AO1 PK WND 05031/0250 SLP061 T00330028 58008 OOMS 240250Z VRB01KT 8000 NSC 28/23 Q1006 WS R08L NOSIG CWDJ 240300Z AUTO 12017G25KT 00/M06 RMK AO1 PK WND 11025/0257 SLP148 T00001061 53001 KAIK 240315Z AUTO 02008KT 7SM +RA BKN006 OVC015 15/15 A2982 RMK AO2 LTG DSNT NE AND SE KBAB 240258Z AUTO 16008KT 10SM CLR 17/12 A2989 RMK AO2 SLP125 T01690118 56006 $ CWDK 240300Z AUTO 00000KT 06/04 RMK AO1 1001 SLP072 T00610043 50002 CWEB 240300Z AUTO 13011G18KT 08/07 RMK AO1 5005 PK WND 15023/0224 SLP066 T00820068 50004 CWCT 240200Z AUTO 10010KT 01/01 RMK AO1 SLP104 T00110010 57004 KBAC 240315Z AUTO 06017G24KT 10SM -SN OVC009 00/00 A2988 RMK AO2 KBAD 240258Z AUTO 00000KT 10SM CLR 14/09 A2999 RMK AO2 SLP158 T01350093 52008 EDLV 240250Z 18005KT CAVOK 02/01 Q1020 PFNO 240258Z AUTO 05008KT 10SM CLR 05/M09 A2978 RMK AO2 SLP087 T00501089 56014 CWEE 240200Z AUTO M07/M11 RMK AO1 SLP197 T10691111 53037 KBAF 240253Z AUTO 17006KT 10SM CLR 10/06 A3009 RMK AO2 SLP192 T01000056 51018 EDLW 231950Z 26006KT CAVOK 03/M00 Q1024 KAIO 240315Z AUTO 18008KT 10SM CLR 14/01 A2994 RMK AO2 EDMO 231420Z 29006KT 230V020 9999 BKN053 09/M02 Q1022 CWEF 240200Z AUTO 28017KT 01/M01 RMK AO1 PK WND 27022/0123 SLP147 T00051012 51012 CWDO 240300Z AUTO 22008KT M01/M02 RMK AO1 SOG 74 6002 SLP106 T10051021 KAJG 240315Z AUTO 01007KT 10SM CLR 15/M01 A2998 RMK AO2 T01531006 CWDQ 240300Z AUTO 34010G15KT M01/M06 RMK AO1 SLP207 T10061062 51039 CWEH 240300Z AUTO 17005KT M00/M00 RMK AO1 6PAST HR SOG 00 5003 SLP087 P0002 T10031003 50016 EEEI 240250Z 19005KT 9999 SCT070 M03/M03 Q1006 KBAK 240145Z 03007KT 10SM SKC 13/00 A2997 RMK LAST KAIT 240312Z AUTO 07009G17KT 10SM CLR 02/M05 A2998 RMK AO2 KBBB 240313Z AUTO 12014G22KT 10SM CLR 10/02 A2983 RMK AO2 CWDT 240200Z AUTO 29012KT M06/M10 RMK AO1 27 1045 SLP172 T10551095 CWEK 240300Z AUTO 23004KT 10/07 RMK AO1 SLP077 T00960066 55003 CWEL 240300Z AUTO 16011KT 10/08 RMK AO1 6007 SLP070 T00960082 50002 KBAM 240315Z AUTO 34008KT 10SM OVC100 15/M04 A2981 RMK AO1 NWWW 240300Z AUTO 15010KT CAVOK 27/19 Q1013 NOSIG KBAN 231352Z AUTO 24006G18KT 10SM 08/M06 A2991 RMK AO2 SLPNO T00781056 $ CWDV 240300Z AUTO 06003KT M01/M10 RMK AO1 SOG 00 0002 SLP222 T10111102 CWFD 240300Z AUTO ///// ////SM //// OVC002 M15/M17 A2982 KAJO 240256Z AUTO 28010KT 10SM CLR 18/13 A2982 RMK AO2 SLP106 T01780128 51010 KBBF 240315Z AUTO 03017KT 9SM CLR 22/09 A2999 RMK A01 ULLI 240300Z VRB01MPS 9999 FEW009 OVC019 01/M00 Q1005 R28L/190055 NOSIG CWFF 240300Z AUTO 08009KT 01/M06 RMK AO1 SLP174 T00111058 56003 KD25 240315Z AUTO 06008KT 10SM CLR 01/M02 A3006 RMK AO2 T00061025 KBBG 240146Z 00000KT 10SM FEW250 15/02 A3002 CWEP 240300Z AUTO 17009KT 01/M00 RMK AO1 SOG 00 2004 SLP163 T00051003 KAKH 240305Z AUTO 36006KT 2 1/2SM +RA BR BKN008 OVC014 11/09 A2992 RMK AO2 P0008 T01110089 KAIZ 240056Z AUTO 00000KT 10SM CLR 16/02 A3003 RMK AO2 SLP953 T01560022 CWEQ 240300Z AUTO 07008KT 01/M07 RMK AO1 SOG 02 3001 SLP197 T00081068 KAJR 240315Z AUTO 08013G20KT 10SM OVC008 11/11 A2984 RMK AO2 T01050105 CWER 240300Z AUTO 24012KT RMK AO1 PK WND 22018/0230 CWFJ 240300Z AUTO 31004KT 06/01 RMK AO1 T00630014 KALB 240251Z 11005KT 10SM BKN260 09/03 A3006 RMK AO2 SLP180 T00940033 50009 KBCB 240255Z AUTO 06004KT 7SM RA OVC009 08/06 A3008 RMK AO2 P0007 60011 T00750060 CWGB 240300Z AUTO 11016KT 09/08 RMK AO1 6007 PK WND 11021/0232 SLP065 T00850081 50002 CWEU 240300Z CCA 00000KT 15SM IC FEW100 M26/M29 A3040 RMK AS1 LAST OBS / NEXT 240600Z SLP297 CWGD 240300Z AUTO 03007KT 06/04 RMK AO1 SLP186 T00630039 50007 KBCE 240253Z AUTO 31013G19KT 10SM SCT095 BKN110 10/M02 A2993 RMK AO2 PK WND 28043/0205 WSHFT 0202 SLP049 T01001022 53013 CWEW 240300Z AUTO 35008KT 07/02 RMK AO1 SLP199 T00690015 53042 KAKO 240253Z AUTO 12010KT 10SM CLR 13/04 A2969 RMK AO2 SLP025 T01330039 56015 KBAX 240316Z AUTO 04004KT 10SM CLR 04/02 A3012 RMK AO2 T00350020 KBBP 240315Z AUTO 05009G19KT 7SM OVC004 15/15 A2988 RMK AO2 KBAZ 240251Z AUTO 08004KT 10SM CLR 16/07 A3001 RMK AO2 SLP157 T01560072 53007 EDNY 240250Z AUTO VRB02KT 9999 00/M03 Q1020 KAJZ 240315Z AUTO 00000KT 10SM CLR 20/M08 A2972 RMK AO2 T01971083 KAKQ 240310Z AUTO 04003KT 9SM FEW010 SCT019 OVC040 12/11 A3005 RMK AO2 T01170111 CWEZ 240300Z AUTO 16015KT 09/07 RMK AO1 PK WND 16018/0218 SLP077 T00940072 56007 CWFQ 240300Z AUTO 35006KT 09/04 RMK AO1 SLP173 T00920043 51033 KALI 240253Z AUTO 09004KT 10SM CLR 15/08 A3001 RMK AO2 SLP160 T01500078 53012 TSNO KAKR 240254Z AUTO 00000KT 10SM CLR 12/04 A3005 RMK AO2 SLP177 T01170044 51008 TSNO KAMA 240253Z 16016KT 10SM CLR 15/01 A2994 RMK AO2 SLP111 T01500011 55008 $ ULMM 240300Z 13001MPS 9000 -SHSN BKN030CB M08/M10 Q1008 R13/090070 NOSIG RMK QFE750 KD39 240311Z AUTO 07014G22KT 10SM CLR 04/01 A2989 RMK AO2 T00380011 KBCK 240315Z AUTO 10004KT 10SM CLR 14/03 A2996 RMK AO2 T01350031 KALK 240256Z AUTO 23009KT 10SM CLR 21/M14 A2997 RMK AO2 SLP063 T02061144 53007 $ CWGL 240300Z AUTO 01003KT 09/03 RMK AO1 SLP189 T00870027 50010 KALM 240315Z AUTO 17010KT 10SM CLR 17/00 A2993 RMK AO2 CWGM 240300Z AUTO 22007KT 06/M02 RMK AO1 T00621022 KBDE 240253Z AUTO 08006KT 10SM SCT041 BKN050 OVC075 02/M10 A3007 RMK AO2 SLP197 T00171100 56008 KBBW 240253Z AUTO 16010KT 10SM CLR 14/M02 A2977 RMK AO2 SLP074 T01391017 56006 KALN 240315Z AUTO 00000KT 10SM CLR 10/02 A3000 RMK AO2 T00960023 KALO 240254Z AUTO 18007KT 10SM CLR 14/M01 A2997 RMK AO2 SLP148 T01391006 53003 KAMG 240253Z AUTO 30010KT 10SM FEW060 SCT075 23/17 A2976 RMK AO2 SLP074 T02330172 51017 KBDG 240315Z AUTO 21010KT 10SM CLR 19/M09 A2985 RMK AO1 T01881090 KBDH 240315Z AUTO 08017KT 10SM CLR 10/05 A2985 RMK AO2 NZAA 240300Z AUTO 22015KT 9999 NCD 19/12 Q1014 NOSIG OOSA 240250Z 35004KT 310V010 9999 FEW025 25/13 Q1010 NOSIG CWHI 240200Z AUTO 04007KT 03/01 RMK AO1 T00260014 CWGR 240300Z AUTO 19009KT M00/M01 RMK AO1 SLP146 T10011006 58002 ZSAM 240300Z 01003MPS 320V050 CAVOK 24/11 Q1017 BECMG TL0450 08005MPS KALS 240252Z AUTO 19008KT 10SM CLR 12/M04 A2991 RMK AO2 SLP080 T01171039 55007 KBEA 240315Z AUTO 08003KT 10SM CLR 17/08 A3002 RMK AO2 T01670082 KBCT 240347Z 31003KT 10SM SCT015 22/22 A2978 RMK LAST KANB 240253Z AUTO 27007KT 10SM OVC016 13/11 A2984 RMK AO2 SLP102 T01330111 53013 CWGT 240300Z AUTO 11020KT 10/08 RMK AO1 PK WND 11025/0200 SLP062 T00960075 56009 KBDL 240251Z 18008KT 10SM BKN250 09/04 A3011 RMK AO2 SLP195 T00940044 50015 KBEC 240315Z AUTO 15006KT 10SM CLR 11/04 A2997 RMK AO2 T01090035 CWHL 240300Z AUTO 13003KT 10/06 RMK AO1 SLP073 T01010056 56005 KBED 240256Z AUTO 19006KT 10SM CLR 09/03 A3008 RMK AO2 SLP199 T00940028 51017 KAND 240256Z AUTO 05013G19KT 7SM RA OVC012 11/09 A2986 RMK AO2 SLP107 P0007 60053 T01060094 50009 EDQM 231550Z 26011KT 9999 FEW045 BKN059 05/M05 Q1021 CWID 240300Z AUTO 08005KT M04/M13 RMK AO1 SLP211 T10361132 56006 KALW 240253Z AUTO 14004KT 10SM BKN060 OVC080 12/07 A2980 RMK AO2 RAE02 SLP093 P0000 60009 T01170072 53001 KBDN 240315Z AUTO 21005KT 10SM FEW120 08/01 A2983 RMK AO2 KAMN 240312Z AUTO 03007KT 10SM CLR 08/04 A3011 RMK AO2 T00750038 KANE 240255Z AUTO 04005KT 10SM CLR 09/04 A2992 RMK AO2 CWHN 240300Z AUTO 08008KT 1 3/4SM -SN FEW001 BKN013 BKN048 M02/M06 A2992 RMK SLP167 CWGW 240300Z AUTO 18007KT 06/02 RMK AO1 SLP083 T00560016 58003 KALX 240315Z AUTO 28003KT 10SM BKN027 BKN043 OVC060 13/11 A2984 RMK AO2 T01260112 CWHO 240300Z AUTO 00001KT M04/M05 RMK AO1 SLP032 T10391053 57021 CWGX 240300Z AUTO 07005KT M14/M20 RMK AO1 SOG 31 1008 SLP287 T11411202 KD55 240315Z AUTO 08017G23KT 10SM OVC070 00/M09 A2996 RMK AO2 PFSH 240258Z AUTO 01008KT 10SM CLR 03/M01 A2965 RMK AO2 SLP056 T00331011 55004 CWHP 240200Z AUTO 20010KT 00/M01 RMK AO1 SLP118 T00001006 58001 CWIG 240300Z AUTO 20010KT RMK AO1 CWGY 240300Z AUTO 08010KT 01/M01 RMK AO1 SLP109 T00051006 55000 KBEH 240253Z AUTO 00000KT 10SM CLR 07/00 A3006 RMK AO2 SLP181 T00670000 50003 ULPB 231330Z 04004MPS 9999 BKN021 07/M04 Q0999 R01/01//70 NOSIG RMK QFE745/0994 CWHQ 240300Z AUTO 31009KT 03/01 RMK AO1 T00270011 50016 KBDR 240252Z AUTO 23005KT 10SM CLR 11/05 A3013 RMK AO2 SLP204 T01060050 50010 KD57 240315Z AUTO 09017KT 1 3/4SM BR OVC003 M01/M01 A2980 RMK AO2 CWII 240300Z AUTO 01006KT 01/M06 RMK AO1 T00121059 KANJ 240255Z AUTO 33004KT 10SM OVC075 01/M04 A3017 RMK AO2 SLP224 T00111039 51015 CWIJ 240300Z AUTO M23/M26 RMK AO1 SOG 92 6008 SLP290 T12271256 KANK 240315Z AUTO 29007KT 10SM CLR 14/M09 A2997 RMK AO1 T01361091 KD60 240315Z AUTO 11020G26KT 8SM OVC004 M03/M03 A2987 RMK AO2 OPKC 240255Z 25007KT 5000 FU FEW020 27/21 Q1007 NOSIG CWJB 240300Z AUTO 21002KT 05/02 RMK AO1 T00520021 50014 CWHT 240300Z AUTO 26006KT 10/M06 RMK AO1 SOG 02 6005 SLP056 T00951055 CWIK 240300Z AUTO 12014G20KT 02/M08 RMK AO1 PK WND 12023/0210 SLP158 T00181079 58005 EDSB 240250Z 01004KT CAVOK 02/M01 Q1020 KBDU 240317Z AUTO 00000KT 10SM CLR 16/00 A2969 RMK AO2 UKWW 240300Z 31004MPS CAVOK 00/M03 Q1013 R31/0///65 NOSIG ULOO 240300Z 00000MPS P5000 NSC M02/M03 Q1008 R19/090070 NOSIG RMK QFE752 CWIL 240300Z AUTO 28010KT M22/ A3039 RMK SLP304 KBFD 240253Z AUTO 00000KT 10SM CLR 09/01 A3008 RMK AO2 SLP187 T00940011 51013 CWJD 240300Z AUTO 08003KT M05/M11 RMK AO1 SLP235 T10491109 56006 CWHV 240300Z AUTO 31005KT 06/03 RMK AO1 SLP158 T00610033 51034 UMGG 240300Z 26003MPS CAVOK M01/M02 Q1011 R28/CLRD// NOSIG KAMW 240253Z AUTO 19006KT 10SM CLR 13/02 A2996 RMK AO2 SLP141 T01280017 53001 NZAP 240200Z 25005KT 50KM SCT017 15/11 Q1016 RMK ALT VATSIM USE ONLY KBFF 240253Z AUTO 12008KT 10SM FEW120 16/03 A2965 RMK AO2 SLP014 T01560028 55005 CXAF 240200Z AUTO 09007KT M01/M03 RMK AO1 6PAST HR M P0002 T10141026 50011 TUPJ 240100Z 10013KT 070V130 9999 FEW015CB SCT018 27/21 Q1015 CXAG 240200Z AUTO 09010KT M00/M01 RMK AO1 T10011009 CWIP 240300Z AUTO 29003KT 02/ RMK AO1 T0021 50010 KAOH 240253Z AUTO 06007KT 10SM CLR 10/02 A3004 RMK AO2 SLP173 T01000017 50006 KANQ 240315Z AUTO 00000KT 10SM CLR 09/07 A3005 RMK CWJH 240300Z AUTO 05002KT M08/M14 RMK AO1 SOG 30 3002 SLP237 T10821140 KBFI 240253Z 17008KT 10SM -RA FEW034 SCT045 OVC050 09/08 A2983 RMK AO2 RAB12 SLP101 P0001 60003 T00890083 58005 OPLA 240255Z 00000KT 6000 NSC 23/16 Q1008 A29.75 NOSIG CWJI 240300Z AUTO 13009G15KT M01/M02 RMK AO1 0PAST HR SOG 00 6005 SLP126 P0004 T10061020 50010 KAPA 240253Z 24006KT 10SM SCT140 BKN220 14/01 A2972 RMK AO2 SLP027 T01390011 53003 $ PHBK 240256Z AUTO 30005KT 10SM FEW041 FEW060 32/22 A2999 RMK AO2 RAB0159E08 SLP157 P0000 60000 T03220222 56017 $ EEKA 240250Z 00000KT CAVOK M03/M03 Q1007 CXBA 240200Z AUTO 11013KT 00/M00 RMK AO1 PK WND 10018/0103 T00001003 CXAJ 240200Z AUTO 09010KT M01/M02 RMK AO1 4PAST HR SOG 03 M P0002 T10141015 50011 CWIS 240300Z AUTO 31006KT 00/M03 RMK AO1 SOG 110 3017 SLP147 T00001029 50008 CXAK 240200Z AUTO 07004KT 02/01 RMK AO1 T00170014 KAPC 240254Z AUTO 28015KT 10SM CLR 14/09 A2997 RMK AO2 PK WND 27026/0157 SLP139 T01390089 55001 KBFL 240254Z 31005KT 10SM CLR 20/02 A2988 RMK AO2 SLP115 T02000022 56002 KBFM 240253Z AUTO 31012KT 10SM OVC040 15/10 A2993 RMK AO2 SLP134 T01500100 51021 KBGD 240251Z AUTO 16011KT 10SM CLR 16/M01 A2992 RMK AO2 SLP111 T01611006 55007 CWKD 240200Z AUTO 30018KT M09/M11 RMK AO1 25 1034 SLP154 T10881112 50001 KANW 240315Z AUTO 18011KT 10SM CLR 15/01 A2971 RMK AO2 T01450014 KBGE 240255Z AUTO 00000KT 10SM SCT040 OVC049 18/14 A2982 RMK AO2 PWINO CWIW 240300Z AUTO 13015KT M00/M00 RMK AO1 SOG 02 5005 PK WND 13020/0239 SLP156 T10011004 KAPF 240253Z AUTO 02004KT 10SM SCT026 SCT043 SCT049 24/21 A2982 RMK AO2 SLP095 T02440206 51016 $ KAOO 240253Z AUTO 00000KT 10SM CLR 12/03 A3009 RMK AO2 SLP190 T01170033 51011 EEKE 240250Z AUTO 25004KT 9999NDV NSC 01/01 Q1008 KBGF 240315Z AUTO 00000KT 10SM OVC008 11/10 A2984 RMK CWIX 240200Z AUTO 30015KT M01/M07 RMK AO1 22 1046 SLP185 T10101069 CWJO 240200Z AUTO 30014G20KT 00/M04 RMK AO1 PK WND 33023/0100 SLP188 T00001038 52040 NZCH 240300Z AUTO 09008KT 040V130 9999 NCD 16/11 Q1018 NOSIG KAPG 240258Z AUTO 13003KT 10SM CLR 12/09 A3012 RMK AO2 SLP203 T01160090 52007 NZCI 240200Z 19003KT 40KM SCT085 17/13 Q1017 RMK ALT NZNR VATSIM USE ONLY CWKG 240300Z AUTO 34002KT M00/M01 RMK AO1 SLP187 T10011007 51015 CWIZ 240300Z AUTO 02003KT 10/05 RMK AO1 T00970054 CWKH 240300Z AUTO 07/03 RMK AO1 SLP063 T00720027 56008 CXBI 240300Z AUTO 33004KT 07/01 RMK AO1 SLP195 T00700011 50010 CWJR 240300Z AUTO 11002KT 08/04 RMK AO1 SLP090 T00760044 55006 CXCA 240300Z AUTO 25001KT M02/M07 RMK AO1 SOG 00 1013 SLP244 T10191074 KBHB 240256Z AUTO 21011KT 10SM CLR 05/04 A3007 RMK AO2 SLP185 T00500039 51008 NZCM 232355Z 13007KT 9999 -SN OVC040 M16/M20 A2902 RMK SNB1115 SLP833 CXAT 240200Z AUTO 07009KT M15/M21 RMK AO1 SOG 04 SLP236 T11541206 CWKK 240200Z AUTO 20002KT M04/M09 RMK AO1 SLP238 T10421089 53001 CXBK 240300Z AUTO 13017G23KT M00/M06 RMK AO1 SOG 01 5000 PK WND 14023/0252 SLP132 T10031055 CWJT 240300Z AUTO 32003KT 02/M01 RMK AO1 SLP196 T00241010 51031 CWLB 240300Z AUTO 09004KT M01/M02 RMK AO1 6PAST HR SOG 01 6007 SLP147 P0002 T10121021 50014 KBHC 240315Z AUTO 00000KT 10SM CLR 21/21 A2976 RMK AO2 PNO EDTL 231750Z 02009KT CAVOK 11/M02 Q1023 CWLC 240300Z AUTO 22002KT 09/06 RMK AO1 T00920064 CWJU 240300Z AUTO 20008G15KT 08/07 RMK AO1 2PAST HR 3005 PK WND 20021/0225 SLP064 P0001 T00770072 50004 KBGM 240253Z 18004KT 10SM CLR 12/M04 A3007 RMK AO2 SLP182 T01221039 51008 CXCD 240200Z AUTO 07002KT 01/M03 RMK AO1 T00071031 CWJV 240300Z AUTO 09003KT 12/04 RMK AO1 SLP052 T01160039 53001 CWKM 240300Z AUTO 28013KT A3002 KAPN 240254Z AUTO 36009KT 10SM CLR 05/M04 A3016 RMK AO2 SLP216 T00501039 51010 KBFW 240314Z AUTO 05008KT 10SM BKN040 BKN080 M01/M02 A3010 RMK AO2 CWLE 240300Z AUTO 12016KT M01/M01 RMK AO1 3PAST HR SOG 05 6013 PK WND 12020/0254 SLP119 P0001 T10061011 50003 CWJW 240300Z AUTO 01006G15KT 03/M00 RMK AO1 SOG 02 3001 SLP067 T00341001 VCRI 240210Z 24009KT 9999 FEW018 28/21 Q1010 NOSIG CWJX 240200Z AUTO 10014KT 04/M00 RMK AO1 SOG 01 7008 PK WND 10018/0123 SLP081 T00371003 CXBO 240300Z AUTO 26010G15KT RMK AO1 50016 CWKO 240300Z AUTO 13013KT M02/M02 RMK AO1 SOG 11 6010 PK WND 14018/0227 SLP118 T10191022 UMII 231600Z 26006G09MPS 8000 BKN016CB 03/00 Q1006 TEMPO 2000 SHSNRA BKN005 UNAA 240300Z 16002MPS 110V220 CAVOK 09/03 Q1021 R02/190060 NOSIG RMK QFE743 CWKP 240300Z AUTO 12008KT M11/ A3006 RMK SLP220 CXCH 240300Z AUTO M01/M03 RMK AO1 T10101027 KBGR 240253Z 18010KT 10SM CLR 05/03 A3003 RMK AO2 SLP169 T00500033 51011 CXBR 240200Z AUTO 25011KT 09/M00 RMK AO1 PK WND 28020/0124 T00881002 CWLI 240300Z AUTO ///// ////SM //// NCD ///// A//// KARA 240253Z AUTO 00000KT 10SM CLR 13/09 A3000 RMK AO2 SLP159 T01330094 53017 $ KAPS 240315Z AUTO 00000KT 10SM CLR 14/12 A2998 RMK AO2 T01400118 KARB 240253Z AUTO 00000KT 10SM CLR 08/02 A3007 RMK AO2 SLP184 T00830022 53011 KBHK 240251Z AUTO 10019G24KT 10SM CLR 04/01 A2967 RMK AO2 SLP065 T00390006 56018 CXDB 240200Z AUTO 26011KT 08/M01 RMK AO1 PK WND 25020/0121 T00761008 CXCK 240300Z AUTO 15003KT 12/M10 RMK AO1 SLP064 T01211100 56008 NZDN 240200Z 17007KT 1700 DZ SCT008 12/11 Q1020 RMK ALT VATSIM USE ONLY KBHM 240253Z 30011KT 10SM OVC010 11/09 A2988 RMK AO2 CIG 008V014 SLP117 T01110094 53013 KBID 240256Z AUTO 21008KT 10SM CLR 07/06 A3015 RMK AO2 SLP214 T00720061 50008 CWLM 240300Z AUTO 26004KT 10/06 RMK AO1 SLP076 T01040060 55003 KBIE 240315Z AUTO 16007KT 10SM CLR 13/01 A2991 RMK AO2 T01310010 CXBW 240200Z AUTO 03010KT 08/05 RMK AO1 1PAST HR M PK WND 31035/0101 P0004 T00770051 50036 EDVE 231420Z 29013KT 260V320 9999 SCT033 BKN048 BKN062 07/02 Q1021 CWME 240300Z AUTO 12002KT 10/08 RMK AO1 2PAST HR M P0001 T01020080 50002 CXDE 240300Z AUTO 09009KT M03/M14 RMK AO1 SOG 13 6010 SLP189 T10291135 CWKW 240300Z AUTO ///// A2944 KBIF 240258Z 16005KT 10SM CLR 23/M02 A2991 RMK AO2A SLPNO 55002 $ KAQO 240250Z AUTO 00000KT 10SM CLR 14/06 A3006 RMK AO2 CWKX 240300Z AUTO 34006KT 09/M07 RMK AO1 SLP070 T00901073 55000 KAQP 240314Z AUTO 09017G22KT 10SM CLR 11/05 A2978 RMK AO2 KARG 240315Z AUTO 30005KT 10SM CLR 13/06 A2997 RMK AO1 KD95 240314Z AUTO 00000KT 10SM CLR 06/03 A3009 RMK AO2 T00630030 KAPY 240315Z AUTO 00000KT 10SM CLR 17/10 A3002 RMK AO2 T01710101 OPNH 240300Z 18007KT 5000M HZ NSC 28/20 Q.1004 NOSIG EDTY 232020Z 20003KT CAVOK 04/M03 Q1024 CXCP 240300Z AUTO 01007KT 06/04 RMK AO1 T00640042 50004 CWLP 240300Z AUTO 32011KT 09/07 RMK AO1 SLP068 T00920070 58010 KBIH 240256Z AUTO 03014KT 10SM CLR 17/M03 A2981 RMK AO2 SLP061 T01721033 53007 UNBB 240300Z 26008MPS CAVOK 10/02 Q1016 R24/CLRD66 NOSIG RMK QFE740 KAQR 240315Z AUTO 00000KT 10SM CLR 10/06 A3001 RMK AO2 CXDI 240300Z AUTO 22001KT 08/01 RMK AO1 SLP185 T00760012 53008 OPMT 240303Z 05004KT 3500 FU NSC 23/18 Q1007 TEMPO 4000 KBIJ 240315Z AUTO 00000KT CLR 17/12 A2982 RMK AO2 PWINO CXCS 240200Z AUTO 11013KT M00/M00 RMK AO1 PK WND 11017/0127 T10041002 CXEA 240300Z AUTO 08003KT M01/M11 RMK AO1 SLP228 T10061114 53001 CWMJ 240300Z AUTO 34004KT M00/M05 RMK AO1 SLP220 T10011047 51033 CWLS 240300Z AUTO 03005KT 06/02 RMK AO1 SLP193 T00580023 50009 EDVK 231750Z 31008KT 9999 BKN043 07/M01 Q1022 KBJC 240247Z 33010KT 50SM SCT100 BKN250 17/03 A2970 CXDK 240300Z AUTO 15004KT 03/M06 RMK AO1 SLP142 T00311060 56002 KBIL 240253Z 31010KT 10SM SCT095 BKN180 09/04 A2968 RMK AO2 PK WND 34026/0154 SLP052 60000 T00940044 51028 $ KE11 240315Z AUTO 13005KT 10SM CLR 13/02 A3000 RMK AO2 T01340020 CXEC 240300Z AUTO 07005KT 01/M00 RMK AO1 SOG 07 6004 SLP116 T00061001 CWNC 240300Z AUTO 35007KT 11/02 RMK AO1 SLP174 T01060015 50006 KASD 240253Z AUTO 00000KT 10SM OVC046 13/11 A2996 RMK AO2 SLP144 T01330106 53014 KCAD 240315Z AUTO 00000KT 10SM CLR 03/M02 A3009 RMK AO2 T00331025 KAQV 240256Z AUTO 00000KT 10SM CLR 12/11 A2999 RMK AO2 SLP156 T01170106 53013 $ KARM 240315Z AUTO 36004KT 10SM CLR 15/09 A3003 RMK AO2 T01460090 CWND 241820Z M01/M01 RMK 2012 T10091010 CWMM 240300Z AUTO 04005KT 09/08 RMK AO1 6PAST HR 8008 SLP084 P0006 T00890079 50042 KASE 240253Z AUTO 00000KT 10SM CLR 11/M07 A2985 RMK AO2 SLP022 T01111072 58005 KAQW 240252Z AUTO 00000KT 10SM CLR 06/03 A3008 RMK AO2 SLP190 T00610028 51016 KCAE 240307Z 02006KT 1 3/4SM +TSRA BR OVC004CB 17/16 A2979 RMK AO2 LTG DSNT S FRQ LTGICCG S-SW TS S-SW MOV N CB S-SW MOV N P0009 T01720161 CWNE 240300Z AUTO 21011KT 05/01 RMK AO1 PK WND 24017/0235 SLP135 T00510012 58002 KAQX 240315Z AUTO 28007G14KT 250V340 1 1/4SM VCTS RA BKN004 BKN016 OVC021 21/19 A2977 RMK AO2 LTG DSNT ALQDS KASG 240148Z 01004KT 10SM SKC 14/04 A3004 CWLX 240300Z AUTO 08011KT M17/ A3004 RMK SLP194 KCAG 240253Z AUTO 21007KT 10SM CLR 10/00 A2976 RMK AO2 SLP046 T01000000 55004 VEBI 230700Z 35007KT 5000 HZ SCT020 SCT100 24/18 Q1011 CXDP 240200Z AUTO 08010KT M01/M02 RMK AO1 T10051015 CXEG 240300Z AUTO 01/ RMK AO1 SOG 00 T0006 CWLY 240300Z AUTO 21006G21KT 160V240 9SM CLR 14/00 A2965 RMK SLP046 DENSITY ALT 1100FT KASH 240256Z AUTO VRB04KT 10SM CLR 12/05 A3006 RMK AO2 SLP192 T01220050 51016 KE16 240315Z AUTO 31009G16KT 10SM CLR 14/08 A3003 RMK AO2 UMKK 240300Z 24003MPS 9999 SCT014CB 03/03 Q1011 R24/CLRD60 NOSIG RMK QFE757/1010 CWNH 240300Z AUTO 33008KT 02/M02 RMK AO1 SLP157 T00231023 53028 CWMQ 240200Z AUTO 16007KT 06/02 RMK AO1 SLP071 T00580022 55004 VEAT 240300Z 28020KT 2000 +TSRA SCT008 BKN016 FEW025CB OVC090 20/20 Q1010 NOSIG ZSHC 240300Z 18002MPS 090V260 CAVOK 24/13 Q1016 NOSIG KARR 240252Z AUTO 13005KT 9SM CLR 13/02 A3004 RMK AO2 SLP173 T01280017 50006 KBJI 240313Z AUTO 08012KT 10SM OVC015 00/M01 A3000 RMK AO2 T00001015 PFWS 240256Z AUTO 18008KT 10SM FEW040 SCT049 BKN060 08/04 A2951 RMK AO2 RAB37E50 SLP000 P0000 60000 T00830044 55001 VECC 240300Z 23014KT 3200 HZ SCT018 BKN100 31/26 Q1006 NOSIG KBIS 240252Z AUTO 08016KT 6SM BR OVC005 01/M01 A2986 RMK AO2 SLP129 T00061006 55004 KBJJ 240056Z AUTO 36009KT 10SM CLR 12/04 A3005 RMK AO2 SLP178 T01170044 KASJ 240315Z AUTO 03005KT 10SM 11/10 A3002 RMK AO2 T01070102 KCAK 240251Z 04007KT 10SM BKN250 11/04 A3006 RMK AO2 SLP180 T01060039 53009 $ KBKB 240254Z AUTO 00000KT 10SM CLR 12/11 A2998 RMK AO2 SLP179 T01220106 53012 KART 240256Z AUTO 03003KT 10SM CLR 05/01 A3006 RMK AO2 SLP181 T00500011 51011 VEBN 240300Z 09004KT 2500 HZ NSC 27/19 Q1006 CWMT 240300Z AUTO 15006KT M07/M17 RMK AO1 SLP229 T10661168 57005 CWNK 240300Z AUTO 05010KT 00/M07 RMK AO1 T00001067 CWOB 240308Z AUTO 06024KT ////SM //// BKN002 OVC006 ///// A2965 KASL 240315Z AUTO 00000KT 10SM CLR 10/08 A3002 RMK AO1 T01000081 CWNL 240200Z AUTO 36005KT 05/M01 RMK AO1 SLP213 T00461008 53014 CWOC 240300Z AUTO 21003KT 04/01 RMK AO1 SLP114 T00360008 58006 KBIV 240253Z AUTO 00000KT 10SM CLR 08/02 A3007 RMK AO2 SLP165 T00830022 50003 KBKD 240315Z AUTO 12008KT 7SM CLR 14/03 A3001 RMK AO2 T01370030 KARV 240315Z AUTO 10008KT 060V120 10SM CLR 04/00 A3006 RMK AO2 T00400000 CWOD 240300Z AUTO 32016KT M04/M09 RMK AO1 SOG 38 1041 PK WND 29021/0228 SLP198 T10421086 CWNM 240300Z AUTO 07002KT 07/06 RMK AO1 8008 SLP083 T00740057 50008 KCBE 240303Z AUTO 00000KT 10SM CLR 11/05 A3012 RMK AO1 ZSFZ 240300Z 03005MPS 360V070 9999 SCT040 22/13 Q1018 NOSIG KBKE 240253Z AUTO 28005KT 10SM CLR 08/03 A2979 RMK AO2 SLP092 T00780028 56003 KARW 240315Z AUTO 16006KT 7SM BKN021 BKN029 OVC075 23/21 A2977 RMK AO2 LTG DSNT W KASN 240315Z AUTO 32005KT 10SM BKN014 OVC022 14/11 A2985 RMK AO2 T01350107 CWOE 242300Z AUTO 12008KT 05/04 RMK AO1 3PAST HR 6012 SLP079 P0005 T00460036 50032 CXDW 240300Z AUTO 08008KT M00/M07 RMK AO1 SLP193 T10041067 56005 KBIX 240258Z AUTO 35010G15KT 10SM OVC041 15/10 A2993 RMK AO2 SLP138 T01520099 52018 KCAO 240255Z AUTO 18016KT 10SM CLR 16/01 A2986 RMK AO2 SLP072 T01610011 55004 KCBF 240315Z AUTO 18010KT 10SM CLR 14/00 A2992 RMK AO2 KBKF 240258Z 19011KT 10SM FEW120 BKN200 16/02 A2971 RMK AO2A SLP010 T01610020 55000 KCBG 240315Z AUTO 05006KT 10SM CLR 05/M01 A2994 RMK AO2 CWNP 240300Z AUTO 34001KT 08/06 RMK AO1 1008 SLP072 T00820055 50002 VEBS 240300Z 22012KT 3000 HZ SCT016 BKN100 30/27 Q1007 NOSIG CWMZ 240200Z AUTO 36014KT 06/01 RMK AO1 SLP198 T00590008 53011 CWNQ 240300Z AUTO 34005KT 05/02 RMK AO1 3046 SLP187 T00530016 50016 KCAR 240254Z AUTO 22008KT 10SM OVC070 08/02 A2989 RMK AO2 SLP128 T00830022 53006 KAST 240255Z AUTO 20012G17KT 8SM -RA SCT019 BKN050 OVC070 09/07 A2983 RMK AO2 RAB17 SLP100 P0000 60001 T00940072 56011 KCBK 240315Z AUTO 16019G25KT 10SM CLR 14/03 A2977 RMK AO2 CXET 240300Z AUTO 31003KT 06/01 RMK AO1 SLP193 T00580012 50011 KBKL 240253Z 00000KT 10SM CLR 12/03 A3005 RMK AO2 SLP178 T01170028 50001 KATL 240252Z 07011KT 10SM OVC007 13/12 A2981 RMK AO2 SLP093 CIG 006V008 T01330117 51014 EFET 240250Z AUTO 36003KT 9999 OVC006 M11/M14 Q1005 CWPC 240300Z AUTO 23006KT 09/02 RMK AO1 SLP191 T00900022 51010 KCAV 240315Z AUTO 17012KT 10SM CLR 13/01 A2993 RMK AO2 PWINO KCBM 240258Z AUTO 32007KT 10SM OVC010 11/10 A2989 RMK AO2 SLP124 T01140100 50002 $ CXFM 240200Z AUTO 16009KT 08/05 RMK AO1 T00810049 VEDG 240300Z 05004KT 2000 BR SCT020 OVC090 26/24 Q1007 NOSIG CWPD 240300Z AUTO 03007KT M03/M04 RMK AO1 2016 SLP147 T10331039 50010 UMMG 240300Z 27002MPS CAVOK M00/M02 Q1013 NOSIG KASW 240315Z AUTO 00000KT 10SM CLR 10/02 A3005 RMK AO2 CWPE 240200Z AUTO 23006KT 05/03 RMK AO1 SLP175 T00460025 51012 KASX 240253Z AUTO 05009KT 10SM OVC060 02/M03 A3011 RMK AO2 SLP207 T00221033 56002 KBLF 240228Z AUTO 14011G19KT 10SM -RA BKN008 OVC060 06/05 A3001 RMK AO2 P0000 T00610050 TSNO KAUG 240253Z AUTO 19004KT 10SM CLR 06/02 A3003 RMK AO2 SLP171 T00560022 50009 CWPF 240315Z AUTO 28003KT 11/04 RMK AO1 T01080044 KATP 240315Z AUTO 30021KT 10SM BKN037 OVC043 21/13 A2993 RMK A01 KBLH 240252Z AUTO 24013KT 10SM CLR 31/M02 A2962 RMK AO2 PK WND 24027/0226 SLP025 T03061022 55004 KAUH 240315Z AUTO 17013G17KT 10SM CLR 14/00 A2986 RMK AO2 T01410000 PHHI 240258Z AUTO 07008KT 10SM CLR 26/19 A3003 RMK AO2 SLP159 T02640187 57010 $ NZGS 240200Z 30001KT 30KM BKN010 16/14 Q1016 RMK ALT VATSIM USE ONLY CXGH 240300Z AUTO 04014KT 04/M02 RMK AO1 PK WND 05017/0213 T00421023 CWNZ 240300Z AUTO 05005KT M05/M13 RMK AO1 SOG 00 3014 SLP256 T10471131 KBLI 240253Z 14011KT 10SM -RA OVC048 10/07 A2977 RMK AO2 SLP087 P0000 60000 T01000072 56005 OPPS 240300Z 23006KT 4000 HZ FEW030TCU SCT040 BKN070 20/15 Q1011 NZHK 240200Z 27005KT 40KM SKC 16/11 Q1019 RMK ALT VATSIM USE ONLY ULWC 240300Z 17001MPS 0100 R21/M0200N FZFG VV001 M02/M03 Q1005 R21/010060 NOSIG RMK QBB030 QFE744/0992 CXFR 240300Z AUTO 06009KT M00/M02 RMK AO1 T10021015 KATS 240315Z AUTO 16016KT 10SM CLR 18/00 A2995 RMK AO2 KBKS 240315Z AUTO 00000KT 10SM CLR 16/08 A3002 RMK AO1 T01550083 KCDA 240315Z AUTO 00000KT 10SM CLR 10/00 A3003 RMK AO2 T00990000 KE38 240315Z AUTO 17009G14KT 10SM CLR 17/00 A3009 RMK AO2 T01671003 CXHA 240300Z AUTO 09001KT 08/02 RMK AO1 SLP182 T00810015 51011 EFHA 240250Z AUTO 14003KT CAVOK M04/M04 Q1004 KATT 240251Z AUTO 00000KT 10SM CLR 18/06 A3004 RMK AO2 SLP166 T01780056 53007 PFYU 240256Z 04008KT 10SM CLR 05/M11 A2978 RMK AO2 SLP111 T00501111 56012 KBKT 240315Z AUTO 03004KT 10SM OVC050 A3006 RMK AO1 CWPK 240300Z AUTO 29008KT M06/M09 RMK AO1 SOG 35 1033 SLP221 T10561091 UNEE 240300Z 13006MPS CAVOK 09/04 Q1016 R23/CLRD60 NOSIG RMK QFE739 KCDC 240253Z AUTO 11003KT 10SM OVC110 13/M01 A2984 RMK AO2 SLP055 T01331006 51022 KAVC 240316Z AUTO 05003KT 10SM OVC007 11/11 A3009 RMK AO2 T01050105 KBMC 240315Z AUTO 02003KT 10SM CLR 12/03 A2980 RMK AO1 T01180034 NZHN 240200Z 11005KT 80KM SCT048 21/09 Q1014 RMK ALT NZTG VATSIM USE ONLY KBKV 240253Z AUTO 00000KT 10SM CLR 21/19 A2983 RMK AO2 SLP099 T02110194 51014 KCDD 240310Z AUTO 00000KT 10SM OVC050 01/M06 A3011 RMK AO2 KAUM 240316Z AUTO 18008KT 10SM CLR 12/02 A2993 RMK AO2 KBLM 240256Z AUTO 20004KT 10SM CLR 09/07 A3015 RMK AO2 SLP215 T00890067 50010 CXHD 240200Z AUTO 10009KT 01/01 RMK AO1 T00060005 KBKW 240251Z AUTO 10007G15KT 10SM -RA BKN011 OVC060 08/06 A3000 RMK AO2 SLP160 P0001 60004 T00780061 51012 TSNO $ KAUN 240315Z AUTO 19013G19KT 10SM CLR 15/09 A2995 RMK AO1 KATW 240245Z 08009G16KT 10SM SCT100 04/M02 A3009 EDXW 231820Z 29015KT 9999 SCT030 06/01 Q1020 KAUO 240256Z AUTO 29006KT 10SM CLR 13/11 A2983 RMK AO2 SLP120 T01330111 51014 KBKX 240256Z AUTO 16010KT 10SM CLR 16/00 A2977 RMK AO2 SLP091 6//// T01560000 56007 KCCO 240315Z AUTO 04006KT 10SM BKN003 OVC009 15/15 A2979 RMK AO2 T01500148 DNPO 232100Z 00000KT 9999 FEW008 26/25 Q1011 NOSIG CXHF 240300Z AUTO 03/M02 RMK AO1 T00281024 CWPO 240300Z AUTO 08008KT M00/M08 RMK AO1 SLP186 T10021079 56013 KBMG 240253Z AUTO 04005KT 10SM CLR 15/M01 A2999 RMK AO2 SLP152 T01501006 53010 KATY 240253Z AUTO 14006KT 10SM CLR 14/01 A2973 RMK AO2 SLP069 T01390006 56009 $ CWOY 240300Z AUTO 10011KT 02/M06 RMK AO1 PK WND 11019/0206 SLP162 T00221056 58003 UMMS 240300Z 00000MPS CAVOK M04/M05 Q1010 R31/CLRD// NOSIG KCDH 240315Z AUTO 00000KT 10SM CLR 11/09 A2998 RMK AO2 NZHS 240200Z 19003KT 40KM SCT085 17/13 Q1017 RMK ALT NZNR VATSIM USE ONLY CWQH 240300Z AUTO 34007KT 09/05 RMK AO1 PK WND 33023/0202 T00940047 KCCR 240253Z 24010KT 10SM CLR 16/08 A2999 RMK AO2 SLP143 T01560078 51007 KCDI 240306Z AUTO 00000KT 10SM CLR 09/05 A3002 RMK AO2 T00860049 KBMI 240256Z 09010KT 10SM CLR 11/M04 A3003 RMK AO2 SLP195 T01111039 51003 NZHT 240200Z 27006KT 40KM SKC 16/11 Q1018 RMK ALT VATSIM USE ONLY CWPR 240300Z AUTO 26005KT 10/01 RMK AO1 SLP058 T01020011 55005 KBNA 240253Z 36012G20KT 10SM FEW008 BKN014 OVC020 12/10 A2987 RMK AO2 RAE31 SLP115 P0003 60040 T01170100 51009 $ KAUS 240253Z 00000KT 10SM CLR 12/08 A3002 RMK AO2 SLP165 T01220078 53009 KCDJ 240252Z AUTO 00000KT 10/05 A3001 RMK AO1 SLP162 T01000050 53001 CWPS 240200Z AUTO 14013KT 11/M02 RMK AO1 SLP182 T01091017 53007 CWRA 240300Z AUTO 33005KT M01/M01 RMK AO1 SLP105 T10071005 53008 KAVK 240315Z AUTO 16010KT 10SM CLR 11/06 A2996 RMK AO2 CXIB 240300Z AUTO 24006KT M00/M03 RMK AO1 SLP159 T10031033 51007 CWQK 240300Z AUTO 29015KT 10/05 RMK AO1 PK WND 29022/0223 SLP074 T00950054 58002 KBML 240252Z AUTO 00000KT 10SM CLR 02/M01 A3000 RMK AO2 SLP169 T00221006 51014 KBLU 240252Z AUTO 19005KT 10SM FEW017 SCT023 06/03 A3001 RMK AO2 SLP135 T00610033 51000 TSNO EFHK 240250Z 27003KT CAVOK M03/M04 Q1005 NOSIG KAVL 240254Z AUTO VRB05KT 3SM -RA OVC024 09/06 A2993 RMK AO2 SFC VIS 9 SLP128 P0009 60049 T00890061 50010 KCCU 240315Z AUTO 22012G22KT 180V270 10SM CLR 05/M12 A3012 RMK AO2 KCEC 240314Z AUTO 20011KT 10SM BKN017 BKN043 OVC080 11/08 A3001 RMK AO2 CIG 014V026 T01060078 OPRN 240300Z 31010KT 4000 HZ FEW035 SCT120 19/14 Q1011.8/29.88 EEPU 231250Z 30015KT CAVOK 07/M04 Q1004 KBLV 240258Z AUTO 32003KT 10SM CLR 12/02 A2998 RMK AO2 SLP155 T01190021 53003 TSNO $ CXHM 240300Z AUTO 06002KT 10/04 RMK AO1 SLP180 T01010043 53014 PGRO 240250Z 11014G19KT 7SM SCT012 OVC100 27/24 A2990 KAUW 240254Z AUTO 11015G19KT 10SM CLR 06/01 A3005 RMK AO2 SLP184 T00560011 51017 $ KCEF 240258Z AUTO 16006KT 10SM CLR 10/04 A3009 RMK AO2 SLP196 T00970042 50017 PHJH 240245Z VRB05KT 15SM FEW040 FEW080 28/18 A3001 CWQO 240300Z AUTO 25022KT 04/M00 RMK AO1 PK WND 23026/0237 T00361001 CWRF 240300Z AUTO ///// A3012 CWPX 240300Z AUTO 09008KT ////SM //// NCD M25/M29 A3024 KCCY 240315Z AUTO 17009KT 10SM CLR 13/00 A2996 RMK AO2 KAVP 240254Z 00000KT 10SM CLR 15/01 A3008 RMK AO2 SLP183 T01500011 51013 KAWG 240315Z AUTO 18007KT 10SM CLR 13/00 A3002 RMK AO2 CWQP 240300Z AUTO 30006KT 03/02 RMK AO1 SLP183 T00340015 50009 CXHP 240300Z AUTO 07009KT M01/M01 RMK AO1 T10051013 KBMQ 240253Z AUTO 02004KT 10SM CLR 15/06 A3006 RMK AO2 SLP169 T01500056 53005 KAVQ 240315Z AUTO 24009KT 10SM CLR 28/M06 A2976 RMK AO2 T02821062 CWPZ 240300Z AUTO 14004KT 07/M01 RMK AO1 SLP075 T00651010 56010 CWRH 240300Z AUTO 01021KT M05/ A2957 RMK SLP048 KCDR 240253Z AUTO 16013KT 10SM CLR 17/05 A2959 RMK AO2 SLP009 T01670050 56010 CXHR 240200Z AUTO 09008KT 04/03 RMK AO1 T00430027 CWQR 240300Z AUTO 18008KT M00/ RMK AO1 T1003 KCDS 240253Z AUTO 14010KT 10SM CLR 15/02 A2999 RMK AO2 SLP143 T01500017 55008 OPSK 240300Z 09010KT 3000 HZ NSC 25/17 Q1003 NOSIG KAXA 240315Z AUTO 17015KT 10SM CLR 15/00 A2991 RMK AO2 CWQS 240300Z AUTO 18013KT 08/07 RMK AO1 PK WND 18017/0251 SLP069 T00770070 51002 CWRJ 240200Z AUTO 10016KT 00/01 RMK AO1 SOG 03 6009 PK WND 11020/0108 SLP119 T00000005 CWSA 240300Z AUTO 31010KT 9SM CLR 03/01 A3006 RMK SLP182 EGAA 240250Z AUTO 27011KT 9999 SCT018/// SCT040/// OVC049/// 08/06 Q1018 KBMT 240315Z AUTO 10SM CLR 15/12 A3001 RMK AO2 T01510117 CWRK 240300Z AUTO 01006KT 05/01 RMK AO1 SLP203 T00450006 51027 KBNL 240315Z AUTO 00000KT 3SM VCTS RA BKN003 BKN008 OVC030 20/20 A2978 RMK AO2 LTG DSNT ALQDS ORBD 240255Z 29009KT 5000 DUHZ CLR 18/09 A2982 RMK SLP196 WND DATA/ALSTG ESTMD 60005 53004 EGAC 231950Z 27006KT 9999 FEW020 SCT046 11/07 Q1021 UMOO 231300Z 30009G12MPS 9999 BKN032TCU 08/02 Q1006 NOSIG KAWM 240253Z AUTO 31004KT 10SM CLR 12/11 A2993 RMK AO2 SLP134 T01220111 50004 $ PGSN 240254Z 12014KT 10SM SCT015 SCT019 30/25 A2989 RMK AO2 SLP142 60002 T03000250 58015 $ KCFD 240315Z AUTO 00000KT 10SM CLR 13/09 A3003 RMK AO2 T01250093 CWRM 240300Z AUTO 09004KT 01/01 RMK AO1 2PAST HR SOG 02 0001 SLP096 P0001 T00110006 50002 CWSD 240300Z AUTO 21011KT 03/02 RMK AO1 SLP150 T00280017 50001 CWQV 240300Z AUTO 28032G39KT 02/M04 RMK AO1 PK WND 27040/0224 T00171038 KCDW 240253Z 00000KT 10SM CLR 12/06 A3013 RMK AO2 SLP207 T01170061 51015 KCFE 240314Z AUTO 04009G17KT 10SM CLR 08/02 A2991 RMK AO2 T00750021 EGAE 231650Z 28018KT 9999 FEW023 BKN032 12/07 Q1022 CWRN 240300Z AUTO 21005KT 01/M00 RMK AO1 SLP174 T00101001 53008 KBNO 240253Z AUTO 24009KT 10SM FEW090 09/M03 A2981 RMK AO2 SLP087 T00941028 53001 KAVX 240251Z AUTO 22008KT 8SM CLR 12/11 A2987 RMK AO2 SLP109 T01170106 58002 TSNO $ KAWO 240315Z AUTO 14012KT 10SM FEW019 BKN027 OVC034 09/04 A2983 RMK AO1 CWSF 240300Z AUTO 15004KT 05/03 RMK AO1 SLP084 T00460028 58011 CWRO 240300Z AUTO 15018KT 09/ RMK AO1 PK WND 15024/0204 T0086 NZKI 240200Z 20014KT 20KM FEW005 13/12 Q1018 RMK ALT VATSIM USE ONLY CWSG 240300Z AUTO 24006KT 04/02 RMK AO1 SLP101 T00360022 53003 ORBI 240300Z 30017KT 9999 FEW030 SCT100 19/06 Q1010 NOSIG PHJR 240253Z AUTO 12007KT 070V150 10SM SCT039 BKN060 A3002 RMK AO2 SLP173 56007 TSNO KAXH 240315Z AUTO 00000KT 10SM CLR 13/11 A3002 RMK AO2 T01320106 PGUA 240303Z AUTO 13008KT 1SM +RA BR BKN013 BKN034 26/24 A2990 RMK AO2 VIS 1V5 CIG 013V035 RVRNO $ CYAH 240300Z AUTO 27015G25KT 4SM -SN OVC043 M12/M17 A2990 RMK SLP151 KBOI 240253Z 04004KT 10SM BKN110 14/04 A2976 RMK AO2 SLP068 60000 T01390044 56007 $ NZKK 240200Z 22012KT 40KM SCT021 19/14 Q1015 RMK ALT NZAA VATSIM USE ONLY KCFJ 240315Z AUTO 02006KT 10SM CLR 09/00 A3002 RMK AO2 T00900002 OPST 240300Z 36004KT 5000 FU NSC 24/14 Q1009 NOSIG RH53 CXKA 240300Z AUTO 05005KT M05/M12 RMK AO1 SOG 00 1019 SLP252 T10461118 KBOK 240256Z AUTO 16004KT 9SM -RA OVC010 09/08 A3000 RMK AO2 CIG 007V012 SLP177 P0001 60002 T00940083 58012 CYBB 232300Z 22007KT 15SM SCT015 BKN040 M15/M18 A3026 RMK SC4SC3 -14.1/-20.9/TR/SNW CVR/TR LOOSE/LAST STFD OBS/ NXT 241200 UTC SLP250 CWSK 240300Z AUTO 12002KT 09/08 RMK AO1 1003 SLP075 T00940075 50004 CWRT 240300Z AUTO 26003KT 05/M00 RMK AO1 T00521003 EGBB 240250Z 27005KT 9999 FEW031 08/05 Q1019 KCEU 240254Z AUTO 06010G16KT 6SM RA BR SCT008 BKN029 OVC043 12/09 A2987 RMK AO2 SLP111 P0013 60049 T01170094 56006 KBPC 240315Z AUTO 17016G21KT 10SM CLR 14/M01 A2991 RMK AO2 KCGC 240315Z AUTO 00000KT 10SM BKN050 22/20 A2981 RMK AO2 CWRU 240300Z AUTO 02009KT 08/ RMK AO1 SLP052 T0084 58009 CWSL 240300Z AUTO 18004KT 13/04 RMK AO1 SLP053 T01300037 55003 CYBC 240300Z AUTO 30011G17KT 9SM SCT025 SCT030 BKN035 BKN049 03/M00 A2988 RMK SLP122 CYBD 240100Z 24009KT 210V280 15SM BKN090 14/05 A2971 RMK AC5 LAST STFD OBS/NEXT 241300 UTC SLP064 DENSITY ALT 200FT VDPP 240300Z 17007KT 130V220 9999 SCT017 32/25 Q1011 CYAM 240300Z 32007KT 15SM FEW074 OVC075 00/M05 A3018 RMK AC1AS7 SLP231 KCGE 240300Z AUTO 08003KT 10SM SCT050 BKN070 OVC090 11/08 A3011 RMK A01 KAXN 240253Z AUTO 09019G26KT 10SM CLR 05/02 A2988 RMK AO2 PK WND 08029/0210 SLP130 T00500017 53000 KCEW 240253Z AUTO 34009G17KT 10SM BKN055 16/11 A2988 RMK AO2 SLP114 T01560106 51024 $ EFIV 240250Z AUTO 18002KT 3000 -SN OVC031 M06/M07 Q1007 PHKO 240253Z 32005KT 10SM CLR 27/19 A2997 RMK AO2 SLP149 T02720194 56010 KBNW 240315Z AUTO 19008KT 10SM CLR 15/M01 A2994 RMK AO2 KCGF 240245Z 05005KT 20SM SKC 08/02 A3007 EGBE 231620Z 26006KT 220V290 9999 SCT048 15/05 Q1023 CXKE 240300Z AUTO 35006KT 08/01 RMK AO1 SLP192 T00830013 51031 EFKE 240250Z 10008KT 9999 -SHSN BKN022 BKN040 M02/M02 Q1004 KCEY 240315Z AUTO 36006KT 10SM CLR 11/10 A2992 RMK AO1 EFJO 240250Z 09003KT CAVOK M03/M04 Q1005 KBPG 240315Z AUTO 12007KT 10SM CLR 15/01 A3002 RMK AO2 T01500005 CWTG 240300Z AUTO 26013KT 02/01 RMK AO1 SLP101 T00160010 53009 CWSP 240300Z AUTO 30004KT 09/07 RMK AO1 SLP081 T00900067 56005 CWRY 240300Z AUTO 29008KT 09/05 RMK AO1 SOG 00 5002 SLP052 T00860047 CYBG 240300Z 30014G20KT 25SM OVC038 M01/M04 A3007 RMK SC8 SLP191 ZSNB 240300Z 16004MPS 120V200 CAVOK 23/10 Q1016 NOSIG KCEZ 240253Z AUTO 20009KT 10SM CLR 15/M06 A2982 RMK AO2 SLP041 T01501061 55006 PHLI 240253Z 07012KT 10SM SCT015 BKN023 BKN028 26/21 A3003 RMK AO2 SLP165 T02610211 56017 $ CWRZ 240300Z AUTO 24006KT 02/01 RMK AO1 SLP108 T00200011 50000 VEGT 240130Z 27006KT 1800 -RA FEW010 SCT018 FEW025CB OVC090 26/25 Q1006 NOSIG KBPI 240253Z AUTO 35006KT 10SM CLR 03/M03 A2986 RMK AO2 SLP079 T00331033 52003 KCGI 240253Z AUTO 00000KT 10SM CLR 10/06 A2995 RMK AO2 SLP141 T01000061 51006 CXKI 240300Z AUTO M05/M11 RMK AO1 SLP247 T10451109 51021 CWSR 240300Z AUTO 08006KT M00/M01 RMK AO1 4PAST HR SOG 02 6005 SLP145 P0002 T10041012 50006 KCHA 240253Z 00000KT 2SM -RA BR FEW010 BKN030 OVC035 14/12 A2982 RMK AO2 RAB17 SLP093 P0002 60002 T01390122 51018 $ EFKI 240250Z 12009KT 090V150 9999 BKN041 M03/M06 Q1005 KBOS 240254Z 21010KT 10SM FEW220 SCT250 09/04 A3010 RMK AO2 SLP192 T00940039 51017 KCFS 240314Z AUTO 01003KT 10SM CLR 06/04 A3011 RMK AO2 T00600035 KAXS 240315Z AUTO 14007KT 10SM CLR 13/04 A3000 RMK AO2 T01310040 NZMC 240200Z 27006KT 40KM SKC 16/11 Q1018 RMK ALT NZHT VATSIM USE ONLY EGBJ 231820Z 22006KT 9999 FEW038 15/07 Q1022 CWSS 240300Z AUTO 20003KT 04/03 RMK AO1 SLP170 T00440029 51011 KBPK 240253Z AUTO 00000KT 10SM CLR 12/02 A3000 RMK AO2 SLP155 T01220017 53002 KE80 240315Z AUTO 18016KT 10SM CLR 19/M02 A2990 RMK AO2 T01931020 CWST 240300Z AUTO 03008KT 04/01 RMK AO1 4PAST HR 1040 SLP148 P0002 T00410008 50012 CYCB 240300Z 11007KT 12SM IC FEW004 SCT016 BKN140 BKN210 M24/M27 A3039 RMK SF1SC2AC2CI2 SLP298 CYBK 240300Z 32015KT 20SM DRSN BKN054 M19/M22 A3037 RMK SC7 SLP290 EFKK 240250Z AUTO 16004KT CAVOK M02/M04 Q1002 PGUM 240303Z 11005KT 10SM FEW013 SCT023 29/26 A2988 RMK AO2 $ CYAT 240300Z AUTO 30005KT 9SM CLR M15/M18 A3028 RMK SLP255 KAZC 240315Z AUTO 25010KT 10SM CLR 20/M07 A2982 RMK AO2 CYBL 240300Z 10007KT 20SM VCSH FEW025TCU BKN040 OVC160 09/07 A2973 RMK TCU2SC4AC2 SLP070 KCHD 240247Z 24010KT 10SM CLR 32/M05 A2967 CXLC 240300Z AUTO 08007KT M14/M19 RMK AO1 SOG 39 6004 SLP253 T11391191 KCFV 240252Z AUTO 15005KT 10SM CLR 12/07 A3001 RMK AO2 SLP160 T01170067 55011 EGCC 240250Z AUTO 23007KT 9999 BKN008 08/08 Q1017 KAXV 240314Z AUTO 05004KT 10SM CLR 11/M05 A3005 RMK AO2 NZMF 240200Z 22005KT 60KM SCT080 13/07 Q1019 RMK ALT NZQN VATSIM USE ONLY CYCD 240300Z 23005KT 190V250 15SM FEW010 SCT020 OVC080 10/06 A2974 RMK SC1SC2AC5 SLP074 CXKM 240200Z AUTO 11009KT 01/M00 RMK AO1 T00071002 VEGY 240300Z 09004KT 4000 HZ NSC 31/18 Q1006 BECMG 5000 HZ KBOW 240315Z AUTO 17005KT 10SM SCT035 SCT040 SCT046 21/18 A2983 RMK AO2 FZRANO KAZE 240315Z AUTO 00000KT 10SM OVC010 21/20 A2977 RMK AO2 T02100200 CWSW 240100Z 18010G18KT 160V230 15SM FEW030 SCT045 BKN120 BKN210 06/01 A2972 RMK CU1CU3AS2CI2 CU TR LAST STFD OBS/NEXT 241300Z SLP087 DENSITY ALT 3800FT CWTN 240300Z AUTO 35002KT 05/03 RMK AO1 SLP151 T00540028 53032 CYBN 240300Z AUTO 00000KT 9SM CLR 04/01 A3010 RMK SLP197 EETN 240250Z 21003KT CAVOK M02/M02 Q1006 KAXX 240315Z AUTO 20011G15KT 10SM CLR 12/M04 A3003 RMK AO2 T01201040 ZSNJ 240300Z 14003MPS 100V170 CAVOK 25/11 Q1015 NOSIG CYCG 240301Z 00000KT 15SM -SHRA SCT063TCU BKN085 OVC220 09/05 A2974 RMK TCU4AC3CI1 SLP082 TVSA 240200Z 08006KT 9999 SCT018 27/23 Q1014 CYAY 240300Z AUTO 22009KT 9SM CLR M01/M03 A2979 RMK SLP093 EFJY 240250Z AUTO 32001KT CAVOK M05/M06 Q1003 CYAZ 240100Z 12011G16KT 8SM -RA FEW012 SCT022 OVC034 08/07 A2974 RMK CF2CU2SC4 LAST STFD OBS/NEXT 241300UTC SLP074 CYBQ 240300Z AUTO 04003KT 9SM CLR M20/M25 A3031 RMK SLP302 CYBR 240300Z 09015KT 15SM SCT160 SCT250 M00/M07 A3002 RMK AC3CS1 SLP190 KCGS 240301Z AUTO 00000KT 10SM BKN120 11/08 A3009 RMK AO1 T01100084 PHMK 240254Z 15004KT 10SM CLR 24/18 A3002 RMK AO2 SLP170 T02390183 56006 KAYS 240315Z AUTO 22004KT 10SM SCT070 BKN090 23/21 A2976 RMK AO2 T02340213 CYDA 232300Z 05008KT 360V090 20SM FEW220 11/M10 A2971 RMK CI1 CI TR CLIMAT 11.1/-8.1/0.0 LAST STFD OBS/NXT 241400Z SLP083 VEIM 240300Z 18005KT 5000 BR FEW008 SCT100 22/19 Q1012 BECMG 6000 KBPT 240253Z 00000KT 10SM CLR 14/11 A3000 RMK AO2 SLP158 T01390106 53014 EFMA 240250Z AUTO 00000KT CAVOK M03/M04 Q1006 EFKS 240250Z AUTO 12003KT 9999 OVC023 M04/M08 Q1006 KBQK 240315Z AUTO 18005KT 10SM SCT065 BKN090 20/20 A2978 RMK AO2 KF00 240315Z AUTO 10003KT 10SM CLR 12/06 A3001 RMK AO2 KCHK 240315Z AUTO 22003KT CLR 12/06 A3001 RMK AO2 PWINO CXKT 240300Z AUTO 21004KT 03/01 RMK AO1 SLP178 T00280005 53011 CWTT 240300Z AUTO 34004KT 10/04 RMK AO1 PK WND 35019/0202 T00970044 CYDB 240300Z AUTO 11005KT 9SM CLR 08/M06 A2961 RMK SLP066 DENSITY ALT 2800FT ZSOF 240300Z 17003MPS 100V210 CAVOK 26/08 Q1013 NOSIG EFKT 240250Z AUTO 05003KT CAVOK M05/M06 Q1005 KCIC 240315Z AUTO 11004KT 10SM CLR 18/08 A2990 RMK AO1 CYCK 240300Z AUTO 23002KT 9SM CLR 07/M00 A3007 RMK SLP187 CYDC 240100Z 29003KT 260V340 25SM SCT050TCU BKN100 BKN250 12/01 A2969 RMK TCU3AC2CI2 LAST STFD OBS/NEXT 241300 UTC SLP066 DENSITY ALT 2700FT CXLL 240300Z AUTO 02004KT 02/M08 RMK AO1 SOG 43 6008 SLP151 T00241075 CWTU 240300Z AUTO ///// M05/ A2955 RMK SLP047 CYBU 240300Z AUTO 03013G20KT 9SM OVC060 01/M06 A3002 RMK SLP188 KBRD 240253Z AUTO 07010KT 10SM CLR 02/M03 A2997 RMK AO2 SLP163 T00171028 55002 KCID 240252Z 19003KT 9SM CLR 13/02 A2999 RMK AO2 SLP154 T01330017 55001 EFKU 240250Z AUTO 08004KT CAVOK M02/M03 Q1004 EETU 240250Z AUTO 23006KT 9999 FZUP BKN018/// OVC062/// M00/M02 Q1007 CXMD 240300Z AUTO 11006KT 01/M07 RMK AO1 SOG 01 8006 SLP186 T00061072 CWVD 240300Z AUTO 18002KT M15/ A2993 RMK SLP202 PHNG 240157Z 07007KT 7SM CLR 27/22 A3000 RMK SLP154 T02720222 KAZO 240253Z 35007KT 10SM CLR 09/00 A3007 RMK AO2 SLP183 T00940000 51007 KCHO 240253Z AUTO 00000KT 10SM -RA OVC110 11/09 A3009 RMK AO2 SLP186 P0001 60002 T01110089 52005 EGCN 240250Z AUTO 25008KT 9999 FEW023/// BKN028/// BKN036/// 10/07 Q1017 CYBW 240309Z AUTO 07003KT 9SM BKN020 OVC041 02/02 A2970 RMK SLP096 CYBX 240300Z 19004KT 15SM SKC M02/M03 A2980 RMK SLP096 CYCO 240300Z 07004KT 15SM IC SKC M20/M23 A3028 RMK SLP257 CYDF 240300Z 25005KT 15SM BKN019 01/M02 A2988 RMK SC5 SLP122 CWVF 240315Z AUTO 14013KT 10/ RMK AO1 T0102 KF05 240315Z AUTO 13006KT 10SM CLR 15/03 A3000 RMK AO1 T01530029 KBQP 240315Z AUTO 00000KT 10SM CLR 10/10 A2999 RMK AO2 T00990095 CYCP 240100Z VRB02KT 15SM -SHRA FEW005 FEW021 BKN053CB BKN120 07/05 A2973 RMK SF1CF1CB3AC1 LAST OBS/NEXT 241300Z SLP091 CXMG 240200Z AUTO 11003KT 03/M02 RMK AO1 T00261024 CWTY 240300Z AUTO 33009G16KT 05/01 RMK AO1 1046 SLP186 T00460005 50011 CWUP 240300Z AUTO ///// M17/ A2999 RMK SLP202 EFLP 240250Z AUTO 00000KT CAVOK M01/M02 Q1004 KCGZ 240256Z AUTO 26009KT 10SM CLR 31/M02 A2970 RMK AO2 SLP043 T03111017 53006 $ CYCQ 240100Z 02006KT 340V040 8SM SCT020 OVC025 01/M04 A2985 RMK SC4SC4 DIST PCPN S+W-NW LAST STFD OBS/NEXT 241300Z SLP140 CWVH 240300Z AUTO 12005KT A2993 CWVI 240300Z AUTO 09008KT 01/01 RMK AO1 SLP118 T00080005 56006 CXMI 240300Z AUTO 24006KT 03/02 RMK AO1 T00280017 ZSPD 240300Z 15007MPS 130V190 CAVOK 22/10 Q1017 NOSIG EFMI 240250Z AUTO 00000KT CAVOK M05/M05 Q1004 KCHS 240256Z 15012KT 10SM FEW012 FEW100 SCT250 23/19 A2980 RMK AO2 SLP090 T02280194 53005 KDAA 240258Z AUTO 00000KT 10SM SCT120 BKN150 BKN170 11/09 A3009 RMK AO2 SLP193 T01090090 55000 CYCS 232000Z 03013KT 5SM IC -SN DRSN OVC016 M16/M19 A3029 RMK SC8 -13.7/-22.2/TR/68 ONE LOOSE LAST STFD OBS NXT 241200Z SLP258 CWWA 240300Z AUTO 07003KT 08/06 RMK AO1 4PAST HR 8011 SLP078 P0005 T00810062 50032 CWUS 240300Z AUTO 27003KT 10/04 RMK AO1 SLP059 T00950040 57008 KDAB 240253Z 15005KT 10SM CLR 22/20 A2981 RMK AO2 SLP095 T02220200 51012 PHNL 240253Z 11010KT 10SM FEW026 BKN038 BKN055 27/19 A3001 RMK AO2 SLP160 T02720194 55008 CWWB 240300Z AUTO 36009KT 12/03 RMK AO1 SLP186 T01150028 53017 KBRL 240253Z AUTO 00000KT 10SM CLR 13/01 A3001 RMK AO2 SLP160 T01330011 55001 CYDL 240300Z AUTO 35007KT 310V030 9SM SCT085 09/M06 A2965 RMK SLP055 DENSITY ALT 2800FT CXMM 240300Z AUTO 11005KT 01/M11 RMK AO1 SOG 01 6007 SLP163 T00051107 EGDM 240250Z AUTO 31004KT 9999 NCD 06/05 Q1019 CYED 240317Z AUTO 09007KT 1 1/4SM -UP VV004 00/M01 A2979 RMK ICG KCIN 240315Z AUTO 18010KT 10SM CLR 13/01 A2992 RMK AO2 NZNP 240200Z 36005KT 60KM SCT021 17/12 Q1016 RMK ALT VATSIM USE ONLY CWWE 240300Z AUTO 30003KT M00/01 RMK AO1 SLP191 T10020005 51015 CWVN 240300Z AUTO 12009KT 01/M01 RMK AO1 SOG 02 5005 SLP095 T00051006 50003 CYDN 240300Z AUTO 11007KT 9SM FEW160 00/M07 A3007 RMK SLP200 CWUW 240300Z AUTO 09016KT ////SM //// NCD M19/M21 A2990 KBRO 240253Z 00000KT 10SM CLR 18/11 A3002 RMK AO2 SLP165 T01830111 53009 PHOG 240301Z 06011G18KT 10SM CLR 29/19 A2998 RMK AO2 WSHFT 0241 T02940194 KBQX 240315Z AUTO 01019KT 10SM CLR 21/21 A3001 RMK A01 NZOH 240200Z 13003KT 60KM SKC 18/12 Q1017 RMK ALT NZPM VATSIM USE ONLY CXMO 240200Z AUTO 04006KT 03/01 RMK AO1 T00320013 VDSR 240300Z 14007KT 9999 SCT015 30/25 Q1011 CWWF 240300Z AUTO 15014G20KT M00/M04 RMK AO1 PK WND 16022/0215 SLP143 T10041043 55007 CWUX 240300Z AUTO 30012G18KT M00/M05 RMK AO1 PK WND 31025/0239 SLP187 T10041046 51037 CYCX 240300Z 19007KT 15SM SKC 04/02 A2998 RMK DA-1054FT SLP154 KDAG 240250Z AUTO 24027G37KT 10SM CLR 22/M01 A2975 RMK AO2 PK WND 24037/0248 SLP055 T02221006 53008 NZNR 240200Z 19003KT 40KM SCT085 17/13 Q1017 RMK ALT VATSIM USE ONLY VEJS 240100Z 07003KT 2000 HZ SCT100 26/22 Q1005 CYDP 232300Z 18003KT 170V240 15SM SKC 00/M06 A2963 RMK LAST STAFFED OB/ NEXT 240800 SLP037 CWVP 240300Z AUTO 16009KT 01/00 RMK AO1 8007 SLP071 T00090000 50016 CYEG 240318Z 11005KT 3SM -DZ BR SCT004 OVC009 01/M00 A2978 RMK SF3ST5 SLP116 CYCY 240300Z AUTO 30010KT 9SM CLR M21/M23 A3018 RMK SLP224 ORER 240100Z VRB02KT 9000 NSC 16/13 Q1010 NOSIG NZNS 240200Z 34003KT 50KM SKC 16/11 Q1018 RMK ALT VATSIM USE ONLY CWVQ 240300Z AUTO 31011KT 09/01 RMK AO1 SLP186 T00870012 51045 CYDQ 240300Z AUTO 04008KT 9SM -RA OVC024 00/M02 A2984 RMK SLP139 KCIR 240315Z AUTO 34006KT 10SM CLR 14/04 A2993 RMK AO2 T01390041 KF17 240315Z AUTO 00000KT 10SM CLR 14/11 A3001 RMK AO2 T01390111 UNKL 240300Z 15002MPS 110V230 9999 SCT018CB 10/05 Q1020 R29/CLRD65 NOSIG RMK QFE739 EGDR 240250Z AUTO 00000KT 9999 // NCD 07/04 Q1021 ZSQD 240300Z 18008G13MPS CAVOK 20/06 Q1014 NOSIG KBTA 240315Z AUTO 16008KT 10SM CLR 16/00 A2989 RMK AO2 T01550000 PGWT 240250Z 12010KT 7SM SCT016 SCT100 BKN150 28/25 A2988 CWXA 240300Z AUTO 02001KT 03/01 RMK AO1 1011 SLP076 T00280013 50003 KCKB 240253Z 06003KT 10SM CLR 13/01 A3002 RMK AO2 SLP159 T01280011 50006 NZNV 240200Z 13009KT 40KM SCT030 11/08 Q1022 RMK ALT VATSIM USE ONLY CWVT 240200Z AUTO 12004KT 02/M10 RMK AO1 SOG 03 7012 SLP189 T00161095 CWWK 240300Z AUTO 15005KT 10/07 RMK AO1 2PAST HR 6006 SLP086 P0001 T00970073 50008 CYFB 240300Z 15003KT 5SM -SN OVC040 M10/M11 A2980 RMK SC8 SLP095 CYEK 240300Z AUTO 33009KT 9SM CLR M22/M24 A3036 RMK SLP285 KDAL 240253Z 08003KT 10SM CLR 16/06 A3001 RMK AO2 SLP160 T01610061 53003 $ KCIU 240256Z AUTO 35010KT 10SM FEW080 M01/M04 A3017 RMK AO2 SLP247 T10061039 50009 FZRANO KCKC 240313Z AUTO 04004KT 10SM OVC048 M03/M07 A3010 RMK AO2 VEKO 240300Z 27008KT 6000 SCT100 34/19 Q1007 CWWL 240300Z AUTO 15010KT 08/06 RMK AO1 SLP083 T00820064 57002 CWXC 240300Z AUTO 27004KT M03/M08 RMK AO1 PK WND 31017/0212 SLP171 T10321075 51041 CWVU 240300Z AUTO 20008KT 04/03 RMK AO1 SLP205 T00380026 51012 CYFC 240300Z AUTO 19007KT 9SM FEW140 BKN190 04/03 A2997 RMK SLP151 CXNM 240300Z AUTO 26006KT RMK AO1 SOG 203 KDAN 240253Z AUTO 04008KT 7SM -RA OVC007 10/10 A3002 RMK AO2 CIG 005V010 SLP161 P0011 60016 T01000100 50003 PHNY 240256Z AUTO 16007KT 10SM SCT033 25/18 A3007 RMK AO2 SLP160 T02500178 56010 CYEN 240300Z 11012G19KT 15SM OVC030 M00/M04 A2990 RMK SC8 SLP155 KCKF 240315Z AUTO 27006KT 10SM +RA OVC040 18/17 A2980 RMK AO2 T01810171 EGEO 231450Z 25013KT 9999 SCT037 10/03 Q1022 EGDX 240250Z AUTO 27004KT 9999 OVC050/// 08/05 Q1020 EGFF 240250Z AUTO 30005KT 9999 NCD 07/05 Q1020 EGDY 240250Z 00000KT 9999 FEW040 03/02 Q1020 BLU CXMY 240300Z AUTO 03/01 RMK AO1 T00320013 CXNP 240300Z AUTO 18010KT 02/01 RMK AO1 SLP170 T00240012 51007 KCKI 240315Z AUTO 06003KT 10SM OVC009 19/18 A2984 RMK AO2 LTG DSNT W KCJR 240315Z AUTO 00000KT 10SM -RA OVC100 11/10 A3010 RMK AO2 T01110102 CWXI 240300Z AUTO 20018KT M01/M02 RMK AO1 SOG 43 6002 PK WND 20021/0254 SLP092 T10081015 CYER 240300Z AUTO 33009KT 9SM -SN OVC026 M15/M19 A3033 RMK SLP274 KDCA 240252Z 08004KT 10SM OVC130 14/08 A3010 RMK AO2 SLP192 T01440078 50000 CXPA 240200Z AUTO 04007KT 01/M01 RMK AO1 T00061013 CWWS 240300Z AUTO 01008KT M04/M08 RMK AO1 SLP233 T10411080 56007 NZPM 240200Z 13003KT 60KM SKC 18/12 Q1017 RMK ALT VATSIM USE ONLY KBTL 240253Z AUTO 35006KT 10SM CLR 13/00 A3007 RMK AO2 SLP180 T01280000 51006 CYET 240315Z AUTO 06005KT 4SM -SN BKN008 BKN013 OVC035 M00/M01 A2975 RMK SLP115 CWXL 240200Z AUTO 13012KT 09/06 RMK AO1 PK WND 16018/0102 T00860058 CXOL 240200Z AUTO 05007KT 03/01 RMK AO1 T00260013 CXPC 240300Z AUTO 05/M00 RMK AO1 SOG 00 1018 SLP199 T00531001 KBTM 240253Z AUTO 29005KT 10SM BKN060 OVC070 08/M02 A2975 RMK AO2 SLP060 T00781022 53002 $ VELP 240300Z 21004KT 5000 HZ SCT018 BKN100 24/19 Q1008 NOSIG CYEV 240300Z 22005KT 15SM FEW210 M02/M13 A2996 RMK CI1 SLP153 EGGD 240250Z AUTO 24004KT 9999 NCD 06/04 Q1020 KDAW 240251Z AUTO 00000KT 10SM CLR 07/03 A3004 RMK AO2 SLP169 T00720033 51006 KCLE 240251Z 00000KT 10SM SCT250 11/01 A3008 RMK AO2 SLP188 T01110011 50001 KCKN 240314Z AUTO 08014G20KT 10SM UP SCT011 SCT060 SCT090 00/M01 A2998 RMK AO2 KDBN 240315Z AUTO 00000KT 10SM SCT008 OVC027 17/16 A2980 RMK AO2 NZPP 240200Z 33004KT 40KM SKC 17/12 Q1017 RMK ALT VATSIM USE ONLY CYGE 240000Z 32007KT 300V020 20SM SCT075TCU BKN160 BKN200 14/M03 A2964 RMK TCU3AC2CI2 TCU N LAST STFD OBS/NEXT 241200Z SLP047 DENSITY ALT 3400FT KBUF 240254Z 19007KT 10SM CLR 08/00 A3008 RMK AO2 SLP190 T00780000 53009 CYFO 232200Z 18005KT 130V220 15SM SCT200 M01/M17 A3016 RMK CI3 SLP238 CWWX 240200Z AUTO 35005KT 04/03 RMK AO1 SLP204 T00400027 53017 VELR 240230Z 02006KT 2500 -RA SCT008 BKN018 FEW025CB OVC080 22/22 Q1007 KBTP 240315Z AUTO 14004KT 10SM CLR 14/M01 A3005 RMK AO1 KDAY 240256Z 03008KT 10SM SCT250 12/02 A3001 RMK AO2 SLP161 T01170022 50007 KCKP 240315Z AUTO 17005KT 10SM CLR 11/01 A2988 RMK AO2 T01130008 KDBQ 240253Z AUTO 17003KT 10SM CLR 13/02 A3001 RMK AO2 SLP162 T01330017 55001 CWWZ 240300Z AUTO 28005KT 10/04 RMK AO1 SLP186 T01020038 53013 KBTR 240253Z 00000KT 10SM CLR 13/11 A2998 RMK AO2 SLP150 T01280106 51010 KCLI 240315Z AUTO 08009KT 10SM CLR 04/00 A3011 RMK AO2 CWXR 240300Z AUTO 11012KT M18/ A3018 RMK SLP233 KCMA 240255Z 21004KT 10SM CLR 17/11 A2982 RMK AO2 SLP105 T01670111 55004 NZRC 240200Z 13009KT 40KM SCT030 11/08 Q1022 RMK ALT NZNV VATSIM USE ONLY CYHA 232100Z 35016KT 2 1/4SM -SN OVC017 M09/M11 A2977 RMK SC8 SN COV/TR LOOSE LAST STFD OBS/NEXT 241200 UTC SLP085 CWZA 240300Z AUTO 17003KT 11/08 RMK AO1 8002 SLP079 T01090083 50002 CWYJ 240300Z AUTO 16001KT 10/07 RMK AO1 SLP076 T01000073 55004 CYFS 240300Z 11004KT 070V150 15SM BKN090 BKN150 BKN210 M00/M16 A3003 RMK AC5AC1CI1 CI TR SLP186 KCLK 240335Z AUTO 13007KT 10SM CLR 12/02 A3000 RMK AO2 CYFT 232000Z 28009KT 15SM OVC025 M00/M05 A2972 RMK SC8 LAST OBS/NEXT 240900 UTC SLP069 CYGK 240300Z 01007KT 15SM FEW070 08/02 A3007 RMK AC1 LAST STFD OBS/NEXT 241000UTC SLP186 CWYK 240300Z AUTO ///// M06/ A2938 RMK SLP001 VEMN 240300Z 05006KT 2000 -RA SCT008 SCT018 FEW025CB OVC090 23/22 Q1008 NOSIG KCLL 240253Z AUTO 00000KT 10SM CLR 17/08 A3002 RMK AO2 SLP162 T01670078 53006 KDDC 240252Z AUTO 16019G24KT 10SM CLR 14/01 A2987 RMK AO2 SLP105 T01390006 57015 NZQN 240200Z 22005KT 60KM SCT080 13/07 Q1019 RMK ALT VATSIM USE ONLY CXPL 240200Z AUTO 06007KT 07/04 RMK AO1 T00680044 CWYL 240300Z AUTO 06002KT 01/M02 RMK AO1 SOG 65 6007 SLP055 T00141023 KCLM 240253Z AUTO 00000KT 10SM FEW019 OVC110 09/07 A2976 RMK AO2 SLP080 T00890067 56001 KCKV 240252Z AUTO 03011KT 6SM -RA BR BKN070 OVC080 11/09 A2991 RMK AO2 RAB02 SLP130 P0012 60029 T01110089 51004 EFOU 240250Z AUTO 12008KT 9999 BKN088/// M01/M04 Q1004 R12/19//95 CYGL 240300Z 28019G28KT 10SM -SHSN DRSN OVC025 M14/M18 A3008 RMK SC8 SLP207 KBTV 240254Z 27008KT 10SM FEW100 16/M06 A3002 RMK AO2 SLP167 T01561056 51022 KCMD 240315Z AUTO 00000KT 7SM OVC005 09/09 A2988 RMK AO2 T00930088 KDCM 240315Z AUTO 01011G15KT 7SM RA OVC005 11/11 A2989 RMK AO2 LTG DSNT SE AND SW P0005 CYHD 240300Z AUTO 07003KT 9SM SCT180 BKN200 M01/M11 A3012 RMK SLP227 CWYM 240300Z AUTO ///// M11/ A2972 RMK SLP121 KBVE 240251Z AUTO 34014G20KT 10SM OVC035 17/11 A2995 RMK AO2 SLP142 T01720111 53025 CYHE 240300Z AUTO 31004KT 250V020 9SM -RA FEW044 OVC071 10/08 A2975 RMK SLP076 KF44 240315Z AUTO 00000KT 10SM CLR 11/07 A3000 RMK AO2 CXOX 240300Z AUTO 08007KT M01/M11 RMK AO1 SOG 00 5007 SLP193 T10071108 EFPO 240250Z AUTO 17003KT CAVOK M03/M03 Q1004 VEMR 230700Z 00000KT 5000 HZ FEW010 SCT018 FEW025CB BKN100 27/21 Q1007 CXOY 240200Z AUTO 10011KT 01/01 RMK AO1 T00120007 CWZG 240300Z AUTO 03007KT 06/01 RMK AO1 SOG 00 5000 SLP060 T00560008 CYGP 240300Z 00000KT 15SM BKN045 00/M01 A2983 RMK SC5 SLP104 EGGP 240250Z 26010KT 9999 FEW014 10/08 Q1018 KCMH 240251Z 03008KT 10SM BKN250 14/03 A3000 RMK AO2 SLP159 T01390028 51009 KDDH 240254Z AUTO 00000KT 10SM CLR 06/02 A3007 RMK AO2 SLP185 T00610017 51013 KCKZ 240315Z AUTO 00000KT 10SM CLR 10/08 A3013 RMK AO2 KF46 240315Z AUTO 00000KT 10SM CLR 15/06 A3002 RMK AO2 T01500063 KBVI 232047Z 00000KT 10SM CLR 19/01 A3002 RMK LAST CYGQ 240300Z 07003KT 15SM SKC M04/M12 A3019 RMK SLP248 KCMI 240253Z 03008KT 10SM CLR 14/M01 A3002 RMK AO2 SLP166 T01391011 51007 KBUR 240253Z 14009KT 10SM CLR 19/09 A2982 RMK AO2 SLP086 T01940089 52003 EGHH 232320Z 24002KT 9000 OVC046 10/08 Q1022 CYHI 231900Z 13013KT 15SM DRSN FEW150 FEW210 M18/M22 A3038 RMK AC1CI1 AC TR CI TR -17.6/-18.1/S0.0/59 HARD PACK LAST OBS/NXT 2451400Z SLP294 CYGR 240200Z 22006KT 15SM FEW007 00/M01 A2997 RMK SC1 SC TR LAST STFD OBS/NEXT 240900 UTC SLP149 EGHI 232150Z 00000KT 9999 FEW048 07/04 Q1023 KCLS 240315Z AUTO 16005KT 10SM SCT030 OVC038 10/08 A2983 RMK AO2 KCLT 240252Z 36008KT 5SM -RA BR BKN008 OVC011 11/10 A2992 RMK AO2 SLP130 P0020 60037 T01110100 53005 KCNB 240314Z AUTO 11008KT 10SM CLR 13/01 A2977 RMK AO2 T01310013 CYGT 232000Z 36013KT 5SM -SN BKN025 M16/M19 A3013 RMK SC7 -15.7/-23.9/TR/74.4/SNW CVR/ MEDIUM PACK/LAST STFD OBS NEXT 241000 WND ESTD SLP213 CXRB 240300Z AUTO 00000KT M17/M21 RMK AO1 SOG 01 SLP259 T11741212 CYHK 240313Z AUTO 31012KT 9SM SCT013 OVC100 M21/M23 A3033 RMK SLP278 KDCU 240315Z AUTO 30006KT 7SM FEW006 OVC011 10/10 A2986 RMK AO2 T01000100 KDEC 240254Z 06005KT 10SM CLR 11/M01 A3002 RMK AO2 SLP164 T01111006 53006 KBUU 240315Z AUTO 07006KT 10SM CLR 07/06 A3007 RMK AO2 T00650060 KCNC 240315Z AUTO 17007KT 10SM CLR 13/02 A2998 RMK AO2 CWZL 240300Z AUTO 16011KT 09/06 RMK AO1 SLP075 T00860055 51004 KBWD 240255Z AUTO 00000KT 10SM FEW039 13/05 A3003 RMK AO2 KDED 240315Z AUTO 16005KT 10SM CLR 22/20 A2982 RMK AO2 NZRO 240200Z 11005KT 80KM SCT048 21/09 Q1014 RMK ALT NZTG VATSIM USE ONLY CYHM 240300Z 02007KT 320V030 15SM FEW250 09/03 A3008 RMK CI1 CI TR SLP190 CYGV 240300Z AUTO 21005KT 9SM SCT120 BKN250 00/M00 A2981 RMK SLP097 PHSF 240256Z AUTO 17016G26KT 10SM CLR 17/M03 A3029 RMK AO2 PK WND 15026/51 SLP139 T01721035 55003 $ KBVN 240315Z AUTO 16009KT 10SM CLR 13/00 A2983 RMK AO2 T01290000 KCLW 240315Z AUTO 30004KT 10SM SCT014 22/20 A2982 RMK AO2 CWZN 240200Z AUTO 32006KT 01/01 RMK AO1 SLP113 T00060005 53011 CYGW 240315Z AUTO 26025G33KT 3/8SM SN BLSN BKN024 OVC042 M12/M14 A2998 RMK SLP155 KBVO 240253Z AUTO 00000KT 10SM CLR 08/06 A3002 RMK AO2 SLP161 T00830061 55008 TSNO EGGW 240250Z AUTO 28005KT 9999 NCD 04/01 Q1019 CWZO 240300Z AUTO 15011KT RMK AO1 CYGX 240300Z 08004KT 15SM SKC M15/M21 A3033 RMK SLP289 ZSSS 240300Z 14006MPS 100V160 CAVOK 23/11 Q1016 NOSIG KBWG 240253Z AUTO 02008KT 10SM SCT034 SCT043 OVC055 13/09 A2990 RMK AO2 SLP124 60003 T01280094 50003 TSNO KBUY 240254Z AUTO 04009KT 3SM -RA BR OVC007 11/11 A2997 RMK AO2 RAB34 CIG 003V009 SLP148 P0001 60018 T01110106 58002 TSNO KDCY 240315Z AUTO 10SM CLR 11/04 A2997 RMK AO2 T01140041 CWYY 240300Z AUTO 12001KT 15/02 RMK AO1 SLP051 T01450015 56010 KDEH 240315Z AUTO 19007KT 10SM FEW055 15/00 A2996 RMK AO2 EGHQ 232020Z 02003KT CAVOK 10/05 Q1024 UNNT 240300Z 22007MPS 9999 FEW040 09/03 Q1014 R25/090070 R34/090070 NOSIG RMK QFE750/1001 CXRH 240300Z AUTO 00000KT 00/M01 RMK AO1 T00001013 CWZQ 240300Z AUTO 17006KT M00/M02 RMK AO1 SLP164 T10021020 53005 KBWI 240254Z 00000KT 10SM OVC140 12/09 A3010 RMK AO2 SLP192 T01220089 50004 KCMR 240315Z AUTO 23011KT 10SM CLR 15/M09 A2997 RMK AO2 KCNI 240315Z AUTO 08004KT 10SM OVC013 12/08 A2984 RMK AO2 KBVS 240315Z AUTO 15010G16KT 7SM FEW018 BKN026 SCT034 09/08 A2979 RMK A01 EGJA 231820Z 33004KT CAVOK 10/07 Q1024 CWZS 240200Z AUTO 28005KT 05/03 RMK AO1 SLP114 T00540026 53018 EFSA 240250Z 09001KT CAVOK M04/M05 Q1004 KCNK 240255Z AUTO 17011KT 10SM CLR 13/02 A2991 RMK AO2 SLP124 T01280022 55013 CYIK 232100Z 03027KT 8SM -SN DRSN OVC021 M12/M15 A2995 RMK CU8 SN TR LOOSE LAST STFD OBS/NEXT 241200UTC SLP150 EGJB 240250Z 16004KT 9999 SCT048 08/07 Q1021 KBVU 240315Z AUTO 22008KT 10SM 26/M09 A2969 RMK AO2 CXSC 240200Z AUTO 29010KT 07/04 RMK AO1 T00720044 UNOO 240300Z 25005MPS 8000 BKN011 BKN025CB 06/05 Q1012 R25/290050 NOSIG RMK QFE751 CXRL 240300Z AUTO 10009KT M02/M03 RMK AO1 5PAST HR M P0002 T10211028 50005 CYHU 240300Z AUTO 02011KT 9SM OVC110 09/04 A3007 RMK SLP183 KCNM 240253Z AUTO 15007KT 10SM CLR 18/00 A2995 RMK AO2 SLP106 T01780000 53001 KCOD 240256Z AUTO 35007KT 10SM CLR 09/01 A2972 RMK AO2 SLP052 T00940006 53011 CWZV 240200Z AUTO 24002KT 08/07 RMK AO1 SLP073 T00830067 58004 KDEN 240253Z 21008KT 10SM FEW140 BKN220 17/02 A2968 RMK AO2 SLP000 T01720022 55007 $ KCOE 240256Z AUTO 21007KT 10SM CLR 09/03 A2975 RMK AO2 SLP096 T00890033 55006 NZTG 240200Z 11005KT 80KM SCT048 21/09 Q1014 RMK ALT VATSIM USE ONLY NZSP 232350Z 11006KT 9999 SKC M70/ A2836 RMK CLN AIR 11008KT ALL WNDS GRID CWZW 240300Z AUTO 10004KT 09/M10 RMK AO1 SOG 02 6006 SLP080 T00881102 CXSE 240300Z AUTO 15001KT M21/M24 RMK AO1 SOG 62 8007 SLP282 T12091240 CYIN 240313Z AUTO 27006KT 9SM -RA FEW011 OVC026 03/03 A2969 RMK SLP071 KCNO 240253Z 25010KT 10SM SCT200 18/12 A2984 RMK AO2 SLP100 T01830122 53010 KCMX 240253Z AUTO 12006KT 10SM OVC048 M01/M07 A3015 RMK AO2 SLP224 T10061067 58002 KBVX 240315Z AUTO 00000KT 10SM CLR A2998 RMK AO1 KCOF 240258Z AUTO 15006KT 10SM CLR 23/21 A2981 RMK AO2 SLP099 T02330207 52008 $ CYIO 240300Z AUTO 15008KT 9SM CLR M19/M23 A3017 RMK SLP228 KBVY 240253Z AUTO 21007KT 10SM CLR 11/04 A3008 RMK AO2 SLP180 T01060044 51011 EFRO 240250Z AUTO 08005KT CAVOK M06/M08 Q1005 KCMY 240315Z AUTO 00000KT 10SM CLR 11/04 A2997 RMK AO2 T01130037 KBWP 240255Z AUTO 08016KT 10SM CLR 05/01 A2984 RMK AO1 CYHY 240300Z 08012KT 15SM SKC M09/M13 A3011 RMK SLP214 ZUCK 240300Z 17002MPS 110V210 9999 -RA SCT033 23/13 Q1012 NOSIG KDEQ 240253Z AUTO 00000KT 10SM CLR 12/09 A2999 RMK AO2 SLP152 T01170094 53003 CXSH 240300Z AUTO 35008G16KT 02/M03 RMK AO1 3039 PK WND 33020/0226 SLP187 T00231028 50002 CYHZ 240300Z 23004KT 15SM SKC 02/00 A3005 RMK SLP183 CWZZ 240300Z AUTO 33007KT 300V020 ////SM //// OVC002 M07/M07 A2943 KDFI 240253Z AUTO 07004KT 10SM CLR 10/00 A3005 RMK AO2 SLP177 T01000000 50007 EFSI 240250Z AUTO 16002KT //// SKC M03/M04 Q1003 EGKA 231750Z 20009KT 8000 NSC 11/07 Q1024 CYKA 240300Z 09010KT 40SM FEW070TCU SCT100 BKN250 12/02 A2964 RMK TCU2AC2CI3 VIRGA SLP047 DENSITY ALT 1300FT KDET 240253Z 12005KT 10SM CLR 11/02 A3008 RMK AO2 SLP188 T01110022 53011 EGJJ 240250Z 11006KT CAVOK 07/05 Q1021 NOSIG KF70 240315Z AUTO 22007KT 10SM CLR 15/10 A2986 RMK AO1 KBXK 240315Z AUTO 26007KT 10SM CLR 28/M05 A2968 RMK AO1 EGKB 231850Z 20011KT 9999 FEW025 10/07 Q1023 KCNU 240252Z AUTO 00000KT 10SM CLR 09/06 A3000 RMK AO2 SLP158 T00940061 55009 EHAK 240255Z AUTO 25026KT 9999 NSC 08/06 Q1009 KCPC 240315Z AUTO 05007KT 4SM -RA OVC002 15/15 A2990 RMK AO2 T01530147 CXSL 240300Z AUTO 10008KT M01/M02 RMK AO1 9PAST HR M P0004 T10051015 50009 KCOM 240315Z AUTO 00000KT 10SM CLR 13/04 A3003 RMK AO2 T01300036 CYKD 231900Z 14010KT 15SM SKC M05/M13 A3006 RMK 0.0/SNWCVR/MUCHLOOSE LAST STFD OBS/NEXT 241300Z SLP180 KCNW 240255Z 00000KT 10SM SKC 12/09 A3002 CXTD 240300Z AUTO 21005KT 02/M00 RMK AO1 SLP182 T00191001 53007 CYIV 240300Z 07007KT 15SM SKC M08/M17 A3023 RMK SLP259 KDEW 240253Z AUTO 20005KT 10SM BKN070 11/01 A2974 RMK AO2 SLP074 T01060006 56008 $ KCON 240251Z AUTO 18007KT 10SM CLR 11/04 A3004 RMK AO2 SLP174 T01060044 51015 KBWW 240315Z AUTO 09017KT 10SM OVC005 03/02 A2960 RMK AO2 PHTO 240253Z 12009KT 10SM FEW035 BKN220 26/19 A3002 RMK AO2 SLP166 T02560189 55004 EHAM 240255Z 20011KT CAVOK 06/03 Q1018 NOSIG CYKF 240300Z AUTO 00000KT 9SM CLR 09/01 A3006 RMK SLP185 CZBF 240300Z 18004KT 15SM SCT200 04/01 A2987 RMK CS3 SLP118 KCNY 240253Z AUTO 21010KT 10SM CLR 21/M08 A2963 RMK AO2 SLP990 T02111078 55014 KBYG 240253Z AUTO 22008KT 190V260 10SM SCT080 SCT100 14/01 A2964 RMK AO2 SLP001 T01390011 53004 CYKG 232100Z 36027G35KT 3/4SM -SN BLSN OVC033 M13/M15 A2974 RMK BLSN3SC5 SNOW COVER HARD PACK LAST STFD OBS/NEXT 241200 UTC SLP091 CXSP 240200Z AUTO 07010KT M00/M02 RMK AO1 T10031020 50007 KCOQ 240315Z AUTO 08012G20KT 10SM BKN110 00/M04 A3003 RMK AO2 CXTH 240200Z AUTO 20005KT M00/M01 RMK AO1 T10031009 VEPT 240300Z 12004KT 3000 HZ FEW020 SCT100 27/21 Q1005 NOSIG KBYI 240253Z AUTO 29006KT 10SM FEW100 12/02 A2977 RMK AO2 SLP061 T01220022 53003 CXSR 240300Z AUTO 03003KT M03/M04 RMK AO1 SOG 51 8001 SLP126 T10341037 50005 VERC 240300Z 34005KT 4000 HZ NSC 28/20 Q1010 NOSIG KCOS 240254Z 19003KT 10SM FEW120 SCT250 15/02 A2979 RMK AO2 SLP046 T01500022 55007 NZTU 240200Z 14007KT 20KM SCT007 12/10 Q1019 RMK ALT VATSIM USE ONLY CYKJ 240300Z AUTO 08006KT 9SM CLR M06/M16 A3006 RMK SLP222 KCOT 240253Z AUTO 00000KT 10SM CLR 17/08 A3001 RMK AO2 SLP159 T01720078 53008 KCQB 240315Z AUTO 12005KT 10SM CLR 13/05 A3001 RMK AO2 T01330046 KCPK 240315Z AUTO 04007KT 10SM BKN011 BKN018 OVC023 12/11 A3003 RMK AO2 T01150106 CYJT 240300Z 26005KT 15SM OVC030 01/M01 A2994 RMK SC8 SLP140 EGKK 240250Z VRB02KT 2300 HZ BKN049 08/08 Q1019 KCOU 240254Z AUTO 07003KT 10SM CLR 16/M03 A3001 RMK AO2 SLP159 T01561028 56008 EHBK 240255Z AUTO 19007KT 9999 NSC 01/M01 Q1020 KCQC 240253Z AUTO 22016KT 10SM CLR 13/M02 A3001 RMK AO2 SLP102 T01281022 55003 KBYL 240315Z AUTO 02004KT 10SM OVC018 12/12 A2987 RMK AO1 EGLC 240250Z AUTO 24006KT 9000 NCD 10/07 Q1019 CYKL 240301Z AUTO 28018G26KT 3SM -SN BKN033 OVC050 M07/M10 A2952 RMK SLP029 CYLD 240100Z 35004KT 15SM FEW170 M01/M12 A3013 RMK AC2 LAST STFD OBS/NEXT 241000UTC SLP234 KDFW 240253Z 03004KT 10SM CLR 16/05 A3000 RMK AO2 SLP155 T01610050 53001 CXTN 240300Z AUTO 24001KT M14/M23 RMK AO1 SLP218 T11351231 56012 KCQF 240315Z AUTO 34006KT 10SM BKN028 OVC035 15/10 A2990 RMK AO2 CYKO 231600Z CCA 09021KT 5SM -SN DRSN OVC038 M10/M14 A2990 RMK SC8 LAST STFD OBS/NEXT 1200Z SLP130 EGLF 231850Z 25002KT CAVOK 13/04 Q1023 CXTO 240300Z AUTO 13/02 RMK AO1 SLP183 T01280022 51013 CXTP 240300Z AUTO 00000KT M02/M02 RMK AO1 SOG 36 3005 SLP108 T10181018 CYKP 240300Z AUTO 05005KT 9SM CLR M08/M14 A3024 RMK SLP260 EFTP 240250Z AUTO 20003KT 9999 -SHUP BKN045 OVC080 00/M02 Q1004 OSDI 240300Z 00000KT CAVOK 06/03 Q1016 CYKQ 232100Z 29016KT 5SM -SN SCT027 OVC031 M10/M16 A3022 RMK SC4SC4 LAST STFD OBS/NEXT 241300 UTC SLP236 CYLH 240300Z AUTO 05007KT 9SM CLR M08/M14 A3023 RMK SLP262 KCPR 240253Z AUTO 00000KT 10SM OVC110 13/03 A2968 RMK AO2 SLP010 60000 T01280028 53013 NZWB 240200Z 34003KT 50KM SKC 16/11 Q1018 RMK ALT NZNS VATSIM USE ONLY KCPS 240253Z 00000KT 10SM CLR 11/02 A2999 RMK AO2 SLP157 T01110022 51005 KBYS 240255Z AUTO 24020G31KT 6SM CLR 22/M05 A2972 RMK AO2 SLP036 WND DATA ESTMD T02181051 58002 CYLJ 240000Z 14011KT 15SM -SN OVC012 02/M02 A2996 RMK SC8 LAST STFD OB/NXT 24 1200UTC SLP173 CYMA 240300Z 35008KT 20SM SKC 10/M10 A2968 RMK SLP080 EFVA 240250Z AUTO 15003KT 9999 SCT066/// M02/M03 Q1002 KCPT 240315Z AUTO 00000KT 10SM CLR 15/07 A3004 RMK AO2 CYLK 240000Z 04010KT 25SM SKC M10/M18 A3027 RMK -9.9/-21.4/0.0/ SNW CVR HARD PACK/ LAST STFD OBS/ NEXT 241400Z SLP275 CZDB 240300Z AUTO 21003KT 03/02 RMK AO1 SLP180 T00270015 53011 ORMM 240300Z 32014KT 4000 DU NSC 29/10 Q1008 NOSIG KCPU 240315Z AUTO 31006KT 10SM CLR 14/07 A2997 RMK AO2 T01440074 CYLL 240300Z 11017KT 5SM -SN OVC005 M00/M00 A2983 RMK ST8 SLP135 EGMC 240250Z 25006KT CAVOK 08/05 Q1019 EFTU 240250Z AUTO 00000KT CAVOK M03/M04 Q1005 EGLL 240250Z AUTO 22002KT 9999 BKN049 08/06 Q1019 NOSIG KCQM 240315Z AUTO 00000KT 10SM OVC037 01/M01 A3009 RMK AO2 VERP 240130Z 25005KT 5000 HZ NSC 28/11 Q1008 NOSIG CXTV 240200Z AUTO 12004KT M06/M13 RMK AO1 SLP152 T10591130 57017 KDHN 240253Z AUTO 31008KT 10SM CLR 15/12 A2986 RMK AO2 SLP108 T01500122 51017 KDGW 240253Z AUTO 30013KT 10SM FEW120 14/03 A2965 RMK AO2 PK WND 28027/0222 WSHFT 0209 SLP012 T01390028 53000 $ KCRE 240300Z 06009KT 10SM -RA BKN009 BKN013 OVC044 18/18 A2986 RMK AO1 CIG 007V012 P0000 T01830178 EGMD 240250Z AUTO 31005KT 8000 NCD 06/04 Q1020 KCPW 240314Z AUTO 20011G18KT 10SM SCT075 OVC085 02/M07 A3020 RMK AO2 KBZN 240300Z 17005KT 7SM -RA FEW012 OVC029 07/04 A2976 RMK AO2 P0000 T00670044 KCRG 240253Z AUTO 21006KT 10SM BKN047 BKN055 OVC080 23/18 A2979 RMK AO2 LTG DSNT N SLP086 T02330183 51013 PWINO $ KBYY 240315Z AUTO 00000KT 10SM CLR 16/10 A3002 RMK AO2 T01650096 CYKY 240300Z 11012G20KT 12SM OVC016 00/M01 A2976 RMK SC8 SLP106 CZCP 240300Z AUTO 10015KT ////SM //// NCD M17/M19 A3010 ORNI 240300Z 32016KT 1500 BLDU SCT030 22/09 NOSIG CYKZ 240300Z 35007KT 15SM SKC 09/03 A3007 RMK SLP188 CYMH 240300Z AUTO 24008KT 9SM CLR 01/M03 A2974 RMK SLP073 NZWK 240200Z 11005KT 80KM SCT048 21/09 Q1014 RMK ALT NZTG VATSIM USE ONLY CZCR 240300Z AUTO 30003KT 03/01 RMK AO1 SOG 15 3004 SLP124 T00340010 KDIJ 240314Z AUTO VCTS RMK AO2 TSB03 PWINO FZRANO $ CYNA 240314Z AUTO 20006KT 6SM BR OVC003 M01/M01 A2984 RMK ICG PAST HR SLP108 KDHT 240253Z AUTO 17017G25KT 10SM CLR 17/03 A2988 RMK AO2 PK WND 17027/0222 SLP085 T01670028 55004 KCQT 240247Z AUTO 26004KT 10SM CLR 17/10 A2983 RMK AO2 SLP099 T01720100 53001 KDIK 240314Z AUTO 09017KT 3/4SM BR VV002 M01/M01 A2974 RMK AO2 T10061011 CYLT 232138Z 30004KT 15SM FEW020 FEW200 M24/M28 A3045 RMK SC1CI1 LAST OBS/NEXT 240700 UTC SLP318 CXWB 240200Z AUTO 31009KT M17/M20 RMK AO1 SLP247 T11661197 EFUT 240250Z 22003KT 9999 -SHSN FEW050CB BKN080 00/M02 Q1004 CYNC 232100Z 28015G26KT 2SM BLSN BKN020 OVC038 M10/M14 A3011 RMK BLSN2SC4SC2 LAST STFD OBS/NEXT 241300Z SLP201 CYLU 231800Z 16016KT 15SM OVC052 02/M03 A2971 RMK SC8 LAST STFD OBS/NEXT 241200UTC SLP067 NZWN 240300Z AUTO 19013KT 9999 BKN018/// OVC024/// 14/11 Q1017 NOSIG TXKF 240255Z 26005KT 9999 FEW013 FEW300 20/17 Q1020 EHDL 240255Z AUTO 20008KT 130V210 9999 OVC053 04/01 Q1019 BLU CYND 240100Z 34011KT 15SM OVC090 08/01 A3007 RMK AC8 LAST STFD OBS/NEXT 241100 UTC SLP186 CXVM 240200Z AUTO 10012KT 01/M00 RMK AO1 4PAST HR M PK WND 10018/0157 P0002 T00051002 50004 CYMM 240300Z AUTO 11005KT 9SM BKN080 OVC096 02/M10 A2997 RMK SLP172 KCQW 240315Z AUTO 07012KT 5SM BR OVC004 13/13 A2989 RMK AO2 NZWP 240200Z 22012KT 40KM SCT021 19/14 Q1015 RMK ALT NZAA VATSIM USE ONLY CXVN 240300Z AUTO 33005KT 11/02 RMK AO1 SLP179 T01120019 53015 CYNE 240300Z AUTO 05003KT 340V130 9SM CLR M04/M15 A3019 RMK SLP243 CYLW 240300Z AUTO 14007G20KT 100V170 9SM OVC100 12/03 A2968 RMK SLP059 DENSITY ALT 1600FT KCQX 240252Z AUTO 22009KT 10SM CLR 08/07 A3015 RMK AO2 SLP210 T00830067 50010 KCSG 240251Z 29006KT 10SM CLR 16/12 A2981 RMK AO2 SLP089 T01610122 53011 KCRP 240251Z 06007KT 10SM FEW250 18/09 A3001 RMK AO2 SLP162 T01830089 53013 CYMO 240300Z AUTO 26005KT 9SM SCT050 M10/M13 A3029 RMK SLP259 NZWR 240200Z 22012KT 40KM SCT021 19/14 Q1015 RMK ALT NZAA VATSIM USE ONLY KCRQ 240253Z 21006KT 10SM OVC012 16/13 A2986 RMK AO2 SLP109 T01610133 53001 NZWS 240200Z 25003KT 70KM SCT032 18/10 Q1018 RMK ALT VATSIM USE ONLY EGNH 231950Z 26011KT 9999 SCT038 09/07 Q1022 EHEH 240255Z AUTO 18005KT 9999 NCD 01/M01 Q1020 BLU KCRS 240253Z AUTO 03003KT 10SM CLR 15/09 A3003 RMK AO2 SLP166 6//// T01500089 53002 PNO $ KEBA 240315Z AUTO 05005KT 7SM -RA BKN007 OVC013 12/12 A2985 RMK AO2 T01240124 NZWU 240200Z 13003KT 60KM SKC 18/12 Q1017 RMK ALT NZPM VATSIM USE ONLY CZFA 232200Z 12009KT 030V150 30SM SKC 07/M12 A2974 RMK CLIMAT 7.4/-4.6/0.0 LAST STFD OBS/NXT 241400Z SLP108 CYOA 232300Z 14011KT 15SM SCT230 M20/M23 A3026 EGNJ 240250Z AUTO 21008KT 9999 FEW028/// 08/06 Q1016 KCTB 240256Z AUTO 17003KT 10SM CLR 06/03 A2968 RMK AO2 SLP058 T00610033 53000 KDKB 240315Z AUTO 13005KT 10SM CLR 12/01 A3005 RMK AO2 T01200012 CYMT 240300Z AUTO 30011G17KT 9SM OVC030 M11/M17 A3012 RMK SLP225 CYOC 240100Z 04010G17KT 35SM SKC M01/M12 A2986 RMK CLIMAT -0.3/-19.0/0.0CM/0.0MWE/LAST STFD OBS/NXT 241300Z SLP136 KCSM 240253Z AUTO 14008KT 10SM CLR 13/04 A2999 RMK AO2 SLP147 T01280039 56012 CZEM 231900Z 30014G24KT 5SM -SN OVC025 M11/M14 A3014 RMK SC8 LAST STFD OBS/NEXT SLP209 CXWM 240200Z AUTO 34009KT 07/04 RMK AO1 PK WND 17022/0112 T00730042 CYNM 240300Z AUTO 29003KT 9SM OVC040 M08/M13 A3022 RMK ICG SLP256 CYOD 240300Z 07010KT 2SM -SN BKN015 OVC042 M01/M01 A2991 RMK SC6SC2 CIG VRB 10-20 SLP159 EGNM 240250Z 27013KT 9999 SCT020 08/06 Q1015 KCRW 240254Z 15003KT 10SM BKN100 12/11 A2996 RMK AO2 RAB06E23 SLP145 P0000 60000 T01220106 50005 KEAN 240315Z AUTO 15008KT 10SM CLR 15/04 A2963 RMK AO2 T01450042 EHDV 240255Z AUTO 26018KT 9999 FEW030/// 08/06 Q1012 EHFD 240255Z AUTO 25025KT 9999 NSC 08/06 Q1010 EGMW 231620Z 17018KT 9999 FEW044 10/05 Q1023 CXVW 240200Z AUTO 01007KT M00/01 RMK AO1 T10020005 CXWN 240300Z AUTO 04005KT 01/M07 RMK AO1 SLP196 T00101073 58006 KCRX 240315Z AUTO 30005KT 10SM BKN080 BKN110 11/10 A2989 RMK AO2 CYMX 240300Z 30007KT 25SM OVC087 07/01 A3008 RMK AC8 SLP190 KEBG 240315Z AUTO 11005KT 10SM CLR 19/09 A3003 RMK AO2 T01880089 KCSQ 240315Z AUTO 17008KT 10SM CLR 13/01 A2998 RMK AO2 UNTT 240300Z 15006MPS CAVOK 09/03 Q1015 R21/190055 NOSIG RMK QFE746 KEAR 240315Z AUTO 17014G20KT 10SM CLR 14/M01 A2983 RMK AO1 EGNR 231750Z 34008KT CAVOK 13/06 Q1024 KCTJ 240315Z AUTO 32005KT 10SM BKN041 OVC048 13/11 A2984 RMK AO2 T01280110 CYPA 240308Z 11013KT 15SM -SN SCT040 OVC067 03/M06 A2996 RMK SC3AC5 SLP169 CYOJ 240300Z 12005KT 15SM FEW120 SCT260 02/M13 A2995 RMK AC1CI3 SLP167 KDKK 240253Z AUTO 00000KT 10SM CLR 05/01 A3008 RMK AO2 SLP190 T00500011 51007 $ KCUB 240302Z AUTO 06006KT 4SM VCTS RA BR OVC005 17/16 A2980 RMK AO2 LTG DSNT S-W P0002 T01720161 EGPA 240250Z AUTO 05005KT 9999 NCD 03/01 Q1012 EGNS 240250Z 27010KT 250V310 9999 FEW008 OVC046 10/06 Q1017 KEAT 240255Z AUTO 28008KT 10SM FEW070 SCT090 12/03 A2973 RMK AO2 SLP069 60001 T01170028 58003 EGPB 240250Z AUTO 02015KT 9999 NCD 02/M03 Q1011 EGNT 240250Z 27014KT 9999 FEW028 07/06 Q1013 KEAU 240256Z AUTO 03006KT 10SM CLR 12/04 A2992 RMK AO2 SLP136 T01220044 53001 CYPC 231800Z 10004KT 030V130 15SM FEW100 M11/M17 A3028 RMK AC1 AC TR -10.6/-18.8/0/23 MEDIUM PACK LAST STFD OBS/NEXT 241300 UTC SLP255 ZUGY 240300Z 23003MPS 8000 -RA FEW006 BKN015 OVC030 15/14 Q1016 BECMG TL0430 FEW005 BKN012 OVC026 EGPC 240250Z AUTO 27005KT 9999 SCT047/// 02/00 Q1012 KCSV 240318Z AUTO 06006KT 3SM BR OVC003 11/11 A2983 RMK AO2 T01110106 CZEV 240000Z AUTO 08005KT M02/M17 RMK AO1 SOG 39 8016 SLP164 T10231168 EGOM 240250Z AUTO 26021KT 9000 -RA BKN001/// BKN009/// 06/06 Q1013 EGNV 232020Z 23008KT CAVOK 06/02 Q1019 EGPD 240250Z 31008KT 9999 FEW025 SCT033 03/00 Q1012 TEMPO SHRA CYPD 240300Z AUTO 28004KT 9SM CLR M00/M02 A3001 RMK SLP168 CYPE 240300Z 09011KT 15SM OVC030 00/M04 A2987 RMK SC8 SLP146 EGPE 240250Z AUTO 27009KT 9999 NCD 05/02 Q1014 KDLF 240258Z 17005KT 10SM CLR 17/09 A3000 RMK AO2A SLP152 T01700088 53004 $ CYOO 240300Z AUTO 35012KT 9SM CLR 10/03 A3007 RMK SLP185 KECG 240254Z 04013G20KT 10SM OVC014 14/13 A3002 RMK AO2 SLP165 T01390128 50000 EGNX 240250Z 25011KT 9999 FEW004 SCT019 BKN034 08/06 Q1018 EGPF 240250Z AUTO 28012KT 9999 -RA SCT041 07/04 Q1015 EGOP 240250Z AUTO 09001KT 9999 // OVC050/// 07/05 Q1020 EHGG 240255Z AUTO 21011KT 9999 NSC 05/03 Q1016 KDLH 240255Z 10015G19KT 10SM BKN100 M01/M04 A3005 RMK AO2 SLP195 T10061039 58010 KCUH 240315Z AUTO 00000KT 10SM CLR 09/06 A3000 RMK AO2 T00860060 CXYH 240200Z AUTO 04/M06 RMK AO1 SOG 18 6010 SLP138 T00391061 CYPH 240300Z AUTO 33030G40KT 1/4SM +SN BLSN VV007 M11/M13 A2959 RMK SLP025 EGPH 240250Z 26010KT 9999 FEW019TCU SCT036 09/05 Q1013 KDKR 240315Z AUTO 00000KT 10SM CLR 11/10 A3004 RMK AO2 EGPI 240250Z AUTO 33012KT 9999 -DZ FEW009/// SCT025/// BKN037/// 06/06 Q1017 KDMA 240258Z AUTO 28009G16KT 10SM CLR 29/M10 A2981 RMK AO2 SLP051 T02931097 53012 $ KEBS 240315Z AUTO 17008KT 10SM CLR 13/01 A2992 RMK AO2 CZFS 240200Z AUTO 12009G16KT 01/M15 RMK AO1 SOG 01 6008 SLP186 T00051150 EGOS 240250Z AUTO 25012KT 9999 OVC050/// 09/06 Q1018 CYQA 240300Z AUTO 35007KT 330V030 9SM BKN070 OVC086 07/02 A3009 RMK SLP197 EHFS 240255Z AUTO 21013KT 9999 NCD 08/03 Q1019 KCVB 240315Z AUTO 00000KT 10SM CLR 15/06 A3003 RMK AO2 T01500063 EGPK 240050Z 27012KT 9999 SCT035 09/06 Q1017 CYQB 240300Z 26011KT 10SM FEW025 SCT050 BKN075 OVC090 05/01 A3001 RMK ST1SC3AC2AC2 PRESRR SLP168 KCUL 240315Z AUTO 01004KT 10SM CLR 12/04 A2996 RMK AO2 T01200043 KDLL 240315Z AUTO 09009KT 10SM CLR 09/04 A3003 RMK AO2 T00890041 KEDC 240315Z AUTO 00000KT 10SM CLR 16/07 A3004 RMK AO2 KCVC 240255Z AUTO 07007KT 10SM OVC009 13/11 A2981 RMK AO2 CYPL 240200Z 02002KT 15SM FEW210 M03/M16 A3015 RMK CI1 LAST STFD OBS/NEXT 241100Z SLP240 CXZC 240300Z AUTO 25002KT M10/M13 RMK AO1 SOG 00 1011 SLP260 T10991131 EGPL 240250Z AUTO 33017KT 9999 FEW030/// 06/02 Q1017 VGEG 240300Z 18012KT 5000 FEW018 SCT100 27/21 Q1008 NOSIG EGOV 240250Z AUTO 24010KT 9999 BKN060/// 10/09 Q1019 CYQD 240300Z 09006KT 15SM SCT220 M02/M15 A3013 RMK CS3 SLP223 EGPM 240250Z AUTO 32015G26KT 8000 -SN FEW006/// BKN016/// BKN031/// 01/M01 Q1011 KDLN 240253Z AUTO 19009KT 10SM FEW070 BKN090 06/02 A2975 RMK AO2 RAE14 SLP057 P0000 60000 T00610017 53003 KEDE 240315Z AUTO 06006KT 10SM OVC011 14/13 A3001 RMK AO2 T01410125 EGOW 231450Z 29010KT 9999 FEW030 10/03 Q1025 BLU EGPN 231920Z 27017KT CAVOK 10/04 Q1016 CYOW 240300Z 35014KT 15SM BKN076 07/M00 A3012 RMK AC7 SLP205 KDLO 240315Z AUTO 34007KT 10SM CLR 19/M01 A2989 RMK AO2 KDKX 240315Z AUTO 00000KT 10SM BKN016 BKN021 OVC060 13/12 A2983 RMK A01 CYPO 240315Z AUTO 31009G15KT 9SM OVC035 M13/M17 A3028 RMK SLP262 CYQF 240300Z 05003KT 350V070 10SM OVC011 02/M00 A2975 RMK SC8 SLP111 KECP 240253Z 30009KT 10SM FEW026 FEW039 16/14 A2983 RMK AO2 SLP112 T01610144 51018 $ EGPO 240250Z AUTO 30012KT 9999 NCD 04/M00 Q1015 KCVG 240252Z 07008KT 10SM BKN230 14/03 A2998 RMK AO2 SLP147 T01390028 53008 KCTY 240315Z AUTO 21005KT 10SM SCT120 20/19 A2980 RMK AO2 KDLP 240320Z AUTO 35027KT 10SM OVC037 18/11 A2995 RMK A01 CYQG 240300Z 14005KT 15SM FEW250 09/04 A3007 RMK CI2 SLP188 CYOY 240300Z AUTO 30007KT 9SM BKN062 02/M02 A3001 RMK SLP169 KCVH 240310Z AUTO 00000KT 10SM CLR 14/09 A3003 RMK AO1 KDMH 240254Z AUTO 15/07 A3011 RMK AO1 SLP195 T01500067 50004 KCTZ 240315Z AUTO 07005KT 5SM BR OVC005 14/14 A2994 RMK AO2 T01350135 CYPQ 240300Z AUTO 29003KT 9SM CLR 09/03 A3008 RMK SLP190 CYQH 240300Z 18002KT 40SM SCT043 BKN054 03/M07 A2978 RMK SC4SC3 SLP123 EHFZ 240255Z AUTO 24021KT 9999 SCT039 09/05 Q1013 CYQI 240300Z 24007KT 15SM SKC 02/02 A3010 RMK SLP196 CYPR 240300Z AUTO 00000KT 9SM FEW050 BKN075 OVC110 10/06 A2975 RMK SLP078 KDLS 240253Z AUTO 32007KT 10SM SCT070 OVC085 11/06 A2983 RMK AO2 SLP103 T01110061 58006 KEDJ 240310Z AUTO 06009KT 10SM CLR 11/01 A3004 RMK AO1 EHGR 240255Z AUTO 20006KT 170V230 9999 OVC053 05/01 Q1019 BLU KECS 240315Z AUTO 28015G26KT 10SM -DZ SCT012 SCT065 SCT080 17/00 A2964 RMK AO2 KCWA 240315Z AUTO 10011G19KT 10SM CLR 04/01 A3006 RMK AO2 CYRA 240000Z 16007KT 15SM SKC M06/M18 A3019 RMK -5.4/-20.2/0/33.0 SNW CVR/MUCH LOOSE LAST STFD OBS/NEXT 241400 UTC SLP250 KCUT 240253Z AUTO 06010KT 10SM CLR 09/03 A2968 RMK AO2 SLP018 T00940028 56008 EGQK 240250Z AUTO 30010KT 9999 SCT032/// SCT042/// 05/02 Q1013 CYRB 240300Z VRB02KT 15SM SKC M20/M23 A3029 RMK SLP269 CYQK 240300Z 10004KT 15SM SCT180 M00/M11 A3010 RMK AC4 SLP217 KCWC 240315Z AUTO 14005KT 10SM CLR 13/05 A3002 RMK AO2 T01300050 KECU 240250Z AUTO 00000KT 10SM CLR 15/04 A3004 RMK AO2 CYQL 240300Z 35005KT 60SM FEW060 BKN100 OVC220 08/04 A2968 RMK SC2AC3CS3 SLP069 DENSITY ALT 3200FT EGPU 240250Z AUTO 35016KT 9999 FEW024/// 06/02 Q1017 KEED 240256Z AUTO 27012KT 10SM CLR 33/M04 A2960 RMK AO2 SLP993 T03281044 55004 EGQL 240250Z 33009KT CAVOK 06/02 Q1013 BLU CYQM 240300Z 22009KT 15SM FEW190 SCT230 02/00 A2998 RMK AC1CI2 PRESRR SLP157 KDMN 240253Z AUTO 09004KT 10SM CLR 20/M01 A2990 RMK AO2 SLP070 T02001011 55007 KCVN 240315Z AUTO 16008KT 10SM CLR 12/01 A2997 RMK AO1 KEDN 240315Z AUTO 32006KT 10SM SCT050 14/11 A2984 RMK AO2 T01410111 EGQM 240250Z AUTO 25012KT 9999 SCT070/// 08/05 Q1012 CYPW 240200Z 10006G16KT 070V130 6SM -RA BR SCT010 BKN050 OVC100 09/07 A2975 RMK SF3SC3AS2 LAST STFD OBS/NEXT241300UTC SLP077 KCVO 240315Z 22003KT 10SM BKN029 BKN037 OVC080 10/06 A2989 RMK AO1 KCWF 240250Z 00000KT 10SM SKC 15/10 A2999 RMK LAST CYPX 240303Z AUTO 36028KT 3/8SM SN BLSN M11/M12 A2961 RMK CLD MISG SLP033 CYPY 240300Z AUTO 06012G17KT 9SM CLR M05/M18 A3009 RMK SLP209 KDLZ 240317Z AUTO 01006KT 10SM CLR 12/04 A3003 RMK AO2 CYQQ 240300Z 15011KT 20SM -SHRA FEW015 SCT040 BKN160 OVC250 09/08 A2974 RMK SC2SC2AC2CS2 PCPN VRY LGT SLP070 KCWI 232356Z AUTO 00000KT 10SM CLR 21/00 A3002 RMK AO2 SLP191 T02060000 10222 20194 56008 CYQR 240300Z 11020G27KT 6SM -SN OVC043 M00/M06 A2990 RMK SC8 SLP155 KCVS 240258Z AUTO 17010KT 10SM CLR 14/02 A2995 RMK AO2 SLP111 T01360020 53000 $ CYRJ 240319Z 31011G17KT 20SM -SN OVC034 M03/M10 A3012 RMK SC8 SLP212 EGQS 240250Z 32014KT 9999 FEW025 BKN045 05/01 Q1013 BLU EHJA 240255Z AUTO 25022KT 9999 SCT040/// BKN045/// 09/06 Q1014 CYSB 240300Z 08005KT 15SM FEW180 M02/M07 A3017 RMK AC1 SLP233 CYQT 240300Z 11007KT 15SM OVC085 00/M06 A3020 RMK AC8 SLP238 OTBD 240300Z VRB02KT CAVOK 24/09 Q1008 NOSIG KDNL 240315Z AUTO 36008KT 10SM OVC012 17/15 A2979 RMK AO2 RAE0259 P0000 T01720150 KEDU 240315Z AUTO 19005KT 10SM CLR 17/09 A2993 RMK AO1 CYRL 240200Z 05003KT 15SM SCT240 M01/M14 A3012 RMK CI4 LAST STFD OBS/NEXT 24 0900 UTC SLP227 EGSC 231720Z 28007KT CAVOK 14/01 Q1023 CYSC 240300Z AUTO 33004KT 300V020 9SM FEW100 OVC120 09/04 A3002 RMK SLP174 CYQU 240314Z 36005KT 2 1/2SM -SN BKN012 OVC030 M00/M01 A2983 RMK SC5SC3 SLP134 KEFD 240250Z 35005KT 10SM CLR 20/08 A3002 CXZV 231100Z AUTO 31002KT M01/M02 RMK AO1 SOG 77 3004 SLP152 T10101019 50002 CYQV 240300Z AUTO 11015KT 9SM OVC070 02/M06 A2997 RMK SLP174 KDMW 240300Z AUTO 00000KT 10SM CLR 11/07 A3010 RMK AO2 KEEN 240256Z AUTO 17004KT 10SM CLR 08/04 A3007 RMK AO2 SLP206 T00780044 51017 KCVW 240315Z AUTO 07004KT 10SM SCT039 15/11 A3000 RMK A01 KCXE 240315Z AUTO 04004KT 10SM BKN008 OVC012 10/10 A3003 RMK AO1 T01040096 KEDW 240258Z AUTO 27020G25KT 10SM CLR 18/03 A2981 RMK AO2 PK WND 28028/31 SLP080 T01790028 52004 KDNN 240255Z AUTO 00000KT 10SM OVC016 13/13 A2982 RMK AO2 KCWN 231358Z AUTO 34004KT 10SM BKN220 03/M01 A3002 RMK AO2 SLP070 T00341010 CYQW 240300Z AUTO 11012KT 9SM -RA FEW008 OVC023 00/ A2989 RMK TD MISG SLP149 KEEO 240253Z AUTO 00000KT 10SM CLR 14/M03 A2977 RMK AO2 SLP026 T01391028 56006 KCVX 240315Z AUTO 03005KT 10SM CLR 03/M03 A3018 RMK AO2 T00321026 EHHW 240255Z AUTO 24030KT 9999 FEW046/// 09/05 Q1014 CYQX 240308Z 26005KT 5/8SM R13/5000VP6000FT/U R03/P6000FT/U BR BKN001 M02/M02 A2984 RMK FG5SF1 SLP115 CYSF 240300Z AUTO 07007KT 9SM CLR M10/M18 A3023 RMK SLP262 OTBH 231958Z 00000KT 9000 HZ CLR 25/14 A2977 RMK AO2A SLP083 T02450138 $ CZHY 240300Z AUTO 00007KT M08/M12 RMK AO1 SOG 22 7004 SLP208 T10821120 CYQY 240300Z 23006KT 15SM FEW018 M01/M02 A3000 RMK SC2 SLP163 CYRQ 240300Z AUTO 34008G17KT 9SM FEW023 OVC110 04/M00 A3008 RMK SLP191 CYQZ 240300Z AUTO 34006KT 9SM CLR 06/01 A2972 RMK SLP086 EGSH 240250Z AUTO 22005KT 9999 SCT037/// SCT045/// 05/03 Q1017 KDPA 240252Z 12004KT 10SM CLR 13/01 A3004 RMK AO2 SLP171 T01330011 50006 KDNS 240315Z AUTO 17012G18KT 10SM CLR 14/M00 A2991 RMK AO2 CYSJ 240300Z 21007KT 15SM FEW004 03/03 A3003 RMK SF2 SLP176 KEET 240253Z AUTO 31007KT 10SM OVC014 11/10 A2986 RMK AO2 SLP110 T01110100 51013 ORSU 240300Z 28005KT CAVOK 12/12 Q1014 OSKL 240300Z 08005KT CAVOK 04/02 Q1011 KEFK 240315Z AUTO 30009KT 10SM OVC120 12/01 A3004 RMK AO2 T01200007 CYSK 231900Z 29027KT 2SM -SN DRSN OVC008 M11/M14 A2981 RMK SF8 CALL OUT LAST MANNED OB/NEXT 241200UTC SLP099 CYRT 240300Z 02011KT 15SM SCT019 M21/M23 A3030 RMK SC4 SLP266 EGTC 231550Z VRB06KT 9999 FEW049 14/04 Q1023 KCWV 240315Z AUTO 00000KT 10SM SCT023 SCT029 BKN065 A2976 RMK AO2 LTG DSNT NE KDNV 240315Z AUTO 04005KT 10SM CLR 09/01 A2999 RMK AO2 T00920008 CZKD 240300Z AUTO 10004KT M14/M20 RMK AO1 SLP269 T11371195 50004 CYSM 240300Z VRB02KT 15SM FEW220 M02/M17 A3011 RMK CI1 CI TR SLP214 EHKD 240255Z AUTO 22017KT 9999 OVC052 09/05 Q1016 BLU CYRV 240309Z AUTO 16017KT 9SM -RA FEW055 BKN076 OVC092 11/03 A2966 RMK SLP052 DENSITY ALT 1600FT KEGE 240256Z AUTO 23005KT 10SM CLR 15/M07 A2982 RMK AO2 SLP074 T01501067 51004 CYSN 240100Z 20005KT 15SM FEW250 11/01 A3004 RMK CI1 LAST STFD OBS/NEXT 24 1100UTC SLP176 CYTE 240309Z AUTO 01012G17KT 9SM -SN OVC016 M15/M17 A2997 RMK SLP156 KCXO 240253Z AUTO 00000KT 10SM CLR 12/10 A3001 RMK AO2 SLP162 T01170100 52008 EGTE 240150Z VRB02KT CAVOK 04/03 Q1021 KCXP 240315Z AUTO 27011G22KT 10SM CLR 11/M05 A2994 RMK AO2 CYSP 232100Z CCA 21005KT 180V280 15SM FEW050 SCT200 BKN240 BKN260 01/M08 A3014 RMK SC1CI2CI2CI1 SLP227 CYTH 240300Z 06006KT 15SM SKC M11/M21 A3026 RMK SLP271 KEGI 240258Z AUTO 31010KT 10SM BKN055 16/10 A2986 RMK AO2 SLP113 T01600102 52024 $ EHJR 240255Z AUTO 27022G25KT //// ///////// 09/05 Q1015 W09/H16 KEHA 240308Z AUTO 16018KT 14/02 RMK AO1 /PK WND 22 M T01440023 OSLK 240300Z 13006KT 9999 FEW030 13/08 Q1016 CYUA 240300Z AUTO 29009KT ////SM //// NCD M13/M15 A2996 EGSS 240250Z AUTO 28002KT 3500 BR FEW044 05/05 Q1019 KEFT 240315Z AUTO 20007KT 10SM CLR 13/01 A3001 RMK AO2 EGTK 232120Z 25003KT CAVOK 08/04 Q1021 EGUB 240250Z AUTO 14002KT 9999 // BKN050/// 02/01 Q1019 CYUB 240300Z 12007KT 15SM SCT240 M10/M13 A3000 RMK CI4 SLP160 KCXU 240315Z AUTO 00000KT 10SM OVC042 18/17 A2981 RMK AO2 T01750169 KDPL 240315Z AUTO 06003KT 5SM BR OVC005 14/13 A2994 RMK AO2 KEHC 240315Z AUTO 01024KT 10SM SCT035 OVC045 19/12 A2998 RMK A01 CYTL 240300Z AUTO 04005KT 9SM CLR M12/M18 A3028 RMK SLP276 KDOV 240258Z AUTO 00000KT 10SM CLR 10/10 A3011 RMK AO2 SLP199 T01010101 50003 $ KCXW 240315Z AUTO 00000KT 10SM 13/09 A2997 RMK A01 KCXY 240256Z AUTO 00000KT 10SM CLR 14/06 A3010 RMK AO2 SLP193 T01390056 51010 KDQH 240315Z AUTO 30004KT 10SM OVC013 21/18 A2979 RMK AO2 VGHS 240300Z 35007KT 2500 TSRA BKN009 FEW025CB OVC090 22/21 Q1008 TEMPO +TSRA CYTR 240300Z 35003KT 15SM FEW070 FEW220 06/05 A3006 RMK AC0CI0 SLP182 KCYS 240253Z 24006KT 10SM CLR 11/02 A2974 RMK AO2 SLP022 T01110022 58006 KDRA 240255Z AUTO 19007KT 10SM CLR 23/M07 A2969 RMK AO2 SLP008 T02331072 55002 CYTS 240300Z 06005KT 15SM SKC M06/M13 A3020 RMK SLP248 EGVA 240258Z AUTO 25004KT 9999 CLR 04/03 A3010 RMK AO2 SLP197 T00390029 57017 $ EHMA 240255Z AUTO 21022KT 9999 NSC 09/03 Q1014 EICK 240300Z 28005KT 9999 FEW018 BKN045 09/06 Q1021 NOSIG KCZL 240315Z AUTO 19004KT 10SM SCT032 OVC040 14/11 A2982 RMK AO2 T01370110 CYUL 240300Z 29009KT 15SM OVC110 10/02 A3007 RMK AC8 SLP185 CYVC 240300Z 07006KT 15SM BKN140 M01/M11 A3004 RMK AC6 SLP198 EGUL 240315Z AUTO 22006KT 9999 BKN048 OVC060 07/07 A3004 RMK AO2 UPE15 KEGV 240255Z AUTO 09008KT 10SM CLR 02/M03 A3009 RMK AO2 T00201027 CZMD 240300Z AUTO 05005KT 9SM CLR M10/M16 A3024 RMK SLP267 EHKV 240255Z AUTO 25026KT 9999 BKN043 10/07 Q1015 EGUN 240258Z AUTO 22005KT 9999 FEW045 OVC060 06/06 A3005 RMK AO2 SLP179 T00580058 57019 KEHO 240315Z AUTO 03010KT 10SM -RA SCT007 BKN013 OVC033 10/10 A2993 RMK AO2 T00950095 EHMG 240255Z AUTO 23034KT 9999 SCT048 09/06 Q1013 CYTZ 240300Z AUTO 36004KT 320V060 9SM CLR 13/03 A3007 RMK SLP185 KEHR 240256Z AUTO 00000KT 10SM CLR 11/08 A2996 RMK AO2 SLP157 T01060078 51012 KDRI 240315Z AUTO 00000KT 10SM CLR 13/12 A3002 RMK AO2 T01300123 CZMJ 240300Z AUTO 13010KT M01/M02 RMK AO1 6PAST HR SOG 00 3002 PK WND 14017/0201 SLP150 P0002 T10061015 50009 CYUS 240317Z AUTO 03009G16KT 290V060 ////SM //// FEW004 BKN055 OVC070 M21/M24 A3027 CYWA 240300Z AUTO 35009KT 9SM CLR 01/M05 A3019 RMK SLP231 KEIK 240314Z AUTO 00000KT 10SM CLR 13/05 A2969 RMK AO2 T01310052 KCZT 240315Z AUTO 00000KT 10SM CLR 15/09 A3001 RMK AO2 CYUT 232000Z 30006KT 270V340 20SM -SG OVC015 M16/M21 A3023 RMK ST8 -16.3/-18.9/TR/TR SNW CVR/TRACE LOOSE LAST STFD OBS/NXT 241200Z SLP241 EIDL 231900Z 29011KT 9999 FEW009 BKN019 10/08 Q1023 CYVL 240300Z AUTO 12009KT 9SM CLR M06/M16 A3000 RMK SLP190 KDRM 240316Z AUTO 00000KT 10SM CLR 01/M03 A3016 RMK AO2 T00101032 CYVM 240300Z AUTO 02005KT 9SM -SN OVC015 M13/M14 A3014 RMK SLP210 EGUW 240250Z AUTO 24006KT 3900 BR NCD 04/03 Q1018 CYWE 240300Z AUTO 09008KT 9SM CLR M16/M21 A3019 RMK SLP271 KDRO 240253Z AUTO 23004KT 10SM CLR 14/M05 A2989 RMK AO2 SLP071 T01391050 55001 EHLW 240255Z AUTO 22013KT 9999 OVC053 07/03 Q1016 BLU EGVN 240250Z 26003KT CAVOK 06/04 Q1019 NOSIG KFAF 240258Z AUTO 06006KT 10SM FEW022 BKN047 12/11 A3004 RMK AO2 RAE43 SLP176 P0002 60003 T01210105 50006 EGVO 240250Z AUTO 23006KT 9999 BKN050/// 07/05 Q1019 CYVO 240300Z AUTO 36008KT 9SM CLR M06/M10 A3020 RMK SLP250 CYUX 240300Z AUTO 35014KT 2SM -SN SCT021 OVC038 M16/M18 A3013 RMK SLP205 KEHY 240315Z AUTO 26012KT 10SM CLR 10/M02 A2976 RMK AO2 EGVP 240250Z AUTO 32003KT 9999 // NCD 06/05 Q1019 CYWG 240300Z 05011KT 15SM FEW140 SCT200 M00/M06 A3009 RMK AC1CS3 AC TR SLP203 CYUY 240300Z 02005KT 15SM SKC M05/M12 A3021 RMK SLP252 CYVP 240300Z 27023G32KT 1 3/4SM R07/4500VP6000FT/U -SN DRSN SCT006 OVC013 M06/M08 A2946 RMK SN2SF2SC4 PRESRR SLP982 KCZZ 240252Z AUTO 22010KT 13/07 A2986 RMK AO1 SLP091 T01280072 55000 CYWH 240300Z 26004KT 15SM VCSH FEW010 BKN040 BKN070 11/05 A2975 RMK SF1SC5AC1 CVCTV CLD EMBD SLP077 CYVQ 240300Z 11008KT 30SM SKC 00/M11 A2997 RMK SLP157 KEIR 240315Z AUTO 05022G28KT 10SM OVC042 19/12 A2999 RMK A01 CYVR 240314Z 12011KT 15SM FEW008 BKN018 BKN040 10/08 A2976 RMK CF1SC4SC2 SLP079 KDTA 240315Z AUTO 10004KT 10SM SCT120 11/02 A2985 RMK AO1 CYWJ 232200Z 10013G21KT 50SM SKC M03/M16 A3007 RMK HZ -8.1/-13.8/0/46 SNW CVR/MUCH LOOSE LAST STFD OBS/NEXT 241300 UTC SLP203 CZMT 240100Z 16011G18KT 10SM -SHRA BKN008 BKN012 OVC030 10/08 A2970 RMK ST5SC2SC1 LAST STFD OBS/NEXT 241400 UTC SLP060 CYVT 240300Z 09007KT 15SM SCT180 BKN220 00/M11 A2997 RMK AS3CI4 SLP178 CYWK 240300Z AUTO 29013G25KT 1 3/4SM -SN SCT018 OVC022 M06/M08 A2962 RMK VIS VRB 1-3 SLP062 CZMU 240200Z AUTO 10011KT 00/01 RMK AO1 SOG 00 PK WND 10020/0106 T00000005 CYXC 240300Z 16008KT 25SM -SHRA BKN045 OVC074 06/03 A2972 RMK SC5AC3 SLP078 CYWL 240300Z 34004KT 15SM SCT030TCU SCT100 BKN230 06/02 A2969 RMK TCU3AC1CI2 AC TR CB TOPS E SH E-S SLP075 KDSM 240254Z 17006KT 10SM FEW250 16/01 A2996 RMK AO2 SLP144 T01560006 56004 KFAM 232356Z AUTO 34005KT 10SM CLR 19/02 A3000 RMK AO2 SLP156 T01890017 10206 20167 56004 EGXC 240250Z 25012KT 9999 FEW032 BKN050 09/05 Q1017 BLU CYVV 240300Z VRB02KT 15SM BKN075 06/03 A3011 RMK AC6 SLP203 EGXE 240250Z AUTO 25008KT 9999 BKN046/// BKN170/// 09/05 Q1015 CYXE 240300Z 12011G16KT 4SM -SN BR BKN007 OVC012 00/M00 A2991 RMK ST6SC2 SLP155 EIDW 240300Z 28009KT 9999 FEW017 SCT030 BKN050 09/07 Q1019 NOSIG KFBG 240303Z AUTO 07011G16KT 6SM -RA BR OVC004 13/12 A2993 RMK AO2 DZB01E02RAB03 SLP138 $ CYXH 240300Z 22004KT 110V250 15SM FEW028 BKN040 BKN090 07/05 A2967 RMK SC1SC4AC2 LAST STFD OBS/NEXT 241300 UTC SLP064 KFAR 240253Z 07013G21KT 10SM SCT100 03/00 A2989 RMK AO2 SLP131 T00330000 58014 KDUA 240315Z AUTO 00000KT 10SM CLR 12/06 A3001 RMK AO2 KELA 240315Z AUTO 01003KT 10SM CLR 17/11 A3002 RMK AO2 T01680106 CYXJ 240300Z 12004KT 15SM -SN OVC030 M00/M03 A2985 RMK SC8 SLP147 KFAT 240253Z 33012KT 10SM FEW060 FEW150 SCT200 SCT250 20/06 A2991 RMK AO2 SLP126 T02000056 55002 KDUB 240315Z AUTO 28009KT 10SM CLR 03/M06 A2980 RMK AO2 CYYB 240300Z AUTO 03009G15KT 9SM BKN140 M02/M06 A3016 RMK SLP227 KFBL 240314Z AUTO 16004KT 10SM SCT070 14/01 A2991 RMK AO2 KDTL 240314Z AUTO 09011G20KT 10SM OVC011 02/00 A2991 RMK AO2 KDUC 240315Z AUTO 00000KT CLR 10/05 A3002 RMK AO2 PWINO TSNO KEKM 232152Z 03005KT 10SM CLR 20/M02 A3003 RMK AO2 LAST CZOL 240200Z AUTO 08003KT 01/M00 RMK AO1 T00081001 CYXL 240300Z 08002KT 15SM SCT210 M04/M10 A3014 RMK CI4 SLP232 CYYC 240300Z 06006KT 10SM -RA FEW010 SCT045 BKN068 OVC080 04/02 A2969 RMK CF1SC3AC3AC1 VIS E-S LWR SLP090 CZPC 240300Z AUTO 24015KT 9SM SCT120 OVC200 07/M00 A2967 RMK SLP066 DENSITY ALT 4100FT EGWU 240250Z AUTO 21001KT 9999 // BKN050/// 06/05 Q1019 KELD 240253Z AUTO 00000KT 10SM CLR 12/10 A2999 RMK AO2 SLP155 T01170100 53006 $ KDSV 240254Z AUTO 15003KT 10SM CLR 08/01 A3009 RMK AO2 SLP198 T00830011 51012 EGYD 240250Z AUTO 25011KT 9999 // BKN047/// 08/05 Q1017 CYYD 240300Z 36003KT 25SM SCT080 BKN100 10/M01 A2970 RMK AC4AC2 LAST STFD OBS/NEXT 241400 UTC SLP071 KDTN 240253Z 00000KT 10SM CLR 16/09 A3000 RMK AO2 SLP157 T01560089 53008 $ KEKN 240251Z AUTO VRB05KT 10SM FEW046 OVC100 12/00 A3004 RMK AO2 SLP176 T01170000 51007 TSNO CYXN 232000Z 33015KT 15SM FEW240 M19/M23 A3030 RMK CI1 -18.9/-24.7/0/0.0MM LAST STFD OB/NXT 241200Z SLP263 CYYE 240300Z 09006KT 15SM SCT050 BKN070 05/M07 A2989 RMK SC3AC4 SLP142 KDTO 240253Z 00000KT 10SM CLR 13/08 A3002 RMK AO2 SLP160 T01330078 55001 KEKO 240256Z AUTO 20003KT 10SM CLR 12/M05 A2982 RMK AO2 SLP078 T01221050 53004 CYYF 240300Z 34003KT 15SM SCT060 BKN095 11/03 A2968 RMK SC3AC4 SLP058 DENSITY ALT 1200FT OTHH 240300Z 35006KT CAVOK 24/13 Q1008 NOSIG KFAY 240253Z AUTO 07009KT 4SM -RA BR OVC004 14/13 A2993 RMK AO2 RAB43 SLP130 P0001 60002 T01390128 55000 KDUG 240256Z AUTO 28007KT 10SM CLR 23/M11 A2990 RMK AO2 SLP061 T02281106 53006 TSNO CYXP 232000Z 07005KT 030V110 7SM -SN BKN020 OVC035 M06/M10 A3002 RMK SC5SC3 CIG ESTD -5.3/-9.6/T/40 SNOW COVER/MUCH LOOSE LAST STFD OBS/NEXT 241100Z SLP169 EGXP 240250Z AUTO 24012KT 9999 // BKN032/// 08/06 Q1016 CYYG 240300Z 22008KT 15SM OVC025 03/01 A2999 RMK SC8 SLP160 KDUH 240315Z AUTO 00000KT 10SM CLR 07/02 A3007 RMK AO2 T00710022 KEKQ 240316Z AUTO 01013KT 300V030 4SM -RA BR OVC006 12/11 A2989 RMK AO2 CIG 004V010 P0001 KFCH 240315Z AUTO 33009G16KT 10SM CLR 20/06 A2992 RMK A01 EHPG 240255Z AUTO 22024KT 9999 NSC 10/07 Q1017 CYXQ 232200Z VRB03KT 30SM SCT250 10/M08 A2965 RMK CI4 CLIMAT 11.1/-0.1/0.0/LAST STFD OBS/NXT 241600Z SLP071 DENSITY ALT 2300FT CYYH 240300Z 31009KT 6SM -SN SCT020 BKN070 M18/M22 A3027 RMK SN1SC3AC2 VIS VAR 3 TO 12 SN SLP256 KFCI 240255Z AUTO 07003KT 10SM OVC070 A3008 RMK AO1 54000 KFBR 240315Z AUTO 00000KT 10SM DZ SCT018 BKN032 OVC038 06/02 A2992 RMK AO2 T00580020 CYXR 240300Z AUTO 03007KT 9SM FEW180 M03/M07 A3022 RMK SLP249 KDUJ 240253Z AUTO 16003KT 10SM CLR 13/M03 A3006 RMK AO2 SLP177 T01331028 51009 KDTS 240253Z AUTO 33013KT 10SM CLR 19/13 A2985 RMK AO2 PK WND 32026/0155 SLP107 T01890128 53021 TSNO KEKS 240315Z AUTO 18011KT 10SM SCT029 BKN038 OVC055 05/02 A2983 RMK A01 EGXS 240250Z AUTO 23012KT 9999 // FEW240/// 08/06 Q1015 CYYJ 240300Z 15007KT 30SM FEW025 FEW038 SCT060 BKN120 10/08 A2975 RMK SC1SC1SC2AC4 SC TR SLP076 CYXS 240300Z AUTO 14004KT 9SM BKN047 OVC060 05/02 A2972 RMK SLP093 KELK 240315Z AUTO 15007KT 10SM CLR 13/04 A2998 RMK AO2 T01250041 EGXT 240250Z AUTO 27010KT 9999 SCT018/// 07/04 Q1017 CYXT 240300Z 18006KT 20SM FEW060 SCT075 BKN094 11/02 A2973 RMK CU2AC1AC2 SLP075 EGXU 240250Z AUTO 26013KT 9999 // SCT050/// SCT170/// OVC210/// 10/05 Q1015 CYXU 240300Z 18002KT 15SM SKC 07/04 A3007 RMK SLP188 CYYL 240300Z AUTO 06004KT 9SM CLR M10/M19 A3019 RMK SLP260 KFCM 240253Z AUTO 03010KT 10SM CLR 13/05 A2988 RMK AO2 SLP120 T01330050 53007 KELM 240253Z AUTO 00000KT 10SM CLR 09/03 A3007 RMK AO2 SLP184 T00890028 51017 EGYM 240250Z 19006KT 9999 FEW030 BKN045 05/04 Q1017 BLU KELN 240253Z AUTO 31013KT 10SM OVC100 09/04 A2976 RMK AO2 RAB16E25 SLP081 P0000 60001 T00890039 58004 KDTW 240253Z 16003KT 10SM FEW200 12/M01 A3008 RMK AO2 SLP187 T01221011 53009 $ EGXV 240250Z AUTO 25009KT 9999 BKN200/// 08/06 Q1015 CYYN 240307Z AUTO 12010G16KT 5SM -SN OVC028 M01/M01 A2975 RMK SLP106 CYZE 240300Z AUTO 05012G17KT 9SM SCT085 BKN100 BKN120 04/M03 A3015 RMK SLP217 KEKX 240315Z AUTO 03008KT 10SM SCT016 SCT043 OVC070 11/09 A2994 RMK AO2 T01060086 KELO 240313Z AUTO 10007KT 10SM -SN SCT039 SCT046 SCT070 00/M02 A3008 RMK AO2 EGXW 240250Z 25010KT 9999 FEW032 BKN055 BKN190 09/05 Q1017 BLU EHQE 240255Z AUTO ///29KT //// // NSC 10/06 Q1015 RE// CYZF 240300Z 10009KT 15SM SKC M07/M16 A3019 RMK SLP247 CYXX 240300Z 17009KT 12SM -RA FEW024 BKN033 OVC044 09/07 A2978 RMK CU1SC6SC1 SLP087 KELP 240251Z 13005KT 10SM CLR 23/M02 A2990 RMK AO2 SLP070 T02331022 55003 KEKY 240256Z AUTO 31005KT 10SM OVC006 10/09 A2988 RMK AO2 SLP137 T01000094 51013 CYXY 240300Z 21003KT 180V260 40SM FEW080 SCT220 11/M09 A2964 RMK AC1CI4 AC TR SLP065 DENSITY ALT 2700FT EGYP 240250Z 04004KT 9999 BKN042 01/M02 Q1015 BLU CYXZ 240000Z 24005KT 200V270 15SM FEW080 SCT200 M00/M06 A3015 RMK AC2CS1 LAST OBS/NEXT 241100UTC SLP227 EGXZ 240250Z AUTO 26007KT 9999 SCT047/// BKN160/// BKN220/// 09/05 Q1015 CYYQ 240300Z 33008KT 15SM BKN017 M19/M22 A3039 RMK SC7 SLP298 CYZH 240304Z AUTO 09008KT 5SM -SN FEW009 SCT021 BKN027 OVC050 M01/M02 A2986 RMK SLP142 CYYR 240300Z 01002KT 15SM BKN063 BKN230 02/M04 A2965 RMK SC5CI1 SLP042 KFCS 240258Z AUTO 26008KT 10SM CLR 15/02 A2976 RMK AO2 SLP060 T01520016 56012 CZPS 240200Z AUTO 04004KT M00/M00 RMK AO1 T10041003 KFDK 240255Z AUTO 00000KT 10SM CLR 11/11 A3013 RMK AO2 KDVK 240315Z AUTO 06010G15KT 10SM OVC017 11/09 A2993 RMK AO2 KEMK 240315Z AUTO 02012G19KT 10SM BKN043 21/12 A3001 RMK A01 CYYT 240314Z 34003KT 5SM BR FEW003 OVC015 M01/M02 A2982 RMK SF2SC6 CIG ESTD VIS LWR SE-SW SLP108 KDVL 240256Z AUTO 08018KT 10SM OVC011 M02/M03 A2995 RMK AO2 SLP177 60000 T10171033 57016 FZRANO KEND 232255Z VRB04KT 10SM FEW200 20/03 A3004 RMK AO2A SLP172 $ CYYU 240300Z 06006KT 15SM SKC M05/M13 A3024 RMK SLP257 KEMM 240315Z AUTO 25009KT 10SM 03/M01 A2988 RMK AO2 KDVN 240252Z AUTO 16004KT 10SM CLR 14/00 A3002 RMK AO2 SLP165 T01390000 53003 $ EHRD 240255Z AUTO 20011KT 9999 NSC 07/03 Q1018 NOSIG CYYW 240300Z AUTO 00000KT 9SM BKN240 M04/M10 A3018 RMK SLP247 KDUX 240315Z AUTO 15012KT 10SM CLR 14/03 A2990 RMK AO2 T01350025 KDVO 240315Z AUTO 30011G17KT 10SM CLR 13/08 A2999 RMK AO2 KEMP 240253Z AUTO 16007KT 10SM CLR 12/05 A2999 RMK AO2 SLP156 T01170050 56004 KELY 240253Z AUTO 19006KT 10SM CLR 05/M01 A2987 RMK AO2 SLP065 T00501006 56001 KDVP 240301Z AUTO 16010KT 10SM CLR 12/01 A2984 RMK AO2 T01200005 CYYY 240300Z 25014KT 30SM OVC033 04/02 A2990 RMK SC8 SLP128 CYZP 240301Z AUTO 24006KT 9SM OVC029 09/06 A2973 RMK SLP070 KDWH 240253Z 00000KT 10SM CLR 14/11 A3001 RMK AO2 SLP162 T01390106 53011 KELZ 240256Z AUTO 35004KT 10SM CLR 12/M03 A3009 RMK AO2 SLP193 T01171028 50012 CYYZ 240300Z 35010KT 15SM SKC 10/02 A3008 RMK SLP189 KFDR 240253Z AUTO 14008KT 10SM CLR 14/06 A2997 RMK AO2 SLP141 T01440056 56006 $ CYZR 240300Z AUTO 01004KT 9SM CLR 04/03 A3009 RMK SLP196 KFFA 240315Z AUTO 04005KT 7SM OVC012 14/13 A2997 RMK AO2 T01370130 KEMT 232345Z 24008KT 10SM CLR 25/11 A2983 EHSA 240255Z AUTO 22023G27KT 9999 ///////// 10/07 Q1018 W10/H9 CYZS 240300Z 36013KT 15SM FEW025 FEW210 M23/M27 A3014 RMK SC1CI1 SLP217 KDVT 240253Z AUTO 24011KT 10SM CLR 31/M06 A2967 RMK AO2 SLP024 T03111056 55003 CYZT 240300Z 31010KT 15SM -SHRA BKN038 BKN077 09/07 A2973 RMK CU6AC1 CU EMBD SLP068 KFFC 240253Z AUTO 10008KT 10SM OVC006 14/13 A2981 RMK AO2 SLP093 T01390133 53013 KENL 240315Z AUTO 00000KT 10SM CLR 12/03 A2998 RMK AO2 T01190027 CYZU 240300Z 08005KT 3SM -SN OVC006 M01/M02 A2979 RMK SC8 VIS LWR W SLP126 EHSC 240255Z AUTO 23022G25KT 9999 ///////// 10/06 Q1018 W10/H9 KEMV 240315Z AUTO 02005KT 10SM OVC007 11/10 A3004 RMK AO2 KEOD 240258Z AUTO 04010KT 1 1/2SM RA BR SCT042 OVC075 11/10 A2991 RMK AO2 RAB12 SLP132 P0010 60024 T01100099 50004 CYZV 240318Z VRB02KT 10SM -SN OVC008 00/M00 A2978 RMK SF8 SLP088 KFDW 240315Z AUTO 01005KT 7SM VCTSRA OVC011 14/13 A2984 RMK AO1 LTG DSNT S KEOE 240315Z AUTO 02013G17KT 10SM OVC005 12/12 A2988 RMK AO2 LTG DSNT E AND SE CYZW 240000Z 23006KT 160V270 30SM FEW220 09/M10 A2970 RMK CI2 CLIMAT 8.8/-0.4/0.0/LAST STFD OBS/NXT 241600Z SLP090 KFDY 240253Z AUTO 10006KT 10SM CLR 09/M02 A3005 RMK AO2 SLP172 T00891022 51005 TSNO CYZX 240300Z 27003KT 15SM FEW250 02/00 A3008 RMK CI2 WNDY HILL UNAVBL SLP186 KFEP 240315Z AUTO 22004KT 10SM CLR 12/01 A3003 RMK AO2 T01220007 CYZY 240300Z AUTO 08005KT 9SM FEW060 BKN077 03/M04 A2977 RMK SLP112 KDYA 240315Z AUTO 32007KT 10SM 11/10 RMK AO2 T01140098 CZSJ 240300Z AUTO 06006KT 9SM CLR M05/M16 A3018 RMK SLP246 KDYB 240315Z AUTO 13005KT 10SM SCT023 BKN075 23/20 A2981 RMK AO1 LTG DSNT W AND NW KEOK 240315Z AUTO 00000KT 10SM CLR 12/00 A3001 RMK AO2 KFET 240315Z AUTO 16011KT 10SM CLR 15/M02 A2988 RMK AO2 T01531016 CZTB 240300Z AUTO 11007KT M00/M06 RMK AO1 SLP236 T10031057 52006 KDWU 240315Z AUTO 00000KT 10SM BKN065 OVC090 12/11 A2995 RMK AO1 KFFL 240315Z AUTO 14005KT 10SM CLR 12/01 A3000 RMK AO2 PWINO KFFM 240314Z AUTO 09016G26KT 10SM CLR 04/01 A2984 RMK AO2 KENV 240256Z AUTO 19004KT 10SM CLR 14/04 A2980 RMK AO2 SLP077 6//// T01390044 55003 PNO $ CZSM 240300Z AUTO 08003KT M02/M17 RMK AO1 SOG 00 6005 SLP211 T10181171 KENW 240253Z AUTO 04005KT 10SM CLR 04/02 A3008 RMK AO2 SLP188 T00440022 50003 KFEW 240258Z AUTO 00000KT 10SM BKN220 08/03 A2976 RMK AO2 SLP039 T00820030 57006 $ KDWX 240315Z AUTO 00000KT 10SM 13/M01 A2983 RMK AO2 T01261011 KFFO 240258Z AUTO 03007KT 10SM CLR 11/02 A3000 RMK AO2 SLP162 T01100021 50007 VHHH 240300Z 09012KT 9999 FEW019 SCT025 24/18 Q1015 NOSIG PLCH 240300Z VRB02KT 9999 FEW017CB SCT019 OVC040 27/26 Q1007 CZSP 240300Z AUTO 18006KT 02/M00 RMK AO1 SLP162 T00211001 58002 KEPH 240253Z AUTO 25014KT 10SM BKN110 12/03 A2973 RMK AO2 SLP071 T01170033 55006 ZUUU 240300Z VRB01MPS 3500 -SHRA BR BKN026 20/18 Q1012 NOSIG KDXR 240253Z AUTO 00000KT 10SM CLR 08/04 A3013 RMK AO2 SLP202 T00830044 51015 KH78 231208Z 27010KT 12SM FEW040 24/21 A2986 RMK SEAS 2-3 KEQA 240315Z AUTO 14007KT 10SM CLR 12/06 A2998 RMK AO2 KFFT 240253Z AUTO 06005KT 10SM OVC085 15/07 A2993 RMK AO2 SLP133 T01500072 53006 KDZB 240315Z AUTO 00000KT 10SM CLR 12/07 A3004 RMK AO2 T01190074 KFHB 240315Z AUTO 18005KT 10SM BKN035 OVC047 24/21 A2977 RMK AO1 CZST 240100Z 20008KT 15SM FEW065 SCT220 16/01 A2971 RMK CU2CI1 LAST STFD OBS/NEXT 241300Z/ SLP062 DENSITY ALT 300FT KDYL 240254Z AUTO 15003KT 10SM CLR 11/08 A3011 RMK AO2 SLP198 T01060078 51016 FABL 240300Z 00000KT CAVOK 04/01 Q1024 NOSIG KFGN 240313Z AUTO 09008KT 10SM CLR 02/M11 A3008 RMK AO2 EIKN 232330Z 28007KT 9999 -RADZ BKN004 BKN016 08/07 Q1022 NOSIG KDXX 240314Z AUTO 13010KT 10SM CLR 14/02 A2976 RMK AO2 KFFX 240314Z AUTO 00000KT 10SM CLR 09/02 A3006 RMK AO2 T00900023 KFFZ 240247Z 24011KT 40SM BKN200 A2968 PKMJ 232252Z VRB03KT 15SM FEW015 SCT050 BKN120 OVC300 28/24 A2993 KDYR 240256Z AUTO 27004KT 10SM CLR 12/11 A2993 RMK AO2 SLP153 T01170106 58000 KDYS 240258Z AUTO 17007KT 10SM CLR 16/04 A3000 RMK AO2 SLP137 T01600040 55003 $ KDYT 240314Z AUTO 06022KT 10SM BKN110 02/00 A3009 RMK AO2 VIAG 240230Z 33009KT 5000 DU FEW090 29/14 Q1006 NOSIG CZUM 240319Z AUTO 18006KT 1 1/4SM -SN BKN009 OVC016 M00/M01 A2952 RMK SLP018 EIME 240300Z 27010KT 9999 SCT016 BKN050 09/07 Q1020 KFGX 240315Z AUTO 04005KT 10SM SCT055 BKN065 OVC080 13/08 A2997 RMK AO2 T01300080 KFIG 240254Z AUTO 20003KT 10SM CLR 13/M02 A3008 RMK AO2 SLP186 T01281017 51011 TSNO $ EIKY 231830Z 33003KT 290V360 9999 SCT035 BKN046 12/08 Q1025 PKMR 240314Z 11013KT 2SM +SHRA BKN014TCU OVC045 26/25 A2982 KFHR 240253Z AUTO 13006KT 10SM -RA SCT055 BKN070 BKN100 09/08 A2977 RMK AO2 RAB47 SLP082 P0000 60000 T00940083 55002 TSNO KERI 240251Z 00000KT 10SM CLR 06/00 A3007 RMK AO2 SLP187 T00610000 53003 FACT 240300Z 22004KT 190V250 CAVOK 15/11 Q1016 NOSIG KESC 240256Z AUTO 36005KT 10SM CLR 01/M06 A3018 RMK AO2 SLP245 T00061061 53005 FZRANO EHVK 240255Z AUTO 21007KT 9999 SCT350 03/00 Q1019 BLU KFHU 240258Z AUTO 24009KT 10SM CLR 23/M15 A2996 RMK AO2 SLP075 T02261150 53005 $ CZVL 240300Z AUTO 08007KT 3SM -RA BR OVC004 00/00 A2978 RMK SLP117 EHVL 240255Z AUTO 23026KT 9999 BKN052 09/05 Q1015 BLU KGAD 240256Z AUTO 27004KT 10SM OVC014 13/11 A2985 RMK AO2 SLP126 T01280111 51008 KFIN 232250Z 13014KT 10SM CLR 26/19 A2976 FACV 230833Z 09009KT CAVOK 25/M06 Q1021 KESF 240253Z AUTO 00000KT 9SM CLR 11/11 A2999 RMK AO2 SLP154 T01110111 53012 $ KGAF 240315Z AUTO 09009G15KT 6SM BR SCT013 SCT017 BKN030 M00/M00 A3003 RMK AO2 VIAR 240300Z 07006KT 5000 HZ NSC 23/17 Q1008 NOSIG KEQY 240253Z AUTO 05008KT 7SM -RA BKN007 OVC014 12/11 A2988 RMK AO2 RAB0158 SLP129 P0038 60051 T01170106 53001 KGAG 240253Z AUTO 15012KT 10SM CLR 13/03 A2994 RMK AO2 SLP130 T01330033 56006 KI16 240315Z AUTO 4SM RA OVC018 10/09 A3003 RMK AO2 T00960088 KFKA 240313Z AUTO 19005KT 10SM CLR 13/00 A2995 RMK AO2 T01330001 KFIT 240252Z AUTO VRB03KT 10SM CLR 13/04 A3008 RMK AO2 SLP185 T01330039 51020 KI19 240312Z AUTO 10004KT 10SM CLR 14/00 A3001 RMK AO2 T01350001 KETB 240315Z AUTO 07006KT 10SM CLR 03/00 A3009 RMK AO2 FAEL 240300Z 03004KT 360V060 9999 -RA SCT015 BKN030 15/14 Q1025 KERV 240315Z AUTO 00000KT 10SM CLR 14/08 A3004 RMK AO2 T01350078 KGBD 240156Z AUTO 16013KT 10SM CLR 13/03 A2991 RMK AO2 SLP129 T01330028 VICG 240230Z 05007KT 6000 SCT030 SCT250 29/12 Q1006 NOSIG KI23 240312Z AUTO 04003KT 10SM CLR 11/01 A3000 RMK AO1 KESN 240321Z AUTO 14005KT 10SM CLR 12/07 A3014 RMK AO2 T01200072 EINN 240300Z 29005KT 9999 FEW020 BKN045 10/07 Q1021 NOSIG KGAO 240315Z AUTO 36007KT 10SM SCT036 16/08 A2997 RMK AO2 T01550081 VIBR 240300Z 34006KT 7000 FEW015 SCT030 BKN080 15/11 Q1017 FAEO 230942Z 22003KT CAVOK 19/06 Q1025 KERY 240314Z AUTO 36005KT 10SM OVC060 M01/M05 A3018 RMK AO2 T10101046 EHWO 240255Z AUTO 20004KT 170V230 9999 NCD 07/02 Q1019 BLU KGBG 240315Z AUTO 00000KT 10SM CLR 14/M02 A3002 RMK AO2 T01441016 FADY 230948Z 02002KT CAVOK 25/M04 Q1023 KETH 240316Z AUTO 08019KT 10SM CLR 08/02 A2981 RMK AO2 VIDD 240300Z 36008KT 4000 HZ NSC 28/16 Q1007 NOSIG KEST 240252Z AUTO 17008KT 10SM CLR 10/01 A2989 RMK AO2 SLP121 T01000006 55000 KGBK 240315Z AUTO 36015G22KT 10SM BKN039 OVC045 20/12 A2998 RMK A01 KGCC 240253Z AUTO 24014KT 10SM BKN090 OVC100 17/01 A2961 RMK AO2 SLP000 T01670011 53006 $ KFKL 240315Z 02006KT 10SM CLR 11/M01 A3008 RMK AO1 KFLD 240253Z AUTO 09006KT 10SM CLR 04/00 A3009 RMK AO2 SLP193 T00440000 53008 KGCD 240315Z AUTO 29004G15KT 10SM -RA SCT060 BKN070 BKN110 07/03 A2983 RMK AO2 T00700032 KFKN 240315Z AUTO 06005KT 10SM RA OVC025 11/10 A3004 RMK AO2 P0001 T01140102 KEUF 240258Z AUTO VRB04KT 10SM CLR 14/11 A2981 RMK AO2 SLP093 T01440111 51014 KEUG 240254Z 24009KT 10SM SCT026 BKN032 OVC050 10/07 A2990 RMK AO2 SLP126 VIRGA ALQDS T01000072 58017 KI35 240315Z AUTO 04003KT 5SM OVC095 11/10 A2983 RMK AO1 KFLG 240257Z 23012KT 10SM CLR 15/M08 A2995 RMK AO2 PK WND 22026/0211 SLP054 T01501078 56005 FAGG 240300Z 35003KT 9999 BKN012 13/13 Q1022 KFKR 240315Z AUTO 07005KT 10SM CLR 13/00 A3004 RMK AO2 T01340001 KFKS 240316Z AUTO 08004KT 10SM CLR 04/M04 A3012 RMK AO2 T00441036 KEVB 240147Z 17006KT 10SM SCT023 23/19 A2983 RMK LAST KGCK 240254Z AUTO 16016G22KT 10SM CLR 14/M01 A2983 RMK AO2 SLP089 T01391006 56016 KGDB 240311Z AUTO 13009KT 10SM CLR 16/01 A2981 RMK AO2 T01550005 VIDN 240300Z 02003KT 3000 HZ FEW080 29/15 Q1008 KFLL 240253Z 30004KT 10SM FEW008 22/21 A2978 RMK AO2 SLP083 T02220211 50012 $ KEUL 240256Z AUTO 00000KT 10SM BKN100 OVC120 14/04 A2975 RMK AO2 SLP068 60000 T01440044 58007 KGCM 240315Z AUTO 00000KT 10SM CLR 08/06 A3002 RMK AO2 KFME 240300Z AUTO 00000KT 10SM CLR 10/08 A3012 RMK AO1 VIDP 240300Z 33003KT 4000 HZ NSC 29/13 Q1007 NOSIG KGCN 240254Z 23013G20KT 10SM CLR 16/M13 A2994 RMK AO2 PK WND 22028/0155 SLP056 T01561128 53002 KFLO 240253Z AUTO 08012KT 9SM OVC005 16/16 A2986 RMK AO2 SLP108 T01560156 50001 KFLP 240315Z 01003KT 10SM CLR 14/02 A2998 RMK AO1 KFMH 240315Z 10SM CLR 06/05 A3015 RMK AO2 PWINO FZRANO TSNO WEA KGDJ 240315Z AUTO 00000KT 10SM CLR 12/07 A3004 RMK AO2 T01150068 KEWB 240253Z AUTO 21003KT 10SM CLR 07/04 A3014 RMK AO2 SLP204 T00670039 51013 KFNB 240253Z AUTO 18007KT 10SM CLR 14/02 A2995 RMK AO2 SLP141 T01390017 55004 URFF 240300Z 29005MPS 9999 -SHRA SCT007 OVC019CB 02/01 Q1012 R01/290395 NOSIG KEVM 240314Z AUTO 08005KT 10SM CLR 00/M03 A3006 RMK AO2 T00011030 KFMM 240315Z AUTO 12010KT 10SM CLR 13/02 A2967 RMK AO2 T01330023 KGED 240254Z AUTO 10SM SCT110 11/07 A3012 RMK AO2 SLP199 T01060072 50000 $ KFMN 240253Z 24012KT 10SM CLR 19/M08 A2982 RMK AO2 PK WND 24027/0205 SLP055 T01891083 53002 $ KGEG 240253Z 21009KT 10SM SCT050 BKN090 OVC200 12/02 A2975 RMK AO2 SLP075 VCSH T01170022 56008 KGDP 240251Z AUTO 06021KT 10SM CLR 16/M01 RMK AO2 SLPNO T01561006 $ KFLY 240315Z AUTO 22005KT 10SM CLR 10/01 A2983 RMK AO2 T01040006 KFOA 240315Z AUTO 35003KT 10SM CLR 15/00 A2999 RMK AO2 T01471002 KGFA 240258Z AUTO 00000KT 10SM FEW042 BKN065 BKN140 09/04 A2969 RMK AO2 SLP071 T00940039 55002 TSNO $ FAHS 240300Z AUTO 17007KT //// // ////// 17/14 Q1021 KEWK 232256Z AUTO 18010G16KT 10SM CLR 18/04 A3002 RMK AO2 SLP162 T01830044 FAJB 240300Z AUTO 01001KT //// // ////// 12/09 Q1025 KFNL 240256Z AUTO 01008KT 10SM CLR 14/05 A2969 RMK AO2 SLP030 T01390050 56007 KEVU 240315Z AUTO 17007KT 10SM CLR 13/M06 A2997 RMK AO2 KEVV 240254Z 03004KT 10SM CLR 13/02 A2996 RMK AO2 SLP144 T01330022 51012 $ KFOD 240315Z AUTO 16008KT 10SM CLR 16/M01 A2993 RMK AO1 KGDV 240256Z AUTO 09017KT 10SM BKN017 OVC100 04/01 A2971 RMK AO2 SLP077 T00390006 58015 DRRM 231800Z 04002KT 8000 NSC 40/08 Q1008 VIGG 231130Z 23005KT 6000 FEW035 SCT100 31/14 Q1007 KEVW 240253Z AUTO 20005KT 10SM FEW026 SCT034 OVC060 06/01 A2990 RMK AO2 RAB32E42 SLP077 P0000 60000 T00610006 51016 KFOE 240253Z AUTO 14004KT 5SM HZ CLR 14/04 A2999 RMK AO2 SLP152 T01390039 55004 KEWN 240254Z AUTO 06009KT 10SM OVC008 15/14 A2997 RMK AO2 SLP149 T01500144 50001 KI63 240315Z AUTO 00000KT 10SM CLR 10/00 A3001 RMK AO2 T01041005 DRRN 240300Z 22005KT CAVOK 33/12 Q1008 NOSIG KFMY 240253Z AUTO 00000KT 10SM CLR 24/19 A2982 RMK AO2 SLP100 T02390194 51016 EISG 232000Z 28012KT 9999 OVC043 10/08 Q1023 EKAH 240250Z AUTO 24009G19KT 200V270 9999NDV DZ BKN017/// BKN038/// 05/02 Q1010 KEWR 240251Z 18006KT 10SM OVC250 11/06 A3013 RMK AO2 SLP203 T01110056 51014 $ KI67 240315Z AUTO 00000KT 10SM CLR 09/04 A2998 RMK AO1 FAIR 230526Z 29003KT CAVOK 12/09 Q1025 KGFK 240253Z 06017KT 5SM -SN BR BKN009 OVC075 01/M01 A2999 RMK AO2 SNB0158 SLP166 P0000 60000 T00061011 56014 KFOK 240253Z 19004KT 10SM CLR 07/04 A3016 RMK AO2 SLP214 T00720039 51007 KFNT 240253Z 06010KT 10SM CLR 11/05 A3008 RMK AO2 SLP186 T01060050 53013 $ KI69 240316Z AUTO 06003KT 10SM CLR 12/04 A2999 RMK AO2 T01150042 KGEU 240147Z 21016G23KT 10SM BKN250 35/M06 A2966 RMK LAST DRRT 231800Z 24004KT CAVOK 40/M05 Q1008 KGFL 240253Z AUTO 00000KT 10SM CLR 07/01 A3005 RMK AO2 SLP180 T00670006 51016 KGEV 240325Z AUTO 34004KT 5SM +RA OVC004 05/05 A2998 RMK AO2 P0009 T00500047 KEYE 240253Z AUTO 04004KT 10SM CLR 13/M01 A3000 RMK AO2 SLP159 T01331011 51006 KGGE 240315Z AUTO 13007KT 10SM SCT027 SCT033 BKN050 21/20 A2984 RMK AO2 KEYF 240340Z AUTO 00000KT 5SM BR OVC005 14/14 A2992 RMK AO2 T01440144 VIGR 240300Z 00000KT 4000 HZ NSC 32/17 Q1007 KGGG 240253Z 00000KT 10SM CLR 13/09 A2999 RMK AO2 SLP155 T01330094 53003 KGEY 240253Z AUTO 31020G24KT 10SM BKN085 OVC120 14/02 A2963 RMK AO2 PK WND 30029/0217 SLP026 T01390022 53014 KI75 240315Z AUTO 14005KT 10SM CLR 12/02 A2998 RMK AO2 T01200018 KGEZ 240253Z AUTO 03010KT 10SM CLR 15/M01 A2999 RMK AO2 SLP153 T01501011 53007 KGGI 240315Z AUTO 15006KT 10SM CLR 12/M01 A3000 RMK AO2 T01221006 EKBI 240250Z AUTO 21010KT 9999NDV OVC014/// 06/04 Q1010 FALA 240300Z 08002KT 9999 -RA BKN080 12/10 Q1026 NOSIG KFPK 240315Z AUTO 32003KT 10SM CLR 11/04 A3005 RMK AO2 T01050039 KFOT 240315Z AUTO 35003KT 10SM SCT027 OVC032 10/07 A3002 RMK AO1 KGHB 240315Z AUTO 36020G26KT 10SM OVC047 20/12 A2998 RMK A01 KFQD 240310Z AUTO 01008G18KT 10SM -RA BKN010 OVC035 09/09 A2995 RMK AO2 T00880088 FAKM 240300Z 10003KT CAVOK 08/04 Q1023 FAKN 240300Z AUTO 18001KT //// // ////// 15/11 Q1022 FALE 240300Z 20007KT 9999 SCT026 BKN080 18/13 Q1021 NOSIG KEXX 240155Z AUTO 05003KT 10SM RA BKN008 BKN012 10/10 A2995 RMK AO2 P0011 T01010101 KEZF 240315Z AUTO 00000KT 10SM -RA SCT027 OVC100 12/12 A3008 RMK AO2 T01200120 KGHG 240315Z AUTO 23009G17KT 10SM CLR 08/04 A3010 RMK AO2 KGGP 240315Z AUTO 04003KT 10SM CLR 13/01 A3004 RMK AO2 WAAA 240300Z 32005KT 270V060 9999 SCT019 30/23 Q1012 NOSIG KFOZ 240312Z AUTO 07006KT 3SM -SN SCT005 BKN018 OVC030 01/M02 A3005 RMK AO2 KFPR 240253Z AUTO 00000KT 10SM FEW020 A2980 RMK AO2 SLP092 60002 54000 $ EKCH 240250Z 24011KT 9999 -RA FEW009 SCT016 BKN023 05/03 Q1012 TEMPO RADZ BKN012 PKWA 240300Z AUTO 10010KT 10SM CLR 30/23 A2985 RMK AO2 T03000234 KGIC 240315Z AUTO 11008KT 10SM SCT028 BKN050 OVC085 06/05 A2981 RMK AO1 KEZM 240315Z AUTO 00000KT 10SM SCT009 BKN022 OVC030 18/18 A2981 RMK AO2 T01780178 KEYW 240253Z AUTO 36004KT 10SM FEW013 BKN037 25/23 A2983 RMK AO2 SLP100 T02500228 51016 KGGW 240317Z AUTO 09017KT 10SM -RA OVC009 01/M01 A2974 RMK AO2 RAB10 P0000 T00111011 $ KGIF 240253Z AUTO 20006KT 10SM FEW055 SCT070 22/18 A2984 RMK AO2 SLP101 T02170178 53017 KFRG 240253Z 21006KT 10SM CLR 09/07 A3014 RMK AO2 SLP208 T00890072 51008 URKA 240300Z AUTO 19005MPS 5000 // NCD 08/07 Q1012 RMK QFE755/1007 WABB 240200Z 26003KT 9999 SCT018 29/25 Q1010 NOSIG KFRI 240313Z AUTO 15011KT 1 1/4SM HZ CLR 14/04 A2995 RMK AO2 VIS 1 1/4V2 SLP139 KEZS 240315Z AUTO 09009KT 10SM CLR 05/M01 A3012 RMK AO2 T00461006 EKEB 240250Z AUTO 23018KT 9999NDV FEW017/// BKN049/// 07/05 Q1010 VIJO 240230Z 24010KT 6000 SKC 29/17 Q1008 NOSIG KFRM 240256Z AUTO 17008KT 10SM CLR 12/01 A2990 RMK AO2 SLP127 T01170006 53004 KFSD 240256Z 18013KT 10SM BKN250 16/M01 A2979 RMK AO2 SLP088 T01611006 55002 VIJP 240300Z 16004KT 3000 HZ NSC 30/10 Q1009 NOSIG FAMM 240300Z 00000KT 0500 FG NSC 11/10 Q1024 REFG BECMG 1000 BR KGHW 240314Z AUTO 07019G24KT 10SM CLR 04/02 A2987 RMK AO2 KFSE 240314Z AUTO 08013G19KT 10SM SCT075 OVC090 M01/M02 A2996 RMK AO2 KHAE 240315Z AUTO 00000KT 10SM CLR 15/M06 A3002 RMK AO2 FALW 240300Z AUTO 14006KT //// // ////// 19/08 Q1015 KHAF 240315Z AUTO 33013G20KT 9SM FEW017 12/09 A3004 RMK AO2 PMDY 240256Z AUTO 24012KT 10SM CLR 26/21 A2999 RMK AO2 SLP155 T02560211 56019 EIWF 231900Z 22004KT CAVOK 10/08 Q1024 URKK 240300Z 23005MPS 9999 OVC021 07/04 Q1013 R23C/19//55 TEMPO 2000 SHRA SCT007 BKN020CB RMK QFE756 KHAI 240315Z AUTO 00000KT 10SM CLR 10/01 A3007 RMK AO2 T01000005 KFSI 240258Z AUTO 16004KT 10SM CLR 14/05 A2999 RMK AO2 SLP153 T01430050 55007 KFRR 240255Z AUTO 00000KT 10SM SCT120 11/07 A3009 RMK AO1 VIJU 240230Z 33006KT 6000 FEW030 24/13 Q1008 NOSIG USCC 240300Z 14002MPS CAVOK 04/02 Q1016 R27/000060 NOSIG RMK QFE742 FAOB 240300Z AUTO 14007KT //// // ////// 14/13 Q1022 VIKO 240300Z 23001KT 6000 NSC 31/14 Q1009 NOSIG KFSM 240253Z 09003KT 10SM CLR 15/05 A3000 RMK AO2 SLP155 T01500050 58003 KHBE 240315Z AUTO 03007KT 10SM CLR 14/M01 A3000 RMK AO2 KHAO 240253Z AUTO 10003KT 10SM CLR 09/06 A3000 RMK AO2 SLP158 T00940056 53005 KFSO 240315Z AUTO 34004KT 10SM OVC120 11/04 A3006 RMK AO2 T01080039 KFTG 240247Z 19014KT 10SM SCT100 BKN200 18/01 A2970 KHBG 240253Z AUTO 30006KT 10SM OVC043 14/10 A2995 RMK AO2 SLP141 T01390100 53010 $ VILK 240300Z VRB02KT 2000 HZ NSC 29/18 Q1005 NOSIG KHBI 240330Z AUTO 06008KT 020V080 5SM -RA OVC007 11/11 A2996 RMK AO2 T01050105 KGKJ 240253Z AUTO 04005KT 10SM CLR 09/00 A3007 RMK AO2 SLP185 T00890000 50007 TSNO WADD 240300Z 11007KT 070V140 9999 FEW017 30/25 Q1011 NOSIG USCM 240300Z 19003MPS 4600 -RA OVC033 06/05 Q1015 R19/290255 NOSIG RMK QFE724 KGJT 240253Z 08005KT 10SM CLR 18/M05 A2967 RMK AO2 SLP997 T01781050 56021 KFST 240253Z AUTO 14012G21KT 10SM CLR 18/02 A2998 RMK AO2 SLP120 T01830017 55000 KFTK 240258Z AUTO 03008KT 10SM -RA FEW043 SCT055 OVC070 13/07 A2994 RMK AO2 DZE0158RAB0158E00RAB01 SLP141 P0002 60002 T01250072 52012 KGLD 240253Z AUTO 16017KT 10SM CLR 13/04 A2973 RMK AO2 PK WND 16028/0217 SLP049 T01330039 56013 KHCD 240312Z AUTO 04011KT 10SM CLR 11/06 A2987 RMK AO2 T01100057 URMG 240030Z 04002MPS 9999 SCT/// 08/05 Q1005 R26/000070 NOSIG RMK QFE739/0985 KGLE 240315Z AUTO 00000KT 10SM CLR 13/05 A3004 RMK AO2 T01340054 KFSW 240315Z AUTO 00000KT 10SM CLR 13/M03 A3002 RMK AO2 KFTN 240315Z AUTO 06006KT 10SM CLR 18/03 A3002 RMK A01 FAPE 240300Z 07008KT 9999 FEW025 BKN035 18/14 Q1025 NOSIG KGLH 240253Z AUTO 06004KT 10SM FEW065 14/11 A2996 RMK AO2 SLP153 T01390106 53009 KHBR 240253Z AUTO 15008KT 10SM CLR 13/04 A2999 RMK AO2 SLP150 T01330044 56010 TSNO URML 240300Z 33008MPS 9999 NSC 15/04 Q1007 R32/01//70 NOSIG RMK QFE755/1007 WADL 240300Z VRB01KT 9999 FEW016 32/24 Q1012 NOSIG FAOR 240300Z 30007KT 9999 SCT040 11/09 Q1025 NOSIG DRZA 231800Z 10006KT CAVOK 37/00 Q1011 URMM 240300Z 26004MPS 9999 NSC 05/M00 Q1008 R30/000070 NOSIG RMK QFE728/0971 KGKT 240315Z AUTO 00000KT 10SM FEW007 SCT060 BKN100 12/11 A2981 RMK URMN 240300Z 24003MPS 9999 NSC 07/04 Q1006 R24/010070 NOSIG RMK QFE718 FBFT 231600Z 20004KT 160V230 9999 -RA OVC015 14/12 Q1022 KFUL 240253Z 18006KT 10SM CLR 18/13 A2983 RMK AO2 SLP099 T01780133 53004 KHDC 240315Z AUTO 00000KT 10SM CLR 12/10 A2997 RMK AO2 URMO 231600Z 17015G21MPS 9999 SCT034CB 22/04 Q0995 R09/010070 NOSIG RMK QFE703/0938 KHBV 240315Z AUTO 00000KT 10SM CLR 18/08 A3004 RMK AO2 T01780075 ZWSH 240300Z VRB01MPS 5000 DU NSC 16/05 Q1024 NOSIG KFTW 240253Z 00000KT 10SM CLR 19/04 A3001 RMK AO2 SLP159 T01890044 53001 KFVE 240253Z AUTO 32012KT 10SM -RA SCT025 BKN031 OVC055 04/02 A2991 RMK AO2 PK WND 33028/0204 WSHFT 0159 SLP136 P0001 60001 T00390017 51018 KHDE 240315Z AUTO 16012G21KT 10SM CLR 14/00 A2982 RMK AO2 T01400002 FAPN 240300Z AUTO 34001KT //// // ////// 15/14 Q1024 KHCO 240314Z AUTO 07009KT 10SM CLR 02/M09 A3003 RMK AO2 KGKY 240253Z AUTO 00000KT 10SM CLR 12/07 A3002 RMK AO2 SLP162 T01170072 53002 $ KFTY 240253Z 07006KT 10SM OVC009 13/12 A2982 RMK AO2 SLP092 T01330122 51014 FAPP 240300Z 00000KT 9999 OVC010 14/12 Q1023 TEMPO 5000 BR OVC008 URMT 240300Z 29011G17MPS 9999 SCT040 05/00 Q1009 R25/110060 NOSIG RMK QFE718 KGLR 240253Z AUTO 03006KT 10SM CLR 06/M03 A3012 RMK AO2 SLP208 T00561033 51010 FAPR 240134Z 25003KT 9999 OVC025 11/11 Q1024 RERA KGLS 240252Z AUTO 35011KT 10SM CLR 21/09 A3001 RMK AO2 SLP162 T02110094 53014 KFWA 240254Z 09005KT 10SM CLR 12/00 A3005 RMK AO2 SLP176 T01170000 51007 $ KGNA 240256Z AUTO 05008KT 01/M04 A3016 RMK AO1 SLP221 T00111044 58010 $ KGMJ 240315Z AUTO 00000KT 10SM CLR 11/08 A3000 RMK AO2 KFWB 240235Z AUTO 00000KT 10SM CLR 11/03 A3001 RMK AO2 KFWC 240315Z AUTO 00000KT 10SM CLR 14/01 A2997 RMK AO1 T01350005 KGNC 240315Z AUTO 14006KT 10SM CLR 13/02 A3000 RMK AO2 T01280019 KHDN 240315Z AUTO 19004KT 10SM CLR 11/M03 A2978 RMK AO1 KGLW 240250Z AUTO 03007G14KT 10SM SCT024 BKN047 OVC060 13/09 A2989 RMK AO2 T01260090 KHDO 240251Z AUTO 06005KT 10SM CLR 16/07 A3001 RMK AO2 SLP152 T01560067 53003 $ KHEF 240256Z AUTO 00000KT 10SM 12/08 A3010 RMK AO2 SLP205 T01220078 50002 $ KGLY 240315Z AUTO 00000KT 10SM CLR 10/04 A3000 RMK AO2 ZYCC 240300Z 21004MPS 180V240 9999 BKN030 10/01 Q1012 NOSIG KHEI 240253Z AUTO 07017G23KT 10SM OVC007 03/01 A2973 RMK AO2 SLP089 T00280006 56008 DRZR 231800Z 36004KT CAVOK 39/M02 Q1008 FASB 231133Z 36008KT 9999 FEW045 28/04 Q1019 KGMU 240313Z AUTO 04017G28KT 10SM -RA SCT013 BKN037 OVC045 11/08 A2989 RMK AO2 PK WND 05028/0306 P0000 T01060083 KHFD 240253Z 18005KT 10SM CLR 09/04 A3012 RMK AO2 SLP198 T00890044 50014 KFWN 240253Z AUTO 00000KT 10SM CLR 10/06 A3011 RMK AO2 SLP195 T01000056 51013 KFXE 240253Z 29005KT 10SM CLR 23/20 A2978 RMK AO2 SLP088 T02280200 51014 KHFF 240305Z AUTO 08010G16KT 6SM BR OVC004 13/12 A2991 RMK AO2 SHRAE05 SLP144 TSNO $ KFVX 240315Z AUTO 02006KT 10SM RA BKN017 OVC023 11/11 A3005 RMK AO2 T01100110 KHEQ 240315Z AUTO 15008KT 10SM CLR 13/05 A2970 RMK AO2 KGNR 240256Z AUTO 18004KT 06/02 A2993 RMK AO1 SLP149 T00610022 52004 FASI 240300Z AUTO /////KT //// // ////// 09/09 Q1029 KFWS 240315Z AUTO 00000KT 10SM CLR 10/07 A3004 RMK AO2 T01030070 KHFJ 240250Z AUTO 00000KT 10SM CLR 11/05 A3000 RMK AO2 DTKA 240300Z 07005KT 9999 FEW020 10/06 Q1016 NOSIG KGOK 240253Z AUTO 13005KT 10SM CLR 12/04 A3000 RMK AO2 SLP159 T01170044 55008 $ EKKA 240250Z AUTO 22010KT 9999NDV -RA OVC014/// 05/04 Q1008 KGNT 240315Z AUTO 35004KT 10SM CLR 17/M10 A2998 RMK AO2 T01651105 FCBB 240300Z 24006KT 8000 FEW010 22/21 Q1013 NOSIG KGPC 240315Z AUTO 04005KT 10SM CLR 10/00 A3001 RMK AO2 KGNV 240253Z AUTO 24008KT 10SM SCT050 BKN080 23/18 A2980 RMK AO2 SLP087 T02330178 51016 KGON 240256Z AUTO 19007KT 10SM CLR 08/06 A3013 RMK AO2 SLP204 T00780056 50007 KFYE 240315Z AUTO 00000KT 10SM OVC070 12/11 A2992 RMK A01 FBKE 231700Z 13006KT 9999 FEW025 BKN070 20/18 Q1018 USHH 240300Z 15003MPS CAVOK 03/M02 Q1008 R24/010060 NOSIG RMK QFE752 KGOO 240320Z AUTO 00000KT 10SM CLR 11/05 A2998 RMK AO1 KFYG 240255Z AUTO 00000KT 10SM CLR 09/04 A3000 RMK AO2 KGOP 240315Z AUTO 00000KT 10SM CLR 13/08 A3005 RMK AO2 KHEY 240258Z AUTO 31005KT 10SM OVC055 15/12 A2983 RMK AO2 SLP102 T01540116 52019 KGPH 240315Z AUTO 00000KT 10SM CLR 11/05 A3000 RMK AO2 KHEZ 240256Z AUTO 00000KT 10SM CLR 12/11 A2999 RMK AO2 SLP163 T01170111 53014 KFWZ 240315Z AUTO 26010G17KT 10SM SCT045 SCT075 BKN100 05/M03 RMK AO2 KGPI 240255Z 19005G16KT 10SM SCT040 SCT055 OVC095 09/04 A2973 RMK AO2 SLP073 60000 T00890044 53002 KFYJ 240315Z AUTO 07006KT 10SM OVC075 11/10 A3008 RMK AO2 T01130102 KGOV 240315Z AUTO 06004KT 10SM CLR 05/M01 A3013 RMK AO2 T00471010 KGPM 240315Z AUTO 00000KT 10SM CLR 16/05 A3003 RMK AO2 T01550050 KFYM 240315Z AUTO 35005KT 11/11 A2984 RMK A01 KHHF 240315Z AUTO 16011G17KT 10SM CLR 15/01 A2993 RMK AO2 T01480008 KHFY 240255Z AUTO 05011KT 10SM CLR 16/M04 A3001 RMK AO2 6//// T01551037 KHHG 240315Z AUTO 06003KT 10SM CLR 12/M01 A3004 RMK AO2 T01211006 KFXY 240315Z AUTO 18007KT 10SM CLR 11/00 A2992 RMK AO2 KFZG 240315Z AUTO 29006KT 7SM RA OVC007 18/18 A2981 RMK AO2 T01810181 WAHS 240300Z 06007KT 7000 SCT016 31/24 Q1012 NOSIG UTAA 240300Z 11007KT 9999 FEW230 21/07 Q1007 R88/CLRD70 NOSIG KHGR 240253Z AUTO 16005KT 10SM CLR 12/07 A3010 RMK AO2 SLP202 T01220067 51010 KHIB 240253Z AUTO 09009KT 10SM FEW060 BKN070 OVC090 M01/M02 A3005 RMK AO2 UPB05E19 SLP195 P0000 60000 T10061017 56013 KGRB 240253Z 06011KT 10SM CLR 04/M02 A3012 RMK AO2 SLP204 T00441017 52006 KGPT 240253Z 33011KT 10SM OVC043 15/10 A2994 RMK AO2 SLP136 T01500100 53017 $ DTMB 240300Z 12003KT 8000 NSC 12/10 Q1018 KFYV 240253Z 00000KT 10SM CLR 09/08 A3001 RMK AO2 SLP161 T00890083 58008 KGRD 240256Z AUTO 36009KT 4SM +RA BR OVC007 12/11 A2988 RMK AO2 RAB0157 SLP115 P0004 60015 T01220106 53012 KHIE 240252Z AUTO 00000KT 10SM CLR 02/M01 A3001 RMK AO2 SLP172 T00221006 51015 KHIF 240258Z AUTO 12009KT 10SM CLR 11/02 A2981 RMK AO2 SLPNO 60000 T01090016 58006 KGRF 240158Z VRB03KT 10SM -RA BKN050 09/08 A2987 RMK AO2A SLP117 WND DATA ESTMD ALSTG/SLP ESTMD P0002 T00920078 URRR 240300Z 27004MPS 240V310 7000 -SHRA SCT007 BKN///CB 05/04 Q1006 R22/290051 NOSIG RMK QBB230 QFE747/0996 FAUP 240300Z 08002KT CAVOK 12/10 Q1021 NOSIG KGPZ 240256Z AUTO 07007KT 030V120 10SM FEW015 OVC090 01/M02 A3005 RMK AO2 RAB39E49 SLP196 P0000 60000 T00061017 55007 FZRANO WAJJ 240300Z 20008KT 9999 SCT014 33/24 Q1008 NOSIG KHHR 240253Z VRB04KT 10SM CLR 17/13 A2983 RMK AO2 SLP102 T01720133 55001 KGRI 240253Z AUTO 17011KT 10SM CLR 14/01 A2985 RMK AO2 SLP109 T01390006 55006 KHII 240315Z AUTO 18009KT 10SM CLR 30/00 A2960 RMK AO2 UTAK 240300Z 13004KT CAVOK 12/12 Q1005 R16R/CLRD70 NOSIG VISM 230900Z 23008KT 6000 FEW050 28/11 Q1014 NISIG UTAM 240300Z 15004KT CAVOK 14/08 Q1015 NOSIG ZWWW 240300Z VRB02MPS CAVOK 19/04 Q1024 NOSIG KIAB 240258Z AUTO 18007KT 10SM CLR 13/03 A2997 RMK AO2 VIS 1 1/2 RWY01 SLP149 T01340027 57010 KGRK 240258Z AUTO 00000KT 10SM CLR 16/06 A3002 RMK AO2 SLP162 T01590056 53005 KGSB 240258Z AUTO 06009KT 4SM BR OVC004 13/13 A2996 RMK AO2 SLP148 T01300130 50002 $ FAWB 240300Z AUTO 22002KT //// // ////// 13/11 Q1024 FAUT 240300Z AUTO 31002KT //// // ////// 12/11 Q1024 KIAD 240252Z 00000KT 10SM OVC130 12/07 A3010 RMK AO2 SLP192 T01220067 50004 KHHW 240315Z AUTO 00000KT 10SM CLR 15/05 A3001 RMK AO2 T01460047 FBMN 240200Z 12003KT 9999 OVC015 FEW030CB 14/13 Q1020 KHIO 240253Z 22007KT 10SM -RA OVC050 11/07 A2985 RMK AO2 RAB40 SLP108 P0000 60000 T01060067 58014 VISR 231530Z 15007KT 5000 TSRABR FEW015 SCT020 FEW030CB BKN080 13/11 Q1018 TEMPO 23020G30KT KIAG 240253Z AUTO 20005KT 10SM CLR 09/02 A3007 RMK AO2 SLP187 T00890017 51009 KFZY 240254Z AUTO 00000KT 10SM CLR 08/04 A3006 RMK AO2 SLP181 T00780039 53004 URSS 240300Z 12006MPS 9999 -SHRA FEW017 OVC037CB 07/05 Q1018 WS ALL RWY R06/220250 R02/210250 NOSIG RMK R02/12003G06MPS MT OBSC QFE763 ZYHB 240300Z 15005MPS 110V190 9999 BKN033 09/03 Q1011 NOSIG KIAH 240253Z 00000KT 10SM CLR 18/08 A3001 RMK AO2 SLP162 T01830083 53012 KGSH 240253Z AUTO 00000KT 10SM CLR 11/02 A3005 RMK AO2 SLP177 T01110017 53008 KHJH 240315Z AUTO 17009G15KT 10SM CLR 13/01 A2990 RMK AO2 T01330006 DTNH 240300Z AUTO VRB01KT 9999NDV NCD 10/06 Q1018 KGRR 240253Z 34003KT 10SM FEW250 13/01 A3007 RMK AO2 SLP181 T01280011 50009 UTAT 240300Z 13010KT CAVOK 18/06 Q1012 R08/CLRD70 NOSIG KHKA 240253Z AUTO 32007KT 10SM CLR 12/10 A2994 RMK AO2 SLP137 T01170100 50001 KGTB 240258Z AUTO 35008KT 10SM CLR 10/00 A3007 RMK AO2 SLP185 T01011000 52016 $ UTAV 240300Z 00000KT CAVOK 18/09 Q1015 NOSIG FAWK 240300Z AUTO 26001KT //// // ////// ///// Q1026 EKOD 231450Z 29018KT CAVOK 08/M04 Q1016 FAVV 240300Z AUTO /////KT //// // ////// 12/// Q//// KHJO 240253Z AUTO 33009KT 10SM CLR 19/05 A2990 RMK AO2 SLP126 T01940050 55003 KGTF 240253Z 17005KT 10SM SCT070 BKN085 BKN110 08/03 A2968 RMK AO2 LTG DSNT N AND NW RAB22E31 SLP065 P0000 60000 T00780028 55003 KGSO 240254Z 06015KT 4SM BR OVC007 10/10 A2996 RMK AO2 RAE53 CIG 004V009 SLP144 P0003 60024 T01000100 58004 KGSP 240253Z 01009KT 10SM BKN008 OVC014 10/08 A2990 RMK AO2 RAE30 SLP121 P0000 60012 T01000083 51013 KGRY 240315Z AUTO 34012G20KT 10SM SCT038 BKN047 21/13 A2994 RMK A01 WALL 240300Z 23008KT 9999 FEW020 29/24 Q1012 NOSIG UTDD 240300Z 15002MPS 9999 NSC 16/10 Q1018 R09/CLRD// NOSIG RMK QFE695/0926 KHLC 240253Z AUTO 15011G18KT 10SM CLR 15/02 A2983 RMK AO2 SLP090 T01500017 58013 TSNO $ KGUC 240256Z AUTO 03004KT 10SM CLR 11/M07 A2990 RMK AO2 SLP095 T01061067 50002 KIBM 240315Z AUTO 18006KT 10SM CLR 10/06 A2971 RMK AO2 T01010060 KHLG 240253Z AUTO 09006KT 10SM CLR 14/M03 A3003 RMK AO2 SLP173 T01391028 53008 URWA 240300Z 28012G17MPS CAVOK 10/M00 Q1005 R27/010070 TEMPO 28015G20MPS RMK QFE755/1007 UTDK 240300Z VRB02MPS 9999 NSC 18/12 Q1017 R01/09//70 RMK QFE705/0941 KGTR 240315Z 31005KT 10SM OVC015 11/07 A2986 RMK AO1 UTDL 240300Z 06009MPS 9999 FEW200 18/10 Q1018 88CLRD70 NOSIG RMK QFE724/0966 KIDA 240253Z AUTO 00000KT 10SM CLR 09/02 A2979 RMK AO2 SLP076 60000 T00940017 52003 KHKS 240253Z AUTO 32003KT 10SM OVC047 14/11 A2997 RMK AO2 SLP141 T01390106 51013 WAMM 240300Z 260204KT 9999 SCT021 29/24 Q1011 TEMPO -RA RMK PREC IN SIGHT KGTU 240315Z 00000KT 10SM CLR 13/06 A3004 RMK AO1 KICL 240315Z AUTO 23003KT 10SM CLR 08/03 A2999 RMK AO2 PWINO KGUL 240315Z AUTO 02011G20KT 10SM OVC036 20/12 A3000 RMK A01 KHME 240250Z AUTO 07014KT //// // ////// 18/M05 Q1014 KHLN 240253Z 30007KT 10SM CLR 08/02 A2971 RMK AO2 SLP075 T00830017 56003 KGVE 240315Z AUTO 00000KT 10SM OVC110 10/10 A3008 RMK AO1 P0001 T01000100 URWI 240300Z AUTO 25019G26MPS 9999 // ///016/// 06/02 Q1003 KGUP 240253Z AUTO 22007KT 10SM CLR 17/M08 A2996 RMK AO2 PK WND 23031/0205 SLP027 T01671083 53005 KHKY 240312Z AUTO 34004KT 2 1/2SM +RA BR SCT005 BKN009 OVC013 08/08 A2997 RMK AO2 P0008 T00830083 UTFA 240300Z VRB02KT 9999 NSC 16/10 Q1020 R88/09//70 UTDT 240300Z VRB01MPS 9999 NSC 18/11 Q1016 35CLRD70 RMK QFE722/0963 KICR 240253Z AUTO 17013KT 10SM CLR 17/03 A2966 RMK AO2 SLP035 T01720033 56010 $ KIDI 240315Z AUTO 00000KT 10SM CLR 13/01 A3009 RMK A01 KHLR 240258Z AUTO 00000KT 10SM CLR 16/06 A3000 RMK AO2 SLP154 T01640061 53004 KGUS 240258Z AUTO 07007KT 10SM CLR 12/01 A3002 RMK AO2 SLP169 T01180007 50007 KICT 240253Z 18008KT 10SM SCT250 12/04 A2997 RMK AO2 SLP146 T01170044 56008 KHNB 240256Z AUTO 03006KT 10SM CLR 13/02 A2996 RMK AO2 SLP145 T01330022 50009 KGWB 240315Z AUTO 00000KT 10SM CLR 10/02 A3005 RMK AO2 USNN 240300Z 12003MPS CAVOK 04/M02 Q1011 R03/0///65 NOSIG RMK QFE754 KGVL 240253Z AUTO 08011KT 10SM OVC008 11/10 A2984 RMK AO2 CIG 007V010 SLP098 T01060100 50004 UTFF 240300Z 14005KT 9999 NSC 19/09 Q1019 R99/CLRD70 KHND 240256Z 21017KT 10SM CLR 26/M04 A2969 RMK AO2 SLP032 T02561039 53010 KHMN 240258Z AUTO 17011KT 10SM CLR 22/M02 A2994 RMK AO2 SLP080 T02211016 56005 $ KHLX 240315Z AUTO 00000KT 4SM RA OVC004 06/06 A2998 RMK AO2 P0004 T00580058 KGUY 240253Z AUTO 16014KT 10SM CLR 15/04 A2985 RMK AO2 SLP084 T01500039 55006 KHMP 240315Z AUTO 08006KT 10SM OVC006 14/14 A2982 RMK AO2 T01350135 KIDP 240315Z AUTO 00000KT 10SM CLR 10/06 A3001 RMK AO2 WBGB 240300Z 13003KT 9999 TS SCT014 FEW015CB BKN150 28/26 Q1013 KIFA 240315Z AUTO 17008KT 10SM CLR 12/02 A2997 RMK AO2 T01210018 KGXA 240255Z AUTO 26011G21KT 230V290 16/01 A2987 RMK AO2 SLP100 WND DATA ESTMD T01620006 53008 TSNO $ KHOB 240315Z AUTO 14006KT 10SM CLR 13/00 A3000 RMK AO2 KGVT 240315Z AUTO 00000KT 10SM CLR 13/10 A3001 RMK AO2 UTFN 240300Z 04004KT 010V070 9999 NSC 17/09 Q1019 R28/CLRD70 NOSIG URWW 240300Z 24009MPS 9999 -RA BKN007 06/05 Q0996 R24/290060 NOSIG RMK OBST OBSC EKSB 240250Z AUTO 21008KT 9999NDV FEW030/// FEW066/// BKN075/// 06/03 Q1012 EKRK 240250Z AUTO 22008KT 9999NDV -RA FEW006/// SCT013/// BKN017/// BKN036/// 04/03 Q1012 WAOO 240300Z 05007KT 9999 SCT018 29/24 Q1012 WBGG 240300Z 11004KT 9999 SCT016 BKN300 31/26 Q1012 NOSIG KIEN 240252Z AUTO 17013KT 10SM CLR 18/04 A2961 RMK AO2 SLP010 T01780044 57012 KHOE 240315Z AUTO 21004KT 10SM SCT120 22/16 A2978 RMK AO2 KGWO 240253Z AUTO 00000KT 10SM FEW050 11/10 A2995 RMK AO2 SLP142 T01110100 53006 EKRN 240250Z AUTO 27011KT 9999NDV NCD 04/01 Q1014 KGXF 240258Z AUTO 20009KT 10SM CLR 31/M05 A2967 RMK AO2 SLP036 T03121054 53005 KHMZ 240315Z AUTO 00000KT 10SM CLR 07/02 A3009 RMK AO2 T00650024 KGWR 240315Z AUTO 10SM CLR 04/02 A2981 RMK A01 KIER 240315Z AUTO 28003KT 10SM CLR 10/10 A3000 RMK AO2 T01020102 KHNR 240315Z AUTO 18008KT 10SM CLR 14/00 A2995 RMK AO2 DTTA 240300Z 11003KT 9999 FEW026 14/02 Q1017 NOSIG KGYB 240315Z AUTO 00000KT 10SM CLR 13/10 A3004 RMK AO2 T01290100 FBSK 240300Z 10002KT 5000 // NSC 13/13 Q1023 NOSIG DTTB 240300Z 32003KT CAVOK 10/08 Q1017 WAPP 240300Z 21007KT 170V260 9999 SCT018 30/23 Q1010 NOSIG USPP 240300Z 22004MPS CAVOK 04/02 Q1010 R21/090060 NOSIG RMK QFE747 DTTD 240300Z AUTO VRB02KT NCD 13/09 Q1017 KHON 240255Z AUTO 17013KT 10SM CLR 18/M01 A2968 RMK AO2 SLP049 T01781011 56009 KGWW 240320Z AUTO 05006KT 4SM BR OVC005 12/12 A2998 RMK AO2 T01200120 WBGR 240300Z 26006KT 9999 SCT014 BKN150 29/26 Q1012 DTTF 240300Z 04008KT CAVOK 11/00 Q1018 KIFP 240315Z AUTO 27011G19KT 10SM CLR 32/M04 A2958 RMK AO2 KHOP 240258Z AUTO 03014KT 9SM R23/5500FT RA BKN036 BKN075 12/10 A2991 RMK AO2 DZE13RAB13E30DZB30E38RAB38 SLP131 P0002 60010 T01150098 50004 WBGS 240300Z 13004KT 9999 SCT014 SCT150 BKN300 30/25 Q1012 DTTG 240300Z 08008KT 8000 NSC 12/10 Q1017 NOSIG FBSP 231800Z 00000KT 9999 -RA OVC020 15/14 Q1023 EKSP 240250Z 21012KT 9999 SCT022 06/04 Q1011 KGYH 240315Z AUTO 04010G21KT 10SM -RA OVC010 10/08 A2989 RMK AO2 LTG DSNT SE KHNZ 240315Z AUTO 06011KT 10SM OVC007 10/09 A3001 RMK AO2 T00950087 KGYI 240315Z AUTO 00000KT 10SM CLR 12/07 A3002 RMK AO2 T01160065 DTTJ 240300Z 03003KT 7000 NSC 13/11 Q1017 NOSIG KHOT 240253Z AUTO 00000KT 10SM CLR 12/08 A2999 RMK AO2 SLP153 T01220078 53006 $ DTTK 240300Z 00000KT CAVOK 10/05 Q1018 KHOU 240253Z 35007KT 10SM CLR 18/08 A3000 RMK AO2 SLP165 T01830083 53012 KGYL 240317Z AUTO 17004KT 10SM CLR 16/02 A2986 RMK AO2 T01570022 DTTL 240300Z AUTO 18005KT 150V220 NCD 15/12 Q1018 KIGM 240251Z AUTO 15008KT 10SM CLR 19/M07 A2976 RMK AO2 SLP016 T01941067 56003 WBGY 240300Z 12007KT 9999 SCT020 BKN150 29/25 Q1013 KHPN 240256Z 17003KT 10SM CLR 08/05 A3012 RMK AO2 SLP202 T00830050 51012 DTTN 232300Z VRB01KT 8000 FEW020 10/07 Q1018 WAQQ 240300Z 28006KT 9999 FEW015 29/25 Q1012 KGXY 240156Z AUTO 07004KT 10SM CLR 17/04 A2967 RMK AO2 SLP038 T01720039 KHQG 240315Z AUTO 17019G26KT 10SM CLR 16/01 A2985 RMK AO2 T01570007 KGZH 240253Z AUTO VRB04KT 10SM CLR 13/10 A2989 RMK AO2 SLP118 T01280100 52015 KIGQ 240315Z AUTO 13006KT 10SM CLR 12/01 A3004 RMK AO2 T01180007 KGYR 240247Z 23012KT 10SM FEW200 SCT250 31/00 A2965 KHQI 240315Z AUTO 34012KT 10SM OVC026 21/12 A2999 RMK A01 DTTR 231200Z 12012KT CAVOK 26/04 Q1021 KK88 240315Z AUTO 00000KT 10SM 12/06 A3002 RMK AO1 T01170058 KIIB 240315Z AUTO 18007KT 10SM CLR 11/01 A2999 RMK AO2 KHQM 240253Z AUTO 19011KT 4SM -RA BR SCT010 BKN038 OVC065 09/08 A2981 RMK AO2 RAB28 SLP097 P0003 60010 T00890083 56006 KGZN 240300Z AUTO 13005KT 10SM CLR 14/03 A3003 RMK AO2 EKVD 240250Z AUTO 22013KT //// ///////// 06/04 Q1011 KIGX 240256Z AUTO 06009G15KT 10SM OVC006 11/11 A2998 RMK AO2 SLP150 60011 T01110111 58005 WARR 240300Z 10008KT 9999 SCT020 30/25 Q1012 NOSIG USRR 240300Z 13002MPS 080V160 7000 NSC 03/M04 Q1009 R07/CLRD60 NOSIG RMK QFE752 DTTX 240300Z 30004KT 9999 FEW030 10/08 Q1018 NOSIG KGYY 240315Z AUTO 03004KT 10SM CLR 11/03 A3005 RMK AO2 T01120030 EKVG 240320Z AUTO 33021G32KT 9999NDV BKN027/// M01/M07 Q1017 DTTZ 240000Z 09010KT CAVOK 17/06 Q1017 NOSIG KHRI 240253Z AUTO 27013KT 10SM SCT080 13/04 A2981 RMK AO2 SLP094 T01280044 53006 $ KHSA 240150Z 34004KT 10SM OVC040 14/08 A2994 UUBC 240300Z AUTO 29002MPS 260V320 9999 // ///071/// 00/M02 Q1007 RMK QFE738/0984 KGZS 240315Z AUTO 34004KT 3SM BR OVC008 12/11 A2985 RMK A01 KHRJ 240315Z AUTO 06009KT 7SM OVC005 13/13 A2995 RMK AO2 T01260126 KHSB 240315Z AUTO 03006KT 10SM CLR 14/05 A2996 RMK AO2 T01380049 KHRL 240252Z 12004KT 10SM CLR 17/11 A3001 RMK AO2 SLP163 T01720106 53012 KJAC 240315Z AUTO 23011G15KT 10SM FEW060 BKN075 07/M04 A2981 RMK AO1 LTG DSNT NW KHQU 240315Z AUTO 10010KT 7SM -RA OVC005 15/14 A2984 RMK AO2 P0001 T01480142 KIJD 240252Z AUTO 18004KT 10SM CLR 09/04 A3013 RMK AO2 SLP204 T00940044 51014 $ KHSE 240318Z AUTO 04007KT 1 3/4SM -RA BR SCT023 BKN030 OVC070 17/16 A2995 RMK AO2 P0001 T01720161 TSNO KHRO 240253Z AUTO 27003KT 10SM CLR 13/02 A3002 RMK AO2 SLP163 T01280022 55002 $ ELLX 240250Z AUTO 04005KT 9999 NCD 03/M02 Q1020 NOSIG KHSG 240255Z AUTO 21009G14KT 10SM CLR 10/M02 A2965 RMK AO2 T01041023 USSS 240300Z 19004MPS CAVOK 05/02 Q1014 R26R/150050 NOSIG RMK QFE740/0987 KHQZ 240315Z AUTO 00000KT 10SM CLR 13/06 A3001 RMK AO1 T01280064 WBKK 240300Z 25001KT 9999 FEW014 SCT140 BKN270 32/26 Q1012 NOSIG KHSI 240253Z AUTO 17011KT 10SM CLR 14/00 A2987 RMK AO2 SLP108 T01440000 55005 WBKL 240300Z 23004KT 210V350 9999 FEW013 BKN290 30/26 Q1012 KL18 240315Z AUTO 00000KT 10SM BKN011 14/12 A2988 RMK AO2 KHRT 240258Z 33011KT 10SM SCT055 16/08 A2985 RMK AO2A SLP110 P0000 T01640078 52024 $ UUBP 240300Z 30004MPS CAVOK M01/M02 Q1008 R16/////// NOSIG RMK QFE738/0984 KJAN 240254Z 31004KT 10SM OVC046 14/10 A2996 RMK AO2 SLP144 T01440100 51013 KHRX 240315Z AUTO 17010G16KT 10SM CLR 16/03 A2995 RMK AO2 T01550030 USTR 240300Z 27005MPS 230V320 9999 BKN040 07/01 Q1014 R21/CLRD65 NOSIG RMK QFE751/1001 KHSP 240315Z AUTO 10011G16KT M1/4SM -RA OVC002 04/03 A3003 RMK AO2 P0001 KIIY 240315Z AUTO 05005G14KT 2 1/2SM +RA BKN006 OVC011 13/13 A2981 RMK AO2 KIKG 240315Z AUTO 00000KT 10SM CLR 15/11 A3003 RMK AO2 T01530106 WBKS 240300Z 30005KT 260V360 9999 SCT015 BKN270 31/25 Q1012 KHTH 240315Z AUTO 36011KT 10SM CLR 16/M07 A2983 RMK A01 KJAQ 240315Z AUTO 29005KT 10SM CLR 13/08 A2997 RMK AO1 T01330076 WATT 240300Z 10006KT 9999 FEW020 31/23 Q1012 NOSIG WBKT 240300Z 06004KT 9999 FEW015 SCT140 BKN270 30/25 Q1012 KJAS 240315Z AUTO 00000KT 10SM 13/12 A3003 RMK AO2 T01300115 KJCA 240315Z AUTO 06005KT 10SM OVC009 11/11 A2984 RMK AO2 KHUA 240258Z AUTO 31005KT 3SM BR OVC004 11/10 A2985 RMK AO2 SLP109 T01050102 52012 UUDD 240300Z 23002MPS 190V310 CAVOK M01/M04 Q1006 R88/010095 NOSIG KIKK 240315Z AUTO 00000KT 10SM CLR 09/M03 A3005 RMK AO2 T00871035 KHST 240258Z AUTO 00000KT 10SM CLR 22/22 A2979 RMK AO2 SLP091 60000 T02150215 50013 UUBW 240300Z 00000MPS CAVOK M01/M04 Q1007 R30/010060 NOSIG WBKW 240300Z 24005KT 9999 FEW017 BKN300 31/26 Q1012 KHTL 240253Z AUTO 08009KT 10SM CLR 08/02 A3011 RMK AO2 SLP199 T00780017 51015 KJAU 240315Z AUTO 05004KT 10SM OVC013 12/11 A2989 RMK A01 KHSV 240255Z 30005KT 8SM -DZ BKN006 OVC015 11/11 A2986 RMK AO2 P0000 T01110106 $ KILE 240256Z AUTO 00000KT 10SM CLR 14/07 A3003 RMK AO2 SLP187 T01440067 53006 KHUF 240253Z 01006KT 10SM CLR 13/M02 A3000 RMK AO2 SLP157 T01331022 51006 KJAX 240256Z 17009KT 10SM SCT043 BKN085 BKN250 23/18 A2977 RMK AO2 LTG DSNT N RAB0157E53 SLP083 P0000 60000 T02330183 50012 KHTO 240315Z AUTO 19004KT 10SM CLR 07/05 A3014 RMK AO2 T00650053 KIJX 240315Z AUTO 00000KT 10SM CLR 12/M01 A3001 RMK AO2 T01201006 KILG 240251Z 12004KT 10SM CLR 11/08 A3014 RMK AO2 SLP205 T01060078 51011 KL35 240315Z AUTO 25008G18KT 10SM CLR 08/00 A2998 RMK AO2 KJBR 240253Z AUTO 33005KT 10SM CLR 12/06 A2996 RMK AO2 SLP144 T01170061 51005 UUDL 240300Z AUTO 00000MPS 9999 NCD M00/M01 Q1006 RMK QFE746 KHTS 240317Z 00000KT 3SM BR FEW001 BKN055 11/10 A2997 RMK AO2 T01060100 KIKT 240315Z AUTO 30013G21KT 270V340 10SM SCT032 SCT039 BKN045 21/14 A2989 RMK A01 UUEE 240300Z 25002MPS CAVOK M01/M02 Q1006 R24R/CLRD62 NOSIG KHUL 240253Z AUTO 21007KT 10SM CLR 07/04 A2992 RMK AO2 SLP137 T00720039 53005 KILM 240253Z AUTO 05009KT 8SM OVC006 17/16 A2991 RMK AO2 SLP128 60000 T01670161 50002 KJDD 240315Z AUTO 00000KT 10SM CLR 11/08 A3001 RMK AO2 KHUM 240315Z AUTO 32005KT 7SM CLR 14/10 A2999 RMK AO2 T01370100 KIKV 240315Z AUTO 16003KT 10SM CLR 11/02 A2997 RMK AO2 KIKW 240313Z AUTO 05006KT 10SM CLR 08/02 A3012 RMK AO2 T00750018 KILN 240254Z AUTO 07004KT 10SM CLR 12/03 A2999 RMK AO2 SLP164 T01220028 51007 KHVE 240315Z AUTO 32025G35KT 10SM CLR 17/00 A2976 RMK AO2 FCPP 240300Z 04004KT 8000 TS FEW010 FEW030CB 27/24 Q1013 NOSIG KHUT 240252Z 15011KT 10SM CLR 13/03 A2995 RMK AO2 SLP132 T01280033 55009 KJCT 240251Z AUTO 08005KT 10SM CLR 16/02 A3002 RMK AO2 SLP142 T01560017 53002 TSNO UTNN 240300Z 13010KT CAVOK 18/06 Q1012 R33/CLRD60 NOSIG KIML 240253Z AUTO 16014KT 10SM CLR 14/04 A2971 RMK AO2 SLP054 T01390039 56015 $ EKYT 240250Z AUTO 22016KT 9999NDV -RA FEW016/// SCT020/// BKN024/// OVC043/// 06/04 Q1007 KHWD 240254Z 27016KT 10SM SCT040 BKN200 14/08 A3002 RMK AO2 SLP176 T01390078 53001 KIND 240254Z 04008KT 10SM CLR 14/M02 A3000 RMK AO2 SLP157 T01391022 51007 $ KIMM 240315Z AUTO 00000KT 10SM FEW065 SCT080 SCT110 19/19 A2981 RMK AO2 KHVN 240253Z AUTO 20003KT 10SM CLR 08/05 A3013 RMK AO2 SLP204 T00780050 50009 KJDN 240248Z AUTO 08005KT 07/03 A2972 RMK AO1 SLP079 P0001 60001 T00670033 53015 KJEF 240253Z AUTO 00000KT 10SM CLR 12/03 A3001 RMK AO2 SLP153 T01220033 55003 KINF 240315Z AUTO 00000KT 10SM SCT055 20/20 A2982 RMK AO2 ZYTL 240300Z 18002MPS 140V240 3000 -SHRA BR SCT010 BKN026 FEW040CB 12/11 Q1013 BECMG TL0330 2500 -SHRA BR KHVR 240253Z AUTO 08010KT 9SM BKN035 BKN044 06/05 A2970 RMK AO2 SLP071 60000 T00610050 58000 UTNU 240300Z 13008KT CAVOK 17/07 Q1013 R31/CLRD70 NOSIG KIMS 240313Z AUTO 03006KT 10SM SCT055 14/01 A2997 RMK AO1 KHVS 240315Z AUTO 07011G15KT 2SM OVC002 13/13 A2986 RMK AO2 LTG DSNT W KINJ 240315Z AUTO 06006KT 10SM CLR 15/06 A3002 RMK AO2 T01480061 KINK 240253Z AUTO 12009KT 10SM CLR 19/00 A2995 RMK AO2 SLP113 T01890000 55008 PWINO KIMT 240254Z AUTO 06008KT 10SM CLR 01/M07 A3014 RMK AO2 SLP220 T00111072 53013 KIOB 240315Z AUTO 10012G18KT 10SM OVC033 12/08 A2994 RMK AO2 KINL 240255Z AUTO 14003KT 10SM OVC070 01/M05 A3008 RMK AO2 SLP204 T00111050 55005 $ KHXD 240315Z AUTO 16007G13KT 10SM CLR 24/22 A2979 RMK AO2 KHWO 240253Z AUTO 31003KT 10SM CLR 22/21 A2980 RMK AO2 SLP090 T02220206 51012 KJER 240253Z AUTO 25010KT 10SM CLR 11/02 A2979 RMK AO2 SLP077 T01110017 53007 KHYA 240256Z AUTO 21009KT 10SM CLR 08/06 A3012 RMK AO2 SLP201 T00830056 50009 TSNO KJES 240315Z AUTO 19005KT 10SM SCT070 23/19 A2976 RMK AO2 KINS 240258Z AUTO 21009KT 10SM CLR 25/M10 A2968 RMK AO2 SLP009 T02531099 55000 $ KINT 240254Z AUTO 05009G20KT 10SM -RA BKN009 OVC013 09/08 A2997 RMK AO2 CIG 006V010 SLP146 P0008 60047 T00940083 58003 KJFK 240251Z 19008KT 10SM BKN250 10/08 A3015 RMK AO2 SLP210 T01000083 51009 ZYTX 240300Z 06005MPS 6000 -RA OVC040 08/06 Q1013 NOSIG ENAL 240250Z AUTO 05006KT 9999 OVC080/// 00/M01 Q1004 KHWV 240256Z AUTO 20005KT 10SM CLR 08/06 A3015 RMK AO2 SLP209 T00830056 51006 TSNO KINW 240256Z AUTO 20006KT 10SM CLR 19/M08 A2987 RMK AO2 SLP062 T01941083 58003 ENAN 240250Z AUTO 17003KT 9999 NCD M04/M07 Q1005 KHWY 240315Z AUTO 00000KT 10SM SCT031 SCT049 OVC100 12/09 A3009 RMK AO2 T01150092 KJGG 240315Z AUTO 00000KT 10SM OVC050 12/12 A3007 RMK AO1 KHYI 240315Z 06004KT 10SM CLR 14/06 A3004 RMK AO1 FDJR 240300Z AUTO 27011G29KT //// // ////// 14/10 Q1023 KIPJ 240330Z AUTO 02005KT 10SM RA OVC009 10/09 A2994 RMK AO2 P0005 T00980091 FDLB 240300Z AUTO 25002KT //// // ////// 19/13 Q1024 KIPL 240253Z AUTO 26016KT 10SM CLR 27/M07 A2965 RMK AO2 SLP043 T02671067 55000 ENAT 240250Z AUTO 19005KT 9999 NCD M08/M12 Q1009 RMK WIND 700FT 18008KT ENBL 232120Z 04004KT 9999 -SN FEW010 BKN016 00/M01 Q1004 KHZD 240315Z AUTO 33004KT 10SM FEW120 12/10 A2990 RMK A01 KIOW 240252Z AUTO 00000KT 10SM CLR 13/02 A3001 RMK AO2 SLP162 T01330022 55003 KHZE 240315Z AUTO 08011G20KT 10SM OVC005 M01/M02 A2987 RMK AO2 ENBN 240250Z AUTO VRB01KT //// R22///// -SHRA FEW012/// BKN018/// OVC022/// 01/01 Q1002 KJFX 240315Z AUTO 00000KT 10SM BKN043 11/09 A2987 RMK AO2 PWINO ENBO 240250Z 08013KT 9999 FEW020TCU 01/M02 Q1003 UTSA 240300Z 08006KT 7000 NSC 18/08 Q1015 R07/CLRD70 NOSIG KJFZ 240315Z AUTO 12012G17KT 10SM -RA SCT012 BKN060 OVC090 08/07 A2996 RMK AO2 P0001 T00750067 UTSB 240300Z 04004KT CAVOK 18/09 Q1015 R01/CLRD70 NOSIG WBSB 240300Z 18002KT 9999 FEW015 FEW016CB SCT140 BKN300 30/24 Q1013 RERA TEMPO 6000 SHRA TSRA KHYR 240253Z AUTO 05008KT 10SM CLR 03/M02 A3003 RMK AO2 SLP183 T00281017 50001 ENBR 240250Z 34014KT 9999 VCSH SCT005 BKN008 01/00 Q1000 RMK WIND 1200FT 34024G34KT KHYS 240156Z AUTO 15011KT 10SM CLR 14/03 A2988 RMK AO2 SLP119 T01390033 ENBS 232050Z 20010KT CAVOK M07/M10 Q1006 KIPT 240254Z AUTO 00000KT 10SM CLR 11/03 A3007 RMK AO2 SLP183 T01060033 53014 KHZL 240315Z AUTO 00000KT 10SM CLR 08/M02 A3012 RMK AO2 ENBV 231950Z 23009KT 9999 FEW020 SCT055 M02/M07 Q1007 KHYW 240315Z AUTO 05007KT 7SM OVC006 18/17 A2986 RMK AO2 KJHN 240255Z AUTO 15018G22KT 10SM CLR 15/03 A2980 RMK AO2 T01520031 ENCN 240250Z AUTO 23014KT 8000 -RASN BKN011/// OVC015/// 06/04 Q1000 RERA KHYX 240317Z AUTO 03008KT 10SM CLR 06/02 A3011 RMK AO2 UTSK 240300Z 08006KT 060V120 CAVOK 15/08 Q1015 R16/CLRD70 KHZR 240315Z AUTO 25003KT 10SM CLR 12/11 A2998 RMK AO2 T01150105 KM08 240315Z AUTO 00000KT 10SM SCT070 11/10 A2991 RMK A01 KIRK 240255Z AUTO 16003KT 10SM CLR 10/00 A3002 RMK AO2 SLP167 T01000000 55001 KJHW 240315Z AUTO 00000KT 10SM CLR 09/M06 A3008 RMK AO1 KHZX 240313Z AUTO 07010KT 10SM CLR 00/M03 A3001 RMK AO2 KHZY 240253Z AUTO 00000KT 10SM CLR 06/02 A3008 RMK AO2 SLP188 T00610017 52004 TSNO UTSS 240300Z 09012KT 9999 NSC 17/07 Q1016 R09/CLRD70 NOSIG UTST 240300Z 06004KT 030V110 CAVOK 18/08 Q1015 R88/CLRD70 NOSIG VLLB 240300Z 24002KT 8000 SCT017 SCT050 BKN080 23/21 Q1013 NOSIG ENDR 240250Z AUTO 27012KT 03/M03 Q1003 KIRS 240315Z AUTO 02004KT 10SM CLR 10/00 A3005 RMK AO2 T00990000 KJKA 240315Z AUTO 33004KT 10SM CLR 14/11 A2990 RMK AO2 T01400107 FDMS 231400Z 08006KT 9999 SCT035 23/13 Q1019 NOSIG KM19 240256Z AUTO 32003KT 10SM CLR 14/07 RMK AO2 SLPNO 6//// T01390072 $ ENFB 240250Z AUTO 35028KT 9999NDV -SHRA BKN030/// 02/M05 Q1007 W///S5 KM21 240315Z AUTO 05005KT 10SM -RA SCT075 OVC085 11/09 A2993 RMK AO2 T01110087 ENEK 240250Z 26033KT CAVOK 08/05 Q1005 W07/S4 ENDU 240250Z AUTO 30002KT 9999 NCD M09/M11 Q1006 RMK WIND 1100FT 10007KT WIND 2200FT 07009KT KISM 240256Z AUTO 13005KT 10SM CLR 23/19 A2983 RMK AO2 SLP104 T02280194 51016 FDMV 240300Z AUTO 23005KT //// // ////// 18/16 Q1027 KISN 240252Z AUTO 10013KT 10SM OVC007 M01/M03 A2985 RMK AO2 SLP132 T10061028 56015 $ KISO 240315Z AUTO 05008G14KT 5SM BR OVC004 14/13 A2997 RMK AO2 T01370133 FEFF 240300Z VRB02KT 9999 TS FEW013 FEW033CB 25/23 Q1010 BECMG NSW KM25 240335Z AUTO 36004KT 10SM CLR 11/08 A2995 RMK AO2 KISP 240256Z 22007KT 10SM FEW200 OVC250 09/06 A3014 RMK AO2 SLP205 T00890056 51007 LBBG 240300Z 32005KT 260V050 9999 FEW048 04/01 Q1020 NOSIG KISQ 240314Z AUTO 36006KT 10SM CLR 00/M05 A3018 RMK AO2 T10031052 KITH 240256Z AUTO 00000KT 10SM CLR 08/06 A3008 RMK AO2 SLP189 T00830061 51012 UTTT 240300Z 03008KT CAVOK 19/05 Q1018 R26R/CLRD70 NOSIG KJKJ 240314Z AUTO 07013KT 10SM SCT016 03/00 A2989 RMK AO2 KM30 240315Z AUTO 00000KT 10SM CLR 11/07 A2996 RMK AO2 T01100072 VLLN 240300Z 27002KT 6000 SCT020 OVC100 22/20 Q1015 NOSIG KJKL 240253Z AUTO 10SM OVC007 11/09 A2991 RMK AO2 CIG 004V011 SLP128 60002 T01060094 58000 ENGC 240250Z 36027KT 9999 FEW020 SCT030 02/M03 Q1006 W05/S5 ENFL 240250Z AUTO 01010KT 330V030 9999NDV -SHSN FEW004/// BKN027/// BKN037/// 01/M02 Q1003 KM33 240315Z AUTO 01011KT 10SM FEW012 SCT022 OVC038 12/11 A2989 RMK A01 ENEV 240250Z AUTO 00000KT 9999 NCD M04/M08 Q1005 RMK WIND 1400FT 12011KT KISW 240254Z AUTO 12008KT 10SM CLR 08/05 A3005 RMK AO2 SLP178 T00830050 53016 FEFT 231000Z 08016KT 9999 SCT017 SCT020 OVC300 29/25 Q1011 UUMO 240300Z 24002MPS CAVOK M03/M04 Q1007 R26/090060 NOSIG RMK QFE740/0986 KJLN 240253Z AUTO 15003KT 10SM CLR 09/06 A3000 RMK AO2 SLP158 T00890061 56019 ENGM 240250Z 00000KT 9999 -RA OVC039 00/M08 Q1002 ENHD 240250Z AUTO 33026KT 9999 FEW009/// BKN012/// OVC019/// 04/02 Q0999 REDZ ENHE 240246Z 04610KT 9999 SCT007 BKN012 01/01 Q//// W///S5 ENHF 240250Z VRB02KT 9999 BKN040 M03/M08 Q1006 RMK WIND 1254FT 23009KT FDPP 240300Z AUTO 18002KT //// // ////// 11/11 Q1026 UUOB 240300Z 34003MPS CAVOK 03/M03 Q1007 R29/090060 NOSIG KIWA 240255Z 24007KT 20SM FEW200 SCT250 31/M03 A2969 ENHK 231950Z VRB01KT CAVOK M02/M07 Q1007 KIWD 240256Z AUTO 08010KT 10SM BKN070 OVC085 02/M03 A3009 RMK AO2 SLP203 T00171028 58004 FZRANO